ENHM 030150Z AUTO 17014KT 9999NDV FEW014/// BKN022/// 13/12 Q1025 W14/S3 UUOK 021800Z 00000MPS 9999 BKN033CB BKN100 21/12 Q1017 NOSIG RMK 12CLRD70 KIWI 030153Z AUTO 16003KT 1 3/4SM BR OVC002 21/20 A2975 RMK AO2 SLP074 T02060200 KJMR 030153Z AUTO 00000KT 10SM CLR 18/12 A2986 RMK AO2 KIXA 030155Z AUTO 21006KT 10SM CLR 25/20 A2998 RMK AO2 PPIT 030156Z AUTO 05005KT 9SM OVC025 11/07 A3002 RMK AO2 SLP166 T01110072 KJMS 030156Z AUTO 00000KT 10SM CLR 17/12 A2975 RMK AO2 SLP072 T01720117 UUOO 030130Z 00000MPS CAVOK 14/11 Q1020 NOSIG RMK 30090070 KIXD 030153Z 13004KT 10SM CLR 23/19 A2998 RMK AO2 SLP141 T02280194 ENHV 021850Z 21010KT 9999 -DZ FEW037 BKN051 11/08 Q1012 KM63 030156Z AUTO 15008KT 5SM CLR 34/M01 A2993 RMK AO2 SLP052 T03411006 PPIZ 030156Z AUTO 00000KT 6SM UP FEW014 02/M02 A2955 RMK AO2 TSNO T00221016 RAB0059E09UPB51 P0000 SLP011 $ KIYA 030155Z AUTO 01006KT 10SM SCT026 SCT036 SCT047 26/24 A3004 RMK AO2 LTG DSNT NE AND E T02600235 ENKB 030150Z AUTO VRB02KT 9999NDV OVC053/// 13/10 Q1023 KJNX 030155Z AUTO 00000KT 7SM CLR 22/22 A3000 RMK AO2 OYMB 021500Z 06003KT 9999 SCT030 38/M07 Q1006 KIZA 030155Z AUTO 27009KT 10SM CLR 20/13 A2980 RMK AO2 ENLA 030150Z AUTO 17011KT 9999NDV NCD 15/14 Q1025 W///S2 KJOT 030155Z AUTO 00000KT 10SM CLR 19/17 A2994 RMK AO2 T01880167 FDST 020800Z AUTO 23007KT //// // ////// 09/M09 Q//// KJQF 030155Z 24006KT 10SM CLR 27/20 A3007 LBGO 030100Z 00000MPS CAVOK 16/16 Q1008 NOSIG KIZG 030154Z AUTO 00000KT 10SM CLR 21/20 A2974 RMK AO2 SLP071 T02110200 ENKR 030150Z AUTO 25007KT 9999NDV SCT150/// BKN170/// 12/09 Q1012 RMK WIND 775FT 25015KT ENLK 022050Z 21009KT 9999 -SHRA FEW010 BKN020 13/11 Q1013 KN03 030155Z AUTO 00000KT 10SM OVC014 17/17 A2991 RMK AO2 ENMH 022050Z 17007KT 9999 SCT040 BKN055 11/09 Q1012 KLAA 030153Z AUTO 14009KT 10SM CLR 26/14 A2991 RMK AO2 SLP080 T02610144 ENNA 030150Z VRB01KT 9999 -RA FEW008 BKN055 10/09 Q1011 RMK WIND 1800FT 26015KT FDUS 022300Z AUTO 00000KT //// // ////// ///// Q1003 ENML 022250Z 03007KT 9999 FEW020 BKN100 13/11 Q1023 ENNE 030150Z AUTO 21033KT 9000NDV BKN014/// BKN045/// BKN053/// 14/11 Q1015 W12/S6 KLAF 030154Z AUTO 00000KT 10SM CLR 21/20 A2995 RMK AO2 SLP139 T02060200 $ ENOA 030150Z 19016KT 9999 FEW040 13/11 Q1025 W///S4 ENMS 021950Z 16006KT 9999 -RA SCT020 BKN030 13/11 Q1018 RMK WIND 412FT 21009KT KLBB 030153Z 15014KT 10SM FEW110 FEW200 SCT300 31/15 A2994 RMK AO2 SLP079 T03060150 ENNK 021850Z 12006KT 9999 -RA FEW020 BKN030 12/11 Q1014 KLAL 030151Z 15005KT 15SM SCT250 27/22 A3003 RMK LAST KJTC 030155Z AUTO 25007KT 10SM CLR 22/05 A3019 RMK AO2 KLAM 030155Z AUTO 21007KT 10SM CLR 25/M02 A3018 RMK AO2 T02491021 ENNM 021950Z 22006KT 170V280 9999 FEW025 BKN035 14/11 Q1021 KLAN 030153Z 00000KT 10SM CLR 18/14 A2993 RMK AO2 SLP133 T01830144 KLBE 030150Z 23005KT 10SM BKN060 22/22 A2998 RMK LAST KLBF 030153Z AUTO 13007KT 10SM CLR 22/14 A2987 RMK AO2 SLP096 T02220144 KJSO 030155Z AUTO 13004KT 10SM CLR 24/23 A3001 RMK AO2 T02460235 ENNO 021550Z 11004KT 9999 SCT040 BKN080 20/12 Q1023 LATI 030150Z 15003KT 8000 BKN080 19/18 Q1004 NOSIG KLAR 030153Z AUTO 25007KT 10SM CLR 18/01 A3009 RMK AO2 SLP100 T01780006 VMMC 030130Z 25007KT 9999 FEW030 30/24 Q1011 NOSIG KLAS 030156Z 20012KT 10SM CLR 38/M03 A2966 RMK AO2 SLP013 T03831028 $ KJST 030154Z AUTO 30007KT 10SM FEW012 SCT018 BKN039 20/18 A3001 RMK AO2 SLP146 T02000183 KLBL 030155Z AUTO 10010KT 10SM CLR 27/19 A2994 RMK AO1 ENOL 030150Z 23011KT 9999 FEW040 BKN050 14/11 Q1023 KJSV 030155Z AUTO 00000KT 7SM CLR 22/20 A2998 RMK AO2 KLAW 030153Z AUTO 15008KT 10SM CLR 32/18 A2987 RMK AO2 SLP100 T03170183 KLAX 030153Z 27011KT 10SM BKN012 22/18 A2978 RMK AO2 SLP081 T02170178 KLCG 030155Z AUTO 17005KT 10SM CLR 17/16 A2992 RMK AO2 T01740157 KLCH 030153Z 17005KT 10SM CLR 27/24 A2999 RMK AO2 SLP164 T02720244 KLCI 030155Z AUTO 19008KT 10SM CLR 24/22 A2974 RMK AO1 KN38 030155Z AUTO 26004KT 10SM CLR 17/17 A2996 RMK AO2 ENQA 030150Z AUTO 18012KT 9999NDV NCD 14/11 Q1026 W12/S4 KLBT 030154Z AUTO 18004KT 10SM CLR 26/23 A3000 RMK AO2 SLP157 T02610233 KLCK 030155Z AUTO 00000KT 10SM CLR 21/17 A2997 RMK AO2 T02080173 ENQC 030150Z AUTO 18011KT 9999NDV FEW042/// 14/12 Q1025 W///S4 ENOV 022050Z VRB03KT 9999 FEW028 SCT045 13/10 Q1024 RMK WIND 2175FT 16021KT KLBX 030153Z AUTO 12004KT 10SM CLR 27/24 A2998 RMK AO2 LTG DSNT E SLP150 T02720244 KLCQ 030155Z AUTO 00000KT 10SM DZ CLR 22/22 A3005 RMK AO2 P0001 VLVT 030100Z 18002KT 4000 VCRA BKN010 BKN040 25/24 Q1011 NOSIG KLDJ 030155Z AUTO 26007G15KT 10SM CLR 32/22 A2983 RMK AO2 T03200218 KKLS 030155Z AUTO 30004KT 10SM FEW028 FEW033 SCT070 18/12 A2995 RMK AO1 ENRA 022050Z VRB02KT 4000 RA VCFG FEW002 SCT008 BKN014 11/// Q1018 KLEB 030153Z 00000KT 10SM CLR 23/20 A2971 RMK AO2 LTG DSNT W AND NW SLP051 T02280200 KJVL 030145Z 00000KT 10SM CLR 20/16 A2992 OYRN 030200Z 11004KT 4000 FEW018 29/28 Q1003 KLDM 030155Z AUTO 00000KT 10SM CLR 20/17 A2991 RMK AO2 T01950167 KLEE 030153Z AUTO 13009KT 10SM CLR 28/22 A3004 RMK AO2 SLP171 T02830222 OYSH 021500Z 02012KT 9999 FEW020CB SCT030 30/M03 Q//// KJWG 030155Z AUTO 14011G16KT 10SM CLR 30/22 A2991 RMK AO2 T02950221 ENQR 030150Z AUTO 19021KT 9999NDV /// 13/11 Q1023 W///S4 KN60 030152Z AUTO 27005KT 17/10 A2975 RMK AO1 SLP073 T01670100 UUWW 030130Z 32006MPS 9999 SCT012 12/09 Q1022 NOSIG ENSB 030150Z 14022KT 9999 -RASN SCT018 BKN029 01/M04 Q1008 RMK WIND 1400FT 12025KT OYSN 030200Z 20003KT 9999 FEW030 17/05 Q1021 NOSIG UWGG 030130Z 00000MPS 1000 R18R/P1500D MIFG BR SCT016 BKN100 12/11 Q1018 TEMPO 1000 BR 18290050 RMK QFE756 KJVW 030135Z AUTO 15005KT 7SM CLR 23/20 A3001 RMK AO2 LTG DSNT E-S ENSD 021920Z 06005KT 9999 FEW030 SCT045 BKN085 15/10 Q1024 RMK WIND 1138FT 16005KT 100V200 ENRM 022020Z 22026KT 6000 SHRA FEW007 SCT010 BKN015 13/12 Q1020 LCEN 030150Z 00000KT CAVOK 23/18 Q1008 NOSIG ENSE 030150Z AUTO 20022KT 9999NDV NCD 14/12 Q1023 W///S4 OYSQ 030100Z 21020KT 9999 FEW018 SCT200 26/21 Q1002 ENSF 030150Z AUTO 20023KT 9999NDV NCD 14/12 Q1021 W///S4 ENRO 030150Z AUTO 00000KT 5000NDV R14/1000VP2000U R32/1000VP2000U BR FEW002/// BKN084/// 07/07 Q1025 ENSG 021750Z VRB02KT 9999 SCT024 BKN038 12/09 Q1025 RMK WIND 3901FT /////KT ENSH 021850Z 22018KT 9999 -RA BKN013 13/09 Q1013 KLFI 030058Z AUTO 20012KT 10SM CLR 31/23 A2992 RMK AO2 SLP138 T03090225 $ KJXI 030155Z AUTO 16004KT 10SM CLR 24/24 A2999 RMK AO2 KLGA 030151Z 22010G18KT 10SM FEW060 BKN250 30/21 A2980 RMK AO2 SLP091 T03000211 ENRS 021720Z 20022KT 9999 VCSH SCT012 BKN040 13/11 Q1013 KLGB 030153Z 30010KT 10SM CLR 23/18 A2976 RMK AO2 SLP077 T02330178 KLFK 030153Z AUTO 09004KT 10SM CLR 26/24 A2998 RMK AO2 SLP145 T02610239 $ ENSK 021850Z 21015KT 9999 6000W -SHRA FEW010 SCT020 BKN030 13/11 Q1012 KLGC 030155Z AUTO 00000KT 10SM CLR 26/24 A3002 RMK AO2 LTG DSNT E AND SE T02600237 ENSL 030150Z AUTO 19019KT 9999NDV BKN010/// 15/14 Q1025 W13/S3 ENTC 030150Z 21009KT 9999 FEW012 BKN025 12/10 Q1012 RMK WIND 2600FT 22012KT KLGD 030155Z AUTO 32010KT 10SM CLR 22/01 A2976 RMK AO1 LBPD 030100Z VRB02MPS 9999 FEW012 SCT030 OVC050 18/18 Q1008 NOSIG KLEW 030155Z AUTO 16004KT 7SM CLR 21/19 A2973 RMK AO1 KJXN 030156Z 00000KT 10SM CLR 17/15 A2994 RMK AO2 SLP136 T01720150 ENSN 021750Z 15005KT CAVOK 18/15 Q1024 KLEX 030154Z 17004KT 10SM CLR 22/20 A3001 RMK AO2 SLP154 T02170200 OYSY 030100Z AUTO VRB02KT //// ////// 25/18 Q1006 KJYG 030155Z AUTO 20003KT 10SM CLR 19/14 A2991 RMK AO2 KJWY 030155Z AUTO 14008KT 10SM CLR 29/19 A2993 RMK AO2 T02920191 ENSO 021650Z 35003KT 290V010 9999 FEW025TCU SCT045 SCT120 16/12 Q1025 ENRY 030150Z AUTO 14004KT 0100NDV R12/0375V0700 R30/0500N FG OVC000/// 14/13 Q1026 ENSR 021850Z VRB02KT 9999 BKN059 12/11 Q1011 RMK WIND 1119FT 18008KT ENSS 021850Z 21012KT CAVOK 12/09 Q1012 RMK WIND 500FT 20018KT KLFT 030153Z 05005KT 10SM CLR 26/23 A3004 RMK AO2 LTG DSNT NE SLP170 T02560228 KLHB 030155Z AUTO 08004KT 10SM 28/24 A2994 RMK AO2 T02760237 ENST 022020Z 18015KT 9999 -DZRA FEW005 SCT008 BKN020 13/12 Q1017 RMK WIND 300FT 18022KT KJYL 030155Z AUTO 30003KT 10SM CLR 22/22 A3005 RMK AO2 LTG DSNT N T02240219 KJYM 030154Z AUTO 00000KT 10SM CLR 17/17 A2996 RMK AO2 T01660166 UUYY 030130Z VRB01MPS 9999 OVC043 10/04 Q1022 NOSIG 01CLRD61 RMK QFE757/1010 EPCE 030130Z VRB01KT 9999 BKN040 10/10 Q1027 RMK 098 100 6/6= KJYO 030155Z AUTO 00000KT 10SM CLR 23/23 A2993 RMK AO2 OYTZ 022200Z 00000KT CAVOK 20/17 Q1013 ENTO 030150Z AUTO 22001KT 0150NDV R18/0650 R36/0550V1400N FG NCD 11/11 Q1026 KJZI 030215Z AUTO 00000KT 10SM FEW018 27/26 A3003 RMK A02 P000 KJYR 030155Z AUTO 14005KT 10SM CLR 20/ A2994 RMK AO2 EPDA 030130Z 09003KT CAVOK 10/09 Q1027 RMK 098 098 0/0= ENVA 030150Z 12005KT 9999 FEW001 SCT050 BKN170 12/12 Q1024 RMK WIND 670FT 10004KT FGBT 030100Z 00000KT 8000 SCT010 BKN100 24/22 Q1013 NOSIG KLGU 030151Z AUTO 00000KT 10SM CLR 26/07 A2985 RMK AO2 SLP066 T02560072 KLIC 030155Z AUTO 15009KT 10SM CLR 21/10 A3002 RMK AO2 SLP104 T02110100 KLHM 030155Z AUTO 18010KT 10SM CLR 32/06 A2966 RMK AO1 ENVD 022250Z 23004KT 9999 FEW020 BKN060 12/10 Q1012 EPDE 030130Z 05006KT CAVOK 11/10 Q1022 RMK 113 092 2/2= EPBY 030130Z 07006KT CAVOK 14/10 Q1025 KLHQ 030153Z AUTO 00000KT 9SM CLR 20/18 A2998 RMK AO2 SLP146 T02000183 ENVH 030150Z AUTO 14007KT 9999NDV BKN019/// 15/15 Q1026 W///S2 UWKD 030130Z 14004MPS 9999 -SHRA BKN050CB BKN070 13/11 Q1023 R11/2/0050 NOSIG RMK QFE757/1010 UWKE 030130Z 21002MPS 9999 -SHRA FEW033CB 11/07 Q1025 NOSIG RMK QFE752/1002 21090070 KMAE 030153Z AUTO 9SM 33/05 A2967 RMK AO2 SLP044 T03280050 $ KLHW 030158Z AUTO 04003KT 10SM FEW005 BKN150 OVC180 24/23 A3003 RMK AO2 SLP172 T02380228 KMAF 030153Z 14017KT 10SM CLR 32/16 A2991 RMK AO2 PK WND 13026/0101 SLP077 T03170156 KLHX 030153Z AUTO 15015KT 10SM CLR 28/13 A2992 RMK AO2 SLP071 T02780128 KLJF 030153Z AUTO 00000KT 10SM CLR 19/16 A2987 RMK AO2 LBSF 030200Z VRB02MPS 7000 TSRA FEW033CB BKN068 18/17 Q1008 NOSIG DXNG 030000Z 00000KT CAVOK 23/23 Q1017 KLHZ 030155Z AUTO 00000KT 10SM CLR 23/21 A3000 RMK AO2 KMAI 030153Z AUTO 24004KT 10SM CLR 28/25 A3002 RMK AO2 SLP162 T02830250 VOCB 030130Z 22007KT 6000 FEW010 SCT015 SCT080 23/21 Q1011 NOSIG VOBL 030200Z 24010KT 8000 SCT008 SCT012 25/23 Q1014 NOSIG KLIT 030153Z 00000KT 10SM FEW120 SCT250 26/21 A2998 RMK AO2 SLP152 T02560211 KO22 030155Z AUTO 24005KT 10SM CLR 30/08 A2978 RMK AO1 KMAN 030155Z AUTO 03005KT 10SM CLR 28/04 A2965 RMK AO1 KMAO 030155Z AUTO 20004KT 10SM CLR 26/23 A3002 RMK AO2 VOCI 030000Z 07004KT 3500 DZ SCT008 SCT015 OVC080 24/23 Q1010 NOSIG KMBG 030152Z AUTO 00000KT 10SM CLR 17/14 A2974 RMK AO2 SLP067 T01670144 UWKS 030130Z 15003MPS 7000 -SHRA SCT033CB OVC066 13/13 Q1022 NOSIG RMK QFE751 06290060 VNKT 021750Z 16003KT 8000 FEW015 FEW025CB SCT030 BKN100 22/19 Q1016 NOSIG CB TO S VOCL 030000Z 00000KT 4000 HZ FEW004 SCT012 OVC080 23/22 Q1009 TEMPO 2000 KMCB 030153Z AUTO 15003KT 9SM -RA OVC012 23/22 A3011 RMK AO2 LTG DSNT E-SW TSE36 SLP190 P0007 T02280217 KMBL 030155Z AUTO 00000KT 10SM CLR 17/14 A2990 RMK AO1 KMCD 030200Z AUTO 30003KT 10SM CLR 16/13 A2987 RMK AO2 T01550134 KMCE 030153Z AUTO 33010KT 9SM CLR 34/12 A2966 RMK AO2 SLP043 T03440122 EPGD 030130Z 11001KT 9999 FEW046 11/09 Q1027 KMCF 030158Z AUTO 19008KT 10SM VCTS FEW055 28/24 A3002 RMK AO2 LTG DSNT SW AND NW SLP169 T02770243 KLKR 030155Z AUTO 27003KT 10SM CLR 24/22 A3002 RMK AO2 KMCI 030153Z 00000KT 10SM CLR 23/19 A2996 RMK AO2 SLP138 T02330194 KMBS 030153Z 23004KT 10SM CLR 19/14 A2991 RMK AO2 SLP126 T01940139 KLLJ 030155Z AUTO 26008KT 10SM CLR 23/M08 A2981 RMK AO2 SLP043 T02331083 KMCJ 030155Z AUTO 13013G18KT 10SM CLR 28/24 A2994 RMK AO1 KMCK 030153Z AUTO 16007KT 10SM CLR 24/18 A2990 RMK AO2 SLP108 P0000 T02440178 PWINO $ LCLK 030200Z 31003KT CAVOK 23/20 Q1008 NOSIG UWLW 030100Z 17003MPS P5000 OVC100 13/13 Q1024 20CLRD60 NOSIG RMK QFE762 KLKU 030155Z AUTO 23004KT 10SM CLR 27/22 A2993 RMK AO2 KLKV 030155Z AUTO 28012KT 8SM FEW039 FEW046 25/M05 A2990 RMK AO1 KMDD 022215Z AUTO 14013G20KT 10SM CLR 38/13 A2989 RMK AO2 T03800133 KMCN 030153Z AUTO 19003KT 10SM SCT060 23/22 A3005 RMK AO2 SLP170 T02280217 TSNO KMCO 030153Z 12005KT 10SM BKN250 27/23 A3004 RMK AO2 SLP171 T02720228 KMDH 030152Z AUTO 09003KT 10SM SCT030 SCT037 22/21 A2999 RMK AO2 SLP151 T02220206 KLLQ 030153Z AUTO 00000KT 10SM FEW010 23/22 A2999 RMK AO2 SLP151 T02330222 KMDJ 030155Z AUTO 08005KT 10SM CLR 30/24 A3005 RMK A01 KMEB 030152Z AUTO 24003KT 10SM CLR 24/22 A3002 RMK AO2 SLP162 T02440222 TSNO KLNC 030155Z AUTO 14007KT 10SM CLR 29/21 A2993 RMK AO2 T02890209 KLND 030153Z AUTO 22008KT 10SM CLR 22/M02 A2985 RMK AO2 SLP053 T02221017 TSNO KMCW 030153Z AUTO 00000KT 10SM CLR 17/16 A2994 RMK AO2 SLP131 T01720156 KLMO 030154Z AUTO 27003KT 10SM CLR 21/12 A2996 RMK AO2 T02060120 KMCX 030155Z AUTO 21003KT 10SM CLR 21/20 A2994 RMK AO2 T02050199 KO54 030155Z AUTO 25005G18KT 10SM CLR 30/02 A2976 RMK AO1 KMEH 030156Z AUTO VRB03KT 10SM CLR 17/05 A2984 RMK AO2 SLP101 T01720050 KMDQ 030155Z AUTO 00000KT 10SM CLR 24/20 A3000 RMK AO2 LTG DSNT NE THRU SE KMEI 030158Z 22008KT 10SM -RA FEW050 FEW110 23/22 A3001 RMK AO2 PK WND 27026/0118 RAB10 SLP158 P0001 T02330217 KMDS 030150Z AUTO 18005KT 10SM CLR 16/16 A2988 RMK AO2 KLMT 030153Z AUTO 33021KT 10SM FU CLR 24/03 A2989 RMK AO2 PK WND 33027/0143 SLP093 T02390028 KLNK 030154Z 09006KT 10SM CLR 23/14 A2995 RMK AO2 SLP132 T02330144 KMDT 030156Z 29004KT 10SM BKN045 BKN180 BKN250 24/21 A2990 RMK AO2 SLP125 T02440206 LDDU 030200Z VRB01KT 9999 BKN069 19/17 Q1005 TEMPO 05010KT KLNL 030155Z AUTO 00000KT 10SM CLR 12/11 A2991 RMK AO2 T01200111 UWOO 030130Z 36002MPS P5000 BKN240 06/M00 Q1026 08CLRD65 NOSIG RMK QFE759/1012 KMFD 030152Z 22003KT 10SM CLR 18/18 A2999 RMK AO2 SLP147 T01780178 KMEM 030154Z 00000KT 10SM FEW032 BKN180 24/21 A2999 RMK AO2 SLP152 T02390211 ENZV 030150Z 15004KT 9999 BKN018 14/12 Q1027 KMDW 030151Z 25004KT 10SM FEW070 24/15 A2992 RMK AO2 SLP123 T02390150 $ KMFE 030153Z 12009KT 10SM SCT028 BKN037 28/23 A2987 RMK AO2 SLP114 T02830233 LBWN 030200Z 07003MPS 9999 FEW011 FEW033CB 22/21 Q1008 NOSIG UWOR 030100Z VRB02MPS CAVOK 06/02 Q1025 07CLRD65 NOSIG RMK QFE744/0992 KLNP 030155Z AUTO 20004KT 7SM TSRA SCT085 OVC120 19/19 A3016 RMK AO2 LTG DSNT NE THRU S P0007 KMDZ 030155Z AUTO 00000KT 10SM CLR 13/12 A2990 RMK AO2 T01300122 KMFI 030154Z AUTO 22004KT 10SM CLR 17/14 A2990 RMK AO2 SLP125 T01720139 KLNR 030156Z AUTO 00000KT 10SM CLR 19/15 A2992 RMK AO2 SLP123 T01890150 KMER 030145Z 33010KT 10SM SKC 34/12 A2967 EPIR 030100Z 03010KT 9999 BKN100 13/10 Q1025 RMK 133 081 7/7= KLNS 030153Z 25007KT 10SM BKN055 23/19 A2990 RMK AO2 SLP123 T02280194 DXSK 030000Z 00000KT 9999 SCT010 BKN120 24/23 Q//// KLOL 030153Z AUTO 28014KT 10SM CLR 33/02 A2978 RMK AO2 SLP051 T03280022 KLPC 030155Z AUTO 27009KT 10SM OVC013 18/13 A2983 RMK AO1 KMGC 030155Z AUTO 13003KT 10SM CLR 18/18 A2994 RMK AO2 KLOM 030155Z AUTO 24007KT 10SM SCT065 SCT075 25/21 A2988 RMK AO1 KMEV 030155Z AUTO 28015G20KT 10SM CLR 27/04 A2992 RMK AO2 KMGE 030158Z 00000KT 10SM FEW045 FEW080 SCT250 24/24 A3004 RMK AO2A LTG DSNT S SLP163 T02380236 $ KMGG 030155Z AUTO 18003KT 10SM CLR 20/15 A2987 RMK AO2 T01960151 KMEZ 030155Z AUTO 00000KT 10SM CLR 23/22 A3000 RMK AO2 LCPH 030200Z AUTO 02005KT 9999 NCD 24/20 Q1008 KMFR 030153Z 35013KT 10SM CLR 27/06 A2985 RMK AO2 SLP098 FU SE-SW T02720061 KLOR 030153Z AUTO 00000KT 10SM CLR 27/22 A3002 RMK AO2 SLP161 T02670222 TSNO $ KMGJ 030154Z AUTO 22008KT 8SM -RA FEW050 SCT120 26/21 A2979 RMK AO2 RAB36 SLP083 P0001 T02560211 TSNO KLOT 030155Z AUTO 26004KT 10SM CLR 21/16 A2993 RMK AO2 T02090155 KLOU 030153Z 00000KT 10SM CLR 24/22 A2998 RMK AO2 SLP146 T02440222 EPKK 030130Z 06008KT 020V090 9999 BKN009 15/14 Q1020 KMFV 022050Z AUTO 17005KT 10SM 33/22 A2991 RMK AO2 KMGM 030153Z 22006KT 10SM CLR 26/21 A3002 RMK AO2 SLP161 T02610211 KMHE 030153Z AUTO 14008KT 10SM CLR 20/15 A2983 RMK AO2 SLP099 T02000150 KMGN 030155Z AUTO 27004KT 10SM CLR 17/15 A2988 RMK AO2 T01750150 FHAW 022350Z 13012KT 9999 FEW023 BKN033 23/18 Q1017 BLU NOSIG VOHS 030140Z 23008KT 5000 HZ SCT015 SCT100 21/17 Q1010 NOSIG KLOZ 030153Z AUTO 17003KT 10SM CLR 22/19 A3006 RMK AO2 SLP166 T02170194 KO86 030155Z AUTO 10SM CLR 31/06 A2976 RMK AO1 KLPR 030153Z AUTO 24005KT 8SM CLR 19/17 A2996 RMK AO2 SLP141 T01890167 TSNO KMGR 030155Z AUTO 14007KT 10SM VCTS SCT008 BKN080 BKN110 23/22 A3010 RMK AO2 LTG DSNT ALQS KMIA 030153Z 36005KT 10SM FEW028 FEW095 SCT250 25/23 A3003 RMK AO2 SLP170 T02500233 LCRA 030150Z 29003KT CAVOK 24/18 Q1007 NOSIG EPKS 030130Z 03006KT CAVOK 13/11 Q1024 RMK 134 086 5/2= KMHK 030152Z AUTO 11003KT 10SM CLR 25/20 A2992 RMK AO2 SLP125 T02500200 KLQK 030155Z AUTO 15010G15KT 10SM SCT100 25/ A3005 RMK AO2 LTG DSNT SE T0254 KMIB 030158Z AUTO 33005KT 10SM CLR 15/11 A2973 RMK AO2 SLP073 T01540105 CHINO RWY29 $ EPMB 030130Z AUTO 07002KT 9999 11/09 Q1027 RMK 110 087= KMIC 030153Z 19004KT 10SM CLR 21/12 A2985 RMK AO2 SLP106 T02110122 EPKT 030130Z 02004KT 9999 FEW005 SCT007 12/11 Q1020 EPLL 030130Z 05006KT CAVOK 12/10 Q1023 KLRD 030156Z 11015KT 10SM CLR 31/23 A2989 RMK AO2 T03050227 SLP108 VOHY 030140Z 24005KT 4000 HZ FEW020 BKN100 24/20 Q1010 NOSIG KMIE 030153Z 22005KT 10SM CLR 22/18 A2997 RMK AO2 SLP139 T02170183 KMGW 030153Z 21005KT 10SM FEW060 23/19 A3000 RMK AO2 SLP149 T02330194 KLRF 030158Z AUTO 00000KT 10SM CLR 24/22 A2999 RMK AO2 SLP156 T02390216 KMGY 030153Z AUTO 00000KT 10SM CLR 21/19 A2998 RMK AO2 SLP145 T02110194 KMHR 030145Z 21009KT 10SM SKC 27/13 A2969 EPMI 030100Z 06005KT CAVOK 13/11 Q1026 RMK 129 087 7/7= KMHS 030156Z AUTO VRB06KT 8SM SCT046 26/02 A2985 RMK AO2 SLP102 T02610022 KLRJ 030155Z AUTO 19003KT 10SM CLR 18/16 A2991 RMK AO2 LEAB 030100Z 22005KT CAVOK 22/14 Q1015 NOSIG KMHT 030153Z 18004KT 10SM FEW250 24/23 A2974 RMK AO2 SLP079 T02440228 KLSB 030155Z AUTO 28004KT 10SM CLR 30/01 A2995 RMK AO2 KMHV 030155Z AUTO 27013G20KT 10SM CLR 32/04 A2981 RMK AO1 EPMM 030130Z 04006KT CAVOK 10/09 Q1023 RMK 102 093 0/0= KLSE 030153Z AUTO 25004KT 10SM CLR 21/15 A2989 RMK AO2 SLP116 T02060150 KLRO 030155Z AUTO 00000KT 9SM CLR 26/24 A3003 RMK AO2 KLSF 030158Z AUTO 17002KT 10SM CLR 26/23 A2998 RMK AO2 SLP153 T02550225 EPMO 030130Z 04007KT CAVOK 11/10 Q1024 LEAG 030130Z AUTO VRB04KT CAVOK 22/17 Q1013 EPLY 030100Z 04004KT CAVOK 11/09 Q1024 RMK 114 087 4/4= UWSS 030130Z 16005MPS CAVOK 15/08 Q1023 120///60 NOSIG RMK QFE755 LEBA 021900Z 24011KT 220V280 CAVOK 31/16 Q1010 KMIS 030155Z AUTO 00000KT 10SM CLR 30/24 A3004 RMK A01 KNAK 030154Z AUTO 00000KT 10SM CLR 24/22 A2989 RMK AO2 RAB14E31 SLP124 P0013 T02440222 LEBB 022200Z VRB01KT CAVOK 18/15 Q1015 NOSIG LEAL 030130Z 32003KT 9999 FEW018 25/23 Q1011 NOSIG KMKC 030154Z 00000KT 10SM CLR 26/19 A2995 RMK AO2 SLP134 T02560194 KNBC 030156Z 00000KT 10SM SCT250 25/24 A3003 RMK AO2 SLP170 T02500239 KLRU 030155Z AUTO 14005KT 10SM CLR 31/M02 A2996 RMK AO2 T03071024 PWINO LEAM 022030Z 25005KT 210V280 9999 FEW035 28/24 Q1011 KMIV 030154Z AUTO 29018G26KT 10SM VCTS -RA FEW042 SCT060 OVC080 27/22 A2992 RMK AO2 PK WND 29026/0151 LTG DSNT W-N RAB53 PRESRR SLP128 P0000 T02670217 KMIW 030153Z AUTO 20004KT 10SM CLR 19/16 A2995 RMK AO2 SLP137 T01890161 KMKE 030152Z 00000KT 10SM FEW250 21/14 A2992 RMK AO2 SLP127 T02060139 LEAO 022100Z VRB01KT CAVOK 23/15 Q1015 LEBG 021900Z 07007KT 9999 FEW040CB 24/07 Q1016 KNBG 030155Z 00000KT 10SM FEW035 SCT055 BKN250 27/23 A3004 RMK AO2 SLP170 OCNL LTGICCC DSNT NW-N CB DSNT NW-N T02670233 $ KMKG 030155Z 18003KT 10SM CLR 18/16 A2992 RMK AO2 SLP130 T01830161 KMJQ 030154Z AUTO 20004KT 10SM CLR 17/13 A2992 RMK AO2 KNCA 030156Z AUTO 22005KT 10SM CLR 27/23 A3002 RMK AO2 SLP168 T02670233 KP28 030056Z AUTO 10007KT 27/22 A2989 RMK AO1 SLP106 T02720222 KLUA 030155Z AUTO 00000KT 10SM SCT080 SCT100 SCT120 23/23 A2996 RMK AO2 KMKJ 030155Z AUTO 29004KT 10SM VCTS SCT018 BKN041 OVC080 A3016 RMK AO2 LTG DSNT E S AND W P0022 LEAS 022200Z 12009KT 080V150 9000 FEW035 19/15 Q1013 NOSIG KMLB 030153Z 15008KT 10SM CLR 28/22 A3003 RMK AO2 SLP169 T02830222 EPOK 030130Z 12005KT 9999 BKN053 15/10 Q1027 RMK 148 074 7/7= LEBL 030130Z 35003KT 340V060 9999 SCT011 23/20 Q1013 NOSIG KMLC 030153Z AUTO 11005KT 10SM CLR 25/21 A2995 RMK AO2 SLP130 T02500211 KMKL 030200Z AUTO 10005KT 6SM -RA BR SCT026 BKN085 OVC100 22/21 RMK AO2 LTG DSNT E AND S TSE0158 P0002 $ KLSV 030158Z AUTO 15015KT 10SM CLR 38/06 A2966 RMK AO2 SLP017 T03810056 $ KLUD 030155Z AUTO 14006KT 10SM CLR 31/18 A2991 RMK AO2 T03060183 KMKN 030155Z AUTO 14007KT 10SM 30/19 A2992 RMK AO2 T03010192 KMLE 030155Z AUTO 00000KT 10SM CLR 20/17 A2994 RMK AO2 T02040165 KMKO 030153Z AUTO 11005KT 10SM FEW120 21/19 A2997 RMK AO2 SLP144 T02110194 KMLF 030152Z AUTO 22016KT 10SM CLR 29/00 A2990 RMK AO2 SLP064 T02890000 KMJX 030155Z AUTO 24005KT 10SM FEW080 SCT110 24/21 A2988 RMK AO1 LTG DSNT E TSB14E41 KLUF 030158Z 24002KT 10SM CLR 39/07 A2967 RMK AO2A SLP032 T03930068 VISNO RWY03 CHINO RWY03 $ KMLI 030152Z 00000KT 10SM CLR 19/17 A2994 RMK AO2 SLP137 T01940167 UWUU 030130Z VRB01MPS 3000 BR SKC 04/03 Q1026 320///60 TEMPO 0300 FG VV002 RMK QFE757/1009 KMKS 030155Z AUTO 00000KT 7SM 24/23 A3002 RMK AO2 KMLJ 030150Z AUTO 00000KT 10SM CLR 24/23 A3003 RMK AO2 LTG DSNT NE SW AND W KLTS 030158Z 15010KT 10SM CLR 31/20 A2987 RMK AO2A SLP097 T03120195 $ VOMM 030140Z 23005KT 6000 SCT020 BKN100 28/25 Q1007 NOSIG KLUK 030153Z 00000KT 7SM R21L/3000VP6000FT BCFG CLR 21/21 A2997 RMK AO2 SLP147 T02060206 KMKT 030155Z AUTO 19004KT 10SM CLR 19/12 A2989 RMK AO1 KNBT 030156Z AUTO 21007KT 6SM BR CLR 27/26 A3001 RMK AO2 SLP167 T02720256 PNO $ KLUM 030155Z AUTO 20003KT 10SM CLR 19/13 A2988 RMK AO2 T01920128 LECO 022300Z VRB02KT CAVOK 20/17 Q1013 NOSIG DXXX 030100Z 23007KT 190V250 8000 FEW010 24/24 Q1014 NOSIG KMLP 030153Z AUTO 22007G17KT 190V270 10SM OVC110 12/M01 A2983 RMK AO2 SLP030 T01171006 KMKY 030155Z AUTO 10003KT 10SM CLR 23/22 A3002 RMK AO1 EPPO 030130Z 04007KT CAVOK 13/12 Q1024 LEBZ 022100Z 27008KT CAVOK 27/15 Q1013 KMMH 030155Z AUTO 28009G22KT 10SM CLR 23/00 A3009 RMK AO1 KMMI 030155Z AUTO 33017G21KT 10SM FEW035 BKN060 OVC085 25/21 A3005 RMK EPPR 030130Z AUTO 29000KT ///217 ///225 10/10 Q1027 RMK 103 095= KLVJ 030153Z AUTO 16006KT 10SM CLR 28/24 A2999 RMK AO2 LTG DSNT S SLP154 T02830244 KMLS 030153Z AUTO 06008KT 10SM CLR 19/07 A2972 RMK AO2 SLP055 T01940067 KLWA 030155Z AUTO 00000KT 10SM SCT065 19/18 A2993 RMK AO2 T01890180 EPRA 030130Z 03002KT CAVOK 10/10 Q1022 RMK 101 097 3/3= KLVK 030153Z AUTO 31014G20KT 10SM CLR 21/13 A2974 RMK AO2 SLP069 T02060133 TSNO KMLT 030153Z AUTO VRB04KT 6SM BR OVC005 22/20 A2975 RMK AO2 SLP076 T02170200 KMMK 030153Z AUTO 17005KT 10SM CLR 26/22 A2978 RMK AO2 SLP083 T02610217 TSNO KLWB 030155Z AUTO 00000KT 5SM RA SCT017 BKN050 OVC055 21/19 A3010 RMK AO2 LTG DSNT E SW AND W P0044 T02050187 LEEC 022200Z 21004KT 170V230 CAVOK 21/19 Q1014 KLWC 030152Z AUTO 09005KT 9SM CLR 21/19 A2996 RMK AO2 SLPNO T02110194 KMLU 030153Z 17005KT 10SM CLR 23/21 A3000 RMK AO2 SLP157 T02280211 KMML 030155Z AUTO 21007KT 10SM CLR 18/12 A2986 RMK AO1 KLVL 030155Z AUTO 21006KT 10SM CLR 26/22 A2996 RMK AO1 T02560215 LECV 021800Z 22014KT 170V280 9999 FEW050CB SCT080 32/05 Q1015 KLWD 030153Z AUTO 00000KT 10SM CLR 22/16 A2998 RMK AO2 SLP145 T02170156 KLVM 030153Z AUTO 22019G23KT 10SM CLR 23/00 A2973 RMK AO2 SLP031 T02330000 KLVN 030151Z AUTO 00000KT 10SM CLR 17/14 A2988 RMK AO2 KMNE 030156Z AUTO 00000KT 10SM CLR 23/22 A2999 RMK AO2 KP53 030056Z AUTO 19006KT 16/13 A2983 RMK AO1 SLP103 T01610128 EPPW 030130Z 03006KT CAVOK 13/09 Q1024 RMK 127 078 5/5= KLUX 030155Z AUTO 24009G14KT 10SM VCTS SCT060 BKN080 25/19 A3008 RMK AO2 LTG DSNT SW AND W KMNH 030153Z AUTO 15008KT 10SM CLR 17/09 A3012 RMK AO2 KMNI 030155Z AUTO 00000KT 7SM CLR 26/24 A3001 RMK AO2 KP58 030151Z AUTO 23003KT 16/13 A2988 RMK AO1 SLP114 T01610133 KLVS 030153Z AUTO 17011KT 10SM CLR 22/07 A3016 RMK AO2 SLP107 T02220067 $ KP59 030151Z AUTO VRB06G17KT 20/09 A2980 RMK AO1 SLP086 T02000089 KP60 030156Z AUTO 00000KT 12/M01 A3007 RMK AO1 SLP145 T01171006 $ KMOB 030156Z 26003KT 10SM BKN200 25/24 A3005 RMK AO2 LTG DSNT S SLP172 T02500244 KMMT 030058Z 07004KT 10SM BKN150 BKN250 24/23 A2999 RMK AO2A SLP156 P0001 T02350227 UWWW 030130Z 09002MPS 9999 SCT026 BKN100 BKN200 11/05 Q1025 05CLRD60 15//99// NOSIG RMK QFE756/1008 KMMU 030145Z 24015G23KT 10SM SCT250 29/20 A2981 EPSC 030130Z 06006KT CAVOK 11/10 Q1026 KMMV 030153Z AUTO 26011KT 10SM BKN035 BKN043 20/12 A2995 RMK AO2 SLP139 T02000122 KMOD 030153Z 31013KT 10SM CLR 31/07 A2967 RMK AO2 SLP048 T03060072 $ KLWM 030154Z 00000KT 10SM CLR 23/22 A2977 RMK AO2 SLP080 T02330222 KMNM 030155Z AUTO 25004KT 10SM CLR 18/14 A2985 RMK AO1 KMNN 030153Z AUTO 20004KT 7SM BKN095 19/17 A2998 RMK AO2 SLP147 T01890172 TSNO KNFE 030156Z AUTO VRB03KT 10SM CLR 30/23 A2995 RMK AO2 SLP143 T03000233 KNFG 030154Z AUTO 23004KT 5SM HZ CLR 23/17 A2977 RMK AO2 SLP079 T02280172 KNDZ 030156Z 00000KT 10SM SCT120 BKN250 26/24 A3004 RMK AO2 SLP155 T02610239 $ LEGA 021700Z 18013KT 9999 FEW070TCU 35/06 Q1014 KP68 030153Z AUTO 28009KT 28/M04 A2991 RMK AO1 SLP047 T02831044 KLWS 030156Z 30018G24KT 10SM CLR 26/01 A2964 RMK AO2 PK WND 29026/0145 SLP031 T02610011 KP69 030152Z AUTO 00000KT 20/11 A2965 RMK AO1 SLP031 T02000111 KLWT 030154Z AUTO 10008KT 10SM CLR 18/07 A2974 RMK AO2 SLP051 T01780067 KLXL 030157Z AUTO 18003KT 10SM CLR 18/12 A2983 RMK AO2 KNFL 030156Z 27006KT 10SM FEW050 33/M02 A2979 RMK AO2 SLP066 T03331017 FGSL 030100Z 23006KT 9999 FEW007 BKN070 24/22 Q1014 NOSIG KLWV 030153Z AUTO 00000KT 9SM CLR 21/21 A2998 RMK AO2 SLP150 T02110206 KNEW 030153Z AUTO 12003KT 10SM FEW070 28/25 A3004 RMK AO2 SLP167 T02830250 TSNO KLXN 030155Z AUTO 14007KT 10SM CLR 23/18 A2991 RMK AO2 T02250182 LEGE 030130Z 23002KT 9999 FEW030 20/20 Q1014 EPSN 030100Z AUTO 04006KT 9999 11/10 Q1026 RMK 108 097= KMOP 030157Z AUTO 00000KT 10SM CLR 16/15 A2991 RMK AO2 T01640145 KLYH 030154Z 01003KT 10SM FEW100 24/19 A3000 RMK AO2 LTG DSNT E SLP149 T02440189 KMNZ 030155Z AUTO 16011KT 10SM CLR 30/20 A2993 RMK AO2 T02990200 EPRZ 030130Z 04008KT 9999 BKN009 16/14 Q1020 KMOR 030155Z AUTO 00000KT 10SM CLR 20/20 A3010 RMK LDOS 030200Z 30007KT 9999 SCT040 16/15 Q1010 KLXT 030153Z AUTO 14003KT 10SM CLR 24/21 A2997 RMK AO2 SLP141 T02390206 KMOT 030154Z AUTO 32005KT 10SM CLR 15/08 A2974 RMK AO2 SLP071 T01500083 KMQB 030155Z AUTO 33003KT 10SM CLR 19/17 A2998 RMK AO2 T01900173 LEHC 021600Z 26013KT 210V300 CAVOK 34/01 Q1012 LDPL 030200Z 04005KT 360V070 9999 FEW040 18/14 Q1010 NOSIG KLXV 030153Z AUTO 02003KT 10SM CLR 13/M01 A3035 RMK AO2 SLP112 T01331006 EPTM 030100Z 02008KT CAVOK 11/09 Q1022 RMK 110 089 3/1= KMQE 030154Z AUTO 19011KT 23/21 A2979 RMK AO1 SLP093 T02330211 KNFW 030152Z 15013KT 10SM FEW250 34/19 A2992 RMK AO2 SLP117 T03390194 VISNO N $ KMPO 030153Z AUTO 27015G22KT 9SM SCT015 BKN020 BKN110 22/19 A2990 RMK AO2 RAB33E46 SLP110 P0000 T02170194 TSNO KMOX 030147Z AUTO 18007KT 10SM CLR 18/14 A2982 RMK AO2 KNGP 030156Z 12015KT 10SM FEW021 BKN090 BKN250 29/25 A2992 RMK AO2 SLP132 T02890250 KLXY 030155Z AUTO 13004KT 10SM CLR 26/23 A2993 RMK AO2 T02620234 LEGR 022130Z 25008KT CAVOK 28/17 Q1015 KMQI 030155Z AUTO 21012KT 10SM CLR 27/24 A3000 RMK AO2 T02710242 KMQJ 030154Z AUTO 00000KT 7SM CLR 19/ A2999 RMK AO1 LEGT 022300Z 05006KT CAVOK 26/09 Q1015 LEIB 030130Z 30004KT CAVOK 24/21 Q1013 NOSIG KNHK 030152Z 23008KT 10SM FEW070 SCT110 SCT250 29/21 A2990 RMK AO2 SLP124 T02940206 $ KMRB 030153Z 04003KT 10SM OVC120 23/19 A2993 RMK AO2 SLP129 T02330194 KMRC 030155Z AUTO 00000KT 26/23 A3000 RMK KNGU 030159Z 20007KT 10SM CLR 31/22 A2995 RMK AO2 SLP142 T2 SET T03110222 KP92 030153Z AUTO 00000KT 29/26 A3003 RMK AO1 SLP169 T02890256 KMPV 030159Z AUTO 33007KT 5SM VCTS RA BR SCT021 SCT065 OVC080 21/20 A2980 RMK AO2 LTG DSNT SW P0003 T02060200 KLYV 030154Z AUTO 00000KT 10SM CLR 17/15 A2990 RMK AO2 KNID 030156Z 18021G27KT 10SM CLR 36/02 A2970 RMK AO2 PK WND 18027/0153 SLP035 T03610017 KMRF 030155Z AUTO 11013G19KT 10SM CLR 27/14 A3005 RMK AO1 KMPZ 030155Z AUTO 00000KT 10SM CLR 20/16 A2996 RMK AO2 T01950158 KMRH 030158Z AUTO 22012KT 10SM FEW015 28/25 A3002 RMK AO2 SLP167 T02780250 TSNO LDRI 021800Z 32012G24KT 260V010 9999 FEW036 SCT046 BKN050 19/11 Q1010 KMQS 030155Z AUTO 25006KT 10SM CLR 22/21 A2992 RMK AO2 P0003 KMRJ 030155Z AUTO 23003KT 10SM CLR 20/13 A2994 RMK AO2 EPWA 030130Z 05010KT CAVOK 12/10 Q1023 NOSIG KLZU 030045Z 00000KT 10SM CLR 24/19 A3004 RMK BK KMRN 030155Z AUTO 00000KT 10SM SCT085 23/22 A3009 RMK AO2 T02300215 KNIP 030153Z 13004KT 10SM FEW060 SCT140 BKN220 29/24 A3004 RMK AO2 SLP169 T02940239 $ KMQY 030156Z 10005KT 10SM -RA FEW005 SCT046 BKN060 24/22 A3002 RMK AO2 T02440222 RAB35 P0000 SLP168 KLZZ 030155Z AUTO 14006KT 10SM CLR 30/21 A2992 RMK AO2 T02980211 KOAJ 030155Z AUTO 22005KT 10SM CLR 26/22 A3003 RMK AO1 LFBA 030130Z AUTO 00000KT 9999 NSC 11/10 Q1014 KNJK 030156Z 06004KT 10SM CLR 39/05 A2957 RMK AO2 SLP030 T03940050 $ KMRT 030153Z AUTO 00000KT 10SM CLR 18/17 A2998 RMK AO2 T01810168 KOAK 030153Z 29012KT 10SM BKN012 18/13 A2979 RMK AO2 SLP087 T01830133 KMSL 030157Z AUTO 30007KT 10SM BKN023 BKN100 25/23 A3004 RMK AO2 KMTC 030158Z AUTO 20002KT 10SM CLR 18/14 A2992 RMK AO2 SLP133 T01800144 $ LFBC 030130Z AUTO 04006KT 9999 NSC 16/11 Q1014 KNJM 030157Z 22008KT 10SM 28/24 A3003 RMK AO2 SLP171 T02780244 $ LFBD 030130Z AUTO 05006KT 9999 NSC 16/12 Q1015 KMSN 030153Z 00000KT 10SM CLR 19/14 A2992 RMK AO2 SLP128 T01890144 KOBE 030155Z AUTO 25/22 A3003 RMK AO2 LTG DSNT SE LFBE 030130Z AUTO 18003KT 9999 NSC 10/10 Q1015 KMSO 030153Z 33009KT 10SM FEW110 23/03 A2969 RMK AO2 SLP044 T02330028 VOTR 030140Z 27005KT 4000 HZ FEW018 SCT100 28/23 Q1009 NOSIG KMSP 030153Z 21006KT 10SM FEW300 22/13 A2987 RMK AO2 SLP112 T02220128 KMRY 030154Z VRB05KT 10SM OVC008 17/14 A2983 RMK AO2 SLP114 T01670144 LDSP 030200Z 05010G21KT 010V090 CAVOK 23/14 Q1007 NOSIG LFBG 030130Z AUTO 02005KT 9999 NSC 16/11 Q1017 KMTH 030153Z AUTO 10007KT 080V140 10SM CLR 28/24 A3000 RMK AO2 SLP158 T02830239 LFBH 030130Z AUTO 03005KT 9999 NSC 14/11 Q1017 LFAQ 030130Z AUTO 04006KT 2800 BR NSC 13/12 Q1021 LEJR 030200Z 22008KT 9999 BKN010 22/20 Q1014 LFBI 030130Z AUTO 03004KT 9999 NSC 13/11 Q1018 KMTJ 030153Z AUTO 26003KT 10SM CLR 24/08 A3002 RMK AO2 SLP096 T02390083 KMSS 030153Z AUTO 25005KT 10SM FEW005 FEW048 18/18 A2977 RMK AO2 RAB32E46 SLP080 P0000 T01830183 EPWR 030130Z 03004KT 9999 BKN030 14/12 Q1022 VOTV 030110Z 24010G20KT 2500 RA FEW010 SCT012 FEW025CB OVC080 25/22 Q1010 NOSIG LFAT 030130Z AUTO 10004KT 5000 BR NSC 14/13 Q1022 LELC 022100Z 16006KT 120V200 CAVOK 27/23 Q1011 NOSIG KNLC 030156Z 36008KT 10SM CLR 36/09 A2966 RMK AO2 SLP041 RH/18 T03560094 LFBL 030130Z AUTO 05009KT 9999 NSC 14/09 Q1017 KMSV 030155Z AUTO 22007KT 10SM FEW027 SCT050 BKN070 22/20 A2985 RMK AO1 LFBM 030130Z AUTO VRB01KT 9999 NSC 13/11 Q1014 KMTN 030145Z 00000KT 10SM SCT040 BKN100 24/23 A2991 RMK LAST KMTO 030153Z AUTO 19005KT 10SM FEW045 22/20 A2998 RMK AO2 SLP148 T02170200 KOCF 030155Z AUTO 00000KT 10SM CLR 28/21 A3004 RMK AO1 LTG DSNT SW LFBO 030130Z AUTO VRB02KT 9999 NSC 17/10 Q1014 KMTP 030154Z AUTO 20008KT 25/22 A2982 RMK AO1 SLP099 T02500217 KMSY 030153Z 16004KT 10SM FEW035 BKN050 BKN150 BKN250 29/23 A3004 RMK AO2 SLP174 OCNL LTGIC DSNT W CB DSNT W T02890233 LFBP 030130Z AUTO 11002KT 9999 NSC 13/11 Q1014 KOCH 030155Z AUTO 10003KT 10SM CLR 23/22 A2999 RMK AO1 KMUI 030158Z AUTO 21005KT 10SM SCT140 SCT180 23/23 A2991 RMK AO2 SLP128 T02290227 $ LFCK 030130Z AUTO 12005KT 9999 NSC 13/10 Q1015 KNKT 030154Z 21006KT 10SM CLR 27/24 A3003 RMK AO2 SLP165 T02670239 LFBT 030130Z AUTO 17003KT 9999 NSC 13/12 Q1015 LELL 021800Z 13006KT 100V160 9999 FEW030 25/22 Q1012 NOSIG LFBU 021700Z AUTO 05013KT 9999 NSC 23/11 Q1017 LEMD 030130Z VRB02KT CAVOK 24/11 Q1014 NOSIG KMTV 030155Z AUTO 22003KT 10SM SCT065 25/23 A3004 RMK AO2 LTG DSNT NW T02500228 LELN 021900Z 12001KT 9999 FEW050 27/06 Q1015 KMVE 030154Z AUTO 22005KT 10SM CLR 18/13 A2986 RMK AO2 LTG DSNT N KMTW 030156Z AUTO 00000KT 10SM CLR 17/16 A2990 RMK AO2 SLP141 T01720161 LELO 030100Z 00000KT CAVOK 17/12 Q1014 KNKX 030155Z 28006KT 10SM FEW015 22/17 A2979 RMK AO2 SLP081 T02220172 KMUO 030158Z AUTO 13006KT 10SM CLR 29/02 A2969 RMK AO2 SLP033 T02890016 LEMG 030130Z VRB02KT CAVOK 23/14 Q1012 NOSIG LFBY 030100Z AUTO 04003KT 360V080 9999 // ////// 17/12 Q1014 LEMH 022230Z VRB02KT 9999 FEW020 21/17 Q1013 KOCQ 030155Z AUTO 00000KT 10SM CLR 16/16 A2986 RMK AO1 T01570157 LFBZ 030130Z AUTO VRB02KT 9999 NSC 15/14 Q1014 LFCR 030130Z AUTO 07006KT 9999 NSC 11/07 Q1016 KMWA 030155Z AUTO 00000KT 10SM BKN044 23/22 A3000 RMK AO2 KOEB 030154Z AUTO 00000KT 10SM CLR 18/17 A2995 RMK AO2 T01810170 KMUT 030155Z AUTO 00000KT 10SM CLR 20/17 A2995 RMK AO2 KMVL 030154Z AUTO 35003KT 4SM RA BR FEW028 OVC035 19/18 A2980 RMK AO2 LTG DSNT S SLP088 P0103 T01940178 KMWC 030145Z 00000KT 10SM SKC 19/14 A2992 KNMM 030156Z VRB05KT 10SM FEW016 FEW110 OVC250 25/23 A3000 RMK AO2 SLP164 T02500233 $ KMVN 030155Z AUTO 00000KT 10SM CLR 21/18 A3000 RMK AO1 KOCW 030155Z AUTO 20005KT 10SM CLR 27/24 A3001 RMK AO2 T02650237 KODO 030153Z AUTO 16017G22KT 10SM CLR 32/14 A2993 RMK AO2 SLP081 T03170139 LEMO 030200Z 21009KT CAVOK 21/19 Q1014 NOSIG KMWH 030152Z 28023G28KT 10SM CLR 22/05 A2965 RMK AO2 PK WND 28031/0102 SLP039 T02220050 KMWK 030155Z AUTO 00000KT 10SM CLR 24/22 A3005 RMK AO2 T02380221 KMWL 030153Z AUTO 14006KT 10SM CLR 30/19 A2988 RMK AO2 SLP102 T03000194 KMWM 030154Z AUTO 19003KT 10SM CLR 19/14 A2991 RMK AO2 KMWN 0209854Z 26021KT 1/16SM FG VV000 12/12 KODX 030153Z AUTO 14010KT 10SM CLR 22/16 A2988 RMK AO2 SLP113 T02220156 KMWO 030155Z AUTO 00000KT 4SM BR CLR 21/19 A2998 RMK AO2 T02080190 KMXF 030158Z AUTO VRB04KT 10SM FEW075 27/22 A3000 RMK AO2 SLP160 T02740222 KOEO 030155Z AUTO 16003KT 10SM CLR 16/13 A2989 RMK AO2 T01620128 KOFF 030158Z AUTO 08003KT 10SM CLR 18/18 A2994 RMK AO2 SLP139 T01800178 KMVY 030153Z 22008KT 6SM BR SCT003 22/21 A2982 RMK AO2 SLP097 T02170211 KNOG 030156Z AUTO 12013KT 10SM CLR 29/23 A2993 RMK AO2 SLP113 T02940233 $ LEPA 030130Z 00000KT 9999 FEW025 21/18 Q1013 NOSIG KMWS 030145Z 19002G04KT 25/M03 RMK SNOW DEPTH M PTKK 030150Z 03009KT 15SM FEW014 SCT290 33/27 A2979 RMK SLP089 T03270273 KNPA 030156Z 28003KT 10SM FEW030 FEW100 BKN250 27/23 A3003 RMK AO2 SLP169 T02720233 KOGA 030155Z AUTO 16006KT 10SM CLR 22/14 A2987 RMK AO2 T02200139 KMWT 030153Z AUTO 00000KT 10SM CLR 23/21 A2997 RMK AO2 SLP136 T02330211 KOGB 030153Z AUTO 19007KT 10SM CLR 23/22 A3000 RMK AO2 RAE02 SLP157 P0000 T02330217 KOFK 030156Z AUTO 13006KT 10SM CLR 19/16 A2992 RMK AO2 SLP126 T01940156 KOGD 030153Z 04005KT 10SM CLR 27/04 A2984 RMK AO2 SLP052 T02670039 KMYF 030153Z AUTO 29007KT 10SM CLR 23/17 A2979 RMK AO2 SLP083 T02280172 TSNO KMXO 030155Z AUTO 00000KT 10SM SCT050 18/17 A2995 RMK AO2 KOFP 030154Z AUTO 00000KT 10SM CLR 27/21 A2994 RMK AO2 SLP135 T02670211 PTKR 030155Z 27013KT 10SM -SHRA BKN017CB OVC140 27/24 A2983 RMK CB ALQDS AND OHD SLP102 T02670243 KNQA 030050Z 28004KT 10SM BKN025 OVC032 27/24 A2997 LDZA 030200Z VRB02KT 9999 BKN040 14/14 Q1013 NOSIG LFGJ 030130Z AUTO 03011KT 9999 NSC 15/11 Q1017 KMYL 030151Z AUTO 14007KT 10SM CLR 21/00 A2981 RMK AO2 SLP069 T02060000 LDZD 030200Z VRB03KT 9999 FEW030 BKN070 19/14 Q1008 BECMG 06010KT ESCF 030150Z AUTO 22005KT 9999NDV NCD 09/09 Q1027 LEPP 022200Z VRB02KT CAVOK 18/13 Q1015 KMYP 030200Z AUTO 27015KT 10SM BKN080 12/M02 A3063 RMK AO2 KMZG 030155Z AUTO 11013KT 10SM FEW065 SCT075 BKN085 29/25 A2995 RMK A01 KMZH 030154Z AUTO 00000KT 10SM CLR 14/12 A2981 RMK AO2 KMYR 030145Z 20011KT 10SM FEW016 28/23 A3002 KNQI 030156Z 11014KT 10SM FEW032 BKN090 BKN250 29/24 A2991 RMK AO2 SLP125 T02890244 GABS 030130Z 00000KT 9999 FEW025 SCT090 24/24 Q1014 NOSIG KNRB 030152Z 17006KT 10SM FEW050 SCT120 BKN250 28/24 A3004 RMK AO2 SLP170 T02780239 $ KMYV 030153Z AUTO 15009KT 10SM CLR 30/12 A2965 RMK AO2 SLP045 T03000117 ESDF 030150Z AUTO 02004KT 0100NDV R01/0450N R19/0300V0400N FG VV001/// 09/08 Q1028 FJDG 030155Z 14009KT 9999 FEW020 FEW250 27/23 A2990 RMK SLP122 T02690231 LERI 021800Z 26013KT 220V290 CAVOK 33/16 Q1009 NOSIG WIBB 030100Z 00000KT 7000 FEW015 25/23 Q1012 LESA 030130Z VRB02KT 9999 FEW030 19/18 Q1016 KOJA 030155Z AUTO 14009KT 10SM CLR A2990 RMK AO2 KOJC 030153Z 00000KT 10SM CLR 23/20 A2997 RMK AO2 SLP138 T02280200 LGAD 030020Z 00000KT 9999 FEW020 20/18 Q1005 KPAE 030153Z 33006KT 10SM SCT015 OVC060 14/12 A2983 RMK AO2 LTG DSNT E AND SE RAE11 SLP100 P0011 T01390117 KNSE 030156Z 33003KT 10SM FEW045 SCT120 BKN250 25/23 A3004 RMK AO2 SLP155 T02500228 $ KNQX 030153Z 09011KT 10SM FEW035 SCT090 28/23 A2999 RMK AO2 SLP155 T02830228 $ FIMP 030200Z 28003G13KT 6000 -SHRA BKN015 BKN050 20/19 Q1015 KPAH 030153Z 00000KT 10SM CLR 24/21 A2998 RMK AO2 SLP147 T02390211 KMZZ 030155Z AUTO 22004KT 7SM CLR 19/18 A2997 RMK AO2 T01930181 KNSI 030157Z AUTO 31009KT 9SM OVC008 A2980 RMK AO2 SLPNO $ FIMR 021500Z 36009KT 9999 SCT017 BKN050 20/19 Q1015 LERS 022200Z 00000KT 9999 SCT016 23/21 Q1014 KNRS 030156Z 27007KT 10SM FEW020 22/18 A2979 RMK AO2 SLP088 T02170178 $ LERT 030100Z 24011KT 9999 FEW007 21/19 Q1014 NOSIG KOKB 030152Z AUTO 25005KT 10SM CLR 23/18 A2976 RMK AO2 SLP078 T02280178 LFKB 030130Z VRB02KT 9999 SCT033 16/12 Q1011 NOSIG LGAL 030150Z /////KT 9999 SCT030 SCT080 22/20 Q1005 KOKC 030152Z 15011KT 10SM CLR 29/19 A2991 RMK AO2 SLP112 T02890194 $ LFKC 021800Z 31004KT 270V350 CAVOK 22/15 Q1009 LFJL 030130Z AUTO 06008KT 9999 NSC 13/11 Q1021 KNTD 030156Z 29010KT 10SM BKN008 BKN010 21/17 A2979 RMK AO2 SLP088 T02110167 $ KPAM 030158Z AUTO 27004KT 10SM CLR 28/24 A3003 RMK AO2 SLP172 T02840241 $ KPAN 030155Z AUTO 26005KT 10SM CLR 27/04 A3006 RMK AO2 KPAO 030147Z 36014KT 10SM FEW010 21/17 A2977 LESO 021930Z VRB02KT CAVOK 19/17 Q1014 KPBF 030153Z AUTO 22003KT 10SM SCT027 25/22 A2998 RMK AO2 SLP149 T02500222 LFKF 030130Z AUTO VRB01KT 9999 NCD 10/08 Q1011 KPBG 030153Z AUTO 00000KT 10SM -RA FEW022 BKN041 OVC060 19/18 A2977 RMK AO2 SLP079 P0005 T01940183 KPBH 030155Z AUTO 00000KT 10SM CLR 15/13 A2989 RMK AO2 T01460125 KPBI 030153Z 13009KT 10SM SCT030 28/22 A3002 RMK AO2 SLP165 T02830222 LFJR 030130Z AUTO 05005KT 9999 NSC 15/14 Q1019 LFKJ 030130Z AUTO 05006KT 9999 NSC 16/08 Q1011 WIDD 030130Z AUTO 13002KT 9999NDV BKN013 29/26 Q1013 METAR WADD 030130Z 08004KT 060V130 9999 FEW019 27/21 Q1015 NOSIG LEST 030130Z VRB02KT 4000 BR BKN004 17/17 Q1014 TEMPO 0600 BCFG BKN001 KOKK 030155Z AUTO 21005KT 10SM CLR 20/18 A2996 RMK AO1 LFLB 030130Z AUTO 35011KT 9999 NSC 16/10 Q1015 KNUC 030056Z 30005KT 10SM BKN014 21/16 A2980 RMK SLP091 LAST T02110161 LETL 030130Z AUTO 15006KT CAVOK 18/08 Q1018 LGBL 030150Z 32006KT 9999 SCT030 SCT080 21/17 Q1003 NOSIG BLU LFLC 030130Z AUTO 33005KT 310V030 9999 NSC 14/09 Q1017 PTPN 030150Z 09010KT 15SM SCT017 SCT130 OVC300 31/25 A2972 LGAV 030150Z 18004KT 9999 SCT030 SCT080 23/17 Q1005 NOSIG KOKM 030155Z AUTO 08005KT 10SM CLR 22/21 A2996 RMK AO2 T02200205 KOLE 030155Z AUTO 00000KT 10SM BKN010 BKN016 16/16 A2995 RMK AO2 LETO 030100Z 00000KT CAVOK 21/09 Q1014 NOSIG KOLF 030153Z AUTO 00000KT 10SM CLR 18/08 A2972 RMK AO2 SLP063 T01780083 KOLG 030155Z AUTO 18003KT 10SM CLR 15/12 A2984 RMK AO1 ESGG 030150Z 16005KT CAVOK 10/10 Q1028 KNUI 030153Z AUTO 23007KT 10SM CLR 29/21 A2989 RMK AO2 SLP122 T02940206 $ KOMA 030152Z 12004KT 10SM CLR 22/16 A2994 RMK AO2 SLP134 T02170161 LFKS 030130Z AUTO 28006KT 9999 NSC 18/12 Q1011 ESGJ 030150Z AUTO 20001KT 7000 BCFG NCD 06/05 Q1028 LEVC 030130Z 01005KT CAVOK 26/22 Q1011 NOSIG KNTU 030156Z 20011KT 10SM FEW280 29/23 A2994 RMK AO2 SLP140 T2 SET T02890233 KPDC 030155Z AUTO 00000KT 10SM CLR 18/16 A2992 RMK AO2 T01790155 LFMC 030130Z AUTO 00000KT 9999 ////// 12/09 Q1012 LFLL 030130Z 27003KT CAVOK 12/09 Q1016 NOSIG LEVD 021930Z 15006KT 9999 SCT033CB 26/06 Q1014 KOLM 030154Z 25009KT 10SM FEW036 17/10 A2987 RMK AO2 RAE0055 SLP116 P0000 T01670100 KPCM 030155Z AUTO 14003KT 10SM CLR 28/23 A3004 RMK AO2 KOKV 030155Z AUTO 00000KT 10SM OVC110 25/20 A2993 RMK AO2 LFMD 030130Z AUTO 35004KT 330V030 9999 NSC 15/10 Q1011 LFLN 030130Z AUTO 27003KT 9999 NSC 10/09 Q1017 LFLP 030130Z AUTO 05003KT 9999 NSC 12/08 Q1016 ESGP 030150Z 12003KT CAVOK 10/09 Q1028 KOKZ 030155Z AUTO 18004KT 10SM CLR 24/22 A3005 RMK AO2 LTG DSNT NE T02420218 KNUQ 030156Z 35014KT 10SM CLR 20/16 A2978 RMK AO2 SLP086 T02000156 KOMH 030155Z AUTO 00000KT 10SM SCT025 SCT050 BKN060 25/22 A2994 RMK AO2 LTG DSNT N AND NE P0002 LFMH 030130Z AUTO VRB02KT 9999 NSC 10/08 Q1017 PTSA 022350Z 19008KT 10SM VCSH BKN018 KN130 BKN300 31/27 A2980 LFMI 030130Z AUTO 36010KT 9999 NSC 18/09 Q1011 ESGR 030150Z AUTO 21003KT 2200 NCD 09/09 Q1027 KONA 030155Z AUTO 00000KT 10SM CLR 19/17 A2990 RMK AO2 KOLS 030154Z AUTO 31004KT 10SM CLR 31/08 A2994 RMK AO2 SLP069 T03060083 KPEA 030155Z AUTO 18004KT 10SM CLR 20/16 A2997 RMK AO2 T02000164 LFLS 030130Z AUTO VRB01KT 9999 NSC 10/08 Q1016 KOMK 030153Z AUTO 05006KT 10SM FEW038 BKN095 OVC110 18/11 A2962 RMK AO2 WSHFT 0103 RAB06E46 SLP029 P0003 T01780111 KPDK 030153Z 00000KT 10SM CLR 23/21 A3004 RMK AO2 SLP154 T02280211 KNY0 030155Z AUTO 24005KT 5SM SCT060 SCT075 OVC120 19/19 A2982 RMK AO2 P0032 T01900185 LFMK 030130Z AUTO 00000KT 9999 NSC 13/10 Q1014 LFLU 022330Z AUTO 03008KT 9999 NSC 15/11 Q1014 ESIB 030150Z AUTO 18006KT 9000NDV BR NCD 10/09 Q1027 ESGT 021820Z 20006KT CAVOK 16/13 Q1026 KOLU 030155Z AUTO 14005KT 10SM FEW090 20/15 A2994 RMK AO1 LFML 030130Z AUTO 14006KT 9999 NSC 14/10 Q1011 KOLV 030155Z AUTO 29006KT 7SM FEW050 23/23 A3000 RMK A01 P000 KOMN 022250Z 09010KT 7SM SKC MM/MM A3001 RMK LAST LFLW 030130Z AUTO VRB03KT 9999 NSC 08/07 Q1016 PTRO 030150Z 25009KT 14SM BKN015CB BKN110 OVC300 27/26 A2984 RMK CB VC ALQDS KPCW 030153Z AUTO 20004KT 10SM CLR 22/21 A2994 RMK AO2 T02160205 $ KNUW 030156Z 29012KT 8SM -RA SCT007 BKN040 OVC060 14/12 A2983 RMK AO2 RAB0059 SLP104 P0009 T01390117 $ LFMN 030130Z 34007KT CAVOK 20/08 Q1011 NOSIG LFMO 030130Z AUTO 35016KT 9999 NSC 17/10 Q1013 LFLX 030130Z AUTO 05005KT 9999 NSC 13/11 Q1018 KOLY 030155Z AUTO 00000KT 7SM CLR 19/19 A2999 RMK AO2 LFMP 030130Z AUTO 00000KT 9999 NSC 19/11 Q1013 LFLY 030130Z AUTO 32006KT 9999 NSC 14/10 Q1016 KPCZ 030155Z AUTO 00000KT 10SM CLR 18/16 A2990 RMK AO2 T01780159 KOLZ 030155Z AUTO 22004KT 10SM CLR 18/16 A2995 RMK AO2 LEVS 022130Z 06003KT 020V110 9999 FEW050 28/08 Q1015 KOOA 030155Z AUTO 00000KT 10SM CLR 20/16 A2997 RMK AO2 T01950163 LFOA 030130Z AUTO 04006KT 9999 NSC 14/11 Q1018 LEVT 030130Z 36003KT CAVOK 12/08 Q1015 KPDT 030153Z 25028G33KT 10SM CLR 22/07 A2972 RMK AO2 PK WND 26034/0110 SLP054 T02170067 LFMT 030130Z AUTO 01012KT 9999 NSC 20/07 Q1012 LFOB 030130Z AUTO VRB02KT 5000 BR NSC 13/12 Q1021 LGEL 030150Z 00000KT 9999 FEW025 SCT070 25/15 Q1004 NOSIG KONL 030155Z AUTO 14010KT 10SM SCT065 SCT080 22/16 A2988 RMK AO2 T02210157 LFOC 030130Z AUTO 02004KT 9999 NSC 14/13 Q1020 LFMU 030130Z AUTO 34008KT 9999 NSC 18/07 Q1013 KONM 030155Z AUTO 21003KT 10SM CLR 27/05 A2997 RMK AO2 T02680047 LFMV 030130Z AUTO 35015KT 9999 NSC 17/10 Q1012 ETAD 030158Z AUTO 04006KT 9999 OVC017 14/13 A3019 RMK AO2 SLP207 T01380127 $ LFOE 030130Z AUTO 03005KT 8000 NSC 13/11 Q1021 LEVX 030130Z VRB01KT 7000 BKN009 18/17 Q1014 TEMPO 0800 BCFG BKN002 KPDX 030153Z 31015KT 10SM FEW035 SCT050 SCT070 21/12 A2992 RMK AO2 PK WND 31028/0107 SLP130 T02060117 KONO 030153Z AUTO 00000KT 10SM CLR 28/08 A2964 RMK AO2 SLP030 T02780078 KPEO 030153Z AUTO 23005KT 10SM FEW032 18/17 A2989 RMK AO2 SLP116 T01830167 KNXF 030156Z AUTO 27006KT 6SM HZ CLR 22/17 A2977 RMK AO2 SLP165 T02220172 $ RCKH 030130Z 21006KT 170V260 9999 FEW012 SCT022 31/24 Q1011 NOSIG RMK A2986 KONP 030155Z AUTO 00000KT 7SM BKN003 15/14 A3002 RMK AO2 P0001 LFMY 030130Z AUTO 01009KT 9999 NSC 17/10 Q1012 KPEQ 030155Z AUTO 12018KT 10SM CLR 33/15 A2985 RMK AO2 T03250145 LFOH 030130Z AUTO 11005KT 4000 BR NSC 15/14 Q1021 LEXJ 022200Z VRB02KT CAVOK 19/15 Q1013 KPGA 030153Z AUTO 00000KT 10SM CLR 32/04 A2988 RMK AO2 SLP046 T03170044 LFOJ 030130Z AUTO 05003KT 9999 NSC 12/11 Q1020 KONT 030153Z 24009KT 10SM CLR 27/17 A2976 RMK AO2 SLP064 T02720167 LFOK 030130Z AUTO 02007KT 9999 NSC 12/10 Q1020 LFPB 030130Z AUTO 01003KT 350V050 9999 NSC 14/13 Q1020 KNYC 030151Z AUTO 25009G15KT 200V270 10SM CLR 29/21 A2984 RMK AO2 SLP093 T02890206 $ LFPC 030130Z AUTO 36001KT 4500 BR NSC 12/12 Q1021 KPGD 030153Z AUTO 00000KT 10SM CLR 24/23 A3004 RMK AO2 SLP173 T02440233 WIHH 030100Z 00000KT 3000 HZ NLC 27/23 Q1014 NOSIG PTTP 030054Z 11002KT 12SM -SHRA BKN017CB OVC130 26/25 A2979 RMK CV SE-SW MOV W SLP088 T02610251 KOPF 030153Z AUTO 34005KT 10SM CLR 25/22 A3003 RMK AO2 SLP170 T02500222 KPEX 030153Z AUTO 16005KT 10SM RA CLR 18/13 A2986 RMK AO2 T01750130 KONX 030155Z AUTO 21004KT 10SM CLR 29/23 A2997 RMK AO2 T02860231 VQPR 020520Z 13003KT 9999 FEW020 26/11 Q1019 NOSIG KNYG 030156Z AUTO 04004KT 10SM FEW080 28/23 A2991 RMK AO2 SLP129 T02780228 $ KNXP 030156Z AUTO 21015KT 10SM CLR 35/03 A2979 RMK AO2 SLP048 T03500028 LFPG 030130Z 01006KT CAVOK 14/12 Q1021 NOSIG LFOP 030130Z AUTO 05006KT 6000 NSC 14/13 Q1021 KONZ 030154Z AUTO 00000KT 10SM CLR 19/18 A2992 RMK AO2 KPEZ 030155Z AUTO 12009KT 090V160 10SM CLR 30/20 A2991 RMK AO2 T02950200 ETAR 030158Z AUTO 00000KT 9999 SCT012 OVC019 15/13 A3016 RMK AO2 SLP212 T01470126 $ LFQA 030130Z AUTO 00000KT 9999 NSC 11/09 Q1021 LFQB 030130Z AUTO 30006KT 9999 NSC 11/10 Q1020 LFOT 030130Z AUTO 05007KT 010V070 9999 ////// 15/12 Q1019 KOPL 030155Z AUTO 11003KT 10SM VCTS CLR 24/23 A3001 RMK AO2 LTG DSNT NE AND E T02350226 KNYL 030157Z AUTO 19010KT 10SM CLR 39/14 A2961 RMK AO2 SLP022 T03940144 KPHD 030153Z AUTO 00000KT 10SM OVC028 21/19 A2998 RMK AO2 SLP145 T02110194 KOPM 030155Z AUTO 15019KT 1 3/4SM HZ BKN003 OVC026 27/23 A2990 RMK A01 P0009 LFOV 030130Z AUTO 01004KT 9999 NSC 14/14 Q1020 LFPM 030130Z AUTO 03003KT 340V070 9999 NSC 14/12 Q1020 KOPN 030155Z AUTO 15010KT 2 1/2SM +TSRA SCT025 BKN045 OVC060 25/23 A3008 RMK AO2 LTG DSNT ALQS LFPN 030130Z AUTO 34002KT 9999 NSC 13/13 Q1021 ESKN 030150Z 24004KT CAVOK 10/10 Q1027 KQA4 030155Z VRB03KT 9999 CLR 23/M02 A2986 RMK SLP041 WND DATA ESTMD ALSTG/SLP ESTMD Q1011 KPHF 030154Z 21009KT 10SM CLR 31/22 A2993 RMK AO2 SLP135 T03110222 LFPO 030130Z 34002KT CAVOK 14/12 Q1020 NOSIG LFQG 021800Z AUTO 03005KT 9999 NSC 19/12 Q1019 LEZG 030130Z VRB01KT CAVOK 22/09 Q1012 WIII 030200Z 08009KT 7000 SCT020 31/23 Q1013 NOSIG LGHI 030150Z 20004KT 110V250 9999 FEW018 SCT025 24/22 Q1005 KPIA 030154Z 00000KT 10SM CLR 22/18 A2995 RMK AO2 SLP138 T02220183 $ KORB 030153Z AUTO 15003KT 10SM CLR 14/11 A2974 RMK AO2 KPIB 030155Z AUTO 22003KT 10SM TS FEW013 SCT020 A3010 RMK AO1 LTG DSNT SW TSB06 P0017 LFRB 030130Z 05005KT 8000 FEW045 14/13 Q1019 NOSIG LFPT 030130Z AUTO 01004KT 9000 NSC 13/12 Q1021 GAMB 030000Z 18004KT 9999 TS FEW030 FEW040CB BKN150 25/24 Q1012 ORAGE SECT S LEZL 030130Z 21005KT 170V240 9999 BKN009 21/19 Q1014 NOSIG KPHL 030154Z 22010KT 10SM SCT060 SCT090 OVC200 24/22 A2990 RMK AO2 SLP124 OCNL LTGICCG DSNT S CB DSNT S MOV E T02440217 KORC 030155Z AUTO 00000KT 10SM CLR 20/16 A2992 RMK AO2 LFRC 030130Z AUTO 08009KT 1400 R28/P2000 BR OVC002 16/16 Q1021 KORD 030151Z 31004KT 10SM SCT050 BKN060 23/14 A2992 RMK AO2 SLP127 T02280144 KPGV 030150Z AUTO 21003KT 7SM CLR 25/24 A3001 RMK AO2 LFPV 030130Z AUTO 36003KT 9999 NSC 15/12 Q1020 LFRD 030130Z AUTO 07005KT 7000 NSC 15/15 Q1020 KORE 030152Z AUTO 00000KT 7SM CLR 22/22 A2977 RMK AO2 SLP079 T02220217 KPIE 030153Z 03008KT 10SM VCTS SCT042 SCT050 BKN060 29/24 A3001 RMK AO2 LTG DSNT N TSE46 SLP162 T02890244 $ KPHN 030158Z AUTO 71000KT 3SM BR CLR 15/15 A2993 RMK AO2 KORF 030151Z AUTO 20010KT 10SM CLR 30/21 A2994 RMK AO2 SLP138 T03000211 TSNO RCMQ 030130Z 19009KT 9999 FEW012 SCT020 BKN200 30/24 Q1011 NOSIG RMK A2986 KORG 030155Z AUTO 14005KT 10SM CLR 28/25 A3000 RMK AO2 T02780252 KPHP 030155Z AUTO 23004KT 10SM CLR 21/08 A2977 RMK AO2 SLP071 T02060083 LFRG 030130Z AUTO 00000KT 0350 R12/P2000 FG NSC 13/13 Q1021 GAKY 021800Z 34010KT 9999 FEW030 BKN150 32/25 Q1009 KPIH 030153Z 19005KT 10SM CLR 21/03 A2985 RMK AO2 SLP077 T02110033 KORH 030154Z AUTO 22011KT 10SM CLR 23/22 A2981 RMK AO2 SLP087 T02330217 LFQQ 030130Z AUTO 03006KT 8000 NSC 14/13 Q1022 LFRH 030130Z AUTO 06007KT 9999 NSC 16/15 Q1019 LFRI 030130Z AUTO 03004KT 9999 NSC 13/12 Q1018 KOSA 030155Z AUTO 16004KT 10SM CLR 24/21 A2999 RMK AO1 T02420211 LFRJ 030130Z AUTO 07004KT 0150 R26/0900U R08/0650D FG VV/// 14/14 Q1020 KOQT 030153Z AUTO 00000KT 10SM -RA BKN110 23/22 A3008 RMK AO2 SLP169 P0057 T02280217 KPHT 030155Z AUTO 20004KT 7SM SCT003 23/23 A3001 RMK LFRK 030130Z AUTO 10002KT 3400 BR FEW004 14/13 Q1021 LFSB 022200Z 28002KT 9999 FEW040 BKN053 15/14 Q1020 NOSIG KOQU 030152Z 21015KT 10SM SKC 25/21 A2979 ETEB 030153Z AUTO 03009KT 9999 OVC006 13/12 A3016 RMK AO2 ESMK 030150Z AUTO 00000KT 0300NDV R01/0800V1300 R19/P2000 NCD 06/06 Q1028 KPIL 030153Z AUTO 11014KT 9SM CLR 29/23 A2986 RMK AO2 SLP111 T02940233 KORL 030153Z AUTO 14006KT 10SM CLR 27/22 A3004 RMK AO2 SLP174 T02720222 KOSC 030154Z AUTO 00000KT 10SM CLR 16/15 A2988 RMK AO2 T01640149 LFRL 030130Z AUTO 09008KT 9999 NSC 16/15 Q1019 LFRM 030130Z AUTO 04003KT 9999 NSC 15/13 Q1019 LFSD 030130Z AUTO 35006KT 9999 NSC 13/10 Q1018 LFRN 030130Z AUTO 00000KT 9999 NSC 14/14 Q1019 LGIO 030150Z AUTO VRB01KT //// // ////// 15/15 Q1006 RE// KPHX 030151Z 34006KT 10SM CLR 41/04 A2967 RMK AO2 SLP023 T04060044 LFRO 030130Z AUTO 13005KT 6000 OVC003 16/16 Q1020 KNZY 030152Z 29008KT 10SM SCT017 22/18 A2978 RMK AO2 SLP083 T02220178 $ LFSG 030130Z AUTO 04005KT 9999 NSC 12/11 Q1020 ESNG 030150Z AUTO 22006KT 9999 -DZ NCD 12/08 Q1015 KOSH 030153Z 00000KT 10SM CLR 19/14 A2989 RMK AO2 SLP115 T01890139 LFRQ 030130Z AUTO 05005KT 9999 NSC 14/14 Q1019 PTYA 030152Z 25012G20KT 12SM SCT016TCU BKN130 OVC300 29/25 A2983 RMK TCU ALQDS SLP101 T02880248 ESMQ 030150Z AUTO 00000KT 0750 R16/P1500N R34/P1500N FG NCD 06/06 Q1028 KPIR 030153Z AUTO 13006KT 10SM CLR 21/11 A2975 RMK AO2 SLP066 T02110106 LGIR 030120Z 21005KT 9999 FEW025 26/18 Q1006 NOSIG LFSI 030130Z AUTO 07004KT 9999 NSC 14/11 Q1020 KORS 030155Z AUTO 00000KT 3SM RA SCT001 BKN018 OVC027 14/13 A2980 RMK AO2 P0005 LFRS 030130Z AUTO 05006KT 9999 NSC 17/14 Q1018 KPIT 030151Z 24003KT 10SM FEW026 21/18 A2997 RMK AO2 SLP149 T02110183 ESMS 030150Z 10003KT CAVOK 07/07 Q1028 KPKB 030153Z 00000KT 10SM FEW045 OVC050 23/22 A3000 RMK AO2 SLP153 T02280217 LFRT 022000Z AUTO 01001KT 5000 BR FEW005 16/15 Q1021 LGKC 021350Z 25011KT 9999 SCT010 BKN080 24/22 Q1008 RMK FEW020 ESNK 030150Z AUTO 33004KT 9999 FEW052/// 10/10 Q1024 ESMT 030150Z AUTO 06003KT 0650 R01/P2000N R19/1100VP2000D NCD 10/// Q1028 LHBC 021745Z 00000KT CAVOK 22/16 Q1010 LFSL 030130Z AUTO 01007KT 9999 NSC 14/10 Q1015 ESNL 030150Z AUTO VRB02KT 9999 -DZ FEW070/// 10/09 Q1021 KPKD 030153Z AUTO 19010KT 10SM FEW110 19/13 A2977 RMK AO2 SLP079 T01890133 TSNO LFRV 030130Z AUTO 05007KT 9999 NSC 15/14 Q1019 LFSN 030130Z AUTO 06006KT 9999 NSC 13/11 Q1020 ESNN 030150Z AUTO 30005KT 9999 SCT100/// BKN150/// 12/10 Q1023 ESOE 030150Z AUTO 22006KT 9999NDV FEW017/// 11/10 Q1026 LGKF 030150Z VRB03KT 9999 SCT016 18/17 Q1005 KQBF 030155Z AUTO 28001KT 9999 CLR 24/22 A2997 RMK AO2 SLP136 T02380217 LFSO 030130Z AUTO 04005KT 9999 NSC 13/11 Q1020 ESNO 030150Z AUTO 28005KT 9999 SCT120/// 10/09 Q1023 ESMX 030150Z AUTO 16002KT 1200 R01/P2000N R19/P2000N BR NCD 07/06 Q1028 KS25 030155Z AUTO 00000KT 10SM CLR 14/09 A2973 RMK AO2 KOTG 030155Z AUTO 19005KT 10SM CLR 17/14 A2993 RMK AO1 KOTH 030155Z 36012G17KT 10SM CLR 18/14 A2999 RMK AO1 LFRZ 030130Z AUTO 00000KT 9999 NSC 16/13 Q1018 LFTH 030130Z AUTO 35003KT 9999 NSC 16/11 Q1011 ESNQ 030150Z AUTO 20007KT 9999 NCD 10/07 Q1014 KQAR 030155Z AUTO 25001KT 6000 CLR 21/01 A2995 RMK AO2 SLP087 T02090006 GANR 030000Z 32006KT CAVOK 30/25 Q//// ESNS 030150Z AUTO 24006KT 9999 SCT090/// BKN110/// 13/10 Q1020 ESPA 030150Z AUTO 24005KT 9999NDV FEW120/// SCT230/// 13/09 Q1018 LFST 030130Z AUTO 03004KT 9999 NSC 14/12 Q1020 KQCC 030155Z AUTO VRB03KT 10SM CLR 24/15 A2991 RMK AO2 SLP078 T02440148 ESOK 030150Z AUTO 24002KT 7000 BR OVC007/// 12/12 Q1026 KOSU 030153Z 31003KT 10SM FEW025 21/19 A2997 RMK AO2 SLP144 T02110194 LGKL 030150Z AUTO 00000KT //// // ////// 20/20 Q1005 RE// KQBL 030156Z AUTO 27001KT 10SM CLR 28/23 A3005 RMK AO2 SLP182 T02840227 KOTM 030153Z AUTO 00000KT 10SM CLR 18/17 A2996 RMK AO2 SLP141 T01780167 ESNU 030150Z 19002KT CAVOK 11/09 Q1022 ESPE 030150Z AUTO 27005KT 9999NDV OVC140/// 13/08 Q1018 LGKO 030150Z 10005KT 9999 FEW020 23/21 Q1006 LFSX 030130Z AUTO 12002KT 9999 NSC 09/08 Q1018 ESNX 030150Z AUTO 23008KT 9999NDV OVC150/// 12/08 Q1018 KQAY 030155Z AUTO 00000KT 9000 FEW006 30/15 A2961 RMK AO2 SLP023 T03000154 $ LGKP 030150Z 20005KT 9999 FEW018 25/21 Q1006 LHBP 030200Z 30008KT CAVOK 17/15 Q1012 NOSIG KQAZ 021215Z AUTO 29007KT 4000 HZ CLR 39/19 A2984 RMK CDP03565 CLR ETGG 030120Z 08006KT 9999 10/10 Q1027 BLU+ KQBR 021855Z AUTO 00000KT 35/23 A2985 RMK AO2 SLP103 T03520226 PWINO TSNO $ ESNZ 030150Z AUTO 20002KT 9999 BKN057/// OVC072/// 11/10 Q1024 RESHUP LGKR 030150Z 29002KT 9999 FEW014 17/17 Q1004 NOSIG ETHA 030120Z AUTO 04001KT //// // ////// 10/10 Q1020 /// VRMM 030100Z 34005KT 7000 -SHRA SCT016 FEW017CB 26/24 Q1010 CB E S SW OVERHEAD TEMPO 4000 TSRA WIMM 030130Z 21003KT 4500 HZ FEW019 27/23 Q1012 ETHB 030120Z 00000KT 0100 FG VV000 10/10 Q1025 BLACKRED KQCL 030155Z AUTO 03002KT 9999 CLR 21/14 RMK AO2 SLPNO T02100137 $ LHDC 021845Z 02012KT CAVOK 22/16 Q1011 ETHC 030120Z 06004KT 9999 FEW045 11/09 Q1025 BLU+ LGKV 030150Z 25005KT 2000 TSRA SCT018CB FEW020TCU BKN025 OVC080 20/20 Q1005 KPMD 030153Z AUTO 24014KT 10SM CLR 31/06 A2980 RMK AO2 SLP062 T03060061 TSNO LGLM 030150Z 15015KT 9999 FEW018 24/21 Q1004 KPKV 030155Z AUTO 11004KT 10SM SCT020 SCT075 BKN110 25/24 A2995 RMK AO2 P0011 T02500239 KPLN 030154Z AUTO 28005KT 10SM CLR 17/14 A2988 RMK AO2 SLP115 T01720144 KOVE 030153Z AUTO 16010KT 10SM CLR 33/08 A2967 RMK AO2 SLP046 T03330078 KOUN 030155Z AUTO 14009KT 10SM CLR 28/21 A2992 RMK AO2 LFTW 030130Z AUTO 36009KT 9999 NSC 18/06 Q1012 ETHE 030120Z AUTO 02001KT 1000 // ////// 11/11 Q1024 /// ESOW 030150Z AUTO 22004KT 9999NDV NCD 12/12 Q1026 ETHF 030144Z 33004KT 0700 FG FEW005 11/11 Q1024 RED LGKZ 030150Z AUTO 08005KT //// -RA ////// 14/14 Q1006 RE// ETGQ 030120Z AUTO 35002KT //// // ////// 14/13 Q1022 /// LGLR 030150Z 00000KT 9999 -RA FEW020TCU SCT025 BKN080 19/19 Q1004 NOSIG BLU KQEA 030055Z AUTO 26009KT 9999 FEW000 30/22 A2986 RMK AO2 SLP109 T02960215 KOWA 030155Z AUTO 20006KT 10SM CLR 18/14 A2991 RMK AO2 KPNA 030155Z AUTO 00000KT 10SM CLR 16/01 A3005 RMK AO2 KOWB 030156Z 00000KT 10SM CLR 24/22 A2999 LGMK 030150Z 19007KT CAVOK 23/22 Q1006 KPNC 030153Z AUTO 13011KT 10SM CLR 25/21 A2992 RMK AO2 SLP121 T02500206 KOVL 030154Z AUTO 19006KT 10SM CLR 20/15 A2987 RMK AO2 ETHL 030120Z 04005KT 6000 BKN004 13/12 Q1020 YLO ETIC 030158Z AUTO VRB01KT 9999 BKN014 OVC021 14/11 A3016 RMK AO2 SLP211 KOWD 030153Z 17005KT 10SM CLR 24/21 A2977 RMK AO2 SLP081 T02440211 KPNE 030154Z 24006KT 10SM CLR 24/20 A2989 RMK AO2 RAE13 SLP119 P0001 T02440200 ETHN 030120Z 03007KT 9999 BKN006 BKN015 13/12 Q1021 YLO LFVP 030200Z 13013KT 9999 BKN013 16/14 Q1017 NOSIG KPMP 030153Z AUTO 11004KT 10SM FEW090 27/20 A3004 RMK AO2 RAB0058E07 SLP172 P0000 T02720200 KQEI 030200Z AUTO 29004KT 9999 BKN003 OVC022 18/16 A2970 RMK A02 TSNO ETIH 030158Z AUTO VRB02KT 9999 SCT009 BKN015 OVC025 13/13 A3016 RMK AO2 CIG 011V016 BKN V OVC SLP210 KOVS 030153Z AUTO 00000KT 10SM CLR 18/16 A2992 RMK AO2 SLP000 T01780161 PWAK 030158Z AUTO 10014KT 9999 SCT024 31/25 A2988 RMK AO2 SLP125 T03090245 LGMT 030150Z 16010KT 140V200 9999 FEW025 SCT080 25/20 Q1006 ETHS 030120Z 08005KT 9999 MIFG FEW070 08/08 Q1026 BLACKBLU+ ESSA 030150Z 18005KT CAVOK 11/11 Q1026 NOSIG KOXB 030153Z AUTO 22007KT 10SM CLR 28/24 A2990 RMK AO2 SLP124 T02780244 TSNO KPOB 030158Z AUTO 20003KT 10SM FEW170 25/22 A3000 RMK AO2 SLP160 T02490224 KPOC 030047Z 25010KT 10SM CLR 28/15 A2981 ESSB 030150Z AUTO 00000KT 5000 BCFG NCD 10/09 Q1026 KQEL 030200Z AUTO 13003KT 6000 -SHRA OVC025 19/17 A2970 RMK A02 TSNO KOXC 030155Z 21005KT 10SM CLR 25/21 A2984 RMK AO1 ETIK 030158Z AUTO 05004KT 9999 OVC013 13/13 A3017 RMK AO2 SLP215 T01290127 KPNM 030141Z AUTO 18003KT 10SM CLR 19/13 A2985 RMK AO2 WIOO 030100Z 09003KT 9999 BKN010 25/23 Q1014 KPMV 030155Z AUTO 12004KT 10SM CLR 22/15 A2996 RMK AO2 T02200147 ESSD 030150Z AUTO 17002KT 9999 NCD 11/11 Q1025 KQEN 030200Z AUTO 08002KT M0400 -RA FG CLR 15/14 A2971 RMK A02 TSNO KPOE 030155Z AUTO 12003KT 10SM FEW080 23/22 A2999 RMK AO2 RAE44 PRESRR SLP156 P0001 T02280222 KPOF 030153Z AUTO 36003KT 10SM CLR 22/19 A2997 RMK AO2 SLP145 T02220194 KQEP 030200Z AUTO 03003KT 6000 -SHRA CLR 19/17 A2957 RMK A02 TSNO KOWP 030155Z AUTO 11006KT 10SM CLR 24/21 A2996 RMK AO2 T02410205 KQFG 030155Z AUTO 10003KT 9999 CLR 27/18 A2986 RMK AO2 SLP068 T02700184 KQEQ 030200Z AUTO 06006G15KT 9999 OVC006 19/17 A2947 RMK A02 TSNO KQER 030200Z AUTO 03004KT / /CLR 18/16 A2964 RMK A02 TSNO KOXI 030155Z AUTO 06003KT 10SM BKN075 20/18 A2993 RMK AO1 T01980178 RCSS 030130Z 34005KT 280V050 9999 FEW025 SCT300 33/22 Q1009 NOSIG RMK A2982 KQES 030200Z AUTO 21008G15KT 9000 BR BKN008 BKN039 23/22 A2961 RMK A02 TSNO LGPA 030150Z AUTO 14010KT //// -RA ////// 25/23 Q1006 RE// KPNS 030153Z 26006KT 10SM CLR 27/23 A3003 RMK AO2 SLP169 T02720228 KPPA 030155Z AUTO 16012G17KT 10SM CLR 29/16 A2995 RMK AO2 T02890160 ESTA 030150Z AUTO 14002KT 9999 NCD 09/08 Q1028 KPNT 030155Z AUTO 00000KT 10SM CLR 20/19 A2994 RMK AO2 ESSL 030150Z AUTO 23005KT 9999NDV NCD 12/10 Q1027 KQEV 030200Z AUTO 25007G13KT 9999 CLR 24/21 A2962 RMK A02 TSNO FKKD 030100Z 00000KT 8000 FEW005 OVC010 FEW010CB 24/23 Q1013 TEMPO 4000 -RADZ WIPP 030130Z 13006KT 6000 SCT120 27/23 Q1014 KQEW 030200Z AUTO 03001KT 9999 BKN005 19/17 A2966 RMK A02 TSNO RCTP 030130Z 24011KT 9999 FEW020 SCT200 32/24 Q1010 NOSIG RMK A2983 KPPF 030152Z AUTO 13003KT 10SM CLR 23/21 A2997 RMK AO2 SLP143 T02330211 KQEX 030200Z AUTO 19004G13KT 2800 HZ CLR 22/20 A2968 RMK A02 TSNO LGNX 021650Z 17009KT 9999 FEW018 SCT090 25/20 Q1006 KQEY 030200Z AUTO 19003KT 9999 BKN026 24/21 A2965 RMK A02 TSNO KQFQ 030055Z AUTO VRB03KT 4SM -SHRA FEW005 BKN008 OVC010 19/ A2960 RMK AO2 RAB2355E0015SHRAB0052 SLP022 P0001 T0185 $ ESSP 030150Z AUTO 17001KT 9999NDV BCFG NCD 09/09 Q1027 WIPT 030130Z 00000KT 9999 SCT020 27/23 Q1013 KOXR 030151Z 29011G19KT 8SM OVC006 19/17 A2979 RMK AO2 SLP086 T01940167 KOZA 030155Z AUTO 15007KT 10SM CLR 30/15 A2996 RMK AO2 KQFT 030200Z AUTO 27003KT 4000 HZ BKN005 19/17 A2962 RMK A02 TSNO KPOU 030153Z 21004KT 10SM CLR 28/19 A2977 RMK AO2 SLP075 T02830194 KQFU 030200Z AUTO 17003KT 2000 // CLR 19/17 A2963 RMK A02 TSNO KQFV 030200Z AUTO 24002KT 9999 CLR 18/16 A2968 RMK A02 TSNO ESTL 030150Z AUTO 12002KT 9999NDV NCD 07/07 Q1028 KPOV 030200Z AUTO 25004KT 10SM 19/ A2996 RMK AO2 T0191 KOXV 030155Z AUTO 20004KT 10SM CLR 21/17 A2996 RMK AO2 ESUD 030150Z AUTO 25008KT 9999 OVC100/// 12/08 Q1020 ESSV 030150Z AUTO 20004KT 9999NDV NCD 10/10 Q1028 KQFW 030200Z AUTO 09004KT 4800 RA FEW002 SCT003 BKN005 19/17 A2965 RMK A02 TSNO FKKN 021200Z 36008KT 9999 BKN016 FEW026CB OVC100 21/18 Q1018 KQFX 030200Z AUTO 23002KT 9999 BKN005 21/19 A2963 RMK A02 TSNO KPPO 030155Z AUTO 00000KT 10SM SCT060 18/18 A2995 RMK AO2 T01770177 KPOY 030155Z AUTO 17006KT 10SM CLR 21/M03 A2980 RMK AO2 KPPQ 030155Z AUTO 00000KT 10SM CLR 22/19 A2999 RMK AO2 T02200193 KPQI 030155Z AUTO 17003KT 10SM BKN016 BKN065 22/19 A2971 RMK AO1 LFYR 030130Z AUTO 00000KT 9000 NSC 09/09 Q1019 FKKR 030000Z 00000KT 8000 -RA SCT013 OVC100 23/22 Q1012 KPRB 030153Z AUTO 20013KT 10SM CLR 24/12 A2976 RMK AO2 SLP070 T02390117 KPRC 030153Z 21005KT 10SM CLR 27/02 A3003 RMK AO2 SLP088 T02670017 KPQL 030153Z 00000KT 10SM CLR 25/24 A3004 RMK AO2 SLP173 T02500239 KQGV 030155Z 25010KT 9000 HZ CLR 30/08 A2963 RMK SLPNO QNH1004MB PA +734 KPQN 030154Z AUTO 21004KT 10SM CLR 16/14 A2990 RMK AO2 KQGX 030158Z AUTO 33004KT 9999 CLR 28/23 A2959 RMK AO2 SLPNO T02770230 $ KPRG 030155Z AUTO 20003KT 10SM CLR 20/20 A2999 RMK AO2 T01990195 LGPZ 030150Z 00000KT 9999 FEW012 SCT100 18/17 Q1005 NOSIG KOZR 030158Z AUTO 26002KT 10SM SCT190 27/23 A3003 RMK AO2 SLP168 T02690226 RVRNO $ LGSA 030150Z 02006KT 9999 SCT020 24/21 Q1007 VTBD 030130Z 10005KT 9999 FEW020 SCT120 BKN300 27/25 Q1011 NOSIG KRAC 030153Z AUTO 27004KT 10SM CLR 21/15 A2994 RMK AO2 SLP134 T02060150 KPSC 030153Z 25012G19KT 10SM FEW095 27/10 A2963 RMK AO2 SLP030 T02720100 ESUT 030150Z AUTO VRB02KT 8000 DZ BKN012/// OVC025/// 10/09 Q1019 ETND 021420Z 05006KT 9999 SCT020 19/14 Q1023 BLU+ KOZW 030155Z AUTO 21003KT 10SM CLR 18/16 A2994 RMK AO2 T01790158 KPRN 030156Z AUTO 27003KT 10SM CLR 26/22 A3003 RMK AO2 SLP164 T02560222 ETMN 030120Z 09006KT 9999 SCT048 12/11 Q1026 BLU+ KPSF 030154Z AUTO 21008G16KT 10SM CLR 24/19 A2979 RMK AO2 SLP056 T02440194 KPRO 030155Z AUTO 00000KT 10SM CLR 18/17 A2994 RMK AO2 T01760168 LGRP 030150Z 00000KT 9999 FEW018 24/22 Q1006 NOSIG KQHY 030156Z AUTO 33001KT 10SM CLR 28/23 A3005 RMK AO2 SLP182 T02840229 KQL5 030155Z 24001KT 7000 HZ CLR 27/20 A2982 RMK SLP061 T02670200 ETNG 021350Z 01007KT 9999 FEW038 SCT050 21/13 Q1022 ETNH 030155Z 05003KT 0800 FG 09/08 Q1027 AMB KQIR 030158Z 14004KT 5000 BR CLR 29/26 A2959 RMK AO2A SLP021 T02920257 $ VTCC 030130Z 22001KT 9999 FEW015 SCT035 26/21 Q1012 A2988 NOSIG LIBA 021755Z 32017KT 9999 FEW025TCU SCT030 21/20 Q1005 RMK BKN VIS MIN 9999 BLU KPRS 021215Z AUTO 01007KT 10SM CLR 28/15 A2994 RMK AO2 T02750152 LGSK 021850Z 02006KT 9999 FEW018 23/19 Q1004 RMK FEW070 KPSK 030155Z AUTO 28008G17KT 10SM -TSRA SCT024 BKN041 OVC100 23/20 A3010 RMK AO2 LTG DSNT W THRU NE T02300195 KPTB 030155Z AUTO 21005KT 10SM CLR 28/21 A2995 RMK AO2 T02770205 KT20 030155Z AUTO 16010KT 10SM CLR 29/24 A2993 RMK AO2 T02920235 LIBC 021950Z 01003KT 9999 FEW030 20/16 Q1005 KRAL 030153Z 28008KT 10SM CLR 27/17 A2976 RMK AO2 SLP064 T02670172 ETNL 030120Z 03005KT 9999 10/10 Q1027 BLU+ VTBO 030100Z 00000KT 9999 BKN020 26/25 Q1012 KRBD 030153Z AUTO 15011G19KT 10SM CLR 31/22 A2991 RMK AO2 SLP118 T03110217 LIBD 030150Z 31012KT 9999 FEW020 SCT045 18/17 Q1006 LGSM 021850Z 20005KT 9999 FEW020 26/22 Q1008 KPSM 030158Z 21003KT 8SM CLR 22/21 A2974 RMK AO2A SLP074 T02200213 LHKE 030145Z 04004MPS CAVOK 19/13 Q1011 NOSIG RMK BLU KPSN 030155Z AUTO 10005KT 10SM CLR 25/23 A2997 RMK AO2 T02500240 LIBF 021750Z 31013KT 9999 SCT025 21/18 Q1006 ETNN 030120Z 03001KT 5000 BR FEW021 13/12 Q1023 WHT VTCH 030100Z 00000KT 9999 FEW015 BKN025 25/23 Q1009 A2981 INFO LGSO 030150Z AUTO 18014KT 160V230 //// -RA ////// 23/21 Q1006 RE// KPSO 030155Z AUTO 24003KT 10SM CLR 23/M03 A3020 RMK AO2 T02281034 KPRX 030155Z 15007KT 10SM CLR 27/19 A2995 RMK AO1 LGRX 022350Z 22004KT 9999 FEW020TCU SCT070 20/20 Q1005 NOSIG BLU LIBG 021750Z 00000KT 9999 FEW018 20/19 Q1003 LGTG 030150Z 00000KT 9999 SCT025 SCT080 23/13 Q1004 NOSIG BLU KRBG 030153Z AUTO 32015G21KT 10SM CLR 24/09 A2991 RMK AO2 SLP125 T02440094 KPSP 030153Z 32012KT 10SM CLR 39/03 A2964 RMK AO2 SLP033 T03940028 KRAP 030152Z 11005KT 10SM CLR 18/08 A2980 RMK AO2 SLP079 T01780083 LIBH 030055Z 35012KT 9999 FEW020 20/17 Q1005 RMK SCT QUK / QUL / VIS MAR 20 KM VIS MIN 9999 VTBS 030130Z 08005KT 350V130 9999 FEW020 BKN120 BKN300 28/24 Q1011 NOSIG LGSR 030150Z 15007KT 9999 FEW014 26/21 Q1006 NOSIG VTCL 030100Z VRB02KT 8000 -RA FEW015 SCT025 BKN050 OVC100 24/24 Q1010 A2984 INFO VTBU 030130Z 29004KT 9999 FEW020 BKN300 29/23 Q1010 A2985 LICA 030050Z 00000KT 9999 SCT020 BKN050 21/19 Q1006 KRAS 030155Z AUTO 12014G18KT 7SM SCT023 BKN070 BKN090 29/24 A2993 RMK AO2 T02850240 PWINO KRCA 030158Z AUTO 12009KT 10SM CLR 20/09 A2980 RMK AO2 VIS 2 1/2 RWY31 RAB0103E0111 SLP077 P0000 T02010088 $ ETNS 030120Z AUTO 08003KT 0050 // ////// 11/11 Q1027 /// LICB 022050Z VRB02KT 9999 SCT040 22/14 Q1008 KPUB 030153Z 09007KT 10SM CLR 27/08 A2992 RMK AO2 SLP069 T02670083 KPTK 030153Z 00000KT 10SM FEW200 19/16 A2993 RMK AO2 SLP129 T01940156 ETNT 030120Z 07006KT 9999 FEW040 13/12 Q1025 BLU+ VTCN 030100Z 00000KT 9999 BKN025 BKN100 26/25 Q1010 RWY/02 INFO/B LICC 030150Z 25008KT CAVOK 21/14 Q1006 KPUC 030153Z AUTO 09005KT 10SM BKN120 28/00 A2997 RMK AO2 SLP066 T02780000 KRBL 030154Z AUTO 18011KT 10SM CLR 34/08 A2965 RMK AO2 SLP036 T03440078 LICD 022050Z 33009KT 9999 FEW040 25/17 Q1011 VTCP 030100Z 00000KT 5000 -RA FEW015 BKN018 OVC100 25/24 Q1010 A2983 RWY01 INFO A LIBN 021755Z 27004KT 9999 FEW030 20/20 Q1003 RMK SCT VIS MIN 9999 WIND THR14 /////KT BLU KPTN 030155Z AUTO 00000KT 10SM CLR 26/26 A3007 RMK AO1 KRCE 030155Z AUTO 15011KT CLR 28/21 A2992 RMK AO2 ETNW 030120Z AUTO 08002KT 9999 // ////// 10/10 Q1025 /// LICF 030055Z 32009KT 9999 FEW015CB SCT018 22/19 Q1005 RERA RMK BKN QUK / QUL / VIS MAR 10 KM MON INVIS NC VIS MIN 9999 KPSX 030153Z AUTO 13009KT 10SM OVC100 28/23 A2996 RMK AO2 SLP145 T02830228 KRBO 030155Z AUTO 11010KT 10SM SCT080 OVC090 28/23 A2992 RMK AO2 T02760225 LICG 021755Z 31010KT CAVOK 23/23 Q1009 LIBP 030050Z 30005KT 9999 SCT050 SCT070 19/13 Q1009 KT35 030155Z AUTO 13007KT 10SM BKN060 30/22 A2992 RMK AO2 T02980221 LGSY 021850Z 17013KT 9999 FEW025 26/19 Q1002 NOSIG RMK FEW080 BLU LIBQ 022355Z 29004KT 0000 FG VV/// 10/10 Q1009 RMK MON INVIS VAL INVIS VIS MIN 0000 VTCT 030100Z 03003KT 9999 SCT010 BKN018 OVC080 24/22 Q1011 A2987 LIBR 030145Z 28008KT 9999 SCT020 FEW022CB 21/18 Q1005 NOSIG LICJ 030150Z 29015KT 9999 SCT035 25/19 Q1008 LGTS 030150Z 12004KT 9999 FEW010 SCT025 BKN080 19/18 Q1003 NOSIG KPUJ 030155Z AUTO 00000KT 10SM CLR 25/25 A3004 RMK AO2 KPTS 030155Z AUTO 00000KT 10SM CLR 25/23 A2998 RMK AO2 T02450229 KPTT 030155Z AUTO 13007KT 10SM SCT044 BKN065 OVC090 26/20 A2994 RMK AO2 KPVB 030155Z AUTO 00000KT 5SM CLR 19/15 A2994 RMK AO1 T01880152 LICL 021755Z 33009G19KT 9999 FEW023 26/16 Q1005 RMK FEW QUK 2 QUL 0 VIS MAR 18 KM VIS MIN 9999 KPVC 030155Z 19010KT 10SM CLR 23/21 A2980 RMK AO1 P0003 KRCM 030135Z AUTO 00000KT 10SM CLR 22/20 A2996 RMK AO2 LIBV 030055Z 31009KT 8000 SCT020 17/16 Q1005 RMK BKN BKN080 VIS MIN 8000 WIND THR32 33010KT WIND THR14 31009KT BLU KPVD 030151Z 21009KT 10SM FEW040 25/22 A2980 RMK AO2 SLP090 T02500217 KRDD 030153Z 18012KT 10SM CLR 35/08 A2964 RMK AO2 SLP030 T03500078 KPTV 030155Z AUTO 31003KT 10SM CLR 36/09 A2969 RMK AO1 ETOU 030158Z AUTO 03005KT 9999 CLR 14/12 A3018 RMK AO2 SLP220 T01430115 GCGM 021700Z 20003KT 120V260 9999 FEW025 24/21 Q1017 RMK CAB09 13003KT 060V170 GCFV 022200Z 35012KT 9999 FEW030 23/18 Q1016 KPTW 030154Z AUTO 23004KT 10SM FEW060 SCT085 23/20 A2990 RMK AO2 SLP121 T02330200 KPVE 030155Z AUTO 30011KT 10SM BKN010 BKN021 OVC033 24/22 A3003 RMK KRBW 030155Z AUTO 18003KT 10SM CLR 24/ A3003 RMK AO2 KPVF 030155Z AUTO 22005KT 10SM CLR 27/08 A2985 RMK AO1 LIBY 030055Z 02010KT 9999 SCT015 19/17 Q1003 RMK SCT QUK / QUL / VIS MAR 15 KM VIS MIN 9999 KRDG 030154Z 24006KT 10SM BKN046 BKN055 24/19 A2989 RMK AO2 SLP122 T02390194 KQLQ 030055Z 19003KT 9999 CLR 13/05 A3019 RMK AO2A SLP153 WND DATA ESTMD ALTSG/SLP DATA ESTMD T01260046 402690111 LICR 022350Z 02005KT 9999 FEW025 23/17 Q1006 KRCR 030155Z AUTO 00000KT 10SM SCT060 20/18 A2996 RMK AO2 GCHI 021800Z 36010KT 330V050 9999 FEW025 26/20 Q1016 KPWA 030153Z 16012KT 10SM CLR 29/21 A2991 RMK AO2 SLP111 T02940206 LIEA 030150Z 02003KT CAVOK 13/12 Q1011 KPVJ 030155Z AUTO 14007KT 10SM CLR 29/21 A2991 RMK AO2 T02850206 LIEB 030055Z 33007KT CAVOK 21/14 Q1009 RMK SKC QUK / QUL / VIS MAR 20 KM MON INVIS VIS MIN 9999 LICT 030055Z 30013KT 9999 FEW025 24/22 Q1009 KRDK 030155Z AUTO 00000KT 10SM CLR 18/16 A2996 RMK AO2 PWINO LIEC 030055Z 31002KT CAVOK 23/16 Q1010 RMK SKC QUK / QUL / VIS MAR 20 KM VIS MIN 9999 KPWC 030153Z AUTO 18004KT 10SM SCT120 17/13 A2983 RMK AO2 LIED 030055Z 36005KT 9999 SCT012 20/18 Q1010 RMK SCT VIS MIN 9999 WIND THR35 01005KT WIND THR17 36004KT BLU KRCV 030155Z AUTO 01006KT 10SM OVC110 23/02 A3019 RMK AO2 T02250018 KRDM 030156Z 29021G30KT 10SM CLR 19/06 A2986 RMK AO2 PK WND 31031/0145 SLP103 T01940061 KQND 030155Z AUTO 00000KT 9SM OVC150 22/20 A2984 RMK AO2 SHRAB0116E0132 SLP090 T02180200 $ KPUW 030153Z AUTO 26013G20KT 10SM CLR 22/04 A2972 RMK AO2 SLP056 T02170039 LIEE 030150Z 33006KT CAVOK 18/17 Q1010 FLHN 021500Z 11006KT CAVOK 25/M01 Q1021 NOSIG KRCX 030155Z AUTO 00000KT 10SM CLR 15/13 A2990 RMK AO2 T01480127 KPWG 030155Z AUTO 17010KT 10SM CLR 31/19 A2991 RMK AO1 LICZ 030055Z 26002KT 9999 FEW020 20/18 Q1007 RMK FEW VIS MIN 9999 WIND THR28 225008KT A2976 BLU KRCZ 030155Z AUTO 00000KT 10SM CLR 24/22 A3002 RMK AO2 T02370215 KRDR 030158Z AUTO 23007KT 10SM CLR 17/13 A2971 RMK AO2 SLP066 T01660134 ETSA 030120Z 10002KT 9999 -RA BKN025 BKN050 12/11 Q1020 BLU KPWK 030152Z 26003KT 10SM CLR 24/16 A2994 RMK AO2 SLP133 T02390156 ETSB 030120Z AUTO 07008KT 8000 // ////// 14/12 Q1022 /// KRDU 030151Z 23007KT 10SM FEW060 SCT200 SCT250 25/20 A3000 RMK AO2 SLP154 T02500200 KPVU 030152Z 10004KT 15SM FEW090 27/08 A2986 KPWM 030151Z 16007KT 10SM CLR 21/19 A2974 RMK AO2 SLP069 T02110194 KRFD 030154Z 00000KT 10SM CLR 21/16 A2995 RMK AO2 SLP137 T02060156 $ KPVW 030155Z AUTO 16010KT 10SM CLR 28/16 A2994 RMK AO2 T02830156 KPXE 030155Z AUTO 17005KT 10SM CLR 25/22 A3006 RMK AO2 LTG DSNT ALQS T02480220 ETSE 030120Z AUTO 22002KT 2700 // ////// 12/12 Q1020 /// KREO 030152Z AUTO 25012KT 31/M06 A2974 RMK AO1 PK WND 25026/0056 SLP035 T03111061 LIEO 030150Z 19005KT CAVOK 18/12 Q1011 ETSH 030120Z 01003KT 9999 BKN038 13/11 Q1024 BLU KRFI 030155Z AUTO 16004KT 10SM CLR 24/23 A2999 RMK AO2 T02360230 ETSI 030120Z AUTO 05005KT 7000 // ////// 14/13 Q1020 /// LHPA 030145Z 34006MPS 6000 BKN008 15/14 Q1015 NOSIG RMK GRN KPWT 030155Z AUTO 21016G24KT 10SM CLR 18/11 A2983 RMK AO1 LTG DSNT E ETSL 030120Z 02003KT 6000 -RA SCT007 BKN015 BKN045 13/12 Q1020 WHT ETSN 030120Z AUTO 07003KT //// // ////// 14/13 Q1020 /// LGZA 030150Z 00000KT 9999 SCT018 18/17 Q1005 GCLA 022000Z VRB02KT 9999 BKN025 25/20 Q1016 KRGK 030154Z AUTO 00000KT 10SM CLR 17/15 A2987 RMK AO2 FLKK 022100Z 17003KT CAVOK 12/05 Q1024 KPYM 030152Z AUTO 19004KT 10SM CLR 23/21 A2980 RMK AO2 SLP089 T02280206 KT82 030155Z AUTO 15009G14KT 10SM CLR 30/18 A2995 RMK AO2 T02970182 LHPP 030145Z 01011KT CAVOK 16/15 Q1012 FMCH 021500Z 19016KT 9999 FEW020 25/19 Q1014 NOSIG KRHI 030153Z AUTO 00000KT 10SM CLR 13/11 A2991 RMK AO2 SLP129 T01330111 LHPR 030145Z 29005KT CAVOK 15/14 Q1015 FLLI 021500Z 11006KT CAVOK 25/M01 Q1021 NOSIG AGGH 030200Z 02009KT 9999 HZ FEW020 31/24 Q1008 KRIC 030154Z 20004KT 10SM BKN250 28/21 A2992 RMK AO2 SLP135 T02830211 KPYX 030155Z AUTO 07009KT 10SM CLR 26/21 A2992 RMK AO2 T02600211 KRHP 030155Z AUTO 00000KT 10SM SCT120 22/21 A3008 RMK AO2 T02200213 GCLP 030130Z 01011KT 9999 FEW018 22/18 Q1016 NOSIG KQRH 030155Z AUTO 26004KT 9999 CLR 35/14 A2964 RMK AO2 SLP035 T03450144 KPZQ 030155Z AUTO 23006KT 10SM CLR 16/14 A2987 RMK AO2 T01550136 KSAA 030155Z AUTO 21007KT 10SM CLR 18/02 A3007 RMK AO2 KQSA 030158Z 22004KT 8000 HZ FEW005 16/05 A2997 RMK AO2A SLP060 FU LYR FEW005 T01600054 $ KRIL 030153Z AUTO 21008KT 10SM CLR 24/M01 A2999 RMK AO2 SLP097 T02441006 KSAC 030153Z AUTO 21006G18KT 10SM CLR 25/14 A2968 RMK AO2 SLP052 T02500139 TSNO KSAD 030151Z AUTO 30010KT 10SM CLR 34/02 A2983 RMK AO2 SLP046 T03440017 KRHV 030153Z 29010KT 10SM SKC 24/15 A2979 FMEE 030130Z 18004KT 9999 FEW026 20/15 Q1014 NOSIG KSAF 030153Z AUTO 21006KT 10SM CLR 24/M03 A3010 RMK AO2 SLP091 T02441033 KQQY 030155Z AUTO 25001KT 9999 BKN190 23/23 A2998 RMK AO2 SLP139 T02340225 KU16 022058Z AUTO 24007KT 10SM CLR 30/02 A2993 RMK AO2 RAE44 SLP760 P0000 60000 T03000022 58019 $ FMCZ 030200Z AUTO 22008KT 9999 NCD 24/19 Q1014 KSBA 030153Z 25004KT 10SM CLR 21/16 A2977 RMK AO2 SLP081 T02060161 KSBD 030150Z 23008KT 10SM SKC 28/14 A2866 KRKD 030155Z AUTO 06003KT 1/2SM OVC002 17/17 A2974 RMK AO1 KRIV 030158Z AUTO 30007KT 10SM CLR 28/17 A2980 RMK AO2 SLP080 T02750167 LHSM 021545Z 35016KT 9999 -RA SCT010 BKN020 OVC030 15/13 Q1014 BECMG SCT015 ETWM 030120Z AUTO 00000KT 0200 // ////// 09/09 Q1025 /// LHSN 030145Z 05006MPS CAVOK 20/14 Q1011 NOSIG RMK BLU KSAN 030151Z 28006KT 10SM SCT020 23/17 A2980 RMK AO2 SLP090 T02280172 KRIW 030153Z AUTO 26005KT 10SM CLR 23/M03 A2986 RMK AO2 SLP054 T02281033 KQSN 030055Z 13004KT 9999 CLR 17/05 A3011 RMK AO2A SLP138 WND DATA ESTMD ALSTG/SLP ESTMD T01670047 $ KQTF 030155Z AUTO 20003KT 10SM CLR 20/18 A2985 RMK AO2 SLP106 T01980177 PWINO $ FMEP 030130Z AUTO 03009KT 9999 NCD 18/M39 Q1015 KQTH 030155Z AUTO 17014KT 9999 FEW190 26/21 A2974 RMK AO2 SLP041 T02560205 $ KSAR 030155Z AUTO 00000KT 10SM SCT041 22/21 A3001 RMK AO2 T02190206 KSAT 030151Z 13019G24KT 10SM FEW040 FEW250 30/22 A2993 RMK AO2 SLP116 T03000222 $ KSAV 030153Z 00000KT 10SM BKN140 OVC200 24/23 A3004 RMK AO2 SLP171 T02440228 KSBM 030153Z AUTO 19003KT 10SM CLR 17/16 A2990 RMK AO2 RAB10E25 SLP123 P0000 T01720156 KSCD 030155Z AUTO 00000KT 10SM CLR 27/22 A3001 RMK AO2 T02720222 KQUD 030155Z AUTO 26001KT 7SM SCT150 19/17 A3016 RMK AO2 SLP174 T01860168 LHUD 030145Z 34006KT CAVOK 17/15 Q1010 GBYD 030200Z 18005KT 9999 SCT011 27/24 Q1012 KSBN 030154Z 00000KT 10SM CLR 19/16 A2995 RMK AO2 SLP137 T01940156 KSAW 030147Z 00000KT 10SM SKC 17/12 A2986 LJCE 030130Z AUTO VRB03KT 9999 -RA OVC031/// 14/14 Q1014 KSCF 030155Z AUTO 14009KT 10SM SCT120 29/24 A3003 RMK A01 KSBO 030155Z AUTO 26003KT 10SM CLR 23/23 A3004 RMK AO2 KRKP 030153Z AUTO 12013KT 10SM FEW095 29/24 A2994 RMK AO2 SLP139 T02890239 KSBP 030156Z 32012KT 10SM CLR 18/14 A2981 RMK AO2 SLPNO T01780139 KSCH 021750Z 26004KT 10SM SCT033 SCT040 BKN085 30/20 A2985 KSAZ 030153Z AUTO 19007KT 10SM CLR 17/12 A2981 RMK AO2 KRKR 030155Z AUTO 00000KT 10SM CLR A2997 RMK AO2 LIMA 021650Z 08004KT CAVOK 25/04 Q1011 KRKS 030154Z AUTO 28018G25KT 10SM CLR 22/M02 A3001 RMK AO2 PK WND 29029/0102 SLP086 T02221017 KSBS 030154Z AUTO 08004KT 10SM CLR 19/04 A3010 RMK AO1 T01910040 KSDA 030155Z AUTO 00000KT 10SM CLR 21/18 A2996 RMK AO2 KSDB 030148Z AUTO 18011KT 10SM CLR 25/06 A2998 RMK AO2 SLP093 T02500056 $ KSCK 030155Z 29012G17KT 10SM CLR 30/12 A2969 RMK AO2 SLP053 T03000122 LIMC 030150Z 36004KT CAVOK 12/11 Q1014 NOSIG LIME 030150Z 04005KT 9999 FEW040 SCT090 15/13 Q1014 KRME 030153Z AUTO 25003KT 10SM FEW080 BKN090 OVC110 19/18 A2982 RMK AO2 RAE46 SLP095 P0001 T01940178 LIMF 030150Z 32004KT 300V020 CAVOK 14/10 Q1014 KQVF 030155Z AUTO 18004KT 9999 FEW021 24/20 A2997 RMK AO2 SLP147 T02390201 KSDF 030156Z 06004KT 10SM FEW025 SCT250 25/22 A2998 RMK AO2 SLP146 T02500222 LIMG 021750Z 30005KT 240V330 CAVOK 22/10 Q1010 KRMG 030200Z AUTO 27004KT 10SM VCTS FEW080 26/23 A3001 RMK AO2 LTG DSNT SW-NW PRESRR T02610228 KSBY 030154Z 21006KT 10SM FEW110 28/23 A2990 RMK AO2 SLP126 T02780228 LIMH 030055Z /////KT CAVOK M01/M16 Q1023 RMK SKC MON LIB VAL FOSCHIA VIS MIN 9999 KQTZ 030155Z 36003KT 9000 HZ CLR 32/04 A2960 RMK SLP021 WND DATA ESTMD ALSTG/SLP ESTMD LIMJ 030150Z 23001KT CAVOK 20/11 Q1011 KSEA 030153Z 21017G23KT 10SM SCT023 BKN080 18/12 A2982 RMK AO2 SLP102 T01780117 FKYS 030100Z 23003KT 200V260 9999 FEW003 SCT006 BKN110 20/19 Q1016 BECMG BKN006 KSDL 030153Z 26003KT 10SM CLR 39/06 A2972 RMK AO2 SLP036 T03890056 LIML 030150Z 07006KT CAVOK 17/13 Q1014 NOSIG KRNC 030155Z AUTO 00000KT 10SM FEW049 23/23 A3004 RMK KSDM 030153Z 30007KT 10SM CLR 21/17 A2979 RMK AO2 SLP084 T02110172 $ KRND 030158Z AUTO 13011G20KT 10SM CLR 29/21 A2994 RMK AO2 SLP130 T02910212 LIMN 021755Z 00000KT CAVOK 22/13 Q1011 RMK SKC VIS MIN 9999 BLU KRMN 030155Z AUTO 00000KT 10SM CLR 25/25 A2995 RMK AO2 LTG DSNT E T02500249 KSEE 030155Z AUTO 25006KT 10SM CLR 25/17 A2980 RMK AO2 LIMP 022150Z 00000KT CAVOK 17/13 Q1014 KSEG 030153Z AUTO 00000KT 10SM CLR 22/21 A2990 RMK AO2 SLP121 T02220206 KRNH 030150Z AUTO 00000KT 10SM CLR 16/13 A2988 RMK AO2 T01590128 LIMS 021755Z 13006KT CAVOK 21/15 Q1011 KROA 030154Z 27003KT 10SM FEW100 SCT120 BKN250 26/19 A3003 RMK AO2 SLP154 T02560194 KSFB 030153Z 14005KT 10SM CLR 27/22 A3003 RMK AO2 SLP168 T02670222 LIMU 030055Z 35015KT CAVOK 22/05 Q1012 RMK SKC QUK / QUL / VIS MAR 50 KM VIS MIN 9999 KROC 030154Z 24005KT 10SM BKN019 BKN028 19/18 A2987 RMK AO2 SLP114 T01890178 KRNM 030153Z 27007KT 10SM CLR 24/16 A2981 RMK AO2 SLP081 T02440161 KSEM 030155Z AUTO 22007KT 10SM CLR 26/22 A3000 RMK AO2 KQWM 030155Z COR 27006KT 9999 CLR 31/05 A2964 RMK SLP025 QNH1003 COR 0157 VTPH 030100Z 17004KT 130V230 9999 FEW028 27/22 Q1010 NOSIG KSFF 030153Z 22010KT 10SM FEW070 23/04 A2966 RMK AO2 SLP033 T02330044 KRNO 030155Z 27014G22KT 10SM CLR 30/00 A2987 RMK AO2 PK WND 28027/0112 SLP062 FU ALF DSNT W-NW T03000000 KRMY 030154Z AUTO 00000KT 10SM CLR 16/15 A2994 RMK AO2 T01610149 KSDY 030155Z AUTO 00000KT 10SM CLR 15/08 A2975 RMK AO1 KRNP 030154Z AUTO 00000KT 10SM CLR 16/16 A2992 RMK AO2 T01620158 KSEP 030155Z AUTO 14008KT 10SM CLR 30/20 A2995 RMK AO2 T03030195 KROG 030157Z AUTO 00000KT 10SM BKN075 23/21 A3004 RMK AO2 SLP161 T02280206 LIMZ 022050Z 22006KT CAVOK 13/11 Q1014 LIPA 021955Z 33001KT 9999 -RA BKN050 SCT070 17/15 Q1013 RMK BKN VIS MIN 9999 A2994 BLU GCRR 030000Z 01006KT 330V050 9999 BKN023 23/19 Q1016 KU68 030155Z AUTO 00000KT 10SM CLR 24/M01 A2974 RMK AO2 PWINO KRNT 030159Z 18011G19KT 10SM VCTS BKN029 BKN085 OVC110 19/13 A2980 RMK AO2 LTG DSNT N AND NE T01890128 LIPB 022050Z 32003KT 9999 BKN110 20/09 Q1015 KSET 030154Z AUTO 00000KT 10SM CLR 23/21 A2998 RMK AO1 SLP146 T02280206 FLSK 022000Z 13010KT 9000 ////// 18/04 Q1022 LIPC 030055Z 30010KT 9999 SCT030 BKN040 17/15 Q1012 VTPO 030100Z 16008KT 4000 RA BKN016 BKN022 BKN120 26/25 Q1009 FNBC 021500Z 32006KT 9999 FEW015 27/21 Q1012 KSFM 030155Z AUTO 21005KT 5SM CLR 22/20 A2975 RMK AO1 KRPD 030155Z AUTO 00000KT 10SM CLR 17/13 A2989 RMK AO2 T01660128 KRNV 030155Z AUTO 25004KT 10SM CLR 24/23 A2996 RMK AO2 T02370234 VTPP 030100Z 18003KT 8000 -RA BKN018 OVC110 25/24 Q1010 LIPE 030150Z 35003KT 280V030 9999 -RA BKN035 17/14 Q1013 LIPF 021755Z 30003KT CAVOK 21/15 Q1011 KSGF 030152Z 18007KT 10SM CLR 22/19 A3002 RMK AO2 SLP156 T02170189 KSFO 030156Z 28011KT 10SM FEW007 18/14 A2978 RMK AO2 SLP085 T01830144 $ FNBG 021600Z 31008KT CAVOK 24/17 Q1014 LIPH 022045Z /////KT 9999 SCT030 BKN060 18/16 Q1013 KSGH 030156Z AUTO 00000KT 8SM CLR 19/19 A2999 RMK AO2 T01880188 SLP151 KSFQ 030155Z AUTO 21008KT 10SM CLR 28/23 A2996 RMK AO2 T02770227 KRPH 030155Z AUTO 14005KT 10SM CLR 32/18 A2987 RMK AO2 T03150175 KSEZ 030155Z AUTO 21005KT 10SM CLR 28/M01 A3001 RMK AO2 LIPI 021655Z 07002KT 9999 -RA SCT035 SCT070 17/15 Q1012 RMK OVC VIS MIN 9999 WIND THR06 07002KT BLU KROS 030154Z AUTO 19003KT 10SM CLR 19/12 A2985 RMK AO2 T01850120 KRPJ 030155Z AUTO 00000KT 10SM CLR 19/17 A2994 RMK AO2 T01900171 KSGJ 030158Z AUTO 15007KT 10SM CLR 28/23 A3004 RMK AO2 SLP173 T02780233 LIPK 021550Z 03004KT 9999 SCT020 BKN040 19/15 Q1011 EVLA 030150Z AUTO 05001KT 0750 R24/0750 R06/1300U FG VV001 04/04 Q1028 KRQB 030155Z AUTO 00000KT 10SM CLR 16/15 A2992 RMK AO2 T01630148 FNCA 021600Z 24006KT 9999 BKN025 25/19 Q1013 LIQC 030055Z ///02KT 9999 SCT025 21/18 Q1007 RMK BKN SCT070 QUK / QUL / VIS MAR 15 KM VIS MIN 9999 LIPL 021755Z /////KT 9999 SCT070 23/08 Q1012 RMK SCT VIS MIN 9999 WIND THR31 13010KT BLU KSHD 030155Z AUTO 22007KT 10SM SCT080 26/18 A3001 RMK AO2 T02600178 KRQE 022353Z AUTO 24009KT 10SM CLR 31/M05 A3014 RMK AO2 SLP085 T03061050 10322 20278 56013 TSNO $ KROW 030151Z 23003KT 10SM CLR 31/06 A2989 RMK AO2 SLP052 T03060061 LIPO 030050Z 05004KT CAVOK 17/13 Q1014 KROX 030154Z AUTO 17003KT 10SM CLR 14/11 A2969 RMK AO2 KSFY 030155Z AUTO 00000KT 10SM CLR 19/17 A2994 RMK AO2 T01900170 LIPQ 030150Z VRB01KT 9999 -RA SCT025 BKN060 15/14 Q1012 KSFZ 030155Z 21005KT 10SM CLR 23/19 A2980 RMK AO1 VTSB 030100Z 00000KT 8000 SCT020 BKN300 26/26 Q1012 A2989 LIPR 030145Z /////KT 9999 BKN025 19/18 Q1011 KSGR 030153Z 15010KT 10SM CLR 28/24 A2997 RMK AO2 SLP148 T02830244 VTSC 020500Z 07006KT 9999 FEW022 BKN300 31/25 Q1011 A2985 RWY20 INFO D LIPS 030055Z 29003KT 9999 BKN060 18/14 Q1013 RMK BKN VIS MIN 9999 WIND THR26 25002KT WIND THR08 25002KT BLU LIRA 030145Z 03004KT 9999 FEW025 17/14 Q1007 KSGS 030150Z AUTO 00000KT 10SM CLR 21/14 A2987 RMK AO2 T02050137 GCTS 030130Z 34004KT 9999 FEW030 23/20 Q1016 NOSIG KSGT 030155Z AUTO 10003KT 10SM CLR 25/22 A2998 RMK AO1 LIPU 021550Z 10009KT CAVOK 21/15 Q1011 KSGU 030155Z AUTO 26006KT 10SM CLR 35/02 A2980 RMK AO1 KSHL 030155Z AUTO 17003KT 10SM CLR 17/15 A2990 RMK AO2 VTSF 030100Z 00000KT 9999 FEW020 SCT300 28/24 Q1012 A2988 INFO B/RWY 19 KSHM 030156Z AUTO 08005KT 10SM CLR 21/08 A3009 RMK AO2 SLP122 T02070084 LIQN 021750Z 04006KT 9999 FEW048 17/12 Q1008 VTSG 030100Z VRB02KT 7000 NSC 24/23 Q1012 A2990 INFO N RWY32 LIRE 030055Z 02016KT 9999 FEW025 SCT060 18/15 Q1007 RMK SCT VIS MIN 9999 WIND THR31 03011KT BLU KSHN 030153Z AUTO 24020G26KT 10SM CLR 16/11 A2982 RMK AO2 PK WND 24027/0108 SLP100 T01610106 TSNO VTSH 030100Z 00000KT 9999 FEW020 SCT120 BKN300 28/22 Q1011 A2987 LIPX 030145Z 00000KT 9999 -RA FEW030 SCT050 17/15 Q1013 LIRF 030150Z 03003KT CAVOK 17/13 Q1008 NOSIG KRQO 030155Z AUTO 14011KT 10SM CLR 28/19 A2991 RMK AO2 KSIF 030155Z AUTO 21008KT 10SM CLR 27/21 A3001 RMK AO2 T02660210 LIRG 021655Z 34016KT 9999 BKN033 23/15 Q1005 LIPY 030050Z 35009KT 9999 FEW006 SCT020 BKN030 19/15 Q1010 WMBA 030100Z 10004KT 8000 FEW032 BKN280 26/24 Q1012 LIRH 021755Z 09005KT 8000 FEW040CB 20/17 Q1005 LIPZ 030150Z 30004KT 9999 -RA SCT030 BKN050 16/14 Q1012 LIRI 021650Z 19004KT 9999 FEW020 SCT040 22/17 Q1005 KSHR 030153Z AUTO 13003KT 10SM CLR 19/08 A2975 RMK AO2 SLP051 T01890083 FMMI 030200Z 15008KT 110V180 9999 FEW017 BKN020 14/14 Q1022 NOSIG VTSM 030100Z 00000KT 9999 FEW020 BKN300 30/23 Q1012 A2991 LIRK 021755Z ///36KT 0000 FG VV/// 10/10 Q1012 RMK MON NE INVIS NC VAL INVIS NC VIS MIN 0000 LIRL 021755Z 34003KT 9999 SCT025 SCT080 23/21 Q1005 KSJC 030153Z 29011KT 10SM FEW016 21/14 A2977 RMK AO2 SLP080 T02060144 KRRL 030155Z AUTO 00000KT 10SM CLR 14/12 A2990 RMK AO2 T01350124 LIRM 030055Z 03003KT 9999 BKN070 19/17 Q1007 KTAD 030154Z AUTO 18020G27KT 10SM CLR 27/08 A3001 RMK AO2 PK WND 19032/0115 SLP082 T02670078 KSHV 030156Z 15004KT 10SM FEW045 SCT140 BKN250 24/23 A2998 RMK AO2 SLP147 T02390228 LIQW 021355Z 15004KT 9999 FEW030 26/14 Q1008 VTSP 030130Z VRB02KT 9999 FEW020 SCT300 28/24 Q1013 A2991 NOSIG LIRN 030150Z 35004KT 9999 SCT060 21/14 Q1007 VTSR 021200Z 11003KT 7000 BKN025 BKN150 25/23 Q1008 A2981 ILS DME RWY02 INFO T LIRP 030145Z VRB01KT CAVOK 17/14 Q1011 NOSIG VTSS 030130Z 25003KT 6000 FEW020 BKN120 BKN300 27/25 Q1012 A2990 NOSIG LIRQ 030150Z 36004KT 290V070 9999 SCT045 19/11 Q1011 VTST 030100Z 03003KT 5000 BR FEW020 27/25 Q1011 RWY08 INFO B WMAU 030100Z 27003KT 7000 FEW005 BKN140 27/25 Q//// QFF1013 LIRS 030055Z /////KT CAVOK 17/12 Q1009 KSKA 030158Z AUTO 22013G19KT 10SM CLR 21/06 A2967 RMK AO2 SLP042 T02130055 LIRT 030055Z 36006KT 9999 OVC003 12/10 Q1009 RMK OVC MON INVIS VAL INVIS VIS MIN 9999 VTUD 030100Z 15007KT 100V200 9999 BKN010 BKN040 25/23 Q1011 A2987 INFO C RWY30 KRRT 030153Z AUTO 17003KT 10SM BKN080 OVC090 14/12 A2969 RMK AO2 LTG DSNT NE LIRU 021950Z 36010KT 9999 SCT040 19/14 Q1007 FMMT 030100Z 18008KT 9999 VCSH SCT017 BKN033 20/20 Q1016 KRSL 030153Z AUTO 13005KT 10SM CLR 23/20 A2991 RMK AO2 SLP113 T02330200 LIRV 021755Z 03014KT 9999 FEW021 SCT025 18/15 Q1008 FMNM 030100Z 10006KT 9999 FEW040 22/18 Q1013 KTAN 030152Z AUTO VRB05G15KT 10SM CLR 25/22 A2979 RMK AO2 SLP085 T02500217 KSJN 030154Z AUTO 24008KT 10SM CLR 28/03 A3004 RMK AO2 SLP078 T02780028 KRSN 030155Z AUTO 00000KT 10SM CLR 22/22 A3003 RMK AO2 T02180218 FMNN 021500Z 18002KT 9999 SCT020 25/22 Q1013 LIRX 021755Z 36007KT CAVOK 20/12 Q1008 RMK SKC VIS MIN 9999 VIS MAR 70 KM KSKF 030158Z AUTO 13017G23KT 10SM CLR 30/21 A2991 RMK AO2 SLP120 T03040212 $ VTUI 030100Z 14003KT 9999 FEW010 SCT022 BKN100 26/24 Q1012 A2988 RWY23 INFO B KSIY 030153Z AUTO 01017KT 10SM CLR 27/05 A2984 RMK AO2 PK WND 01026/0132 SLP097 T02670050 LIRZ 021950Z 35005KT 9999 FEW025 BKN040 17/14 Q1011 VTUK 030100Z 16003KT 9999 SCT008 BKN020 BKN100 25/23 Q1011 A2987 INFO C RWY03 VTUL 030000Z 00000KT 9999 SCT010 BKN018 BKN300 34/23 Q1008 A2978 NOSIG KSJS 030155Z AUTO 20004KT 10SM SCT046 SCT060 SCT110 21/20 A3004 RMK AO2 T02100202 KSJT 030151Z AUTO 14006KT 10SM CLR 32/17 A2990 RMK AO2 SLP099 T03170167 KRST 030154Z 22004KT 10SM CLR 17/14 A2993 RMK AO2 SLP132 T01720144 KSLB 030155Z AUTO 17006KT 10SM CLR 18/18 A2994 RMK AO2 KTCC 030153Z AUTO 00000KT 10SM CLR 29/12 A2994 RMK AO2 SLP070 T02940122 KSLC 030153Z 35006KT 10SM FEW095 FEW180 27/05 A2981 RMK AO2 SLP044 T02670050 VTUO 020800Z 18003KT 8000 SCT018 BKN300 27/27 Q1005 A2971 INFO I RWY 22 KRSV 030155Z AUTO 00000KT 7SM CLR 20/19 A2999 RMK AO2 T01970194 KRTN 030153Z AUTO 18004KT 10SM CLR 22/07 A3010 RMK AO2 SLP110 T02220072 KRSW 030153Z AUTO 11004KT 10SM CLR 24/22 A3003 RMK AO2 SLP166 T02390217 KRUE 030153Z AUTO 32004KT 10SM CLR 23/21 A2999 RMK AO2 SLP148 T02280206 KSLE 030156Z 29011G18KT 10SM SCT090 21/11 A2993 RMK AO2 SLP133 T02110111 KTBN 030158Z AUTO VRB01KT 10SM CLR 21/21 A3001 RMK AO2 SLP157 T02090209 KSJX 030155Z AUTO 00000KT 10SM CLR 15/14 A2987 RMK AO2 T01500141 KSLG 030155Z AUTO 19004KT 10SM SCT080 BKN120 22/18 A3002 RMK AO1 VVCR 030130Z VRB01KT CAVOK 31/23 Q1012 NOSIG GCXO 022200Z 29009KT 9999 FEW015 18/18 Q1020 NOSIG KRUG 030155Z AUTO 30003KT 10SM CLR 15/11 A2973 RMK AO2 KSLH 030157Z AUTO 26006KT 10SM CLR 17/14 A2987 RMK AO2 T01720142 KTAZ 030155Z AUTO 19003KT 10SM BKN044 21/20 A2998 RMK AO2 VVCT 030130Z 22004KT 170V270 9999 FEW015 28/24 Q1012 NOSIG KSLI 030158Z 18004KT 10SM FEW013 24/18 A2976 RMK AO2A SLP081 T02400181 KTBR 030155Z AUTO 20003KT 10SM CLR 23/23 A3003 RMK AO2 LTG DSNT N T02280228 FNGI 021600Z 11005KT CAVOK 31/00 Q1015 VTUU 030100Z 13003KT 9999 SCT020 BKN300 27/24 Q1011 A2987 NOSIG KRTS 030155Z AUTO 29011G18KT 10SM CLR 27/M01 A2993 RMK AO2 LJLJ 030130Z 00000KT 5000 -RA BR SCT001 BKN060 OVC100 13/12 Q1015 NOSIG VTUV 022300Z 17003KT 8000 FEW018 SCT100 BKN300 24/23 Q1010 A2983 INFO X RWY 36 KSLK 030151Z AUTO 14005KT 10SM -RA FEW065 SCT090 BKN120 16/15 A2978 RMK AO2 RAE0052B02 PRESFR SLP076 P0002 T01560150 LJMB 030130Z AUTO 35012KT 320V020 9999 BKN027/// 16/11 Q1014 LIVC 030055Z 03032KT 0000 -RA FG VV000 04/04 Q1015 RMK MON INVIS VAL INVIS VIS MIN 0000 VTUW 021200Z 08003KT 7000 BKN020 BKN100 25/24 Q1007 A2975 RWY15 INFO H VVDN 030130Z VRB02KT 9999 FEW015 SCT300 31/25 Q1011 NOSIG KTCL 030153Z AUTO 17004KT 10SM CLR 26/23 A2996 RMK AO2 SLP144 T02610228 $ LIVD 021755Z 09010KT 9999 BKN035 13/06 Q1018 RMK BKN VIS MIN 9999 KTCM 030158Z AUTO 01016G27KT 10SM CLR 18/11 A2984 RMK AO2 SLP108 T01750106 $ LIVE 030055Z 06006G19KT 9999 SCT040 09/05 Q1019 RMK BKN BKN070 VIS MIN 9999 KSLN 030153Z 13006KT 10SM CLR 26/20 A2992 RMK AO2 SLP121 T02560200 KSME 030155Z AUTO 00000KT 10SM CLR 21/20 A3004 RMK AO2 LTG DSNT S LIVF 030055Z 32005KT 0100 -RA FG VV/// 13/13 Q1011 RMK MON INVIS VAL INVIS VIS MIN 0100 KSMF 030153Z 18012KT 10SM CLR 26/14 A2966 RMK AO2 SLP043 T02560139 KTBX 030155Z AUTO 15007KT 10SM CLR 19/M05 A3007 RMK AO2 KSLO 030155Z AUTO 00000KT 5SM BR CLR 21/21 A3000 RMK AO2 T02120206 KTDF 030155Z AUTO 23006KT 10SM CLR 25/20 A3001 RMK AO2 KRUQ 030155Z AUTO 13004KT 10SM CLR 24/22 A3003 RMK AO2 T02350221 KSLR 030155Z AUTO 15008KT 10SM CLR 28/21 A2997 RMK AO2 T02750213 KTCS 030153Z AUTO 17003KT 10SM CLR 31/01 A2996 RMK AO2 SLP048 T03110011 TSNO KSNA 030153Z 22005KT 10SM FEW014 24/18 A2977 RMK AO2 SLP079 T02440178 EVRA 030150Z 00000KT CAVOK 06/06 Q1028 NOSIG KTEB 030151Z 20009KT 10SM CLR 30/21 A2978 RMK AO2 SLP085 T03000206 $ KRUT 030155Z 36010G20KT 300V020 5SM SCT012 BKN055 OVC095 22/19 A2976 RMK AO1 LTG DSNT N P0023 KSNC 030135Z AUTO 22004KT 10SM CLR 25/22 A2982 RMK AO2 LIVM 021355Z 07017KT 9999 SCT025 BKN030 19/15 Q1011 RMK OVC QUK 4 QUL 3 E VIS MAR 10 KM VIS MIN 9999 LKCV 030100Z 33003KT 9999 SCT029 OVC045 14/13 Q1021 NOSIG RMK BLU BLU KSMN 030155Z AUTO 27007KT 10SM CLR 23/M03 A2970 RMK AO1 LIVO 021755Z 00000KT 9999 DZ SCT003 OVC045 10/09 Q1017 RMK OVC VIS MIN 9999 KRWF 030153Z AUTO 20007KT 10SM CLR 19/15 A2987 RMK AO2 SLP111 T01940150 KSMO 030151Z 25007KT 10SM CLR 22/17 A2977 RMK AO2 SLP080 T02220172 KSMP 030056Z AUTO 28007G22KT 170V360 1/4SM -RA FG VV002 09/07 A2983 RMK AO2 SLP096 P0008 T00890072 $ KSMQ 030153Z AUTO 21009G14KT 180V240 10SM CLR 28/19 A2982 RMK AO2 SLP094 T02830189 PWINO $ KSNH 030155Z AUTO 00000KT 10SM FEW020 24/24 A3002 RMK KTDR 022257Z AUTO 25008KT 12SM CLR M M RMK AO2 LTG DSNT NE SLPNO $ LIVR 022355Z 33013G23KT 9999 OVC030 06/06 Q1017 RMK OVC MON CLD CIME VIS MIN 9999 KRWI 030153Z AUTO 19004KT 10SM CLR 23/21 A3000 RMK AO2 SLP156 T02330211 KSMS 030155Z AUTO 18006KT 10SM CLR 25/21 A3000 RMK AO2 KRVS 030153Z 10005KT 10SM CLR 23/20 A2996 RMK AO2 SLP148 T02280200 KSOA 030155Z AUTO 14004KT 10SM CLR 30/16 A2997 RMK AO2 LIVT 030055Z 25005KT 9999 - RA SCT020 BKN030 15/14 Q1012 RMK OVC QUK / QUL / VIS MAR 18 KM VIS MIN 9999 KSNK 030155Z AUTO 14009KT 10SM CLR 31/16 A2993 RMK AO2 T03100156 KRWL 030153Z AUTO 24007KT 10SM CLR 21/M01 A3003 RMK AO2 SLP081 T02111006 KSNL 030155Z AUTO 13004KT 10SM CLR 27/22 A2994 RMK AO2 FNHU 021600Z 11010KT 9999 FEW021 26/06 Q1022 FMSD 030100Z 14010KT 9999 SCT016 SCT033 20/15 Q1020 KRXE 030153Z AUTO 18005KT 10SM CLR 21/02 A2986 RMK AO2 SLP084 T02060022 KSMX 030151Z 31010KT 9SM BKN009 18/14 A2982 RMK AO2 SLP098 T01830139 KTDZ 030153Z AUTO 17003KT 10SM CLR 20/18 A2995 RMK AO2 SLP137 T02000178 TSNO KSPA 030155Z AUTO 22004KT 10SM CLR 27/22 A3004 RMK AO2 LTG DSNT SW KSNS 030153Z AUTO 29010KT 10SM OVC010 18/14 A2982 RMK AO2 SLP105 T01780144 TSNO KSNT 030151Z AUTO 19005KT 18/M04 A2994 RMK AO1 SLP080 T01781044 KSPB 030153Z AUTO 28009KT 10SM CLR 19/11 A2991 RMK AO2 SLP128 T01940111 KSPD 030156Z AUTO 16008KT 23/16 A3000 RMK AO1 SLP100 T02280156 KRWV 030155Z AUTO 14014G17KT 10SM CLR 29/22 A2997 RMK AO2 KTEW 030152Z AUTO 00000KT 10SM CLR 16/15 A2994 RMK AO2 T01640149 KSPF 030115Z AUTO 14009KT 10SM CLR 17/08 A2984 RMK AO2 KTEX 030156Z AUTO 25004KT 10SM CLR 20/M02 A3031 RMK AO2 KSNY 030153Z AUTO 15007KT 10SM CLR 19/11 A2991 RMK AO2 SLP093 T01940111 KSPG 030153Z AUTO 23003KT 10SM TS FEW031 BKN055 BKN075 28/23 A3000 RMK AO2 LTG DSNT SW RAB31E53 TSB46 SLP158 P0005 T02830228 $ KSOP 030155Z AUTO 31003KT 10SM CLR 24/19 A3001 RMK AO1 KTFP 030155Z AUTO 11014KT 10SM OVC090 30/24 A2993 RMK AO2 T02950237 KSPI 030152Z 22004KT 10SM CLR 22/19 A2996 RMK AO2 SLP143 T02170194 KTHA 030155Z AUTO 11003KT 10SM CLR 24/21 A3004 RMK KSPL 030155Z AUTO 10011KT 1/2SM VV005 29/25 A2986 RMK AO1 KSQE 030155Z AUTO 00000KT 10SM CLR 29/24 A3003 RMK A01 KRYN 030145Z 30003KT 10SM CLR 36/01 A2981 KSOW 030155Z AUTO 21006KT 10SM CLR 24/01 A3016 RMK AO2 KSQI 030155Z 00000KT 10SM CLR 19/16 A2994 RMK AO1 KSPR 030155Z AUTO 14008KT 10SM SCT024 30/24 A3003 RMK A01 KSPS 030152Z 15009KT 10SM CLR 31/19 A2986 RMK AO2 SLP096 T03110189 MBGT 022300Z 09013KT 9999 SCT015 27/21 Q1015 FNMA 021600Z 23006KT 9999 BKN060 25/23 Q1017 EVVA 030120Z AUTO 00000KT 0500 FG NSC 04/04 Q1028 KSRB 030155Z AUTO 18005KT 10SM CLR 22/21 A3003 RMK KRYT 030153Z AUTO 00000KT 10SM CLR A2992 RMK AO2 SLPNO $ KSQL 030047Z 28008KT 10SM FEW012 24/14 A2978 KRZL 030155Z AUTO 00000KT 10SM CLR 18/18 A2995 RMK AO2 KSRC 021456Z AUTO 23006KT 10SM FEW044 26/22 A3006 RMK AO2 PWINO TSNO 5//// 6//// T02610222 SLP179 FNKU 021500Z 12009KT 9999 SCT015 25/14 Q1021 KRYV 030155Z AUTO 00000KT 10SM CLR 17/16 A2991 RMK AO2 T01660157 KSPW 030153Z AUTO 19006KT 10SM CLR 17/15 A2992 RMK AO2 SLP128 T01720150 LIYW 030158Z AUTO 10002KT 9999 -RA FEW075 16/16 A2992 RMK AO2 RAE0151DZB0151 SLP132 P0003 T01620162 KRYW 030155Z AUTO 14007KT 110V170 10SM CLR 30/20 A2995 RMK AO2 T02950201 KRZN 030130Z AUTO 19004KT 10SM CLR 18/11 A2986 RMK AO2 T01830110 KTIF 030155Z 15008KT 10SM SCT090 23/16 A2987 RMK AO2 T02250155 PWINO KRYY 030148Z 00000KT 10SM SKC 25/21 A3004 WMKA 030100Z 00000KT 8000 FEW030 BKN140 27/25 Q1012 LJPZ 030130Z AUTO 02005KT 340V060 9999 -SHRA NSC 17/12 Q1012 WMKB 030100Z 03003KT 4000 HZ FEW020 BKN140 BKN280 26/25 Q1012 TEMPO 4000 HZ KRZR 030155Z AUTO 19007KT 7SM FEW021 SCT045 BKN090 25/21 A3002 RMK WMKC 030100Z 19004KT 9999 FEW018 BKN280 26/22 Q1013 WMKD 030100Z 03002KT 6000 FEW008 SCT160 BKN280 27/24 Q1013 NOSIG KRZT 030154Z AUTO 26003KT 10SM CLR 19/19 A2998 RMK AO2 KTIK 030158Z AUTO 14007KT 10SM CLR 27/21 A2992 RMK AO2 SLP125 T02710205 WMKE 030100Z 18004KT 8000 -RA FEW006 FEW016CB SCT020 BKN230 25/25 Q1013 KSSC 030158Z AUTO 19006KT 10SM FEW190 25/22 A2999 RMK AO2 SLP155 T02480216 $ FNLU 030200Z 17005KT 9999 BKN020 21/19 Q1015 NOSIG GEML 022230Z 24006KT 200V290 9000 FEW004 26/21 Q1013 KTHV 030153Z AUTO 00000KT 10SM CLR 23/19 A2991 RMK AO2 SLP126 T02330194 KW13 030155Z AUTO 21003KT 10SM SCT090 24/19 A3001 RMK AO1 T02390194 KSSF 030153Z 12014KT 10SM CLR 30/22 A2991 RMK AO2 SLP115 T03000222 FNMO 021600Z 26014KT 9999 BKN011 20/16 Q1015 WMKI 030100Z 05003KT 9999 FEW018 SCT150 BKN280 26/22 Q1013 KTIP 030150Z AUTO 00000KT 10SM CLR 21/18 A2997 RMK AO2 T02050180 WMKJ 030100Z 12001KT 8000 FEW010 BKN280 27/25 Q1013 KSRQ 030153Z AUTO 00000KT 10SM FEW055 28/22 A3000 RMK AO2 LTG DSNT SW-N SLP157 T02780222 WMKK 030130Z 14003KT 9999 FEW017CB BKN280 28/22 Q1013 NOSIG KSRR 030135Z AUTO 15006KT 10SM CLR 23/04 A3019 RMK AO2 KSSI 030153Z AUTO 00000KT 10SM FEW002 25/24 A3004 RMK AO2 SLP172 T02500244 WMKL 030100Z 06001KT 9999 FEW022 SCT140 BKN270 28/25 Q1012 WMKM 030100Z 05004KT 9999 FEW017CB SCT150 BKN280 27/24 Q1013 LKKB 030100Z 34004KT 290V040 9999 SCT017 OVC020 12/11 Q1021 WMKN 030100Z 20005KT 160V250 9999 FEW018 BKN270 26/24 Q1013 KSTC 030153Z 17004KT 10SM CLR 19/14 A2984 RMK AO2 SLP111 T01890144 KTKC 030153Z AUTO 00000KT 10SM CLR 19/15 A2989 RMK AO2 T01880145 KW22 030155Z AUTO 24003KT 10SM OVC023 21/20 A3003 RMK AO2 WMKP 030130Z 05002KT 7000 FEW020 SCT140 BKN280 29/25 Q1012 NOSIG KTIW 030153Z 23017G28KT 10SM SCT025 17/11 A2981 RMK AO2 PK WND 22029/0137 SLP095 T01670106 KSTE 030155Z AUTO 00000KT 10SM CLR 16/14 A2990 RMK AO2 T01550144 KUBE 030155Z AUTO 20003KT 10SM CLR 14/12 A2988 RMK AO2 KTIX 030047Z 12010KT 7SM SCT030 28/22 A3003 RMK LAST KSTF 030155Z AUTO 25003KT 10SM CLR 23/22 A2998 RMK AO2 KUAO 030153Z AUTO VRB06G19KT 10SM FEW065 BKN100 21/11 A2993 RMK AO2 SLP134 T02060111 LLBG 030150Z 14004KT 9999 SCT031 24/19 Q1009 NOSIG KTKI 030153Z 15008KT 10SM CLR 29/22 A2991 RMK AO2 SLP122 T02940217 KSTJ 030153Z AUTO 14004KT 10SM CLR 22/19 A2996 RMK AO2 SLP139 T02220194 KSUA 030155Z AUTO 15004KT 10SM CLR 26/21 A3004 RMK AO2 LTG DSNT SE KW29 030151Z AUTO 11003KT 10SM VCTS 25/23 A2990 RMK AO1 LTG DSNT NE AND SE KSTK 030150Z AUTO 19004KT 10SM CLR 23/15 A2988 RMK AO2 KSTL 030151Z 00000KT 10SM SCT200 24/20 A2999 RMK AO2 SLP146 T02440200 KW31 030155Z AUTO 23004KT 10SM CLR 27/22 A2996 RMK AO1 KSUE 030155Z AUTO 21004KT 10SM CLR 17/15 A2988 RMK AO1 KSTP 030153Z 19005KT 10SM CLR 19/14 A2987 RMK AO2 SLP111 T01890139 KTLH 030200Z 11021G30KT 1SM +TSRA BR BKN013 BKN032 OVC043 23/22 A3007 RMK AO2 PK WND 11030/0155 P0035 $ VVNB 030130Z 23004KT 170V270 9999 SCT010 SCT150 27/26 Q1012 NOSIG KSTS 030153Z 19009KT 10SM FEW005 SCT015 16/13 A2976 RMK AO2 SLP073 T01610128 KTMA 030150Z AUTO 27005KT 10SM -RA SCT120 23/23 A3008 RMK AO2 T02310227 TSNO KTMB 030153Z 03003KT 10SM CLR 26/23 A3002 RMK AO2 SLP166 T02610228 LKKU 021400Z 35010KT 9999 -RA FEW011 BKN020 17/16 Q1015 RMK REG QNH 1012 KSVC 030155Z AUTO 27006KT 10SM CLR 29/00 A3006 RMK AO2 KTKV 030155Z AUTO 00000KT 10SM CLR 12/11 A2990 RMK AO2 T01220113 LKKV 030100Z 04004KT 9999 OVC008 11/10 Q1022 LKLN 030100Z AUTO VRB02KT 9999 OVC010 13/13 Q1022 KSUN 030150Z 19005KT 10SM SKC 23/01 A2988 KTME 030155Z AUTO 14014G19KT 10SM FEW048 28/24 A2997 RMK AO2 KW43 030155Z AUTO 10SM CLR 19/02 A2983 RMK AO2 KUDG 030155Z AUTO 26004KT 10SM CLR 24/21 A3003 RMK AO1 KUCP 030156Z AUTO 00000KT 10SM CLR 19/19 A2997 RMK AO2 TSNO T01880188 SLP156 KSVH 030155Z AUTO 19004KT 10SM SCT048 SCT065 BKN080 27/21 A3002 RMK AO2 T02680212 LKNA 030100Z 34006KT 320V090 9999 OVC012 13/13 Q1019 RMK GRN KSUS 030154Z 00000KT 10SM CLR 22/21 A2998 RMK AO2 SLP146 T02170206 KTMK 030155Z AUTO 22005KT 10SM SCT017 SCT022 BKN027 17/16 A2998 RMK AO2 KSUT 030155Z AUTO 20009KT 10SM CLR 27/24 A3003 RMK AO2 T02710237 KTNB 030155Z AUTO 00000KT 7SM CLR 19/19 A3016 RMK AO2 LTG DSNT ALQS T01910187 KSUU 030158Z AUTO 24023G32KT 10SM CLR 21/15 A2967 RMK AO2 PK WND 24032/54 SLP054 T02070146 PWINO PNO $ KSVN 030158Z AUTO 00000KT 6SM R10/5000FT BR SCT170 SCT220 24/24 A3002 RMK AO2 SLP168 T02430243 $ KSUW 030155Z AUTO 00000KT 10SM CLR 13/12 A2981 RMK AO2 T01270119 KSUX 030152Z 15005KT 10SM CLR 19/17 A2991 RMK AO2 SLP126 T01940167 KSWF 030145Z 24008KT 10SM BKN060 27/21 A2981 KUCY 030155Z AUTO 00000KT 10SM CLR 23/22 A2998 RMK VVPB 030130Z 25003KT 9999 FEW017 SCT070 30/24 Q1011 NOSIG KTOA 030147Z 27012KT 10SM SCT020 22/18 A2978 FNSA 021000Z 12014KT CAVOK 27/12 Q1016 KTOB 030153Z AUTO 22004KT 10SM CLR 18/15 A2991 RMK AO2 LKMT 030130Z 02011KT 7000 OVC008 15/14 Q1019 NOSIG KTOC 030155Z AUTO 00000KT 10SM SCT110 26/23 A3004 RMK AO2 T02600230 KW63 021055Z AUTO 7SM CLR 21/20 A3005 RMK AO1 KSWO 030053Z 11012KT 10SM CLR 26/21 A2991 RMK AO2 SLP116 T02610211 KTOI 030153Z AUTO 27003KT 10SM CLR 26/22 A3003 RMK AO2 SLP164 T02610217 KTPA 030153Z 19004KT 10SM SCT038 BKN065 BKN280 28/22 A3002 RMK AO2 SLP166 FRQ LTGIC DSNT S-SW CB DSNT S-SW T02830222 KUES 030145Z 23003KT 10SM SKC 17/13 A2993 RMK LAST LLET 021850Z 34009KT CAVOK 35/15 Q1008 KTOL 030152Z 00000KT 9SM CLR 19/18 A2994 RMK AO2 SLP136 T01890178 KTNU 030155Z AUTO 18004KT 10SM CLR 18/16 A2996 RMK AO2 LKPD 030100Z VRB01KT 9999 BKN024 13/13 Q1020 RMK BLU KSWW 030155Z AUTO 15006KT 10SM CLR 30/16 A2997 RMK AO2 T03040164 VVPQ 030130Z 25006KT 9999 FEW017 30/24 Q1012 NOSIG KSYF 030155Z AUTO 16012KT 10SM CLR 24/13 A2991 RMK AO2 T02350133 KTOP 030153Z AUTO 09003KT 10SM CLR 23/21 A2995 RMK AO2 SLP133 T02330206 KW75 030155Z AUTO 21004KT 10SM CLR 28/21 A2991 RMK AO1 T02830207 KTPH 030156Z AUTO 20016KT 10SM CLR 31/M04 A2991 RMK AO2 SLP051 T03061039 KTOR 030153Z AUTO 12006KT 10SM CLR 21/08 A2984 RMK AO2 SLP074 T02110083 KSYI 030155Z AUTO 05003KT 10SM BKN070 24/23 A3003 RMK LLHA 021850Z 28004KT 9999 FEW035 27/19 Q1010 KSXS 030156Z AUTO 27005KT 12SM SCT150 27/22 A3005 RMK AO2 SLP173 T02690223 KW78 030155Z AUTO 22004KT 10SM CLR 27/20 A2998 RMK AO1 T02650200 KSXT 030156Z AUTO VRB06KT 10SM CLR 17/09 A2996 RMK AO2 SLP108 T01720094 KTPL 030155Z AUTO 14010KT 10SM CLR 30/19 A2991 RMK AO1 KW81 030155Z AUTO 21004KT 10SM SCT065 SCT080 29/23 A2995 RMK AO1 T02910227 FNUB 021700Z 13010KT 6000 HZ NSC 25/06 Q1024 FNSU 021600Z 22006KT CAVOK 22/18 Q1015 KSYM 030150Z AUTO 20005KT 9SM FEW002 SCT037 BKN046 21/20 A3003 RMK AO2 KUGN 030152Z AUTO 00000KT 10SM CLR 18/16 A2992 RMK AO2 SLP123 T01830161 KTQE 030154Z AUTO 20005KT 10SM CLR 18/17 A2994 RMK AO2 SLP129 T01830167 KSYN 030151Z AUTO 00000KT 10SM CLR 17/15 A2988 RMK AO2 T01720147 FNUE 021500Z 09005KT 9999 FEW030 28/// Q1018 FNUG 021400Z 27008KT 9999 NSC 27/14 Q1014 WMSA 030100Z 03001KT 8000 FEW019 SCT140 BKN280 27/23 Q1013 NOSIG KTQH 030155Z AUTO 10003KT 10SM CLR 21/20 A3000 RMK AO2 KSYR 030154Z 21006KT 10SM FEW023 SCT030 BKN120 BKN140 18/18 A2985 RMK AO2 RAB01E31 SLP103 P0000 T01830183 LKPR 030130Z 34007KT 6000 BKN002 OVC003 11/11 Q1021 NOSIG LLIB 021450Z 30010KT 240V330 9999 FEW030 30/15 Q1009 KSZL 030158Z 13003KT 10SM CLR 22/21 A2997 RMK AO2A SLP146 T02150208 MBPV 022300Z 06008KT 9999 SCT012TCU SCT040 29/24 Q1014 GFLL 030100Z 09005KT 9999 BKN010 FEW026CB 23/23 Q1012 RMK CB-NE KW96 030155Z AUTO 00000KT 10SM CLR 27/22 A2992 RMK AO1 T02660222 KTRI 030153Z 30012G18KT 3SM -TSRA FEW024CB SCT041 OVC090 22/18 A3009 RMK AO2 PK WND 33029/0108 WSHFT 0101 RAB21 TSB02 SLP164 FRQ LTGIC VC N-S TS VC N-S MOV E P0021 T02170178 MDAB 022200Z 09010KT 9999 SCT022 31/25 Q1013 KSZT 030155Z AUTO 00000KT 10SM CLR 16/11 A2965 RMK AO2 KTRK 030155Z AUTO 24006KT 10SM CLR 23/01 A3003 RMK AO2 KTRL 030153Z AUTO 15009KT 10SM CLR 30/21 A2993 RMK AO2 SLP128 T03000206 KUIL 030153Z AUTO 29010KT 6SM BR BKN013 OVC022 14/12 A2988 RMK AO2 RAB32E46 SLP118 P0000 T01440122 KTRM 030152Z AUTO 00000KT 10SM CLR 37/07 A2957 RMK AO2 SLP015 T03720072 TSNO KVAD 030158Z AUTO 23005KT 10SM -RA BKN150 25/22 A3007 RMK AO2 RAB0148 SLP183 P0000 T02470215 $ KUIN 030154Z AUTO 21003KT 10SM FEW045 22/19 A2997 RMK AO2 SLP142 T02170189 KVAF 030155Z AUTO 02008KT 10SM CLR 28/24 A2996 RMK A01 KTTA 030155Z AUTO 24006KT 10SM CLR 26/22 A3000 RMK AO2 T02550220 LKTB 030130Z 36009KT 9999 SCT013 OVC018 16/13 Q1018 NOSIG KTTD 030153Z 32012G22KT 10SM BKN044 OVC055 21/11 A2989 RMK AO2 SLP120 T02110111 KTTF 030155Z AUTO 00000KT 10SM CLR 18/17 A2993 RMK AO2 KUKF 030155Z AUTO 00000KT 10SM CLR 22/21 A3009 RMK AO2 LTG DSNT N AND NW KVBG 030155Z AUTO 32010KT 10SM OVC006 16/14 A2983 RMK AO2 SLP092 T01610144 TSNO $ KTSP 030155Z AUTO 28009KT 10SM CLR 27/04 A2993 RMK AO2 MDBH 022300Z 11008KT 9999 FEW016CB FEW018 29/23 Q1014 CB/NE/S/NW/N FOOG 022300Z 18008KT 9999 SCT008 BKN026 24/23 Q1015 VVTS 030130Z 27005KT 230V320 9999 SCT020 29/23 Q1013 NOSIG KUKI 030156Z AUTO 18006KT 10SM CLR 29/12 A2971 RMK AO2 SLP052 T02890122 KVCB 030153Z AUTO 20008G16KT 170V230 10SM CLR 23/13 A2967 RMK AO2 SLP046 T02330128 FOOL 020626Z 12007KT 7000 -DZ SCT008 OVC030 22/22 Q1016 NOSIG KTTN 030153Z AUTO 23007KT 10SM CLR 24/19 A2985 RMK AO2 RAB10E38 SLP100 P0000 T02440189 FOON 021400Z 01005KT 9999 SCT020 BKN040 31/20 Q1010 KVAY 030154Z AUTO 00000KT 10SM SCT090 22/20 A2988 RMK AO2 LTG DSNT SE-SW RAE27 TSB00E15 SLP116 P0000 T02220200 KTTS 030158Z AUTO 16004KT 10SM CLR 27/23 A3003 RMK AO2 SLP172 T02670229 KVBT 030155Z AUTO 00000KT 10SM FEW100 FEW120 23/20 A3003 RMK AO1 KUKT 030155Z AUTO 10SM CLR 23/20 A2989 RMK AO1 KTVC 030153Z 23003KT 10SM CLR 19/14 A2987 RMK AO2 SLP113 LAST AUGMENTED OBS OF DAY UNTIL 11Z T01890144 KTUL 030153Z 12005KT 10SM SCT250 23/20 A2995 RMK AO2 SLP134 T02280200 KULM 030154Z AUTO 21005KT 10SM CLR 18/16 A2989 RMK AO2 KVDF 030155Z AUTO 00000KT 10SM SCT060 SCT075 29/22 A3002 RMK AO2 KTVF 030155Z AUTO 03006KT 10SM BKN080 17/12 A2972 RMK AO1 KTUP 030153Z 06007KT 10SM BKN012 24/23 A3001 RMK AO2 SLP157 T02440228 RJAA 030130Z 06008KT 330V120 9999 FEW015 BKN020 BKN/// 24/18 Q1016 BECMG 07006KT RMK 1CU015 6CU020 A3001 KTVI 030155Z AUTO 16008KT 5SM +VCTSRA SCT019 SCT047 OVC060 23/23 A3009 RMK AO2 LTG DSNT S THRU N KVDI 030155Z AUTO 21005KT 10SM SCT120 23/22 A3004 RMK AO2 KTUS 030153Z 35005KT 10SM CLR 37/04 A2983 RMK AO2 SLP045 T03670044 KVCT 030151Z 13014KT 10SM CLR 27/23 A2995 RMK AO2 SLP140 T02720233 KTVK 030155Z AUTO 00000KT 10SM CLR 17/17 A2999 RMK AO2 KTVL 030153Z AUTO 20007KT 10SM CLR 24/03 A3005 RMK AO2 SLP122 T02390033 KVCV 030155Z AUTO 19014KT 10SM CLR 31/03 A2982 RMK AO2 RJAF 030100Z 15008KT 100V180 9999 FEW040 BKN/// 24/16 Q1016 SAAG 020525Z 11014KT 9999 TS FEW025 FEW045CB FEW100 15/12 Q1010 LKVO 021400Z 01008KT 9999 OVC011 15/12 Q1019 KTWF 030153Z AUTO 11009KT 10SM CLR 24/08 A2978 RMK AO2 SLP037 T02390083 MDCY 022300Z 00000KT 8000 VCTSRA FEW016CB SCT018 28/26 Q1012 RJAH 030113Z 09008KT 9999 FEW015 BKN020 BKN240 24/18 Q1016 RMK 2CU015 5CU020 A3000 KTVR 030153Z AUTO 18008KT 10SM CLR 23/22 A3000 RMK AO2 SLP164 T02330217 TSNO KUNI 030155Z AUTO 00000KT 10SM BKN060 22/20 A2998 RMK AO2 T02150200 RJAK 030023Z 08006KT 9999 FEW018 BKN020 BKN250 24/19 Q1017 RMK 2CU018 5CU020 6CI250 A3003 RJBB 030130Z 23006KT 9999 -RA FEW025 SCT060 BKN130 28/20 Q1011 BECMG 05004KT RJBD 030100Z 12009KT 080V140 9999 FEW015 SCT060 BKN150 28/20 Q1012 KVEL 030153Z AUTO 00000KT 10SM CLR 24/08 A2993 RMK AO2 SLP077 T02390078 SABE 030100Z 14009KT 9999 SCT015 SCT200 15/14 Q1015 RJBE 030100Z 06008KT 9999 -RA FEW020 SCT050 BKN120 27/21 Q1012 KTWM 030154Z AUTO 27003KT 10SM CLR 12/09 A2981 RMK AO2 KUNO 030153Z AUTO 00000KT 10SM CLR 20/ A3003 RMK AO2 SLP160 T0200 $ SAAR 030100Z 09007KT CAVOK 18/14 Q1013 KVER 030155Z AUTO 15003KT 10SM CLR 23/22 A2998 RMK AO2 T02310218 RJAT 022127Z 32002KT 9999 FEW015 SCT020 19/19 Q1019 RMK 1CU015 4CU020 A3010 RJCB 030100Z 15003KT 120V210 9999 FEW006 SCT008 BKN012 17/15 Q1018 KVES 030155Z AUTO 00000KT 4SM BR CLR 18/18 A2998 RMK AO2 RJCC 030130Z 19011KT 9999 FEW020 BKN035 23/16 Q1016 RMK 1CU020 7CU035 A3002 EYKA 030150Z VRB02KT 9999 OVC040 12/10 Q1027 KTXK 030153Z 12003KT 10SM CLR 24/22 A2998 RMK AO2 SLP147 T02390222 KUNU 030155Z AUTO 00000KT 10SM CLR 18/15 A2992 RMK AO2 T01800153 RJAW 030100Z 07011KT 040V110 9999 TS VCSH FEW010 SCT015 FEW015CB 31/25 Q1009 RMK 1CU010 4CU015 1CB015 A2982 FBL TS 10KM NW MOV SW KUNV 030155Z AUTO 00000KT 10SM SCT065 SCT100 19/18 A2995 RMK AO2 T01870183 RJCH 030100Z 14014KT 9999 SCT030 BKN/// 23/17 Q1016 RJCK 030100Z VRB02KT 9999 FEW007 BKN018 19/15 Q1018 RJBT 030100Z 17012KT 140V200 9999 FEW025 SCT100 BKN120 26/19 Q1010 RJDC 030100Z 11009KT 9999 FEW010 BKN045 BKN090 27/23 Q1008 RJCM 030100Z 33004KT 270V010 9999 FEW015 SCT040 22/17 Q1017 RJCN 030100Z 17004KT 110V220 9999 FEW020 21/15 Q1018 SACO 030100Z 18003KT 9999 BKN030 16/12 Q1016 SADF 030100Z 09008KT 9999 FEW010 16/14 Q1015 KUOX 030135Z AUTO 00000KT 10SM OVC005 23/22 A3001 RMK AO2 KTYQ 030155Z AUTO 00000KT 10SM CLR 20/18 A2998 RMK AO2 T02010181 FQCH 021900Z 18009KT 9999 FEW050 17/12 Q1025 KTYR 030153Z 14006KT 10SM CLR 26/22 A2996 RMK AO2 SLP138 T02610222 RJCT 030108Z 11001KT 9999 FEW005 SCT008 BKN010 18/16 Q1018 RMK 1ST005 4ST008 7ST010 A3008 W/E KTYS 030153Z 04011KT 10SM TS SCT045CB BKN055 BKN100 BKN250 24/19 A3004 RMK AO2 TSB15 SLP161 OCNL LTGICCCCG OHD AND DSNT W-NW TS OHD MOV E CB DSNT W-NW T02390194 $ FQBR 022100Z 15011KT 9999 SCT017 22/18 Q1020 RJEB 030100Z 05004KT 010V090 9999 FEW015 19/15 Q1017 RJEC 030100Z VRB03KT 9999 FEW008 SCT018 21/16 Q1017 KVGT 030153Z 20013KT 10SM CLR 38/M04 A2968 RMK AO2 SLP037 T03831039 RJDM 022332Z 19006KT 7000 -RA FEW015 BKN025 BKN050 25/23 Q1008 RMK 2CU015 5CU025 6SC050 A2979 RJCW 030100Z 01006KT 9999 FEW015 SCT/// 22/14 Q1016 SADP 021135Z 09013KT 9000 RA FEW012 OVC045 13/13 Q1011 RETS KVIH 030153Z AUTO 00000KT 1/2SM FG CLR 19/19 A3000 RMK AO2 SLPNO T01940189 KTZR 030155Z AUTO 28003KT 10SM CLR 20/20 A2998 RMK AO2 T02010200 RJDT 030100Z 19010KT 7000 -SHRA FEW004 SCT020 OVC/// 26/24 Q1007 MDJB 022300Z 18006KT 9999 FEW020CB SCT020 SCT300 31/24 Q1013 CB/NE/NW/N RJFE 030144Z 19011KT 8000 FEW007 SCT010 BKN015 29/27 Q1008 RMK 1ST007 3CU010 5CU015 A2977 LLSD 030150Z 13005KT 9999 SCT030 25/19 Q1008 RJFF 030130Z 14011KT 9999 FEW020 BKN040 BKN/// 28/23 Q1007 RMK 1CU020 5CU040 A2976 KUSE 030155Z AUTO 00000KT 10SM CLR 18/17 A2995 RMK AO2 RJFG 030100Z 17005KT 130V220 9999 FEW015 OVC/// 28/24 Q1012 KVJI 030155Z AUTO 28006KT 7SM -VCTSRA SCT047 BKN095 OVC110 21/20 A3015 RMK AO2 LTG DSNT N P0014 T02080198 RJFK 030100Z VRB02KT 5000 BR FEW003 SCT007 BKN012 25/23 Q1012 KVIS 030155Z AUTO 29004KT 5SM CLR 35/13 A2966 RMK AO1 KUTA 030155Z AUTO 00000KT 10SM OVC031 24/22 A2999 RMK AO2 TSNO KY19 030155Z AUTO 28005KT 8SM CLR 18/09 A2978 RMK AO2 RJFM 030100Z VRB02KT 9000 FEW020 BKN050 BKN080 27/24 Q1010 KWAL 030154Z AUTO 25008KT 10SM CLR 28/23 A2992 RMK AO2 SLP128 T02830233 RJFO 030100Z 14012KT 9999 FEW008 SCT120 27/24 Q1009 KY23 030155Z AUTO 00000KT 10SM CLR 16/14 A2988 RMK AO2 T01560143 RJGG 030130Z 13016KT 9999 FEW025 SCT060 27/19 Q1014 NOSIG SAEZ 030100Z 12005KT CAVOK 13/12 Q1015 RJFR 030100Z 14006KT 9999 FEW010 BKN050 BKN070 27/24 Q1008 RJFS 030100Z 15009KT 9999 -SHRA FEW015 SCT030 BKN/// 27/25 Q1008 RJFT 030100Z 22004KT 190V260 8000 FEW035 SCT045 BKN/// 26/23 Q1010 RJFU 030100Z 14015KT 9999 FEW010 SCT020 BKN035 29/25 Q1008 EYPA 030150Z AUTO 07002KT 9999 NCD 07/07 Q1029 KVLD 030153Z 00000KT 10SM SCT016 BKN025 24/22 A3009 RMK AO2 SLP194 T02440217 RJFY 030015Z 22001KT 7000 -SHRA FEW002 BKN015 BKN120 25/24 Q1011 RETS RMK 1ST002 5CU015 7AC120 A2986 KUTS 030153Z AUTO 16009G15KT 10SM CLR 29/23 A2996 RMK AO2 SLP139 T02890228 KVKS 030155Z AUTO 17004KT 10SM CLR 23/22 A3001 RMK A01 KUVA 030155Z AUTO 12012G18KT 10SM CLR 32/19 A2990 RMK AO2 T03180193 KVLL 030155Z AUTO 00000KT 10SM CLR 21/15 A2995 RMK AO2 T02100146 GGOV 030000Z 27005KT 9999 FEW014 BKN250 26/24 Q1012 NOSIG KWDG 030150Z 12015KT 10SM FEW150 27/22 A2988 RMK LAST MDLR 030100Z 00000KT 9999 FEW018CB FEW018 26/24 Q1015 CB/NW SBAA 022000Z 36006KT 9999 SCT032 ///// Q1010 KY50 030156Z AUTO 00000KT 10SM CLR 16/15 A2991 RMK AO2 PWINO TSNO T01610150 SLP122 KY49 030155Z AUTO 24006G22KT 10SM -RA SCT080 BKN090 OVC120 18/13 A2978 RMK AO2 LTG DSNT N T01760131 KVNC 030135Z AUTO RMK AO2 VSBY 1/2V5 PWINO TSNO LMML 030145Z AUTO 32015KT CAVOK 22/17 Q1008 KUUU 030153Z AUTO 20007G15KT 10SM CLR 23/21 A2980 RMK AO2 SLP089 T02330211 KY51 030155Z AUTO 23005KT 10SM CLR 18/15 A2993 RMK AO1 T01800150 SBAF 030100Z 08006KT 9999 FEW015 BKN030 22/17 Q1013 RJKA 030100Z 20007KT 9999 FEW015 BKN/// 31/25 Q1010 KWDR 030155Z AUTO 00000KT 10SM CLR A3007 RMK AO2 LTG DSNT E SE AND NW KVOA 030155Z AUTO VRB05KT 10SM CLR 31/25 A3004 RMK A01 EYSA 030150Z 00000KT 0500 0450S R32R/0500N FG SCT001 05/04 Q1028 SBAN 030100Z 00000KT CAVOK 19/13 Q1019 SBBE 030200Z 09007KT CAVOK 25/20 Q1013 KY63 030153Z AUTO 18009KT 10SM CLR 18/15 A2980 RMK AO2 T01780145 SBBG 022200Z 12008KT 9999 BKN015 14/14 Q1009 FQIN 021800Z 19008KT 9999 FEW020 21/16 Q1024 SBAQ 022200Z 12002KT CAVOK 28/16 Q1013 SBBH 030100Z 09004KT CAVOK 24/12 Q1016 SBBI 030100Z 36005KT 8000 -RA VCTS FEW030 FEW040CB OVC100 15/13 Q1016 RETS SBAR 030200Z 07010KT 9999 SCT017 25/21 Q1014 SBCA 022100Z 32012KT 9999 SCT040 BKN080 24/20 Q1011 SBAT 022200Z 07004KT 9999 FEW035 FEW040TCU 31/20 Q1010 SBCB 022100Z 09005KT 9999 FEW020 BKN070 23/22 Q1014 SBCC 022000Z 06007KT 9999 SCT045 FEW050TCU 32/16 Q1012 SBAU 030100Z 36006KT 9999 TS VCSH FEW030 FEW040CB SCT090 24/18 Q1012 KVOK 030058Z 00000KT 10SM FEW045 FEW200 18/18 A2990 RMK AO2A SLP126 KY70 030153Z AUTO 24003KT 10SM CLR 19/15 A2992 RMK AO2 T01890146 KVPC 030153Z AUTO 03003KT 10SM CLR 24/22 A3002 RMK AO2 LTG DSNT W AND NW SLP152 T02440222 KUXL 030155Z AUTO 13006KT 10SM CLR 28/25 A3000 RMK AO2 T02820247 MDPC 030200Z VRB03KT 9999 -TS FEW018CB FEW020 27/25 Q1016 CB/NE/E SBAX 022100Z 00000KT 9999 FEW035 28/12 Q1016 SBCF 030200Z 16004KT 9999 FEW020 23/10 Q1016 SBCG 030200Z 34002KT 9999 FEW040 24/18 Q1012 SBBQ 022300Z 09003KT CAVOK 18/13 Q1019 SBCH 030100Z 00000KT 4000 VCFG FEW002 SCT018 16/16 Q1012 KVNY 030151Z 16004KT 10SM CLR 26/14 A2977 RMK AO2 SLP072 T02610144 SBCI 022100Z 24004KT 9999 FEW030 33/19 Q1010 SBBR 030200Z 22003KT CAVOK 24/14 Q1019 SBCJ 022320Z 06004KT CAVOK 24/19 Q1015 KUZA 030154Z AUTO 24005KT 10SM CLR 24/21 A3004 RMK AO2 SLP158 T02440206 SBBU 030150Z 28007KT 3000 TSRA FEW030CB OVC070 22/22 Q1016 SBCM 030100Z 00000KT 9000 SCT003 BKN010 16/15 Q1008 FPST 022200Z 20004KT 9999 FEW020 SCT040 BKN100 23/21 Q1015 NOSIG SBBV 030200Z 07002KT 9999 FEW030 29/22 Q1011 FQLC 021600Z 19006KT 3000 FU NSC 17/09 Q1022 SBBW 022200Z 00000KT 9999 FEW025 FEW030TCU 30/18 Q1011 SAME 030200Z 00000KT CAVOK 14/09 Q1013 SBCO 030100Z 33002KT 9999 BKN009 BKN030 15/15 Q1009 SBCP 030200Z 06002KT CAVOK 22/21 Q1014 MDPP 030000Z 09008KT 9999 FEW018CB FEW020 SCT070 29/25 Q1014 CB/SW SBCR 030000Z 07005KT CAVOK 30/24 Q1007 KVPS 030155Z 28001KT 10SM FEW030 FEW120 BKN200 28/24 A3003 RMK AO2A SLP174 T02810236 $ SBCT 030200Z 32008KT 9999 -RA VCTS SCT013 FEW035CB BKN100 16/14 Q1015 FQMA 022300Z 24007KT 9999 FEW025 14/12 Q1027 NOSIG KVRB 030153Z 14006KT 10SM SCT025 SCT037 27/22 A3003 RMK AO2 SLP169 T02720222 SBDN 030100Z 03003KT CAVOK 21/19 Q1011 SBCX 022000Z 04014KT 8000 FEW030 BKN080 14/13 Q1007 RJNG 030123Z 26006KT 9999 SCT025 BKN035 26/20 Q1014 RMK 3CU025 5CU035 A2996 SBEG 030200Z 08003KT CAVOK 27/22 Q1011 SBCY 030200Z 35004KT CAVOK 29/20 Q1010 SBCZ 022300Z 31004KT 9999 FEW015 FEW030TCU BKN100 23/23 Q1009 KWHP 030147Z 15006KT 10SM SKC 25/16 A2981 KVPZ 030153Z AUTO 07003KT 10SM CLR 20/18 A2995 RMK AO2 SLP137 T02000178 TSNO KVQQ 030155Z AUTO 00000KT 10SM CLR 23/23 A3005 RMK AO2 RJOA 030100Z 12005KT 080V160 9999 FEW015 BKN/// 25/20 Q1012 SBEK 022100Z 00000KT 9999 FEW020 FEW025TCU 27/26 Q1009 RETS RJNK 030100Z 31005KT 270V330 9999 FEW050 SCT080 BKN150 26/19 Q1012 RJOB 030100Z 11009KT 060V130 9999 FEW010 SCT015 BKN/// 27/22 Q1012 EYVI 030150Z 02004KT 7000 BKN035 12/11 Q1027 NOSIG RJOC 030100Z 19007KT 150V230 9999 FEW025 SCT070 BKN100 29/21 Q1008 SAOC 030100Z 02008KT 9999 SCT015 OVC100 17/13 Q1014 KVQT 030155Z AUTO 13012KT 10SM CLR 29/25 A3002 RMK A01 MDSD 030200Z 06004KT 9999 FEW018 26/22 Q1015 NOSIG RJOF 022323Z 11012KT 9999 FEW015 BKN018 BKN100 26/23 Q1008 RMK 1CU015 6CU018 6AC100 A2979 KVSF 030154Z AUTO 00000KT 9SM CLR 22/21 A2974 RMK AO2 LTG DSNT NW SLP067 T02170206 KWJF 030156Z AUTO 26017G25KT 10SM CLR 29/04 A2980 RMK AO2 PK WND 25026/0132 SLP072 T02890039 TSNO RJOH 030100Z 17015KT 9999 FEW040 BKN090 BKN240 28/20 Q1008 RJOI 030155Z 08003KT 9999 FEW030 BKN050 OVC080 28/21 A2982 RMK SLP097 T02780206 KVSH 030155Z AUTO 18003KT 10SM CLR 29/22 A3004 RMK AO1 SBFI 030200Z 20003KT CAVOK 22/20 Q1010 SBES 022200Z 06004KT 9999 FEW025 20/17 Q1015 RJNS 030100Z 06008KT 360V100 9999 FEW025 SCT/// 26/16 Q1015 RJOK 030100Z 32004KT 250V360 9999 FEW010 SCT035 OVC120 26/23 Q1012 RJNT 030100Z 19012KT 9999 FEW040 SCT180 BKN/// 30/17 Q1011 SANT 030112Z 07010KT 5000 FU BKN040 FEW050CB 26/18 Q1010 KVTA 030154Z AUTO 24003KT 10SM CLR 19/18 A2997 RMK AO2 SLP144 T01890178 SBFL 030100Z 31008KT 9999 SCT010 BKN016 18/16 Q1011 RJOM 030100Z VRB03KT 9999 FEW025 SCT050 BKN/// 30/22 Q1009 SBFN 022200Z 10007KT 9999 SCT015 25/23 Q1015 RJNW 030100Z 12006KT 9999 FEW030 SCT150 BKN/// 26/22 Q1012 LOAN 021800Z 34010KT 12KM RA FEW010ST SCT020SC BKN030SC RMK OVC RJOO 030100Z 07005KT 010V100 9999 FEW025 SCT060 BKN120 28/20 Q1012 FQNP 030100Z 23010KT 9999 BKN020 17/16 Q1018 RJOR 030100Z 15017KT 9999 FEW030 SCT070 BKN100 26/19 Q1009 SBFS 022100Z 18004KT 9999 FEW020 SCT080 20/18 Q1014 KVTI 030155Z AUTO 00000KT 10SM CLR 19/16 A2995 RMK AO2 T01850156 RJOT 030100Z 36004KT 290V050 9999 FEW010 SCT070 BKN110 26/22 Q1011 VYMD 030130Z 00000KT 7000 BKN020 FEW025CB OVC090 27/26 Q1008 SBGL 030200Z 14009KT 9999 SCT015 BKN025 21/18 Q1013 MDST 030200Z 16006KT 9999 FEW018CB SCT020 26/24 Q1015 CB/E/NW FQPB 030100Z 20015KT CAVOK 20/15 Q1016 SBGM 022300Z 36004KT 9999 FEW040 31/22 Q1008 LOAV 021800Z 29012KT 20KM -SHRA FEW005ST BKN020SC 14/12 Q1018 RMK OVC RJOW 030100Z 17018KT 9999 FEW035 SCT080 BKN/// 29/22 Q1008 KWLD 030154Z AUTO 13009KT 10SM OVC090 26/21 A2994 RMK AO2 SLP128 T02560211 KVTN 030152Z AUTO 17012KT 10SM CLR 24/17 A2982 RMK AO2 SLP083 T02440172 SBGO 030200Z 33005KT CAVOK 22/18 Q1016 RJOY 030100Z 10006KT 060V150 9999 FEW060 BKN120 28/19 Q1012 RJOZ 022223Z 12013KT 9999 -SHRA FEW005 SCT015 BKN070 25/23 Q1008 RMK 1ST005 4CU015 7AC070 A2978 KXBP 030155Z AUTO 14004KT 10SM CLR 30/17 A2990 RMK AO2 T03020173 SBFZ 030200Z 07006KT 9999 FEW020 25/21 Q1014 SBGR 030200Z 19013G23KT 4000 +TSRA BR BKN009 BKN035CB OVC070 16 /16 Q1020 WS R27L KVUJ 030155Z AUTO 00000KT 10SM CLR 24/24 A3007 RMK AO2 LTG DSNT W P0002 T02350235 SBGU 022000Z 35006KT 8000 TS SCT020 FEW030CB OVC081 22/17 Q1012 SBIC 022200Z 07002KT CAVOK 30/23 Q1010 SARC 030100Z 11009KT CAVOK 19/18 Q1009 KWMC 030156Z AUTO 27011KT 10SM CLR 30/M04 A2981 RMK AO2 SLP053 T03001044 SBGW 022300Z 05003KT CAVOK 24/14 Q1014 SARE 030100Z 11006KT CAVOK 20/19 Q1009 SARF 030100Z 16007KT CAVOK 22/19 Q1009 KVUO 030153Z AUTO 32010KT 10SM BKN050 21/11 A2992 RMK AO2 SLP130 T02060106 SBIH 030100Z 00000KT 9999 FEW020 28/22 Q1011 SARI 030100Z 18002KT CAVOK 24/21 Q1010 RJSA 030100Z 31004KT 240V350 9999 FEW025 BKN/// 22/15 Q1015 SASA 030100Z 09003KT 9999 SCT020 23/15 Q1015 SBHT 030100Z 00000KT CAVOK 22/22 Q1012 RKJB 030100Z 20010KT 6000 -RA FEW010 BKN025 OVC080 25/24 Q1004 NOSIG SBIL 030100Z 03008KT 9999 SCT018 25/22 Q1014 RJSC 030100Z 08008KT 040V120 9999 FEW015 BKN030 BKN/// 23/16 Q1015 SARL 030100Z 14006KT CAVOK 15/14 Q1012 FQQL 030100Z 25007KT 9999 FEW010 BKN020 BKN090 18/18 Q1019 REDZ SBJF 022200Z 06006KT CAVOK 23/15 Q1016 RJSF 030100Z 16005KT 120V210 9999 FEW020 BKN040 21/15 Q1017 SBIP 022335Z 00000KT CAVOK 25/15 Q1011 SARP 030100Z 14007KT CAVOK 19/17 Q1012 RJSH 022049Z 22004KT 5000 PRFG BR FEW001 SCT003 14/14 Q1017 RMK 2ST001 4ST003 A3004 2000E-S RJSI 030100Z 19005KT 150V220 9999 FEW020 SCT030 24/17 Q1016 SARS 021240Z 11006KT 5000 RA SCT020 OVC060 22/17 Q1006 SASJ 030100Z 00000KT 9999 OVC040 25/15 Q1011 SCBA 030200Z AUTO 28003KT CAVOK 06/03 Q1011 RJSK 030100Z 12009KT 9999 FEW020 BKN/// 23/16 Q1014 RKJK 030058Z 19015G20KT 8SM SCT015 BKN025 OVC030 25/22 A2960 RMK AO2A SLP027 T02480224 $ HAAB 030200Z 17002KT 9999 FEW025 12/08 Q1026 RJSN 030100Z 12005KT 090V160 9999 FEW035 BKN/// 28/18 Q1012 KVVV 030154Z AUTO 16004KT 10SM CLR 18/13 A2982 RMK AO2 RJTF 030100Z VRB02KT 9999 FEW025 BKN035 25/16 Q1016 SBKG 022100Z 08008KT CAVOK 26/19 Q1016 SBJP 030100Z 00000KT 9999 BKN020 23/21 Q1016 SCAP 030200Z AUTO VRB01KT 9000 NSC 06/05 Q1018 SBIZ 030100Z 34005KT 9999 FEW032 28/22 Q1012 SBJR 030100Z 12007KT 9999 FEW018 BKN040 23/20 Q1013 RJTI 030100Z 14004KT 080V180 9999 FEW020 BKN030 26/17 Q1016 RJSR 030100Z 09005KT 040V130 CAVOK 24/16 Q1015 SCAR 030200Z 12002KT 9000 OVC021 16/12 Q1017 SCAS 022100Z 25006KT 9999 FEW010 SCT040 BKN100 11/09 Q1010 RJSS 030100Z 11008KT 070V160 9999 FEW010 SCT015 BKN/// 23/19 Q1017 SBLB 022100Z 18012KT 9999 SCT015 23/19 Q1015 W///S3 RJTK 020824Z 08007KT 9999 FEW025 BKN220 25/20 Q1013 RMK 1CU025 5CI220 A2993 SCAT 030200Z 16006KT 120V190 9999 OVC008 12/10 Q1017 RJSU 022234Z 14006KT 9999 FEW010 BKN025 BKN220 22/17 Q1017 RMK 1ST010 5CU025 5CI220 A3003 SBJU 030100Z 00000KT CAVOK 28/17 Q1016 SBJV 030100Z 00000KT 9999 BKN030 OVC100 17/17 Q1011 RETS KVWU 030152Z AUTO 10003KT 10SM -RA SCT037 SCT060 BKN085 13/12 A2978 RMK AO2 P0013 LTG DSNT ALQDS KXFL 030155Z AUTO 15003KT 10SM CLR 26/23 A3004 RMK AO2 T02590226 SBLE 022100Z 04003KT CAVOK 32/06 Q1014 RJTO 030100Z 05012KT 9999 FEW012 BKN016 24/20 Q1016 SCCF 030200Z VRB03KT CAVOK 13/M17 Q1025 RKJY 022332Z 33002KT 3000 BR FEW008 BKN020 OVC080 21/20 Q1005 NOSIG RMK TS E32 MOVD NE RJSY 030100Z 08014KT 9999 FEW030 BKN/// 25/16 Q1013 SBKP 030200Z 01005KT 9999 -TSRA FEW035CB BKN080 20/18 Q1018 RER A SCCH 022200Z 04006KT 7000 -RA BKN020 OVC070 12/11 Q1013 RJTR 022215Z 01003KT 7SM BKN045 BKN180 23/18 A3003 RMK FIRST SATR 021010Z 14028G42KT 3000 -TSRABR OVC045 FEW050 19/19 Q1007 SCCI 030200Z 13007KT 0600 DZ FG VV001 06/05 Q1011 NOSIG SBMA 030100Z 02002KT CAVOK 24/22 Q1013 SCDA 030200Z 01007KT 5000 HZ OVC015 16/12 Q1017 RJTT 030130Z 06003KT 9999 FEW020 BKN/// 25/19 Q1015 BECMG TL0230 08008KT RMK 1CU020 A3000 RJTU 030025Z 16004KT 9999 FEW020 BKN040 BKN240 23/16 Q1017 RMK 1CU020 5CU040 7CI240 A3005 SAVC 030100Z 00000KT CAVOK 08/07 Q1013 SBMD 030100Z 00000KT CAVOK ///// Q1013 SAVE 030100Z 00000KT 9999 OVC030 07/05 Q1011 SBME 030100Z 06006KT CAVOK 23/20 Q1014 SBLO 030200Z 17004KT 9999 SCT030 BKN100 23/19 Q1013 SBLP 022100Z 22003KT CAVOK 34/09 Q1011 SBMG 030100Z 09003KT 9999 FEW030 23/18 Q1011 RJTY 030158Z AUTO 00000KT 10SM OVC034 25/18 A3006 RMK AO2 SLP177 T02540177 SBLS 030100Z 14012KT CAVOK 25/12 Q1016 SBMK 030100Z 00000KT CAVOK 25/11 Q1014 KVYS 030155Z AUTO 29004KT 10SM CLR 21/17 A2994 RMK AO2 T02110167 SAWC 021415Z 27003KT 9999 VCFG SCT010 SCT045 07/06 Q1007 SBML 030100Z 18012KT 6000 -TSRA BKN030 FEW040CB BKN070 22/18 Q1015 KWRB 030158Z AUTO 17005KT 10SM FEW160 SCT190 23/22 A3004 RMK AO2 LTG DSNT S AND NW TSE0059 SLP172 T02300215 $ SAWE 030100Z 07002KT 0500 FGDZ BKN002 05/05 Q1013 SBMN 030200Z 11005KT CAVOK 28/23 Q1011 SBNF 030200Z 35007KT 8000 FEW004 BKN006 BKN012 19/19 Q1010 SBMO 030200Z 05003KT 9999 SCT020 24/23 Q1016 SCCY 030000Z 00000KT 9999 BKN036 09/07 Q1011 SAWG 030100Z 00000KT 9999 SCT025 07/06 Q1010 SAWH 030100Z 00000KT 9999 BKN030 OVC100 05/04 Q1011 SBMQ 030200Z 05007KT 9999 FEW027 26/23 Q1013 LOIH 021600Z 35002KT 35KM FEW035CU BKN050SC 19/12 Q1019 RMK BKN KXIH 030155Z AUTO 15014KT 10SM FEW021 FEW027 SCT040 29/24 A2999 RMK A01 SBMS 030000Z 04008KT CAVOK 27/22 Q1014 KWRI 030158Z AUTO 21005KT 10SM CLR 22/21 A2986 RMK AO2 LTG DSNT SE RAE0152DZB0059E0106 TSB0110E0130 SLP114 P0001 T02240208 SCFA 030200Z 11002KT 9999 OVC013 14/10 Q1016 NOSIG SBMT 030100Z 24012G23KT 4000 -TSRA BR BKN013 FEW050CB 20/16 Q1016 SCEL 030200Z 15007KT 120V190 9999 OVC090 11/08 Q1016 NOSIG SAVV 021324Z 36006KT 5000 BR OVC007 12/11 Q1015 REFG KWRL 030153Z AUTO 12009KT 10SM CLR 21/02 A2973 RMK AO2 SLP041 T02110022 FQVL 021800Z 18008KT 140V210 9999 FEW020 18/14 Q1022 SBMY 022200Z 00000KT CAVOK 32/26 Q1009 SBOI 022000Z 12007KT 9999 SCT027 32/23 Q1011 SBPA 030200Z 29005KT 9999 BKN012 BKN030 16/15 Q1010 SBPB 030200Z 08012KT 9999 FEW020 27/23 Q1014 SBNT 030200Z 11007KT 9999 BKN017 25/21 Q1015 SBPC 022200Z 00000KT CAVOK 20/13 Q1018 RKPC 030100Z 25012KT 8000 BKN025 BKN180 28/23 Q1005 NOSIG SCGE 022200Z 01010KT 7000 -RA SCT017 OVC030 13/10 Q1011 SBPF 022300Z 23020KT 1500 BR BCFG BKN005 15/14 Q1011 RKNY 030140Z 05004KT 2500 +RA BR SCT004 BKN020 OVC070 19/19 Q1004 NOSIG LPAR 021600Z 24010KT CAVOK 29/18 Q1012 SBPJ 030100Z 10003KT CAVOK 27/17 Q1012 SCFT 030200Z AUTO 00000KT 9000 SKC 07/05 Q1012 LPBJ 030100Z 28003KT 9999 FEW020 18/17 Q1015 RKPK 030140Z 19010KT 3200 -RA BR FEW000 BKN010 OVC025 26/24 Q1004 NOSIG SBPK 030200Z 11006KT 9999 BKN007 16/16 Q1014 MGCB 030000Z 09006KT 9999 SCT018 BKN200 22/18 QFE 869.1 KWST 030153Z AUTO 21007KT 10SM CLR 24/22 A2981 RMK AO2 SLP093 T02440217 SBPL 030200Z 23002KT CAVOK 23/13 Q1014 SBPN 022100Z 31004KT 9999 FEW025 34/16 Q1009 SBPP 022200Z 32004KT CAVOK 28/18 Q1010 SBPR 022048Z 31004KT CAVOK 31/08 Q1015 LPAZ 030130Z 31003KT 9999 FEW015 FEW018CB 22/19 Q1013 SBPS 030200Z 02004KT 8000 VCSH BKN015 23/22 Q1014 SBRB 030200Z 02002KT CAVOK 24/19 Q1010 SCIC 030200Z AUTO VRB03KT 9999 -RA NCD 11/09 Q1015 SAZM 030100Z 09015KT 6000 -DZ OVC004 12/11 Q1019 SBPV 030200Z 00000KT CAVOK 26/22 Q1010 KXLL 030155Z AUTO 24008KT 10SM CLR 24/18 A2989 RMK AO2 SAZN 030100Z 05010KT 9999 -RA FEW040 BKN100 16/07 Q1013 SCIE 030200Z 06007KT 9999 SCT020 OVC050 12/09 Q1012 SBRF 030200Z 11004KT 9999 SCT020 25/22 Q1015 SBRJ 030200Z 10003KT 9999 SCT012 BKN040 22/19 Q1013 KWVI 030153Z AUTO 22005KT 10SM OVC010 18/14 A2982 RMK AO2 SLP099 T01780139 SAZS 030100Z 11004KT 8000 RA SCT018 SCT020 BKN040 07/03 Q1013 KXNA 030153Z 00000KT 10SM BKN100 22/21 A3002 RMK AO2 SLP154 T02220206 SBSC 030100Z 12004KT 9999 FEW020 SCT040 22/18 Q1013 FSIA 030100Z 15012KT 9999 -SHRA BKN016 24/23 Q1010 NOSIG SBQV 030100Z 10005KT CAVOK 23/10 Q1018 KWVL 030155Z 19003KT 2 1/2SM SCT003 21/19 A2969 RMK AO1 KWWD 030155Z AUTO 19007KT 10SM SCT090 27/22 A2989 RMK AO1 LTG DSNT N RKSG 030158Z AUTO 13003KT 10SM -DZ OVC019 22/ A2959 RMK AO2 RAB0108E0117B0146E0147DZB0117E0146 SLP023 $ SCIP 030200Z 04005KT 9999 FEW020 SCT030 17/09 Q1027 NOSIG SBRP 030100Z 00000KT 9000 NSC 25/15 Q1012 SCIR 022100Z 31012G31KT 9999 SCT010 SCT020 14/12 Q1005 RKSI 030130Z 06011KT 9000 -RA SCT007 BKN025 OVC060 19/18 Q1002 NOSIG SBTA 030100Z 05002KT 7000 NSC 22/14 Q1014 SBSJ 030200Z 19016G26KT 7000 TS BKN015 BKN020 FEW030CB 20/17 Q1 017 KXMR 030158Z AUTO 15006KT 10SM CLR 27/23 A3003 RMK AO2 SLP172 T02720229 SBTC 022020Z 03003KT 9999 FEW020 26/22 Q1013 SBSL 030200Z 06006KT CAVOK 25/21 Q1014 SBSM 030100Z 00000KT 9999 OVC011 15/14 Q1012 RKSM 030100Z 32001KT 6000 -RA BR FEW005 BKN012 OVC030 20/19 A2961 SBSN 030200Z 13003KT CAVOK 26/24 Q1011 SBTE 030200Z 36003KT CAVOK 28/19 Q1012 SBTF 022300Z 00000KT CAVOK 29/25 Q1008 SCJO 022300Z 00000KT 9999 SCT020 BKN070 11/11 Q1011 RKSO 030140Z 08006KT 3SM -RA BR FEW002 SCT007 OVC018 21/21 A2959 RMK AO2A $ SBSP 030200Z 19015G26KT 5000 +TSRA BKN006 BKN012 FEW035CB BKN05 0 16/14 Q1021 SBSR 030100Z 30004KT 9999 -TSRA SCT025 FEW030CB OVC070 25/15 Q1014 SBUA 030130Z 25001KT 9999 VCTS FEW017 FEW025CB BKN090 26/25 Q1010 RETS RKSS 030100Z 10005KT 9999 SCT005 BKN020 OVC070 20/17 Q1002 TEMPO -RA KWWR 030155Z AUTO 16008KT 10SM CLR 30/16 A2991 RMK AO2 SBTK 022300Z 32003KT 9999 FEW030 26/23 Q1010 MGES 030000Z 32008KT 9999 TS FEW018 FEW025CB SCT200 25/19 QFE 908.8 FEW090 CB/TS/LTNG S/SSW CB E/ESE SBST 022300Z 13002KT 4000 BR BKN020 21/19 Q1012 LPFL 021800Z 21008KT 160V270 9000 -TSRA BKN016 SCT018CB 22/18 Q1011 SBSV 030200Z 02004KT 9999 SCT017 24/22 Q1014 RKTN 030143Z 11008KT 6000 -RA SCT010 BKN020 OVC030 25/22 Q1003 NOSIG SBUF 022200Z 11005KT 9999 FEW020 30/16 Q1013 SBUG 022200Z 36004KT CAVOK 17/14 Q1010 LPFR 030100Z 28006KT CAVOK 20/18 Q1014 SBTT 022300Z 14001KT 9999 FEW017 28/25 Q1008 SBTU 022130Z 00000KT 9999 FEW025 27/24 Q1013 SBUL 030100Z 30002KT CAVOK 27/13 Q1017 RKTU 030100Z 01003KT 6000 -RA SCT005 BKN015 OVC030 20/19 Q1003 NOSIG VYYY 030130Z 27002KT 6000 -RA BKN015 FEW020CB OVC100 25/25 Q1009 SBVH 030100Z 01003KT CAVOK 25/19 Q1014 SBUR 030100Z 35006KT CAVOK 27/12 Q1016 SCMK 022200Z 02009KT 9999 SCT012 BKN017 11/09 Q1010 KWYS 030150Z AUTO 17007KT 10SM CLR 16/03 A2996 RMK AO2 MGGT 030200Z 00000KT 9999 BKN015 18/17 Q1024 A3024 SBUY 022300Z 00000KT 9999 FEW015 SCT100 27/24 Q1008 KXPY 030155Z AUTO 00000KT 10SM CLR 29/24 A3005 RMK A01 YABA 030200Z 17008KT 9999 BKN039 15/06 Q1023 LPHR 022100Z 33003KT 300V360 9999 FEW017 23/19 Q1011 KXSA 030155Z AUTO 20003KT 10SM CLR 28/19 A2992 RMK AO2 LTG DSNT N T02780189 SBVT 030100Z 31002KT 9999 FEW016 SCT035 BKN040 22/19 Q1016 MGHT 030200Z 00000KT 9999 OVC020 15/14 QFE 817.7 WSAP 030100Z 26002KT 6000 FEW016 SCT150 29/26 Q1013 KYIP 030153Z 19003KT 10SM CLR 19/16 A2994 RMK AO2 SLP131 T01940156 SBYA 021900Z 00000KT 9999 SCT020 31/24 Q1009 SCNT 022100Z 15009KT 9999 BKN030 10/07 Q1007 MHAM 030200Z 34004KT 9999 FEW025 FEW030CB OVC070 25/24 RETS CB LTNG NE E SCON 030200Z AUTO 04004KT 8000 ///007 10/10 Q1011 MHCA 030200Z 10002KT 9999 SCT030 BKN080 22/21 LPLA 030200Z /////KT 8000 -RA FEW017 SCT022 23/19 Q1012 RMK ESTMD WND 19003KT LQBK 030130Z 31008KT 9999 SCT010 BKN040 16/14 Q1012 NOSIG KYKM 030153Z 26014KT 10SM FEW120 21/07 A2972 RMK AO2 PK WND 30031/0058 SLP060 T02110072 KYKN 030155Z AUTO 13007KT 10SM CLR 20/16 A2988 RMK AO1 SCPQ 030200Z AUTO 09003KT 3700 FEW008 OVC010 09/09 Q1010 MHCH 030200Z 18004KT 9999 SCT030CB BKN070 26/22 CB TCU LTNG SW SBYS 030126Z 21019G32KT 7000 TS FEW035CB BKN100 22/17 Q1015 LPMA 030130Z 34003KT 310V040 9999 FEW016 21/18 Q1016 RS36001KT 0531003KT 2333002KT SCRD 022200Z 33003KT 8000 2000S VCFG SCT003 OVC090 11/10 Q1015 SCRG 022100Z 13007KT 7000 OVC060 13/09 Q1012 SCQP 030200Z 01008KT 9000 RA OVC025 11/08 Q1011 KXVG 030156Z AUTO 18005KT 10SM OVC110 18/13 A2977 RMK AO2 MGMM 021230Z 00000KT 9999 SCT012 BKN090 SCSE 030200Z 32002KT 6000 OVC008 12/11 Q1016 LOWG 030150Z 29005KT 9999 FEW040 BKN060 14/12 Q1015 NOSIG KYNG 030151Z 00000KT 6SM MIFG BR SCT110 18/18 A2996 RMK AO2 SLP137 T01830178 LPMR 030100Z 15002KT 9999 FEW010 BKN020 19/17 Q1014 LOWI 030150Z 06003KT 030V100 9999 -RA FEW005 SCT013 BKN080 11/11 Q1021 TEMPO RA SCTB 022200Z 04004KT 9999 SCT090 OVC130 12/09 Q1014 MGMT 030000Z 00000KT 9999 FEW025 BKN070 30/23 Q1004.6 FEW200 LPMT 030100Z 20002KT 9999 FEW015 19/18 Q1014 LOWK 030150Z VRB02KT 8000 -RA SCT007 BKN045 11/11 Q1018 RERA LOWL 030150Z 23006KT 6000 -RA SCT007 BKN017 12/12 Q1020 TEMPO BKN007 SCSN 030200Z AUTO 00000KT 5000 BR NCD 11/11 Q1016 SCTE 030200Z VRB02KT 9999 OVC050 10/08 Q1011 NOSIG LOWS 030150Z 16008KT 9999 -RA SCT025 BKN030 11/10 Q1020 MGPB 030200Z 00000KT 9999 FEW016 SCT080 28/26 Q1012 A2988 CB/LTNG DIST SW LPPD 030130Z 30006KT 9999 SCT015 SCT030 21/18 Q1012 LOWW 030150Z 31010KT 9999 BKN014 15/14 Q1017 NOSIG LOWZ 021700Z 25003KT 15KM -RA FEW015SC BKN050SC 12/10 Q1020 RMK OVC LOXT 022050Z 25006KT 6000 FEW007ST BKN016SC 14/14 Q1019 RMK OVC SCVD 030200Z AUTO 07003KT 9999 -RA SCT047 11/10 Q1010 LPOV 030100Z VRB02KT 9999 FEW008 BKN018 20/18 Q1013 LOXZ 022050Z 26002KT 10KM -RA FEW003ST SCT035SC OVC060NS 11/10 Q1019 RMK OVC LPPR 030130Z 16004KT 9999 OVC024 20/18 Q1013 LPPS 030130Z VRB01KT 9999 FEW015 22/20 Q1016 LPPT 030130Z 28002KT 9999 FEW010 18/17 Q1014 SCVM 030200Z 00000KT 0600 FG OVC001 11/11 Q1016 YBAF 030200Z AUTO 25019KT 9999 // NCD 21/00 Q1010 MGQZ 030000Z 18006KT 9000 -TS RA FEW012 FEW020CB BKN070 15/13 QFE 765.4 CB/TS/LTNG N/NNE/S/SSW YBAS 030130Z AUTO 08006KT 050V110 9999 // NCD 18/M11 Q1024 MGSJ 030200Z 00000KT CAVOK 24/23 Q1011 A2985 SCT090 BKN200 MGRT 030000Z 22004KT 9999 TS SCT018 FEW025CB BKN090 30/23 Q1012 A2988 CB/TS/PCPN N/ESE/NNW VOL. STA. MARIA Y SANTIAGUITO EN ACTIVIDAD YBBN 030200Z 25019KT CAVOK 20/M02 Q1010 LRBC 030100Z AUTO VRB02KT 9999 FEW120 18/16 Q1015 YBCG 030200Z AUTO 25014KT 9999 // NCD 21/01 Q1009 YBCK 030200Z AUTO 16011KT 100V160 //// // ////// 19/M02 Q1020 YAMB 030200Z 26016KT CAVOK 21/M05 Q1011 LRAR 030100Z AUTO 01002KT 9999 R09////// R27/P2000 NCD ///// Q1010 LPST 021600Z 28012KT 9999 FEW018 24/17 Q1013 MHLC 030200Z 10002KT 9999 FEW026 BKN200 24/21 Q1011 A2986 NOSIG LRBM 030100Z AUTO 13002KT 9999 FEW014 SCT200 20/12 Q1013 YBDG 030200Z AUTO 14010KT 9999 // BKN037 13/06 Q1021 MHLE 030000Z 00000KT 9999 BKN022CB BKN200 20/18 CB TCU ALL HZ YBCS 030130Z 12010KT CAVOK 28/06 Q1014 RMK SMOKE LRBS 030130Z 05007KT 010V070 9999 BKN013 21/19 Q1010 TEMPO BKN010 YBCV 030130Z AUTO 18008KT 9999 // NCD 16/M02 Q1021 SEGU 030200Z 22009KT 9999 FEW030 23/19 Q1012 RMK A2989 NOSIG LRCK 030130Z 03010KT 9999 SCT004 22/21 Q1010 NOSIG MGTU 030000Z 27006KT 9999 FEW018 30/23 FEW070 FEW200 LRCL 030100Z 25004KT CAVOK 18/14 Q1013 MHLM 030200Z 18007KT 9999 FEW007 SCT028CB OVC090 24/23 Q1012 A2989 RETS RERA YBDV 030200Z AUTO 10006KT //// // ////// 18/M02 Q1023 LRCT 021000Z 12008KT 9999 SCT200 25/08 Q1012 BLU BLU LRCV 030100Z 06012KT 9999 SCT040 21/16 Q1008 LQMO 030200Z 32008KT 290V030 9999 -RA FEW045 BKN060 20/15 Q1005 BGBW 022050Z 25011KT 9999 SCT036 10/05 Q1001 ROAH 030130Z 25006KT 200V280 9999 FEW018 BKN/// 31/25 Q1009 RMK 2CU018 A2982 SFAL 021200Z 02015KT 0400 BR vv/// XX/XX Q1022 GMAD 030200Z 05002KT CAVOK 19/16 Q1013 NOSIG MHNO 030000Z 18006KT 9999 TS BKN040CB 21/20 RERA CB TS S SW NW TCU ALL PCPN S SW HZ GMAG 021800Z 20008KT CAVOK 29/16 Q1010 NOSIG FTTA 030100Z 00000KT 9999 SCT020 23/22 Q1013 FTTC 021400Z 18008KT 9999 FEW030 SCT040 OVC150 30/20 Q1010 FTTD 021500Z 24008KT 9999 FEW030 25/21 Q1011 HDAM 021000Z 27010KT 6000 HZ 43/19 Q1003 YBHI 030200Z AUTO 24005KT 9999 // NCD 13/02 Q1024 KZPH 030155Z AUTO 11003KT 10SM CLR 26/22 A3003 RMK AO2 LTG DSNT W MGZA 030000Z 08008KT 9999 FEW018 OVC200 30/22 QFE 984.5 CB DIST ENE/SE YBHM 030200Z AUTO 14019KT 9999 // NCD 21/08 Q1016 FTTJ 030100Z VRB01KT 3400 TSRA SCT026 SCT040CB BKN100 22/19 Q1012 NOSIG MHPL 030000Z 08008KT 9999 SCT026TCU BKN250 29/25 Q1012 TCU S NW HZ GMAT 021800Z 02016KT 9999 SCT016 22/17 Q1013 NOSIG YARG 030200Z AUTO 09010KT 9999 // NCD 30/M02 Q1019 BGGH 030150Z AUTO 01004KT 9999NDV OVC015/// 04/01 Q1006 SELT 030200Z 17011KT 9999 BKN030 12/09 Q1029 LRIA 030100Z 24004KT CAVOK 18/15 Q1015 YARM 030200Z AUTO 24019KT 9999 // SCT027 08/01 Q1012 FVBU 021400Z 13012KT 100V180 CAVOK 19/00 Q1025 RODN 030158Z AUTO 25005KT 10SM SCT024 31/27 A2984 RMK AO2 SLP109 T03080268 $ FTTY 021400Z 00000KT CAVOK 44/13 Q1010 YCBA 030200Z AUTO 23013KT 170V240 //// // ////// 15/M01 Q1020 YCBB 030200Z AUTO 19016KT //// // ////// 12/M02 Q1015 SEMT 030100Z 19011KT 9999 FEW010 BKN030 22/18 Q1012 LQSA 030200Z 29005KT 260V320 8000 FEW020 SCT040 BKN055 15/14 Q1011 WSSL 030200Z 13006KT 080V160 6000 FEW014 FEW018TCU BKN300 30/25 Q1013 RMK 0130Z Q1013 YBKE 030200Z AUTO 24009KT //// // ////// 17/M04 Q1020 MHSC 030158Z AUTO 34004KT 9999 -RA BKN130 24/21 A2998 RMK AO2 SLP115 T02390208 $ MHRO 030200Z 08018KT 9999 FEW025 29/27 Q1012 A2989 NOSIG YCAR 030130Z AUTO 17006KT 9999 // NCD 24/11 Q1018 YCAS 030200Z AUTO 24013KT //// // ////// 20/02 Q1008 WSSS 030200Z 16007KT 110V190 8000 FEW015 SCT160 BKN300 30/25 Q1013 NOSIG FVCZ 020900Z 13008KT 9999 BKN035 20/10 Q1030 FVFA 020900Z 13010KT 070V180 CAVOK 20/04 Q1024 NOSIG MHTE 030000Z 09014KT 9999 BKN024B SCT080 30/24 Q1010 CB E SSW TCU ALL PCPN SW HZ YCBP 030200Z AUTO 02017KT //// // NCD 18/M01 Q1022 MHTG 030200Z 08006KT 9999 SCT028CB BKN200 22/17 Q1018 A3006 NOSIG GMFF 030200Z 15002KT 120V190 CAVOK 19/16 Q1017 NOSIG YBMA 030200Z 12010KT CAVOK 21/M10 Q1020 YBKT 030200Z AUTO 18016KT //// // ////// 28/M02 Q1016 MHSR 030200Z 02006KT 9999 TS BKN020 FEW020CB BKN250 22/21 TS SE S LTNG NE SE SW Q1018 YBLN 030200Z AUTO 14010KT //// // ////// 15/07 Q1024 GMFK 030200Z 00003KT 330V050 9999 SCT030 FEW033CB 29/07 Q1021 TEMPO SHRA GMFM 022200Z 29003KT 8000 FEW020TCU FEW026CB 22/17 Q1018 NOSIG BGJN 030150Z AUTO 01002KT 9999NDV OVC045/// 03/02 Q1006 GMFO 030200Z 35008KT 9999 FEW030 24/20 Q1013 NOSIG YBNA 030100Z AUTO 27019KT 9999 // NCD 19/04 Q1009 YBLT 030200Z AUTO 16009KT 9999 // ////// 10/03 Q1021 MHTR 030000Z 08010KT 9999 SCT024CB 29/24 Q1011 CB W TCU SSE SW HZ YBMK 030200Z AUTO 12013KT 9999 // NCD 22/08 Q1016 FVHA 030100Z 13006KT CAVOK 08/07 Q1025 YCEE 030200Z AUTO 36013KT //// // ////// 14/06 Q1021 SEQM 030200Z 36002KT 9999 FEW040 14/09 Q1026 NOSIG RMK A3030 YCDO 030200Z AUTO 23013KT //// // ////// 15/M04 Q1018 BGKK 030150Z AUTO 18005KT 9999NDV BKN077/// 08/04 Q1002 YCCY 030200Z AUTO 14012KT //// // ////// 21/M06 Q1020 ROIG 030100Z 22004KT 170V250 9999 FEW018 BKN/// 31/25 Q1009 LQTZ 021900Z 27006KT 4000 -RA BR SCT003 BKN012 17/17 Q1011 YCDU 030200Z 03013KT CAVOK 15/02 Q1021 YCEM 030200Z AUTO 15008KT 110V170 //// // ////// 13/06 Q1021 GLRB 030130Z 00000KT 9999 BKN011 23/22 Q1013 NOSIG SESG 021700Z 03004KT 9999 FEW035 28/09 Q1014 YBNS 030200Z AUTO 25009KT 9999 // SCT023 BKN052 13/07 Q1020 YBOK 030100Z 24020G30KT 9999 FEW038 15/M01 Q1014 FM0100 MOD TURB BLW 5000FT YCFL 030200Z AUTO 15014KT //// // ////// 26/19 Q1014 YAYE 030200Z AUTO 03004KT 9999 // NCD 20/M00 Q1022 LROD 030100Z AUTO 09004KT 9999 SCT100 21/13 Q1011 YCFS 030130Z 23017KT CAVOK 19/02 Q1008 SGAS 030200Z 17010KT CAVOK 26/20 Q1008 HEBA 030100Z 00000KT CAVOK 21/20 Q1010 NOSIG FVKB 020400Z 00000KT CAVOK 14/08 Q1022 YBPN 030200Z AUTO 11012KT 9999 // NCD 24/04 Q1015 LSGC 030150Z AUTO 05009KT 9999 BKN008 09/08 Q1018 LSGG 030150Z 03010KT 360V070 9999 FEW030 15/10 Q1016 NOSIG LROP 030130Z 05012KT 9999 BKN017 21/20 Q1010 NOSIG YCHK 030200Z AUTO 14006KT 9999 // NCD 29/M04 Q1019 YAYT 021650Z 02006KT 7000 SKC 33/M00 Q1010 HEAR 030000Z 00000KT CAVOK 22/18 Q1009 NOSIG HECA 030130Z 00000KT CAVOK 25/20 Q1010 NOSIG HEAT 021800Z 33006KT CAVOK 31/14 Q1011 NOSIG HEBL 030100Z 36004KT CAVOK 28/10 Q1008 NOSIG HEAX 030100Z 00000KT 6000 NSC 21/20 Q1009 NOSIG MHYR 030000Z 09004KT 9999 TS SCT025CB BKN080 23/20 CB TS PCPN NW TCU ALL HZ YBRK 030200Z 22010KT CAVOK 21/M06 Q1016 YBRL 030200Z AUTO 17007KT //// // ////// 30/00 Q1016 LSGS 021750Z 22007KT 160V260 9999 FEW100 19/09 Q1015 YBRM 030200Z 29006KT CAVOK 29/14 Q1015 YCIN 030200Z AUTO 28008KT //// // ////// 32/01 Q1015 GMMB 030200Z AUTO 02006KT //// NCD 22/19 Q1016 FWCL 021800Z VRB02KT CAVOK 19/11 Q1023 GMMC 030000Z 36004KT 9999 SCT016 22/19 Q1014 YBSG 030200Z AUTO 13007KT 100V160 //// // NCD 32/10 Q1012 GMME 030200Z 06003KT 9999 BKN015 22/18 Q1014 NOSIG GMMH 022100Z 36013KT CAVOK 21/20 Q1015 NOSIG GMMI 021900Z 36012KT 8000 NSC 25/16 Q1013 NOSIG LRSB 030100Z VRB02KT 9999 SCT087 15/14 Q1012 NOSIG LTAC 030150Z 02010KT CAVOK 18/05 Q1011 NOSIG SGEN 022100Z 14002KT 9999 FEW030 SCT080 24/16 Q1008 KZZV 030153Z AUTO 23003KT 10SM CLR 20/18 A2998 RMK AO2 SLP145 T02000183 GMML 030200Z 01007KT 8000 BKN013 21/18 Q1014 NOSIG YBRY 030200Z AUTO 21005KT 180V240 9999 // NCD 28/M04 Q1020 YBTH 030200Z AUTO 20015KT 9999 // NCD 10/01 Q1015 ROMY 030100Z 24005KT 210V290 9999 SCT022 SCT/// 30/25 Q1010 LTAF 030150Z 00000KT 5000 BR SCT040 25/23 Q1007 NOSIG GMMN 030200Z 03007KT 9999 SCT016 21/18 Q1015 NOSIG LTAG 030150Z 17002KT 9999 FEW035 26/23 Q1007 NOSIG SGES 030200Z 17003KT CAVOK 22/19 Q1010 LTAI 030150Z 36002KT CAVOK 23/21 Q1007 NOSIG YBSU 030200Z AUTO 25015KT 9999 // NCD 21/M01 Q1011 YBTL 030200Z 18012KT CAVOK 26/M02 Q1015 LTAJ 030150Z VRB02KT CAVOK 22/17 Q1009 NOSIG LTBA 030150Z VRB02KT CAVOK 23/20 Q1008 NOSIG YBUD 030200Z AUTO 22013KT 9999 // NCD 21/M01 Q1014 YCKN 030200Z AUTO 12013KT 9999 // NCD 28/04 Q1013 LTAL 020605Z 04002KT 9999 SCT030 23/11 Q1013 LRTC 030100Z AUTO 35006KT 9999 NCD ///// Q1012 LTBD 020525Z 08004KT CAVOK 21/19 Q1008 LRSM 030130Z AUTO 07002KT 9999 BKN110 19/14 Q1012 FVMV 020400Z 18008KT 9999 BKN009 10/07 Q1029 LTAN 030150Z 26001KT CAVOK 18/10 Q1012 NOSIG GMMW 030000Z 22004KT 8000 NSC 23/19 Q1013 NOSIG LTBF 030150Z 00000KT CAVOK 18/15 Q1008 NOSIG GMMX 030200Z VRB01KT 9999 FEW100 26/18 Q1014 NOSIG LTBG 020506Z 00000KT 0500 R36/P1500D R18/P1500D BCFG NSC 19/18 Q1007 BECMG TL0540 3000 BR RMK RWY18 16003KT 130V200 LTAP 030150Z 00000KT CAVOK 14/07 Q1009 NOSIG BGSF 030150Z AUTO 07006KT 9999NDV OVC040/// 06/01 Q1006 LTAR 030150Z 12005KT 9999 SCT040 16/06 Q1016 GMMZ 030200Z VRB02KT CAVOK 26/04 Q1019 NOSIG LTAS 021430Z 33007KT 9999 BKN023 26/20 Q1007 RMK RWY18 34008KT LTCA 030150Z 26003KT 170V290 CAVOK 19/03 Q1010 NOSIG LTBJ 030150Z VRB02KT CAVOK 20/18 Q1007 NOSIG LTAT 030150Z 23004KT CAVOK 17/09 Q1009 NOSIG LTAU 030150Z 02003KT CAVOK 16/10 Q1012 NOSIG LTCC 030150Z 00000KT CAVOK 22/08 Q1008 NOSIG LTCD 030050Z 00000KT CAVOK 16/07 Q1013 NOSIG LRTM 030100Z 09004KT CAVOK 16/14 Q1013 LRSV 030100Z AUTO 34008KT 9999 OVC075 18/16 Q1016 YDBY 030200Z AUTO 27005KT 230V290 //// // ////// 32/03 Q1015 LTCE 030150Z 00000KT CAVOK 10/01 Q1019 NOSIG BIBD 021600Z 23007KT 9999 SCT025 BKN030 14/// Q0998 LTCF 030050Z 00000KT 9999 SCT035 13/07 Q1020 LTBP 020435Z 15006KT 6000 FEW030 20/17 Q1008 RMK RWY26 20006KT LTCG 030150Z 20005KT 9999 SCT017 24/21 Q1009 NOSIG LTAZ 022050Z 31003KT 220V020 CAVOK 24/04 Q1011 RMK RWY29 35003KT 300V030 LTBQ 030150Z 00000KT 8000 FEW035 17/16 Q1008 TEMPO 4000 BR LTBR 030120Z VRB01KT CAVOK 18/17 Q1009 NOSIG LTCI 030150Z 10003KT 070V140 CAVOK 17/M00 Q1018 NOSIG LRTR 030130Z 08003KT 050V110 CAVOK 19/18 Q1009 NOSIG LSMA 030150Z AUTO VRB02KT 9999NDV FEW037 09/08 Q1018 RMK BLU LTCJ 030150Z 04006KT CAVOK 21/04 Q1008 LTBS 030150Z 03004KT CAVOK 20/17 Q1007 NOSIG YCMM 030200Z AUTO 01012KT //// // ////// 13/09 Q1021 LTCK 021450Z 21008KT 9999 FEW040 33/M04 Q1011 BIAR 030100Z 31008KT 9999 -RA BKN050 08/05 Q1002 LTBU 030120Z 05008KT CAVOK 21/20 Q1008 LSMD 030150Z AUTO VRB03KT 9999NDV OVC066 14/12 Q1019 RMK WHT LSME 030150Z AUTO 00000KT 9999NDV NCD 12/10 Q1018 RMK BLU BGTL 030158Z AUTO 00000KT 9999 OVC048 02/00 A2973 RMK AO2 SLP052 T00200002 $ HEGN 030100Z 32017KT CAVOK 28/18 Q1006 NOSIG LTBZ 021326Z 21012KT 190V250 9999 -TSRA FEW020CB BKN030 27/11 Q1010 RMK RWY13 31008KT 180V350 YCMT 030200Z AUTO 20003KT //// // ////// 20/M02 Q1018 LTCT 021423Z 10005KT 9999 FEW080 32/11 Q1008 YCNM 030200Z AUTO 21014KT //// // ////// 14/00 Q1018 YCOE 030200Z AUTO 11008KT //// // ////// 32/05 Q1013 LSMM 030150Z AUTO 09007KT 050V140 9999NDV NCD 10/08 Q1018 RMK BLU YBWP 030130Z AUTO 14004KT 9999 // NCD 29/13 Q1013 LSMP 030150Z AUTO 05008KT 010V080 9999NDV NCD 13/11 Q1017 RMK BLU RORS 030100Z 24005KT 9999 FEW020 SCT/// 32/24 Q1009 LTFA 020523Z 00000KT 8000 NSC 22/21 Q1007 RMK RWY17 VRB01KT LSMS 030150Z AUTO 00000KT 9999NDV NCD 12/08 Q1016 RMK BLU YCOM 030200Z AUTO 20025KT 9999 // SCT020 BKN028 BKN035 07/02 Q1015 LTFC 030120Z 00000KT CAVOK 17/11 Q1012 YBWX 030200Z AUTO 15005KT //// // ////// 25/11 Q1017 YCNY 030200Z AUTO 17008KT //// // ////// 26/M05 Q1018 LTFE 030150Z VRB01KT 9999 FEW035 20/18 Q1007 NOSIG LTFH 030050Z VRB02KT 9999 FEW033 19/18 Q1008 NOSIG BIEG 030100Z 00000KT 9999 -RA BKN047 OVC062 09/08 Q1000 LTFJ 030120Z 03005KT CAVOK 21/19 Q1007 NOSIG RPLB 030100Z VRB02KT 9999 FEW020 BKN080 29/23 Q1009 NOSIG RPLC 030200Z 14003KT 9999 FEW036 BKN100 29/25 Q1011 RMK NOSIG RMK 2984 GMTA 030200Z 28002KT CAVOK 24/23 Q1013 NOSIG ROTM 030158Z VRB05KT 9999 SCT025 BKN180 29/25 A2985 RMK SHRAB35E50 SLP102 T1 SET T2 P0002 T02900253 RPLI 030100Z 09002KT 9999 FEW019 BKN290 29/25 Q1008 NOSIG RMK A2978 FWKI 021700Z 10006KT CAVOK 17/06 Q1022 NOSIG RPLL 030100Z 30004KT 250V040 9999 SCT023 BKN100 28/23 Q1009 NOSIG RMK A2980 RPMD 030100Z 14005KT CAVOK 30/24 Q1011 RMK A2985 GMTN 030200Z 26009KT 220V330 CAVOK 24/17 Q1012 NOSIG HEMA 030100Z 33010KT CAVOK 29/10 Q1006 NOSIG GMTT 030200Z 26004KT 5000 SCT010 SCT016 21/18 Q1015 NOSIG HEMM 030100Z 14010KT CAVOK 23/19 Q1009 NOSIG BIHN 021700Z 20010KT 9999 FEW016 SCT030 BKN060 12/// Q1002 HELX 030100Z 00000KT CAVOK 25/14 Q1007 NOSIG RPMZ 030100Z 27004KT 9999 FEW018 SCT300 30/25 Q1013 RMK A2991 NCAI 030200Z AUTO 08008KT //// ////// 24/19 Q1014 MKJP 030100Z 04005KT 9999 FEW022 29/24 Q1013 MKJS 030100Z 14003KT 9999 VCTS SCT022CB 28/24 Q1013 RETS YCUN 030200Z AUTO 14010KT //// // ////// 15/11 Q1022 BIIS 021744Z 07004KT 9000 FEW005 SCT018 BKN022 08/06 Q0999 LUBL 030200Z AUTO 35005KT 320V030 9999 NCD 18/12 Q1016 LUBM 021500Z 05005KT 030V100 9999 SCT049 30/12 Q1012 R07/CLRD65 YDLQ 030200Z AUTO 21006KT //// // ////// 13/02 Q1021 YCWA 030200Z AUTO 14004KT 9999 // NCD 27/M06 Q1020 GOGG 030000Z 22004KT 9999 FEW016 27/26 Q1014 BIKF 030130Z 21006KT 9999 -DZ FEW015CB BKN050 BKN070 09/08 Q1002 GOGK 021800Z 26004KT 9999 SCT130 SCT230 33/24 Q1010 HEPS 030100Z 33006KT CAVOK 26/22 Q1009 NOSIG GOGS 030000Z 28008KT 9999 SCT015 28/26 Q1012 YCWR 030200Z AUTO 24010KT //// // ////// 12/02 Q1017 HESC 030100Z 00000KT CAVOK 16/11 Q1018 NOSIG HESH 030100Z 36016KT CAVOK 25/22 Q1006 NOSIG YDPO 030200Z AUTO 33006KT 9999 // NCD 11/03 Q1021 HESN 030100Z 31003KT CAVOK 28/08 Q1008 NOSIG LSZA 030150Z AUTO VRB02KT CAVOK 12/09 Q1014 LSZB 030150Z AUTO 09003KT 9000 NCD 07/07 Q1017 LSZC 030150Z AUTO VRB03KT CAVOK 11/08 Q1018 LSZG 030150Z AUTO 08004KT 030V120 CAVOK 12/10 Q1018 LSZH 030150Z 01009KT 9999 FEW010 SCT015 BKN060 13/11 Q1019 BECMG BKN015 RPVM 030100Z 22012KT 9999 FEW020 SCT100 BKN300 29/24 Q1010 RMK A2983 LSZL 030150Z AUTO 00000KT 9999NDV NCD 12/08 Q1014 RMK BLU LSZR 030150Z AUTO 22003KT 9999 OVC060 13/12 Q1019 LSZS 021650Z 35009KT 280V050 9999 BKN035 09/03 Q1020 MMAA 030146Z 28005KT 8SM SCT010TCU SCT080 BKN300 27/23 A2983 RMK 8/232 FXMM 021400Z 31004KT 9999 FEW040 21/M07 Q1028 NOSIG YELD 030200Z AUTO 14012KT //// // ////// 29/16 Q1015 CAHR 030100Z AUTO 18008KT 19/18 RMK AO1 SLP111 T01940180 55001 BIRK 030100Z 12004KT 9000 -SHRA FEW012 BKN028 OVC050 08/07 Q1002 MMAN 030140Z 13008KT 12SM BKN040 27/19 A2992 RMK 8/500 VC CB ISOL CI GOOD 021800Z 28004KT 9999 SCT016 33/25 Q1010 YFBS 030200Z AUTO 20012KT //// // ////// 12/02 Q1018 GOOG 030000Z 26002KT 8000 NSC 28/24 Q//// MMAS 030142Z 19006KT 10SM FEW050 BKN210 21/13 A3011 RMK 8/508 ISOL AC MMCB 022344Z 00000KT 7SM SCT015 BKN100 OVC220 23/16 A3000 RMK 8/137 HZY LUKK 030200Z VRB02KT CAVOK 17/14 Q1014 R08/CLRD65 NOSIG GOOK 030000Z 26004KT 8000 NSC 28/25 Q1013 FYGB 021400Z AUTO 11004KT //// // ////// 26/M05 Q1024 YFDF 030200Z AUTO 15005KT 120V190 9999 // NCD 29/M04 Q1019 MMCE 030043Z 07010KT 7SM BKN020CB BKN080 30/20 A2982 RMK 8/800 CBBC 030100Z AUTO 31009G15KT 9SM FEW060 18/10 A2999 RMK SLP155 DENSITY ALT 400FT FYGF 021400Z AUTO 10008KT //// // ////// 27/M05 Q1023 YEML 030200Z AUTO 19008KT 9999 // NCD 20/M01 Q1018 MMBT 022340Z 20010KT 7SM SCT020 BKN090 26/22 A2985 RMK 8/520 DZ MMCL 030142Z 30005KT 10SM SCT030CB BKN100 OVC220 31/26 A2973 RMK 8/363 PCPN NE MMCM 030145Z 09010KT 7SM SCT020 SCT100 29/25 A2989 RMK 8/520 RTS MMCN 030147Z 28005KT 10SM FEW100 BKN200 33/25 A2966 RMK 8/063 CB NE MMCP 030140Z 10010KT 7SM SCT100 30/26 A2984 RMK 8/030 NCMH 022300Z AUTO 08011KT //// ///// 31/25 Q1010 GOOY 030200Z 30005KT 260V330 9999 SCT007 27/24 Q1012 NOSIG MMCS 030140Z 14007KT 10SM FEW200 34/07 A2988 RMK 8/001 MMCT 022040Z 13009KT 8SM SCT015 34/23 A2990 RMK 8/400 MSGTX MMMD MMCU 030140Z 26004KT 10SM FEW035TCU SCT090 BKN200 29/08 A2997 RMK 8/272 DSNT CB PCPN W MMCV 030140Z 35006KT 4SM BKN015CB OVC100 25/25 A2983 RMK 8/96/ FQT LTGIC VRB COND MMDO 030148Z 04007KT 10SM BKN200 24/06 A3005 RMK 8/004 ISOL SC RTS MMCZ 030143Z 12003KT 7SM SCT015TCU SCT250 25/24 A2993 RMK 8/205 RTS BIVM 021800Z 17005KT 9999 SCT015 11/08 Q1000 MMEP 030151Z 00000KT 5SM -DZ SCT005 BKN015 OVC250 23/22 A3000 RMK 8/407 -DZB31 GOSM 030000Z 00000KT CAVOK 31/24 Q1011 GOSP 021800Z 28004KT CAVOK 38/21 Q1009 GOSS 030000Z 32006KT 9999 SCT015 28/27 Q1012 GOTK 021800Z 32004KT 9999 SCT015 SCT230 33/26 Q1010 MMGL 030152Z 12003KT 10SM SCT030 19/15 A3007 RMK 8/500 AC-CI MMGM 030144Z 20010KT 10SM SCT100 32/29 A2966 RMK 8/030 HZY FYKM 021100Z 05005KT CAVOK 27/04 Q1022 MMIA 030149Z 00000KT 5SM SCT010 BKN100 21/20 A2998 RMK 8/750 YERN 030200Z AUTO 36010KT //// // ////// 18/M04 Q1023 GOTT 030000Z 16004KT 110V190 9999 TS SCT016 FEW030CB BKN130 29/26 Q1012 FYKT 021400Z AUTO 04006KT //// // ////// 29/M04 Q1021 MMHO 030143Z 17007KT 10SM BKN100 37/22 A2974 RMK 8/090 HZY PCPN NW NCRG 030200Z 08011KT 9999 SCT021 24/18 Q1015 FYML 021400Z AUTO 01001KT //// // ////// 31/M07 Q1022 YESP 030200Z AUTO 20017KT 9999 // SCT033 16/09 Q1021 MMIO 030140Z 02012KT 10SM SKC 24/17 A3004 RMK CB S/SW YGBI 030200Z AUTO 09007KT //// // ////// 29/10 Q1015 YEST 030200Z 18012KT 9999 FEW032 SCT250 16/08 Q1021 FYLZ 020600Z AUTO 34009KT //// // ////// 08/08 Q1018 MMIT 021845Z 00000KT 7SM OVC010TCU 28/24 A2986 RMK 8/2// ST LWR OVR MT W HZY CB OVR STN FYOA 021400Z AUTO 11006KT //// // ////// 32/M02 Q1016 YGAY 030200Z AUTO 26010KT 210V270 //// // ////// 20/M04 Q1014 YFLI 030200Z AUTO 21014KT 9999 // NCD 13/05 Q1019 MNBL 022300Z 05008KT 7000 VCRA FEW016CB BKN018 29/26 Q1009 CBRA/N/S YGDH 030200Z AUTO 24014KT //// // ////// 16/01 Q1014 FYOO 020600Z AUTO 16002KT //// // ////// ///// Q//// MNCH 022000Z 23006KT 9999 SCT025TCU 33/23 Q1008 TCU/NE/E MMMA 030147Z 09004KT 6SM SCT017 BKN070 27/26 A2985 RMK 8/460 HZ DSNT CB 1 QUAD MMLM 030144Z 25008KT 10SM FEW020 FEW100 BKN220 31/24 A2971 RMK 8/138 CB N NE MMMD 030141Z 08004KT 7SM FEW300 29/22 A2987 RMK 8/008 FYOW 021400Z AUTO 13004KT //// // ////// 29/02 Q1020 MMLO 030143Z 19005KT 8SM SCT030CB BKN080 BKN220 21/16 A3013 RMK 8/363 MMLP 030046Z 35005KT 10SM SCT040TCU BKN200 35/19 A2970 RMK 8/208 ISOL AC YGEL 030200Z 11009KT CAVOK 19/12 Q1019 MMLT 030041Z 05010KT 8SM FEW030 SCT070 SCT090 BKN200 35/25 A2965 RMK 8/226 HZY MMML 030148Z 14004KT 10SM SKC 39/08 A2960 MMMM 030140Z 22008KT 7SM SCT025 BKN230 18/15 A3011 RMK 8/508 CB/NE MMMT 030045Z 00000KT 15SM SCT080 BKN120 31/24 A2975 RMK 8/070 MMNL 030140Z 12012KT 10SM FEW200 32/24 A2985 RMK 8/003 YGFN 030200Z AUTO 26011KT 9999 // NCD 20/01 Q1008 MMMV 021440Z 00000KT 10SM SKC 31/11 A2992 SKBG 030100Z 32003KT 9999 SCT010 SCT070 22/21 A3000 FYRN 021400Z 15017KT CAVOK 28/M02 Q1020 MMMX 030200Z 35005KT 5SM TSRA BKN020CB OVC070 17/13 A3023 NOSIG RMK 8/96/ HZY TSE57 RAB58 OCNL LTGCC OVR STN MMMY 030142Z 08004KT 15SM SCT050 BKN070 BKN120 27/21 A2989 RMK 8/570 CB E/SE SKAR 030100Z 00000KT 9999 SCT025 BKN100 20/18 A3003 MMMZ 030144Z 23007KT 10SM SCT030 BKN090 BKN220 27/24 A2973 RMK 8/463 CB 1QUAD MMPA 030140Z 20008KT 3SM -RA FEW008 OVC020CB 23/23 A2979 RMK 8/9// MMPB 030141Z 17004KT 7SM SCT010 BKN080 BKN230 15/14 A3026 RMK 8/472 HZY SKCC 030100Z 00000KT 9999 FEW020CB SCT200 30/23 A2988 RMK LTNG/NW SKBO 030100Z 07004KT 9999 FEW020 14/08 A3032 SKCG 030100Z 36004KT 9999 -TSRA FEW010CB OVC070 27/23 A2977 RETSRA RMK CB/N MMPG 022240Z 12008KT 10SM SCT040 36/23 A2982 RMK 8/500 SKBQ 030100Z 09004KT 9999 -DZ SCT015 BKN070 27/26 A2981 SKCL 030100Z 00000KT 9000 VCSH SCT020 BKN090 24/19 A2998 RMK VCSH/SW MMPN 022342Z 00000KT 5SM OVC015 18/16 A3010 RMK 8/5// BR HZ MMOX 030145Z 00000KT 7SM BKN020 BKN090 BKN200 18/17 A3013 RMK 8/772 LWR ST N-S MMPQ 022341Z 00000KT 5SM FEW030 BKN150 29/25 A2969 RMK 8/130 CU FRMG S MSGTX MMMD MMPR 030143Z 02004KT 15SM FEW020TCU SCT070 BKN250 28/25 A2972 RMK 8/278 MMPS 022341Z 27025KT 15SM SCT010 BKN100 28/24 A2996 RMK SLP144 57012 963 8/430 K01M 021535Z AUTO 24005KT 10SM BKN019 BKN024 OVC080 28/24 A3010 RMK AO2 T02800238 YHBA 030200Z AUTO 24010KT 9999 // NCD 21/M01 Q1013 SKEJ 022300Z 00000KT 9999 FEW010 SCT200 30/24 A2979 BKPR 030200Z 34007KT 9999 -RA SCT012 BKN040 16/14 Q1007 NOSIG MMQT 030145Z 02002KT 7SM BKN020CB BKN120 OVC250 17/14 A3009 RMK 8/963 RMK CBS ALQUAD FYWB 021400Z 24012KT 9999 OVC014 13/10 Q1018 MMSD 030143Z 14008KT 15SM FEW040 BKN150 OVC250 30/22 A2976 RMK 8/877 BINOVC FYWE 020800Z 02007KT CAVOK 19/M02 Q1028 MNJG 022300Z 00000KT 8000 BKN018 22/22 Q1011 BR YGLA 030200Z AUTO 26009KT 9999 // NCD 22/M03 Q1015 YGLB 030200Z AUTO 16017KT //// // BKN046 OVC053 11/02 Q1015 FYWH 021400Z 16005KT CAVOK 26/M11 Q1023 NOSIG TAPA 030100Z 08011KT 9999 FEW020 28/24 Q1015 NOSIG GQNI 021500Z 22008KT 8000 NSC 36/20 1011 MMTB 021845Z 24004KT 7SM SCT020 OVC070 28/21 A2990 RMK 8/47/ MMSL 030140Z 00000KT 10SM SCT040 BKN140 OVC250 30/25 A2980 RMK 8/837 MMTC 030145Z 02007KT 10SM SCT035 BKN200 32/11 A2988 RMK 8/402 YHAY 030200Z AUTO 20010KT //// // ////// 15/02 Q1021 MMRX 030157Z RTD 10005KT 8SM BKN020 BKN120 27/22 A2986 RMK 8/560 HZY FU GQNN 030200Z 36011KT 8000 NSC 29/19 Q1009 NOSIG YGLI 030200Z AUTO 24017KT //// // ////// 10/M00 Q1012 MMSP 030141Z 06007KT 12SM SCT025CB SCT230 23/09 A3006 RMK 8/903 LTG NE SC MMTG 030146Z 21004KT 12SM SCT090 OVC300 26/21 A2989 RMK 8/057 MMTJ 030149Z 29010KT 7SM SKC 21/16 A2981 GQPA 021800Z 36010KT 9999 NSC 41/20 Q1012 MNJU 022300Z 09004KT 9999 BKN020CB 27/23 Q1011 CB/4/C MMTM 030141Z 01002KT 5SM SCT010TCU BKN015 BKN200 26/24 A2972 RMK 8/208 INTMNT -RA YFTZ 030200Z AUTO 02007KT //// // ////// 32/M02 Q1016 MMTO 030142Z 00000KT 3SM -RA SCT008 OVC015CB 12/09 A3030 RMK 60425 8/9// FYWW 021400Z 28002KT CAVOK 27/M08 Q1023 MMTP 030140Z 00000KT 10SM BKN150 28/26 A2986 RMK 8/050 YGLS 030200Z 36017KT CAVOK 25/M00 Q1021 SKIB 030100Z 00000KT 9999 FEW020 BKN080 24/18 A3004 MMVA 030144Z 00000KT 7SM SCT025 BKN080 29/22 A2982 RMK 8/160 MSGTX MMMD K04V 030155Z AUTO 04014G20KT 10SM -RA SCT050 SCT070 BKN080 22/04 A3021 RMK AO2 MMUN 030142Z 06003KT 7SM FEW015 28/25 A2992 RMK 8/500 CI K06D 030155Z AUTO 31006KT 10SM CLR 13/12 A2975 RMK AO2 K04W 030200Z AUTO 00000KT 10SM CLR 16/13 A2984 RMK AO2 MNMG 030200Z 00000KT 9999 FEW020CB SCT021 25/23 Q1009 A2982 CB NE W NW FL GQPP 030100Z 33015KT 8000 NSC 21/19 Q1014 NOSIG SKIP 022300Z 09008KT 9999 FEW018 12/08 A3040 GQPZ 021800Z 02014KT CAVOK 38/07 Q1011 MMVR 030145Z 00000KT 7SM BKN100 OVC250 26/24 A2979 RMK 8/037 HZY K08D 030155Z AUTO 03004KT 10SM CLR 14/11 A2976 RMK AO2 LWOH 021630Z 02008KT 9999 BKN040 18/13 Q1006 SLCA 022300Z 00000KT 9999 NSC 29/15 Q1008 SLCB 030100Z 35017KT 9999 FEW027 FEW030CB BKN070 19/01 Q1024 SKLC 022300Z 15004KT 9999 FEW015 OVC200 27/24 A2978 LXGB 030050Z AUTO 29019KT 9999 // NCD 22/18 Q1013 MNPC 022300Z 08012KT 6000 VCRA BKN016TCU SCT300 29/26 Q1009 TCURA/NW/N/NE/E/SW NFFN 030200Z 28013KT 9999 FEW030 SCT120 28/20 Q1012 NOSIG YHID 030200Z AUTO 09011KT 9999 // NCD 29/20 Q1013 SKMD 022300Z 01007KT 330V080 9999 SCT035 OVC200 25/14 A2999 MMZC 030144Z 18010KT 10SM BKN060 BKN300 22/06 A3014 RMK 8/409 SLCO 022200Z 00000KT 9999 FEW035 BKN200 31/23 Q1008 SLCP 022200Z 36004KT 5000 FU NSC 31/20 Q1011 MMZH 030145Z 36005KT 7SM SCT100 BKN250 26/23 A2987 RMK 8/032 SKLT 030100Z 00000KT CAVOK 27/25 A2980 MMZO 030140Z 09018KT 4SM -RA BKN010 OVC060 25/24 A2978 RMK 8/87/ SKMR 030100Z 00000KT 9999 SCT020 27/24 A2978 K11R 030155Z AUTO 14008KT 10SM CLR 30/22 A2995 RMK AO2 T03010216 YGTE 030200Z AUTO 12011KT 9999 // NCD 28/12 Q1016 K12N 030154Z AUTO 22007KT 26/21 A2983 RMK AO1 SLP090 T02610206 YGTH 030200Z AUTO 17009KT 9999 // SCT037 14/03 Q1019 YHLC 030130Z 07007KT CAVOK 27/M01 Q1020 MNRS 022300Z 12006KT 7000 -TSRA FEW018CB BKN018 25/23 Q1010 CB/E/SE/S SLET 022300Z 32014G24KT 9000 FEW015 BKN200 30/20 Q1006 TBPB 030200Z 07015KT 9999 FEW022 SCT300 27/24 Q1014 NOSIG SKPC 022200Z 00000KT 9999 FEW020 SCT090 28/24 A2972 LWSK 030100Z 00000KT 5000 BR FEW010 OVC050 17/17 Q1007 NOSIG YGTN 030200Z AUTO 15005KT //// // ////// 28/M02 Q1015 SKNV 030100Z 17009KT 9999 NSC 27/19 A2987 SKPE 030100Z 12004KT 9999 FEW016 SCT070 20/17 A3007 LYBE 030130Z 26008KT 9999 SCT004 17/16 Q1009 NOSIG MPBO 030200Z VRB02KT 9999 SCT018CB BKN090 Q1012 SKPS 022300Z 03004KT 9999 BKN028 20/16 A3009 YHML 030200Z AUTO 16005KT 9999 // OVC035 10/05 Q1022 MPDA 030200Z 00000KT 9000 -TSRA FEW006 SCT015CB OVC050 ///// Q1010 RWY WET LYBT 030130Z 26006KT 9999 FEW004 17/16 Q1009 TEMPO TSRA SCT030CB SKPV 030000Z VRB02KT 9999 SCT017 SCT200 29/26 A//// SKRG 030100Z 00000KT 9999 FEW017 BKN080 17/14 A3027 SKRH 030000Z 08004KT 9999 SCT020CB BKN200 30/25 A2979 RMKCB/SW K14Y 030159Z AUTO 18006KT 10SM CLR 18/13 A2984 RMK AO2 NFNA 030100Z 06010KT 9999 BKN022 28/21 Q1013 K0A9 030155Z AUTO 24006KT 6SM -RA FEW019 BKN043 OVC050 21/18 A3011 RMK SLJE 022200Z 00000KT 7000 NSC 33/21 Q1009 SKSM 030100Z 14004KT 9999 FEW020 BKN200 27/24 A2977 YHOO 030200Z AUTO 10008KT //// // ////// 26/04 Q1020 SLJO 022200Z 32004KT 8000 FEW017 33/22 Q1008 SKSP 030100Z 07006KT 9999 FEW018 BKN200 29/26 A2980 YHOT 030200Z AUTO 18008KT 9999 // ////// 02/M01 Q1018 SKUC 030100Z 00000KT 9999 SCT017 26/25 A2986 K19A 030155Z AUTO 00000KT 10SM CLR 26/17 A3003 RMK AO2 LTG DSNT E TDCF 030000Z 18003KT 9999 FEW017 29/20 Q1012 SKUI 030000Z 00000KT 9999 FEW020 OVC080 25/24 A2983 NGFU 030200Z 08005KT 9999 FEW020 31/25 Q1008 K0E0 030155Z AUTO 21005KT 10SM SCT120 25/02 A3012 RMK AO2 T02480020 K21D 030151Z AUTO 00000KT 10SM CLR 17/14 A2988 RMK AO2 SLMG 022300Z 00000KT 8000 NSC 31/22 Q1008 SLLP 030100Z 08006KT 9999 FEW015 FEW017CB SCT200 06/M03 Q1036 YJAB 030200Z AUTO 11013KT //// // ////// 33/03 Q1015 K20U 030155Z AUTO 11004KT 7SM 13/08 A2979 RMK AO2 K20V 030156Z AUTO 24006KT 10SM CLR 21/M05 A3016 RMK AO2 K0F2 030155Z AUTO 13003KT 10SM CLR 28/21 A2990 RMK AO2 T02830205 SKVP 030100Z 25004KT 9999 FEW020 SCT080 28/24 A2985 K0CO 030155Z AUTO 30014G18KT 10SM CLR 07/07 A3057 RMK AO2 YHSM 030200Z AUTO 07005KT 030V110 //// // SCT036 13/04 Q1023 SKVV 022300Z 00000KT 9999 FEW020 BKN090 24/22 A2989 HKEL 030000Z 36003KT 9999 FEW016CB SCT017 BKN080 13/13 Q1024 HKEM 021900Z 00000KT 9999 OVC019 19/13 YHUG 030200Z AUTO 12007KT 070V160 //// // ////// 22/M03 Q1018 NFTF 030200Z 00000KT 9999 FEW016 SCT120 25/20 Q1015 SLOR 022300Z 36013KT 9999 FEW017 FEW020CB BKN200 11/01 Q1033 HKGA 022000Z 17008KT SKC 25/19 Q1012 K24J 030155Z AUTO 00000KT 10SM CLR 24/24 A3007 RMK AO1 LTG DSNT W P0001 NFTL 030200Z 08006KT 9999 FEW020 25/21 Q1014 SLPO 022100Z 05010KT 9999 NSC 16/M06 Q1033 SLPS 022300Z 00000KT 9000 NSC 30/25 Q1006 SLRB 022300Z 36004KT 9999 NSC 31/23 Q1009 NFTV 030200Z 14006KT 9999 SCT017 BKN130 25/22 Q1014 LYKV 030130Z VRB01KT 2000 -RA BR BKN010 BKN030 18/18 Q1009 NOSIG MPMG 030200Z 00000KT 9999 FEW018 SCT090 26/24 Q1010 NOSIG K0J4 030158Z AUTO 00000KT 10SM CLR 26/23 A3006 RMK AO2 SLP174 T02610228 SLRI 022300Z 00000KT 8000 FEW017 FEW020CB BKN200 31/23 Q1008 K1A5 030155Z AUTO 00000KT 7SM 20/20 A3012 RMK AO2 T02000200 SLSA 022300Z 32004KT 9999 FEW025 FEW027CB 30/23 Q1007 K1A6 030155Z AUTO 00000KT 10SM -RA OVC070 21/20 A3009 RMK AO2 LTG DSNT E AND SE P0001 T02060200 K1A9 030155Z AUTO 00000KT 10SM SCT065 27/21 A3000 RMK AO2 T02690213 SLRQ 022200Z 36012KT 9999 NSC 33/25 Q1006 SLSI 022300Z 00000KT 9999 NSC 30/22 Q1009 LYNI 030130Z 36005KT 290V050 5000 SCT007 BKN030 18/17 Q1007 K1B7 022130Z 11003KT 10SM SCT065 29/25 A2999 RMK LAST SLRY 022200Z 32012KT 9999 NSC 33/20 Q1008 SMJP 030200Z 06004KT CAVOK 26/24 Q1013 NOSIG SLTJ 030100Z 15004KT 9999 BKN033 20/10 Q1018 MPPA 030200Z VRB02KT 9999 FEW020 Q1010 SLSU 022300Z 05011KT 9999 NSC 20/M04 Q1025 K28J 030155Z AUTO 14005KT 10SM OVC014 27/24 A3003 RMK AO2 HKJK 030100Z 03003KT 9999 BKN017 17/14 Q1020 NOSIG LYPG 030130Z 01003KT 9999 SCT040 BKN090 21/16 Q1004 NOSIG HKKG 022200Z 00000KT 9999 FEW017CB SCT080 17/16 SLTR 030000Z 30003KT 5000 FU FEW025 31/22 Q1008 HKKI 022300Z 00000KT 9999 FEW018 BKN080 19/18 Q1018 ZBAA 030130Z 35003MPS 310V010 CAVOK 24/15 Q1012 NOSIG HKKR 021900Z 00000KT 9999 FEW019 SCT080 13/13 HKMA 022200Z 16007KT CAVOK 29/18 HKKS 030100Z 00000KT 9999 FEW019 BKN080 15/14 LZIB 030200Z 30009KT 8000 FEW010 SCT052 16/14 Q1016 SLVM 022100Z 17004KT 5000 FU NSC 37/17 Q1002 HKKT 030100Z 00000KT 9999 -RA FEW015 BKN080 14/14 K1F0 030155Z AUTO 13003KT 10SM CLR 28/20 A2990 RMK AO2 HKME 022200Z 00000KT 9999 OVC015 17/14 HKLO 022200Z 09004KT 9999 RA FEW021CB BKN022 OVC080 23/22 SLVR 030100Z 34011KT 7000 SCT070 BKN200 28/21 Q1009 HKLU 021300Z 20009KT 9999 SCT024 29/22 HKML 022300Z 17010KT 9999 FEW020 25/22 Q1013 HKNC 030100Z 00000KT 9999 BKN016 15/13 Q1021 HKMO 030100Z 21008KT 9999 SCT019 22/21 Q1013 NOSIG GUCY 030000Z 32006KT 1000 TSRA BKN013 FEW020CB OVC100 26/25 Q1013 CB/N-S-W NOSIG SLYA 022300Z 00000KT 6000 NSC 27/18 Q1006 YJLC 030200Z AUTO 13013KT //// // ////// 24/M04 Q1019 HKNI 022200Z 16003KT 9999 FEW017 BKN080 16/15 TDPD 030200Z 10010KT 9999 SCT016 28/24 Q1016 HKNK 030000Z 00000KT 9999 FEW017 BKN080 15/14 HKMU 021600Z 12008KT 9999 FEW024 SCT080 23/15 K1H2 030155Z AUTO 00000KT 4SM BR CLR 21/19 A3000 RMK AO2 T02050189 CERM 030100Z AUTO 16003KT 21/20 RMK AO1 6PAST HR 8002 SLP061 P0002 T02110198 50006 HKNO 021900Z 05003KT 9999 BKN018 16/14 HKMY 030000Z 18012KT CAVOK 21/15 K0R0 030155Z AUTO 18008KT 1 3/4SM VCTS RA BKN004 OVC009 23/22 A3011 RMK AO2 LTG DSNT ALQDS P0041 K33V 030155Z AUTO 21005KT 10SM CLR 15/01 A3019 RMK AO2 HKNW 030000Z 00000KT 9999 BKN017 16/13 Q1019 MPTO 030200Z 04005KT 9999 FEW020 SCT100 26/23 Q1010 NOSIG NGTT 030200Z 12010KT 9999 SCT020 23/24 Q1008 K1J0 030158Z AUTO 00000KT 10SM CLR 27/24 A3003 RMK AO2 RAEMM SLP128 T02670239 PWINO PNO $ YIVO 030200Z AUTO 18008KT //// // ////// 14/01 Q1021 LYTV 030130Z VRB01KT 9999 SCT040 19/18 Q1004 LZKZ 030200Z 36014KT CAVOK 19/14 Q1015 LYUZ 021700Z 01004KT 270V050 3000 -RA BR SCT003 BKN015 15/15 Q1011 LYVR 030130Z VRB02KT 9999 BKN033 20/18 Q1008 RESHRA NOSIG K1II 030155Z AUTO 00000KT M1/4SM FG VV000 20/19 A2999 RMK AO2 K1L0 030155Z AUTO 36003KT 10SM TS SCT039 BKN090 OVC110 28/22 A3004 RMK AO2 LTG DSNT W THRU NE T02770218 GVAC 030200Z 03009KT 9999 BKN015 25/21 Q1015 NOSIG K36U 030155Z AUTO 00000KT 10SM CLR 23/03 A2994 RMK AO2 SOCA 030200Z AUTO 11004KT 9999 NCD 26/23 Q1013 GVBA 021900Z 04011KT 9999 SCT015 SCT200 27/21 Q1014 NOSIG K2C8 030155Z AUTO 00000KT 10SM CLR 14/14 A2969 RMK AO2 K40B 030116Z AUTO 00000KT 20/20 A2973 RMK AO1 SLP055 T02000195 58003 ZBHH 030100Z 19001MPS CAVOK 16/08 Q1019 NOSIG K1M4 030156Z AUTO 31005KT 10SM CLR 24/23 A3006 RMK AO2 T02380227 PRESRR SLP189 K0V4 030155Z AUTO 10SM CLR 27/24 A2997 RMK AO1 T02710242 K2D5 030155Z AUTO 15007KT 10SM 16/15 A2975 RMK AO2 K40J 030155Z AUTO 09003KT 10SM CLR 23/22 A3006 RMK AO2 LTG DSNT W THRU N YKII 030200Z AUTO 23007KT 9999 // OVC046 12/06 Q1022 LZPP 030200Z AUTO 36006KT 6000 BKN200/// 14/13 Q1015 K0VG 030155Z AUTO 00000KT 9SM VCTS -RA 20/20 A3012 RMK AO2 LTG DSNT NE AND E P0002 YLBD 030200Z AUTO 25004KT 220V290 9999 // NCD 32/03 Q1016 K42J 030155Z AUTO RMK AO1 TSNO MSAC 022050Z 22004KT 9999 FEW037 33/26 Q1009 A2981 K1P1 030155Z AUTO 00000KT 4SM BR CLR 20/20 A2973 RMK AO2 T02000200 TFFF 030200Z AUTO 05006KT 9999 FEW025 27/24 Q1014 HKVO 022300Z 18024KT 9999 BKN017 21/18 K2G4 030150Z AUTO 22006KT 10SM SCT023 SCT031 18/ A3006 RMK AO1 K2DP 030156Z AUTO M 12SM CLR 26/23 A3002 RMK AO2 SLPNO T02580232 $ HKWJ 022300Z 17012KT SKC 26/18 Q1011 LZSL 030200Z VRB02KT CAVOK 15/13 Q1015 TFFR 030200Z AUTO 08003KT 010V110 9999 FEW023 SCT054 27/23 Q1015 MRLB 030200Z 14005KT 9999 -RA FEW030 OVC120 26 23 A2984 K2I0 030155Z AUTO 01003KT 10SM CLR 24/23 A2998 RMK AO2 T02440225 YLEC 030200Z AUTO 36008KT //// // ////// 15/01 Q1023 K1R7 030155Z AUTO 10003KT 4SM -RA FEW002 23/23 A3009 RMK AO2 LTG DSNT NE-S P0002 LZTT 030200Z 06004KT 9999 FEW033 14/12 Q1019 MRLM 030000Z 00000KT 9999 FEW010 BKN240 26/24 A2982 SMZO 030000Z 09006KT 9999 FEW030 26/24 Q1012 NOSIG K46D 030155Z AUTO 25005KT 10SM CLR 18/12 A2975 RMK AO2 K2J9 030135Z AUTO 09010G15KT 10SM SCT043 BKN100 27/23 A3007 RMK AO1 YLEO 030200Z AUTO 19005KT 170V240 9999 // NCD 25/05 Q1019 YKNT 030200Z AUTO 03009KT //// // ////// 25/04 Q1022 MROC 030200Z 21003KT 9999 BCFG FEW001 SCT020 BKN110 20/20 A2999 TEMPO 2000 BR YKOW 030200Z AUTO 17007KT 130V210 //// // NCD 30/03 Q1013 YLHI 030200Z 32011G25KT 9999 SCT039 FEW039TCU 18/08 Q0997 K1V4 030154Z AUTO 24/21 A2972 RMK AO1 SLP051 T02390206 K1V6 030150Z AUTO 05009KT 10SM CLR 27/08 A2999 RMK AO2 SPCL 030100Z 04006KT 9999 FEW020 SCT100 27/23 Q1010 RMK PP000 YLHR 030200Z AUTO 14010KT //// // NCD 28/16 Q1013 LZZI 030200Z VRB02KT CAVOK 15/14 Q1017 YKSC 030200Z AUTO 01012KT 9999 // SCT023 12/07 Q1023 MRPV 030000Z 12003KT 9999 FEW030 BKN090 21/18 A2999 NOSIG YMBA 030200Z AUTO 12006KT //// // ////// 27/05 Q1015 YLIS 030200Z AUTO 26016G26KT 9999 // NCD 20/03 Q1008 ZBSJ 030100Z 32003MPS 8000 NSC 24/20 Q1013 NOSIG OAHR 030155Z 29002KT 8000 NSC 21/M00 Q1014 RMK SKC VIS MIN 8000 BLU YMBD 030200Z AUTO 02009KT //// // ////// 13/05 Q1023 YKRY 030200Z AUTO 24016KT //// // ////// 16/M01 Q1014 ZBTJ 030130Z 02004MPS CAVOK 23/10 Q1011 NOSIG OAKB 030050Z 00000KT CAVOK 17/09 Q1018 NOSIG RMK BLU BLU YMAV 030200Z AUTO 19007KT 9999 // OVC050 13/03 Q1022 YLLE 030200Z AUTO 15006KT //// // ////// 18/01 Q1022 YMAY 030200Z AUTO 23003KT 9999 // NCD 12/02 Q1019 GVNP 030200Z 01005KT 9999 SCT020 25/23 Q1015 NOSIG OBBI 030100Z 08004KT 6000 NSC 32/26 Q1001 NOSIG K54J 030155Z AUTO 00000KT 10SM CLR 26/24 A3005 RMK AO2 T02560238 SPGM 022100Z 33006KT 250V030 9999 FEW040TCU 32/18 Q1011 RMK TX YMCO 030200Z AUTO 21015KT //// // ////// 11/08 Q1017 NIUE 030200Z 06007KT 9999 FEW018 BKN030 BKN100 26/19 Q1014 RMKS YMDG 030200Z AUTO 21015KT //// // NCD 13/00 Q1015 OAKN 030155Z 07007KT 9999 FEW160 25/05 Q1008 RMK A2977 DA5497 BLU K3I2 030155Z AUTO 00000KT 10SM SCT050 23/22 A2999 RMK AO2 MTBO 030200Z AUTO 21011KT 190V250 9999 // NCD 08/M01 Q//// SPHI 030200Z 17012KT CAVOK 18/16 Q1014 RMK PP000 SPHO 022300Z /////KT 9999 SCT050 21/10 Q1020 RMK PPOOO MSLP 030150Z 33004KT 9999 SCT023 27/26 Q1010 A2983 YMEK 030200Z 09007KT CAVOK 23/01 Q1020 K4A6 030155Z AUTO 00000KT 10SM SCT050 27/23 A3001 RMK AO2 LTG DSNT NE AND SE K3J7 030155Z AUTO 15004KT 10SM TSRA SCT055 SCT065 SCT080 22/21 A3004 RMK AO2 LTG DSNT N AND NE MSLU 022250Z 00000KT 9999 FEW033 34/22 Q1006 A2971 YMEN 030200Z AUTO 18011KT 9999 // OVC048 12/05 Q1021 K1YT 030156Z AUTO 28016G31KT 10SM SCT110 20/07 A2973 RMK AO2 PK WND 29030/48 LTG DSNT NW SLPNO T02020069 SPIM 030200Z 16008KT 9999 OVC018 17/14 Q1015 NOSIG RMK PP000 K4A9 030155Z AUTO 12007KT 10SM SCT038 BKN065 SCT100 25/20 A3002 RMK AO2 LTG DSNT E AND SE SPHY 021900Z 36011KT 9999 SCT040 15/02 Q1034 RMK PP000 YMER 030200Z AUTO 22013KT 9999 // SCT034 SCT047 BKN056 13/08 Q1016 YMES 030200Z 23007KT 9999 FEW028 SCT050 12/06 Q1021 SPJI 022100Z /////KT CAVOK 35/22 Q1016 RMK T.MAX 35.5 PP000 YMGB 030200Z AUTO 14009KT //// // ////// 31/12 Q1015 OAMS 030150Z 27011KT 9999 SKC 26/03 Q1012 BLU+BLU+ YMGD 030200Z AUTO 14013KT 9999 // NCD 30/08 Q1014 SPJL 030200Z 24009KT 8000 -RA FEW010 OVC070 04/02 Q1039 RMK PP022 SPJR 022300Z 19006KT 9999 FEW030 18/08 Q1025 RMK PP000 YMHB 030130Z 22006KT 200V260 9999 FEW037 BKN042 13/03 Q1020 ZBYN 030130Z 33003MPS 280V360 CAVOK 20/06 Q1017 NOSIG YMIA 030130Z 10005KT 9999 FEW033 BKN210 13/02 Q1023 K2V5 030155Z AUTO 16010KT 10SM 25/12 A2990 RMK AO2 T02510116 YLRE 030200Z 17011KT CAVOK 19/M04 Q1020 SPME 030200Z 3003KT 9999 OVC023 21/19 Q1013 RMK BIRD HAZARD RWY 32/14 PP000 SPLO 022100Z 33003KT 6000 OVC020 16/12 Q1013 RMK TMAX 16.6 PP000 GVSV 030200Z 05012KT 9999 SCT018 25/22 Q1016 NOSIG K3LF 030155Z 10SM CLR 20/19 A2999 RMK AO2 T01950190 K2W6 030150Z AUTO 22003KT 10SM OVC100 28/20 A2992 RMK AO1 YMHU 030200Z AUTO 19010KT 9999 // NCD 29/M01 Q1017 K3N8 030155Z AUTO 19007KT 10SM SCT090 17/13 A2975 RMK AO2 T01730134 YMIN 030200Z AUTO 03009KT //// // ////// 12/08 Q1022 SPMS 022300Z 00000KT 9999 FEW015 28/23 Q1009 HZTE BRUMOSO RMK BIRD HAZARD 09/27 PP000 MSSA 030050Z 27004KT 9999 FEW033 FEW037CB 26/22 Q1015 A2999 YNAR 030200Z AUTO 20009KT 190V250 //// // ////// 14/01 Q1019 YLST 030200Z AUTO 17007KT 9999 // NCD 25/03 Q1019 YLTN 030200Z AUTO 20005KT //// // ////// 26/04 Q1019 MSSM 030050Z 21005KT 9999 SCT035 SCT037CB 27/23 Q1006 A2972 DAAD 021800Z 34016KT 9999 FEW033 34/13 Q1011 YNBR 030200Z AUTO 19012KT //// // ////// 17/M02 Q1015 DAAE 030100Z 21004KT 9999 FEW016 21/19 Q1012 YMMB 030200Z AUTO 22008KT 9999 // BKN034 BKN041 OVC051 12/06 Q1021 DAAG 030130Z 00000KT CAVOK 21/17 Q1012 MSSS 030150Z 28004KT 9999 SCT030 SCT040CB 26/24 Q1013 A2994 YLTV 030200Z AUTO 27006KT 9999 // SCT041 13/06 Q1020 DAAJ 030000Z 33010KT 8000 NSC 30/08 Q1015 DABB 030130Z 20002KT 9999 FEW030 21/20 Q1011 DABC 030130Z 00000KT CAVOK 17/09 Q1016 MUCF 021952Z 20004KT 160V250 9999 FEW020CB FEW020 BKN200 31/24 Q1014 K4I3 030156Z AUTO 29003KT 10SM CLR 19/18 A2999 RMK AO2 K2WX 030156Z AUTO 06010KT 18/09 A2973 RMK AO1 SLP060 T01830089 DAAP 030000Z 00000KT CAVOK 30/M01 Q1012 YMLT 030200Z AUTO 19005KT 130V230 9999 // NCD 12/03 Q1020 YMML 030200Z 18011KT 9999 SCT040 BKN048 12/04 Q1021 K4I7 030155Z AUTO 00000KT 3SM BR CLR 19/19 A2999 RMK AO2 K3R7 030155Z AUTO 13006KT 10SM CLR 25/23 A3000 RMK AO2 LTG DSNT E T02500228 YMNE 030100Z AUTO 18009KT 9999 // NCD 22/05 Q1020 MUCL 030105Z AUTO 09006KT 27/XX Q1014 DAAS 030100Z 04002KT CAVOK 17/09 Q1018 DAAT 030130Z 36004KT 8000 FEW040CB SCT050 23/11 Q1019 MUCM 030150Z 34005KT 9000 SCT020 24/21 Q1015 YMNG 030200Z AUTO 20009KT 9999 // NCD 13/04 Q1020 DAAV 030100Z 00000KT CAVOK 23/20 Q1012 TGPY 030200Z 09012KT 9999 SCT018 28/25 Q1013 DAAY 021800Z 00000KT CAVOK 34/08 Q1021 AZUH 030050Z 00000KT CAVOK 20/11 Q1013 SPQT 030200Z 02008KT 8000 VCSH BKN010 OVC080 25/24 Q1012 TEMPO SHRA RMK PP000 K65S 030155Z AUTO 35009KT 10SM OVC100 17/10 A2967 RMK AO2 SPQU 030200Z 25004KT 9999 SCT070 SCT100 15/01 Q1026 RMK PP000 YNEN 030200Z AUTO 10010KT 9999 // NCD 27/18 Q1016 DABS 030130Z 00000KT CAVOK 18/15 Q1017 MUCU 030150Z 01006KT 9000 SCT020 24/19 Q1014 DABT 030100Z 00000KT CAVOK 16/08 Q1017 YMOG 030200Z AUTO 09006KT //// // ////// 21/07 Q1020 K3T5 030155Z AUTO 16013G19KT 10SM CLR 30/24 A2992 RMK AO2 T03020237 K66R 030155Z AUTO 14009G14KT 10SM CLR 28/23 A2996 RMK AO2 T02830229 SPRU 030200Z 14007KT 7000 FEW040 18/15 Q1014 RMK BR PP000 K5C1 030155Z AUTO 14010G20KT 10SM CLR 28/18 A2996 RMK AO1 SPSO 030200Z 21008KT 9999 FEW013 OVC020 18/15 Q1015 RMK BR PP000 YMOR 030200Z 21015KT CAVOK 16/M03 Q1016 DAEF 021600Z 32016KT 9999 SCT040 40/00 Q1010 SPST 030200Z 00000KT 9999 FEW030 26/21 Q1010 RMK BIRD HAZARD RWY 17/35 PP000 SPTN 030200Z 19003KT 1200 -DZ BR OVC003 12/12 Q1015 RMK PP003 DAEN 021700Z 32014KT CAVOK 40/09 Q1008 YMRB 030200Z AUTO 17009KT 9999 // NCD 21/M01 Q1018 YNHL 030200Z AUTO 13006KT //// // ////// 12/03 Q1023 DAFH 021800Z /////KT CAVOK 34/11 Q1015 MUHA 030155Z 09004KT 9000 SKC 24/20 Q1016 SPTU 030200Z 00000KT 9999 FEW015 26/24 Q1008 RMK BIRD HAZARD RWY 01/19 VCCB PP000 K4M9 030155Z AUTO 10SM 23/22 A2999 RMK AO2 MUGM 030156Z 35008KT 9999 FEW040 SCT280 26/21 A2998 RMK SLP150 T02560211 MUHG 030151Z 10005KT 9999 FEW020 OVC090 22/22 Q1014 SPUR 021219Z 15004KT 9999 BKN012 SCT015 17/15 Q1015 RMK BIRD HAZARD RWY 19/01 PP00 K4O4 030155Z AUTO 14006KT 10SM CLR 26/20 A2997 RMK AO2 YMRY 030200Z AUTO 21019KT 9999 // SCT048 BKN059 BKN071 15/05 Q1015 YMTG 030200Z 03005KT 9999 BKN045 12/03 Q1023 YMTI 030200Z AUTO 15013KT //// // ////// 24/06 Q1017 K4MR 030156Z AUTO 11004KT 10SM BKN120 29/08 A2998 RMK AO2 SLP088 T02860076 K5H4 030155Z AUTO 24003KT 10SM CLR 17/10 A2974 RMK AO2 SPZA 022130Z 24005KT 180V300 9000 NSC 23/13 Q1013 SPYL 022100Z 24009KT CAVOK 23/19 Q1009 RMK TMAX 25.6 PP000 DBBB 030100Z 23006KT 9999 SCT012 24/24 Q1013 NOSIG K6A2 030155Z AUTO 12012G18KT 090V150 10SM TS SCT025 SCT036 BKN050 25/21 A3007 RMK AO2 LTG DSNT E THRU SW SPZO 030200Z 27002KT 9999 FEW040 08/01 Q1031 RMK PP000 UAAA 030130Z 22001MPS 9999 SCT050CB BKN100 18/10 Q1014 R88/CLRD65 NOSIG K6B0 030155Z AUTO 02006KT 2 1/2SM RA SCT005 BKN010 OVC013 21/21 A2976 RMK AO2 LTG DSNT SE P0066 T02090209 UAAH 021100Z 03011MPS 9999 FEW040 28/05 Q1011 R05/0///60 NOSIG RMK QFE721/0961 YMYB 030200Z AUTO 23014KT 9999 // NCD 21/M02 Q1013 UACC 030130Z 25001MPS CAVOK 05/00 Q1024 R04/0/0070 NOSIG RMK QFE736/0982 DAOB 030100Z 00000KT CAVOK 20/09 Q1019 TJBQ 030150Z 15003KT 10SM SCT040 26/23 A3003 RMK RWY08 ATIS Q DAOF 030100Z 32012KT 9000 NSC 31/08 Q1011 YNRC 030200Z AUTO 01004KT //// // ////// 13/05 Q1023 UACK 030130Z 22001MPS CAVOK 03/01 Q1024 R20/010070 NOSIG RMK QFE744/0993 DAOI 030100Z 00000KT CAVOK 28/11 Q1010 K79J 030156Z AUTO 30005KT 10SM CLR 29/23 A3003 RMK AO2 SLP165 T02940233 UADD 030130Z 21001MPS 9999 NSC 12/01 Q1015 NOSIG RMK QFE704/0939 K5M9 030155Z AUTO 00000KT 10SM CLR 23/21 A2999 RMK AO2 T02290206 UACP 030130Z 24003MPS CAVOK 04/03 Q1023 NOSIG RMK QFE755/1007 DAON 030130Z 00000KT CAVOK 23/20 Q1013 DAOO 030130Z 27005KT CAVOK 24/21 Q1012 YPAD 030200Z 02007KT 9999 FEW030 BKN240 14/03 Q1023 DAOR 030100Z 02008KT CAVOK 30/13 Q1019 YPAG 030200Z AUTO 35009KT //// // NCD 15/06 Q1023 DAOV 030100Z 00000KT CAVOK 25/12 Q1015 YNSM 030200Z AUTO 18012KT //// // ////// 16/11 Q1020 OEAB 030100Z 33008KT CAVOK 21/05 Q1019 NOSIG MUSC 022236Z 15007KT 120V180 7000 VCTS SCT020CB BKN100 23/20 Q 1015 RMK CB AT II III AND IV QUAD OEAH 030100Z 34004KT CAVOK 29/23 Q1002 NOSIG OEBA 030100Z 32012KT CAVOK 23/13 Q1015 NOSIG YPCC 030200Z 09006KT 9999 -SHRA FEW013 BKN022 BKN088 27/24 YOLD 030200Z AUTO 34011KT 9999 // NCD 18/01 Q1023 YNTN 030200Z AUTO 16013KT //// // ////// 27/M03 Q1015 YPBO 030200Z AUTO 29002KT 9999 // NCD 28/M05 Q1019 K82V 030155Z AUTO 00000KT 10SM CLR 21/06 A2996 RMK AO2 OEAO 022100Z 34004KT CAVOK 34/02 Q1009 OEBH 030100Z 26003KT CAVOK 26/14 Q1011 NOSIG MWCB 030000Z 11004KT 9999 TS FEW014CB 29/25 Q1013 YPEA 030200Z 12007KT 9999 FEW025 BKN220 17/12 Q1022 YPED 030200Z AUTO 03012KT 9999 // NCD 13/06 Q1023 K5R8 030155Z AUTO 12004KT 10SM CLR 25/23 A2999 RMK AO2 T02510230 YOLW 030200Z AUTO 07005KT //// // ////// 29/04 Q1017 DAUA 030100Z 09008KT 9000 NSC 33/M01 Q1011 YPDN 030200Z 20008KT CAVOK 29/15 Q1016 DAUB 030100Z 00000KT CAVOK 29/07 Q1009 TJIG 022246Z 13010KT 10SM SCT035 BKN140 29/23 A2998 RMK RY09 IN USE ATIS M DATM 021800Z 01004KT 3000 HZ SCT046 SCT100 39/12 Q1009 OEDF 030200Z 00000KT 6000 SKC 28/23 Q1001 NOSIG DAUE 030100Z 00000KT CAVOK 30/10 Q1014 UAII 030130Z 00000MPS CAVOK 15/M00 Q1013 R28/0///70 NOSIG RMK QFE723/0964 MWCR 030152Z 11004KT CAVOK 28/26 Q1014 NOSIG DAUG 030100Z 00000KT CAVOK 27/03 Q1014 DAUH 030100Z 00000KT CAVOK 26/11 Q1012 YOOD 030200Z AUTO 01010KT //// // ////// 18/01 Q1023 DAUI 030000Z 03010KT CAVOK 34/06 Q1012 YNWN 030200Z AUTO 22004KT //// // NCD 27/M07 Q1019 OEDM 021800Z 02013KT CAVOK 33/M07 Q1009 DAUK 030100Z 00000KT CAVOK 26/12 Q1011 DAUL 030000Z 00000KT CAVOK 24/15 Q1017 DAUO 030100Z /////KT CAVOK 27/13 Q1010 OEDR 030200Z 00000KT CAVOK 30/26 Q1000 NOSIG MUVR 030150Z 11005KT 8000 FEW025 25/22 Q1016 UBBB 030200Z 31012KT CAVOK 26/23 Q1011 88CLRD70 NOSIG YOOM 030200Z AUTO 11006KT 070V140 //// // ////// 17/00 Q1024 UAKD 030100Z 04006MPS 7000 NSC 08/M04 Q1021 R040///65 NOSIG RMK QFE732/0976 DAUT 030100Z ///06KT CAVOK 31/05 Q1011 DAUU 030100Z 00000KT CAVOK 26/05 Q1011 ZGGG 030130Z VRB02G07MPS CAVOK 31/25 Q1011 NOSIG UBBG 030130Z 28008KT 9999 FEW100 23/16 Q1013 R30/CLRD70 NOSIG K6L4 030155Z AUTO 18007KT 9SM CLR 21/20 A3004 RMK AO2 LTG DSNT E AND SW ZGHA 030100Z 36004MPS 9999 FEW011 24/20 Q1013 NOSIG TIST 030053Z AUTO 10007KT 10SM CLR 27/24 A2999 RMK AO2 SLP156 T02720239 TSNO DAUZ 030100Z 36010KT CAVOK 29/09 Q1010 UAKK 030130Z 10002MPS 060V140 CAVOK 01/M01 Q1023 R05/0///70 NOSIG RMK QFE719/0959 UBBL 030200Z 32003KT 9999 SCT200 22/19 Q1012 R33/CLRD70 NOSIG RMK MT OP UBBN 030200Z 12006KT 9999 FEW100 23/12 Q1012 R14R/CLRD60 NOSIG RMK MT OP QFE684 TISX 030053Z 04005KT 10SM CLR 27/24 A2999 RMK AO2 SLP155 T02670239 K5SM 030157Z AUTO 00000KT 10SM CLR 13/01 A3044 RMK AO2 UBBQ 030100Z 00000KT 9999 NSC 20/15 Q1014 R16/CLRD70 NOSIG RMK MT OP YPGV 030200Z 16015KT 9999 FEW028 BKN260 27/18 Q1015 YORG 030200Z AUTO 21014KT 9999 // NCD 07/02 Q1015 OEGN 030100Z 27006KT CAVOK 32/26 Q1002 NOSIG K7BM 030153Z AUTO 35004KT 10SM SCT095 19/M06 A3036 RMK AO2 UBBY 030200Z 09005KT 9999 FEW100 22/14 Q1017 R33/////// NOSIG RMK MT OP OEGS 030100Z 30005KT CAVOK 26/07 Q1006 OEGT 030100Z 26006KT CAVOK 20/16 Q1010 NOSIG K5W8 030155Z AUTO 00000KT 10SM -RA OVC110 24/23 A3001 RMK AO2 T02350230 OEHL 030100Z 02004KT CAVOK 28/07 Q1012 NOSIG UBEE 030200Z 00000KT 9999 BKN048 24/21 Q1012 R30/CLRD70 NOSIG YPKA 030200Z AUTO 31006KT 9999 // NCD 27/04 Q1016 YPKG 030200Z 17011KT CAVOK 16/08 Q1020 TJMZ 022150Z 26006KT 10SM BKN030 30/23 A2996 TJNR 030153Z AUTO 08005KT 10SM FEW025 28/24 A3004 RMK AO2 SLP172 T02780239 $ YPJT 030200Z AUTO 16006KT 9999 // NCD 17/10 Q1022 YPLC 030200Z AUTO 02011KT 9999 // BKN125 13/08 Q1021 ZHCC 030100Z 34004MPS 310V050 CAVOK 24/15 Q1014 NOSIG ZGKL 030100Z VRB01MPS 5000 -RA BR SCT026 OVC043 25/24 Q1013 TEMPO FM0130 2000 SHRA UAOO 030130Z 01003MPS CAVOK 11/01 Q1018 NOSIG RMK QFE752/1003 OEJN 030200Z 00000KT 9999 FEW040 31/25 Q1003 NOSIG YPKS 030200Z AUTO 22010KT //// // ////// 12/03 Q1017 YPKT 030200Z AUTO 18004KT //// // ////// 29/16 Q1016 OEKJ 030100Z 00000KT SKC 29/05 Q1005 YPKU 030200Z AUTO 09011KT 9999 // NCD 32/M03 Q1017 OEKK 021800Z 36007KT CAVOK 34/06 Q1005 NOSIG YPLM 030200Z 03007KT CAVOK 27/03 Q1017 OEKM 030100Z 33008KT CAVOK 21/06 Q1019 NOSIG K6R3 030155Z AUTO 16004KT 7SM CLR 27/25 A2998 RMK AO2 T02650245 TJPS 030150Z 05005KT 10SM FEW030 27/24 A2997 K6R6 030153Z AUTO 10013G20KT 33/16 A2989 RMK AO1 SLP078 T03330161 OEMA 030200Z 02005KT 6000 NSC 33/09 Q1008 NOSIG K8A0 030155Z AUTO 00000KT 10SM CLR 25/23 A3000 RMK AO2 LTG DSNT E AND SE K96D 030155Z AUTO 00000KT 10SM 15/15 A2970 RMK AO2 YPMQ 030200Z AUTO 23026G37KT 9999 // OVC053 16/05 Q1008 SUAA 022100Z 13007KT 9999 SCT011 BKN020 16/14 Q1012 YPOD 030200Z AUTO 21001KT 9999 // SCT036 OVC045 12/04 Q1023 OEMK 030100Z 00000KT 9999 SCT040 32/23 Q1003 ZGNN 030100Z 02002MPS 340V050 9999 FEW008 BKN046 27/24 Q1012 NOSIG OENG 030100Z 36004KT CAVOK 27/M03 Q1010 NOSIG UARR 030100Z 04003MPS CAVOK 06/03 Q1024 R04/CLRD70 NOSIG RMK QFE765/1020 TJSJ 030156Z 10005KT 10SM FEW019 28/25 A3001 RMK AO2 SLP162 T02780250 UASK 030130Z 23002MPS 200V260 9999 OVC008 06/04 Q1016 R12/010060 TEMPO OVC008 RMK QFE737/0983 YPPD 030200Z 02004KT CAVOK 30/06 Q1016 YPPF 030200Z AUTO 36011KT 9999 // NCD 14/06 Q1023 UATE 030130Z 05005MPS CAVOK 18/M05 Q1016 R12/0///70 NOSIG RMK QFE760/1013 K7L2 030155Z AUTO 00000KT 2SM HZ CLR 17/13 A2977 RMK AO2 YPPH 030200Z 01005KT CAVOK 18/11 Q1022 UATG 030130Z 05006MPS CAVOK 14/00 Q1019 R32/CLRD70 NOSIG RMK QFE766/1022 UASP 030100Z 33001MPS CAVOK 04/M00 Q1023 R03/0///70 NOSIG RMK QFE757/1010 SUCA 022200Z XXXXXKT 9999 FEW030 14/XX Q1011 UASS 030130Z 34006MPS CAVOK 06/01 Q1020 R26/0///60 NOSIG RMK QFE746/0995 OEPA 030000Z 00000KT CAVOK 31/18 Q1004 NOSIG ZGOW 030100Z 24003MPS 200V270 CAVOK 30/26 Q1010 NOSIG ZHHH 030100Z 34002MPS 300V030 9999 FEW015 24/22 Q1013 NOSIG K8D3 030156Z AUTO 22009KT 19/13 A2978 RMK AO1 SLP072 T01890133 UATT 030130Z 11002MPS CAVOK 07/M01 Q1025 R13/CLRD70 NOSIG RMK QFE749/0999 CMGB 030145Z AUTO 16004KT 20/18 RMK AO1 SLP066 T01950180 53008 CMFM 030100Z AUTO 25001KT 18/18 RMK AO1 2PAST HR 0003 SLP070 P0001 T01830181 50002 UAUU 030130Z 32001MPS CAVOK 03/01 Q1026 R33/CLRD70 NOSIG RMK QFE754/1005 OERF 030100Z 00000KT CAVOK 27/01 Q1005 SUDU 022100Z 00000KT 9999 FEW013 19/13 Q1010 OERK 030200Z 30003KT 9999 FEW045 28/00 Q1007 NOSIG OESH 030100Z 10007KT CAVOK 28/03 Q1005 NOSIG OERR 030100Z 34014KT CAVOK 28/15 Q1007 NOSIG OETB 030100Z 31012KT CAVOK 24/10 Q1010 NOSIG OESK 030100Z 00000KT CAVOK 26/04 Q1010 NOSIG YPTN 030200Z 08009KT CAVOK 31/03 Q1017 UCFM 030130Z 24005MPS CAVOK 18/M01 Q1015 R26/CLRD70 NOSIG UCFO 030130Z 18003MPS 9999 FEW050 SCT130 19/08 Q1014 R12/CLRD70 NOSIG OETF 030100Z 31005KT CAVOK 24/11 Q1015 NOSIG ZGSZ 030100Z 29002MPS 9999 FEW020 30/26 Q1011 NOSIG OERY 021800Z 06002KT 9999 FEW040 36/05 Q1007 TKPK 030100Z 06010KT 9999 FEW022 28/24 Q1016 TKPN 022300Z 08014KT 9999 FEW022 29/24 Q1014= RMK HZ K7R3 022112Z 16006KT 10SM SCT039 SCT045 BKN050 34/22 A2998 K7R4 022050Z 16007KT 7SM SCT020 31/26 A3000 OETR 030100Z 28006KT CAVOK 19/14 Q1012 SVAC 030100Z /////KT 9999 SCT017 ///// Q1011 YREN 030200Z AUTO 36006KT 300V030 //// // ////// 14/04 Q1023 OEWD 030000Z 14004KT CAVOK 28/08 Q1004 NOSIG YPWR 030130Z 01012KT CAVOK 15/01 Q1024 OEWJ 030100Z 35005KT CAVOK 25/23 Q1004 NOSIG SVBC 030200Z 00000KT 9999 FEW010 SCT060 26/26 Q1011 YPXM 030200Z AUTO 09011KT 9999 // SCT014 25/20 Q1017 SVBI 030100Z 05002KT 9999 TS-FEW020 25/22 Q1010 SVCB 030100Z 11006KT CAVOK 29/// Q1008 SVBM 030100Z 11008KT 9999 BKN013 CB 24/22 Q1015 MYGF 030000Z 11003KT 9999 VCTS FEW015CB FEW020TCU BKN220 28/24 A3000 RMK LTGICCC SE CB SE THRU SW TCU NE  SVBS 030100Z 34003KT 9999 BKN013 23/23 Q1014 HTAR 030000Z 08010KT 9999 FEW022 15/15 Q1019 HTBU 030000Z 26005KT 9999 FEW016 FEW018CB SCT080 20/17 Q1015 K9D7 030135Z AUTO 27007KT 10SM CLR 15/11 A2972 RMK AO2 SVCN 022000Z 00000KT 9999 SCT050 ///// Q1014 OEYN 030100Z 26004KT CAVOK 29/24 Q1002 NOSIG K7W4 030155Z AUTO 00000KT 10SM CLR 27/22 A2992 RMK AO1 T02650218 SVCR 030000Z /////KT 9999 FEW016 30/25 Q1011 SULS 030200Z 09012KT CAVOK 14/12 Q1016 SVCU 030100Z 02010KT CAVOK 28/24 Q1010 HTDA 022100Z 00000KT 9999 FEW022 23/21 Q1016 NOSIG HTBU 022200Z 25005KT 9999 FEW016 FEW018CB SCT080 20/18 Q1016 K9F2 022135Z 15007KT 7SM FEW020 33/25 A2999 RMK LAST SVCZ 030100Z /////KT 9999 BKN020 28/24 Q1007 SUMU 030200Z 11009KT 9999 BKN023 15/12 Q1016 NOSIG HTDO 030000Z 08005KT 9999 FEW017 NOSIG YSCB 030200Z 17019KT 9999 SCT040 11/M01 Q1015 TLPC 030100Z 11007KT 9999 SCT022 27/24 Q1014 NOSIG SVGD 030100Z 09002KT 9999 BKN017CB 26/24 Q//// TLPL 030100Z 08013KT 9999 VCSH BKN022 28/24 Q1014 NOSIG YRMD 030200Z AUTO 13013KT //// // ////// 22/M02 Q1018 YSCO 030200Z AUTO 21008KT //// // ////// 15/03 Q1013 YSCR 030200Z AUTO 14012KT //// // ////// 17/09 Q1021 SVGU 030100Z /////KT 9999 SCT017 28/24 Q1009 MZBZ 030000Z 09008KT 9999 FEW020 29/26 A2985 Q1011 NOSIG HRYR 030200Z 00000KT 9999 SCT026 SCT100 18/18 Q1019 NOSIG YSDU 030200Z AUTO 21010KT 9999 // NCD 14/00 Q1017 SVJC 022300Z 09020KT 9999 FEW010 XX/XX Q1008 YROM 030200Z AUTO 22015KT 9999 // NCD 17/M05 Q1018 YSGE 030200Z AUTO 19016KT //// // ////// 18/M02 Q1018 SVJM 030100Z /////KT 9999 BKN020CB 25/22 Q1012 SUSO 030000Z 15005KT CAVOK 14/13 Q1013 MYNN 030200Z 00000KT 9999 -SHRA FEW014CB SCT17TCU BKN250 25/22 A3003 K9L2 030155Z AUTO 23018G27KT 10SM CLR 32/M02 A2975 RMK AO2 PK WND 23027/0146 SLP056 T03171022 $ TNCA 030100Z 08018KT 9999 SCT018 29/24 Q1010 A2985 NOSIG HTIR 022100Z 18005KT SKC 18/09 Q1021 TNCB 030100Z AUTO 05016KT //// ////// 29/25 Q1011 NOSIG HTKA 030000Z 00000KT 9999 FEW019 FEW020CB BKN200 20/18 Q1017 TNCC 030100Z 09012KT 9999 SCT014 28/25 Q1012 NOSIG TNCE 030100Z AUTO 06009KT //// ////// ///// Q1016 SVLF 022200Z 00000KT 9999 SCT040 XX/XX Q1007 DFFD 030100Z 00000KT 9999 FEW016 BKN120 24/23 Q1015 NOSIG YSHK 030200Z AUTO 19010KT //// // ////// 20/17 Q1019 ZJHK 030100Z 15002MPS 9999 FEW016 28/25 Q1011 NOSIG HTKJ 030000Z 00000KT 9999 BKN022 BKN080 18/14 Q1016 NOSIG HSSS 030100Z 18021KT CAVOK 27/21 Q1011 NOSIG TNCM 030100Z 09010KT 060V120 9999 SCT022 29/24 Q1016 A3001 NOSIG SVMD 030100Z 23005KT 3000 DZBR OVC007 21/19 Q1020 K8W2 030155Z AUTO 00000KT 10SM SCT095 22/21 RMK AO1 T02200214 SVMG 030100Z /////KT 9999 FEW010 28/26 Q1010 NOSIG SVMI 030100Z 05004KT 9999 BKN016 27/25 Q1009 YSHT 030200Z AUTO 18011KT //// // ////// 13/04 Q1020 YSHW 030200Z AUTO 21015KT 9999 // BKN055 16/04 Q1013 HTMB 021500Z 16012KT 9999 FEW019 FEW020CB 17/12 Q///// SVMN 030000Z 25001KT 9999 SCT013 30/// Q1009 UEEE 030130Z 16004MPS CAVOK 18/07 Q1008 NOSIG RMK QFE747 2309//60 HTMG 030000Z 00000KT 9999 FEW020 17/15 Q1015 SVMT 030100Z 05006KT CAVOK 27/25 Q1008 OIAA 030200Z 28004KT CAVOK 28/16 Q1001 K9MN 030152Z AUTO 22008KT 10SM CLR 21/13 A2991 RMK AO1 T02080128 YTAR 030200Z AUTO 02013KT //// // ////// 19/M01 Q1022 YRTI 030200Z AUTO 14013KT //// // ////// 15/10 Q1022 OIAG 030200Z 14008KT CAVOK 30/08 Q1002 OIAH 030100Z 00000KT CAVOK 26/11 Q1007 SVPA 030000Z /////KT 9999 FEW013CB 25/18 Q1011 OIAI 030100Z 15004KT CAVOK 33/09 Q1002 OIBA 021500Z 31008KT 6000 SKC 34/28 Q0998 SVPC 022200Z 10010KT 9999 OVC020 28/XX Q1010 OIBB 030200Z 00000KT 4000 HZ SKC 30/24 Q1001 A2958 HTMT 030000Z 18013KT 9999 FEW019 22/16 Q1016 DGAA 030100Z 24007KT 9999 DZ BKN007 OVC032 24/23 Q1014 TEMPO DZ HTMU 022000Z 00000KT 9999 FEW021CB BKN090 21/17 Q1018 OIAM 030200Z 15004KT CAVOK 33/19 Q1001 HTMW 030000Z 00000KT 9999 FEW020 FEW021CB 22/19 Q1015 NOSIG HUEN 022100Z 35004KT 9999 FEW020 FEW022CB BKN140 19/18 Q1018 OIBJ 021500Z 22012KT CAVOK 34/15 Q1005 OIBK 030200Z 00000KT 4000 BR NSC 30/27 Q1000 OIBL 030000Z 33006KT 6000 SKC 34/14 Q0999 OICC 030200Z 21004KT CAVOK 17/M05 Q1016 A3001 OIAW 030200Z 10006KT 8000 NSC 28/16 Q1000 YSMH 030200Z AUTO 20007KT 180V240 9999 // NCD 21/M00 Q1015 HTPE 020500Z 17012KT 9999 SCT017 25/21 Q1016 YSMI 030200Z AUTO 19010KT //// // ////// 14/07 Q1020 OIBP 030200Z 15004KT 6000 SKC 25/21 Q1001 A2957 SVPR 022100Z 08008KT 9999 BKN030 ///// Q1011 OIBQ 021500Z 29006KT CAVOK 35/32 Q0998 OICI 030200Z 10006KT CAVOK 22/M02 Q1014 A2997 OICJ 021650Z 07024KT 9999 FEW040 29/M01 Q1016 OIBS 021500Z 30008KT CAVOK 34/30 Q0999 OICK 030050Z 12004KT CAVOK 21/01 Q1013 YTEE 030200Z AUTO 16011KT 9999 // NCD 20/M05 Q1020 KMG 030200Z AUTO 17009KT //// // SCT018 BKN025 BKN030 10/06 Q1020 OIBV 021400Z 30006KT 8000 FEW030TCU FEW100 35/29 Q0999 YSNF 030130Z 01011KT 9999 VCSH FEW012 SCT270 19/14 Q1010 YTEF 030200Z AUTO 04013KT //// // ////// 32/M00 Q1018 SVSA 030100Z /////KT 9999 SCT020 29/20 Q1012 OICS 030051Z 03008KT CAVOK 18/01 Q1016 YTEM 030200Z AUTO 21013KT //// // ////// 12/05 Q1018 SVSE 021900Z 00000KT 9999 SCT050 ///// Q//// CPBT 030100Z AUTO 01012KT 15/07 RMK AO1 PK WND 01018/0010 T01460073 UDSG 030130Z VRB02MPS 9999 NSC 16/10 Q1017 R02/CLRD70 NOSIG YSNW 030200Z 19020G30KT 9999 SCT045 14/03 Q1014 FM0200 MOD/SEV TURB BLW 5000FT SVSO 021300Z 00000KT 9999 BKN020 23/21 Q1017 SVSP 021200Z 00000KT 9999 SCT070 XX/XX Q1014 SVSR 030000Z /////KT 9999 SCT016 BKN300 28/// Q1010 SVST 022100Z 00000KT 9999 SCT050 ///// Q1011 HUJI 021200Z 18007KT 9999 -TS BKN022 FEW024CB 26/17 CPEH 030100Z AUTO 36010KT 15/08 RMK AO1 T01540075 YTGM 030200Z AUTO 13006KT //// // ////// 17/M01 Q1021 HUKA 021200Z 35003KT 9999 BKN025 FEW027CB 26/18 OIFK 030100Z 00000KT CAVOK 20/05 Q1015 HTTB 030000Z 00000KT CAVOK 22/13 Q1016 OIFM 030200Z 31006KT 7000 SKC 09/M04 Q1019 A3011 SVSZ 022200Z 10008KT 9999 BKN020 XX/XX Q1006 HTSO 022200Z 00000KT 9999 FEW018 9999 FEW018 17/12 Q1022 OIGG 030200Z 00000KT 6000 FEW025 SCT080 25/23 Q1011 YTIB 030200Z AUTO 15007KT //// // ////// 16/M01 Q1023 SVVA 030100Z 07003KT 9999 SCT016 25/22 Q1015 OIFS 030100Z 00000KT CAVOK 09/M01 Q1022 CPFI 030100Z AUTO 01011KT 17/07 RMK AO1 PK WND 35017/0033 T01650069 OIGK 021651Z 22004KT 9999 SCT035 22/09 Q1019 K9V9 030155Z AUTO 13007KT 10SM CLR 19/14 A2980 RMK AO2 T01910140 HTSU 030000Z 13008KT 9999 FEW018 15/09 Q1021 SVVG 030100Z 20001KT 9999 OVC023 30/26 Q1007 YSRI 030200Z AUTO 19016G26KT 9999 // BKN067 16/01 Q1013 DFOO 022100Z 08004KT 9999 TS FEW016 FEW033CB BKN130 24/22 Q1014 OIHH 030050Z AUTO 13002KT //// // ////// 14/00 Q1023 SVVL 030000Z 23006KT 9999 BKN013 24/20 Q1014 YSRN 030200Z AUTO 30007KT 260V350 9999 // SCT023 12/06 Q1021 OIHM 030100Z 13004KT CAVOK 19/01 Q1021 OIIE 030200Z 28006KT 9999 FEW040 20/M03 Q1015 OIHR 021000Z 04014KT 8000 FEW040 32/04 Q1019 OIII 030200Z 00000KT 9999 FEW035 SCT100 25/04 Q1016 A3001 NOSIG HUMI 020900Z 27003KT 9999 BKN019 FEW022CB 25/20 OIIK 030100Z 05004KT CAVOK 24/02 Q1017 PAAD 030155Z AUTO 23016G23KT 10SM CLR 03/02 A2965 RMK AO2 YSTH 030200Z AUTO 17007KT //// // ////// 14/05 Q1019 OIIP 021800Z 00000KT CAVOK 26/00 Q1015 OJAI 030000Z 00000KT 8000 NSC 18/14 Q1013 NOSIG OIIS 030100Z 36004KT CAVOK 25/02 Q1016 PABA 030101Z AUTO 26018KT 10SM SCT110 05/M01 A2967 RMK AO2 SLP045 T00501006 PAAK 030156Z 12008KT 090V150 10SM OVC034 12/08 A3012 RMK AO1 OIKB 030200Z 36006KT CAVOK 28/16 Q1001 A2957 OJAM 030100Z 36006KT 5000 HZ NSC 19/16 Q1013 NOSIG ZJSY 030100Z 09004MPS 060V120 9999 FEW020 FEW026CB 30/26 Q1011 NOSIG YSSY 030130Z 21030G40KT 9999 VCSH SCT030 BKN050 14/05 Q1013 FM0130 MOD/SEV TURB BLW 5000FT PABE 030153Z 03005KT 5SM BR BKN010 OVC017 11/09 A3003 RMK AO2 SLP171 T01110094 PAAP 030051Z 24007KT 10SM FEW010 FEW020 BKN030 15/09 A3008 RMK NO SPECI OJAQ 030100Z 36006KT CAVOK 27/15 Q1008 NOSIG PAAQ 030153Z 08006KT 10SM OVC049 13/07 A2986 RMK AO2 SLP114 T01330067 PABI 030153Z 19008KT 10SM SCT020 SCT090 BKN110 BKN130 05/02 A2995 RMK AO2 SLP156 SHSN DSNT SE BINOVC DSNT W-N T00500017 CPIR 030100Z AUTO 36010KT 15/07 RMK AO1 PK WND 00017/0029 T01500069 OIKK 030200Z 14006KT CAVOK 11/M06 Q1020 A3013 YSTW 030200Z AUTO 24011KT 9999 // NCD 14/01 Q1014 PABL 030156Z AUTO 29014G20KT 10SM FEW034 FEW070 OVC080 07/01 A2994 RMK AO1 PACD 030153Z AUTO 31007KT 10SM BKN023 BKN027 14/08 A3012 RMK AO2 SLP200 T01390078 TSNO $ PABN 022250Z 34010G18KT 15SM SCT030 BKN060 OVC090 12/03 A2980 RMK 7/039 NOSPECI OIKO 021350Z 24008KT CAVOK 43/12 Q0997 OIKQ 030200Z 06010KT 5000 HZ FEW030 28/22 Q1000 PABR 030153Z 22004KT 4SM -SN BR FEW005 BKN020 OVC040 00/00 A2943 RMK AO2 SLP966 P0001 T00000000 HTZA 022200Z 14006KT 9999 FEW016 22/21 Q1014 NOSIG OIMB 030100Z 08008KT CAVOK 16/M04 Q1017 PABT 030153Z 25011G26KT 10SM FEW048 SCT065 BKN100 07/M05 A2979 RMK AO2 PK WND 25029/0132 SLP099 T00671050 OIMC 021700Z 00000KT CAVOK 27/06 Q1014 YTMO 030200Z AUTO 14010KT //// // ////// 20/M03 Q1021 OIMD 021700Z 04004KT CAVOK 29/01 Q1011 PABV 022356Z AUTO 03005KT 10SM OVC048 14/09 A2988 RMK AO1 PACM 030156Z AUTO 28005KT 10SM OVC048 11/06 A3006 RMK AO2 TSNO T01050061 RAB0058E03 P0000 SLP173 $ YTNG 030200Z AUTO 22009KT 9999 // NCD 19/M03 Q1016 YSWG 030130Z 22011KT 9999 FEW045 12/00 Q1018 PADE 030153Z AUTO 27017KT 10SM FEW033 SCT050 BKN075 08/01 A2991 RMK RAE0057 SLP129 P0000 T00830011 TSNO $ VIA AUTODIAL YSWH 030200Z AUTO 14005KT //// // ////// 13/01 Q1022 PADG 021945Z 23012G23KT 1/2SM -SN BLSN VV000 M01/M01 A2971 UDYZ 030130Z 00000MPS 9999 SKC 20/12 Q1012 R09/010070 NOSIG YTNK 030200Z AUTO 12010KT 9999 // NCD 23/M11 Q1021 OINB 030100Z 19004KT CAVOK 28/25 Q1010 PADK 030156Z 07006KT 10SM OVC033 13/06 A3017 RMK AO1 PADL 030150Z 21012G18KT 25SM BKN026 17/11 A3003 PACV 030153Z 15007KT 10SM FEW020 SCT033 SCT095 16/09 A2997 RMK AO2 SLP148 T01560089 PADM 030156Z AUTO 27003KT 10SM FEW041 11/06 A3007 RMK AO2 TSNO T01050055 SLP171 $ PAED 030158Z AUTO 19016KT 10SM FEW046 OVC150 18/08 A2986 RMK AO2 PK WND 18027/39 SLP107 T01830081 OIMM 030200Z 18004KT CAVOK 18/04 Q1017 A3006 OINE 030000Z 00000KT CAVOK 24/20 Q1009 OIMN 030100Z 00000KT CAVOK 16/05 Q1018 OING 030100Z 22010KT 9999 FEW040 25/22 Q1011 PAEG 030153Z AUTO 01005KT 10SM CLR 12/M01 A2981 RMK AO2 SLP098 T01171011 TSNO $ OIMQ 021700Z 10006KT CAVOK 28/01 Q1015 PADQ 030153Z 13007KT 10SM CLR 17/09 A3002 RMK AO2 SLP166 T01670094 $ PACZ 030155Z AUTO 07008KT 010V220 10SM -SHRA FEW020 OVC040 09/05 A3001 RMK AO2 RAB0025E0109SHRAB0109 SLP165 P0000 T00940053 PAEH 030155Z AUTO 29008KT 10SM BKN011 12/10 A3009 RMK AO2 SLP191 T01190101 PAEI 030158Z 26007KT 230V300 10SM SCT045 SCT055 09/M01 A2992 RMK AO2A SLP138 T00891009 $ NSFA 030100Z 07010KT 9999 SCT020 31/24 Q1012 PAFA 030153Z 25008KT 10SM SCT040 SCT090 10/M01 A2991 RMK AO2 SLP134 T01001011 OINK 021351Z 18002KT CAVOK 37/20 Q1007 PAFB 030155Z 27016KT 25SM SCT045 BKN200 11/M01 A2991 RMK SLP131 CONTRAILS PAEL 030057Z 24008KT 15SM SCT010 OVC030 14/12 A3003 RMK SEA 0 SWELL 2 SW NOSPECI PADU 030156Z VRB05KT 10SM SCT014 OVC028 12/08 A3014 RMK AO2 SLP211 T01170083 PAEM 030156Z AUTO 28008KT 10SM CLR 11/03 A3001 RMK AO1 OINN 030200Z VRB02KT 9999 FEW020CB BKN026 BKN090 25/24 Q1010 PAEN 030153Z 20023G30KT 10SM CLR 14/10 A2987 RMK AO2 PK WND 19032/0123 SLP117 T01440100 PAFE 030156Z AUTO 02004KT 10SM CLR 17/08 A3008 RMK AO1 OINR 030200Z 24004KT 9999 FEW023CB BKN027 26/22 Q1010 PAGA 030158Z AUTO 26009KT 10SM OVC070 10/00 A2996 RMK AO2 SLP151 T01000000 PNO $ PAFM 030156Z AUTO 25011G17KT 220V280 10SM SCT029 BKN042 OVC060 06/01 A2983 RMK AO1 HUSO 021200Z 14002KT 9999 SCT020TCU FEW022CB BKN300 27/19 Q1014 PAGH 030157Z AUTO 25005KT 10SM FEW011 SCT075 04/03 A2985 RMK AO2 RAB07E51SNB32E45 SLP139 P0008 T00440028 OINZ 030200Z 20006KT 5000 BR SKC 26/24 Q1011 SYCJ 030800Z 23004KT 9999 SCT007 22/22 Q1013 NOSIG PAFS 030156Z AUTO 00000KT 1 1/2SM RA BR FEW009 OVC020 08/06 A2999 RMK AO2 TSNO T00770061 RAB33 P0002 SLP165 $ PAGK 030153Z AUTO 15014G21KT 10SM FEW055 OVC095 14/03 A2982 RMK AO2 SLP104 T01440033 TSNO PAGL 022115Z 00000KT 10SM FEW028 SCT036 SCT047 17/03 A2998 RMK VIA PHONE YTRE 030200Z AUTO 24019G29KT //// // OVC049 OVC056 15/04 Q1009 PAHC 030156Z AUTO 00000KT 10SM BKN049 11/06 A3001 RMK AO2 TSNO T01050055 SLP167 $ PAGM 030156Z AUTO 29012KT 10SM CLR 11/04 A3000 RMK AO1 PAGN 030156Z AUTO 10SM OVC050 14/09 A3004 RMK AO2 TSNO T01380088 SLP173 $ PAGS 030148Z AUTO 29004KT 10SM BKN036 OVC041 14/10 A3002 RMK VIA PHONE PAHL 030156Z AUTO 29012G20KT 10SM FEW033 SCT045 BKN085 08/M01 A2990 RMK AO1 PAHN 030154Z AUTO 10004G16KT 10SM SCT020 OVC060 13/09 A2999 RMK AO2 SLP159 T01330089 TSNO PAHO 030153Z 23015G22KT 10SM CLR 16/09 A2998 RMK AO2 SLP152 T01610094 $ PAGY 030153Z AUTO 20015KT 10SM OVC060 14/08 A2997 RMK AO2 SLP147 T01390078 TSNO PAHP 030156Z AUTO 09004KT 10SM FEW015 OVC030 09/M19 A3003 RMK AO1 PAIG 030156Z AUTO 23010KT 10SM SCT019 BKN026 OVC032 14/12 A3004 RMK AO2 TSNO T01440116 BKN V OVC SLP177 $ PAII 030156Z AUTO 25012G16KT 5SM FEW009 OVC017 13/10 A3011 RMK AO1 OISA 030050Z 33006KT CAVOK 14/M07 Q1022 NTAA 030200Z 34004KT 310V010 9999 VCSH FEW021 28/20 Q1012 NOSIG PAIK 030101Z AUTO 26020G26KT 10SM BKN065 07/00 A2985 RMK AO2 PK WND 24027/0028 RAE0010 SLP149 P0000 T00720000 PAIL 030153Z 24008KT 10SM -RA SCT016 BKN028 OVC034 14/12 A3004 RMK AO2 RAB32 SLP175 P0000 T01440117 $ PAJC 030156Z AUTO 01006KT 10SM CLR 17/11 A3011 RMK AO1 PAIM 030129Z AUTO VRB06KT 10SM FEW021 SCT023 SCT075 05/02 A2985 RMK AO2 SLP121 PAIN 030156Z AUTO 01007KT 10SM FEW029 FEW036 OVC046 06/02 A2992 RMK AO1 OISF 030050Z 00000KT CAVOK 22/M01 Q1011 PAHX 030156Z AUTO 23007KT 10SM SCT041 11/03 A3001 RMK AO2 SLP165 T01110033 YTTI 030200Z AUTO 06008KT //// // ////// 26/19 Q1016 PAHY 030156Z AUTO 25007KT 10SM SCT034 BKN043 16/07 A3008 RMK AO1 YTST 030200Z AUTO 11006KT 9999 // NCD 30/09 Q1016 OISL 030200Z 00000KT CAVOK 25/09 Q1008 PAJN 030153Z 06007KT 10SM BKN040 BKN070 13/10 A3003 RMK AO2 SLP168 SH DSNT W T01330100 PAIW 030158Z AUTO 28004KT 10SM CLR 08/01 A3000 RMK AO2 SLP158 T00780011 DIAD 021700Z VRB02KT 8000 FEW006 SCT013 OVC100 26/23 Q1012 NOSIG PAKF 030101Z AUTO 35011KT 10SM CLR 13/08 A3014 RMK AO2 SLP302 T01280078 $ CPRO 030100Z AUTO 26005KT 15/10 RMK AO1 T01530099 PAKI 030156Z AUTO 24010KT 10SM SCT015 BKN024 OVC030 13/10 A3002 RMK AO2 TSNO T01330100 SLP168 $ OISR 020900Z 16010KT CAVOK 41/12 Q1003 ZLLL 030100Z 00000MPS CAVOK 14/03 Q1021 NOSIG OISS 030200Z 00000KT CAVOK 17/M03 Q1016 A3002 OITK 021000Z 02004KT 9999 FEW035TCU 31/11 Q1011 PAKK 030156Z AUTO 23007KT 10SM FEW049 SCT055 OVC070 09/01 A2991 RMK AO1 OKBK 030100Z 00000KT 7000 SKC 29/17 Q1002 NOSIG OITL 030050Z 19008KT 9999 FEW030TCU FEW040CB FEW080 13/13 Q1018 OITM 030000Z 07014KT CAVOK 22/M03 Q1014 SYGO 022200Z 07008KT 9999 SCT016 FEW018CB SCT300 29/24 Q1010 CBS&SSW NOSIG PAKN 030154Z 22013KT 10SM FEW019 SCT024 BKN030 14/11 A3005 RMK AO2 RAE0058 SLP175 P0000 T01440106 OISY 030200Z 00000KT CAVOK 15/M01 Q1019 PAKP 030156Z AUTO 22009KT 10SM SCT110 02/M05 A2963 RMK AO1 PALG 030156Z AUTO 00000KT 9SM FEW038 OVC055 10/08 A3003 RMK AO2 TSNO T01000077 RAB37E56 P0000 SLP174 $ PALH 030153Z 18013G21KT 10SM SCT049 17/07 A2986 RMK AO2 SLP114 T01720072 PAJZ 030156Z AUTO 21014KT 10SM CLR 18/09 A3002 RMK AO2 TSNO T01830094 SLP156 YTWB 030200Z AUTO 24020KT 9999 // NCD 14/M02 Q1014 DIAP 030200Z 23006KT 9999 FEW011 BKN050 24/23 Q1012 TEMPO BKN010 BKN050 OITR 030200Z 23004KT CAVOK 12/06 Q1015 PALJ 030055Z 23008KT 25SM BKN035 OVC060 14/10 A3001 RMK 401390111 EST PASS CLSD NOSPECI PAKT 030153Z 35005KT 10SM SCT048 BKN060 17/11 A3005 RMK AO2 SLP176 T01670106 OITT 030200Z 11004KT CAVOK 20/09 Q1016 A3002 PAKU 030150Z 23016G25KT 7SM R24/P6000FT -PL SCT036 BKN055 04/M01 A2959 RMK VIS SW 4 OITU 030050Z 00000KT CAVOK 21/12 Q1016 PAMC 030153Z 32008KT 10SM FEW039 12/01 A2998 RMK SLP158 T01170011 VIA AUTODIAL CPST 030100Z AUTO 23005KT 15/05 RMK AO1 T01510054 PAKV 030153Z AUTO 25010KT 10SM FEW070 12/M01 A2998 RMK AO1 SLP156 T01221011 TSNO PAMD 030156Z 27010G15KT 10SM SCT011 14/12 A2995 RMK AO1 PAKW 030153Z AUTO 24008KT 10SM CLR 14/11 A3007 RMK AO2 SLP182 T01440106 TSNO CPSV 030100Z AUTO 35013KT 17/09 RMK AO1 PK WND 34018/0038 T01700086 PALP 030155Z 23015KT 10SM -RA SCT010 BKN030 BKN050 04/M00 A2957 OITZ 021500Z 11014KT 9999 SCT035 30/02 Q1014 PAMH 030156Z AUTO 19008KT 10SM 09/02 A2992 RMK AO1 PANA 030156Z AUTO 03005KT 5SM -RA BR BKN006 OVC012 12/11 A3002 RMK AO2 RAB05 CIG 003V008 SLP165 P0002 T01170111 PAMK 030156Z AUTO 27012KT 10SM CLR 10/01 A3000 RMK AO2 TSNO T01000011 SLP164 $ PANC 030153Z 16010G24KT 10SM SCT049 BKN060 BKN200 17/08 A2985 RMK AO2 SLP108 T01720078 PALU 030155Z AUTO 30030G36KT 10SM BKN027 04/01 A2972 RMK AO2 PK WND 30040/0118 SLP064 T00390011 PAMM 021716Z AUTO 35003KT 10SM SCT019 SCT026 BKN033 14/11 A3003 RMK AO1 DIBU 021700Z 00000KT 9999 SCT015 SCT100 FEW023CB 28/23 Q1010 TEMPO TS PAMO 030156Z AUTO 00000KT 10SM BKN023 BKN060 12/06 A3005 RMK AO2 TSNO T01160055 BKN V SCT SLP060 $ PAMR 030153Z 17013G21KT 10SM FEW050 19/08 A2985 RMK AO2 SLP109 T01890078 PANI 030156Z AUTO 00000KT 10SM OVC055 09/08 A3003 RMK AO1 UHBB 030130Z 16002MPS 120V210 9999 -SHRA BKN033CB OVC200 18/17 Q1009 NOSIG RMK QFE739/0986 36090060 DIDK 021700Z ///// 9999 BKN015 SCT266 30/26 Q//// NOSIG DIDL 021700Z ///// 9999 BKN015 27/24 Q1012 NOSIG PANN 030153Z AUTO 22004KT 10SM FEW048 SCT065 10/M01 A2991 RMK AO2 SLP134 T01001006 TSNO PAMY 030156Z 30009KT 8SM BKN003 OVC035 12/08 A3000 RMK AO1 PAOH 030156Z AUTO 00000KT 10SM OVC050 15/12 A3004 RMK AO2 TSNO T01500116 SLP173 $ PAPB 030153Z AUTO 26006KT 10SM BKN007 OVC012 11/09 A3012 RMK AO2 CIG 005V011 SLP185 T01110094 TSNO PANT 030153Z AUTO 33006KT 10SM SCT060 17/09 A3004 RMK AO2 SLP174 T01670094 TSNO PAOM 030153Z 25012KT 10SM SCT035 SCT080 10/04 A2997 RMK SLP150 MDT CU NE-E T01000039 VIA AUTODIAL PANV 030156Z AUTO 22004KT 10SM OVC050 11/03 A3000 RMK AO1 PANW 030156Z AUTO 21012G17KT 10SM FEW030 18/11 A3002 RMK AO2 TSNO T01770105 SLP142 $ UGKO 030130Z AUTO 20003KT 5000 NCD 20/18 Q1008 R07/09//70 NOSIG PAOO 030156Z AUTO 29006KT 10SM OVC016 13/11 A3001 RMK AO2 TSNO T01270111 SLP164 $ PAPG 030156Z 05003KT 10SM SCT060 15/09 A3003 RMK AO1 WEA PAPH 030156Z AUTO 27008KT 10SM OVC022 13/07 A3016 RMK AO1 PAOR 030153Z 31008KT 10SM BKN075 BKN090 06/01 A2987 RMK AO2 RAE00 SLP133 P0000 T00560011 OIZB 030000Z 33019KT CAVOK 29/04 Q1004 PAOT 030153Z 28024G31KT 10SM FEW031 BKN047 BKN070 07/02 A2986 RMK AO2 PK WND 28037/0141 RAE02B29E53 SLP112 VCSH ALQDS P0000 T00670017 OIZC 020400Z 10006KT 5000 BR SCT035 30/27 Q1000 A2956 DIGA 021700Z 22004KT 9999 OVC013 26/23 Q1011 NOSIG PAOU 030156Z AUTO 00000KT 9SM CLR 14/09 A3014 RMK AO2 TSNO T01440088 SLP209 $ PAPM 030156Z AUTO 10SM BKN020 13/11 A3008 RMK AO2 TSNO T01330105 SLP184 $ PAPN 030156Z AUTO 28013KT 10SM FEW015 OVC021 13/10 A3013 RMK AO2 PWINO TSNO T01270100 SLP204 $ CPXL 030100Z AUTO 36012KT 18/07 RMK AO1 T01780074 PAPO 030156Z AUTO 28025G37KT 7SM FEW025 BKN036 OVC044 04/M01 A2978 RMK AO1 PAQH 030156Z AUTO 22011KT 10SM FEW010 BKN013 OVC028 14/11 A3004 RMK AO2 RAB28E41 SLP174 P0000 T01390111 OIZH 030200Z 00000KT CAVOK 17/M03 Q1014 A2997 OIZI 030000Z 00000KT CAVOK 28/M01 Q1005 OIZJ 030100Z AUTO 13010KT //// // ////// 30/28 Q1000 PAPT 030045Z 31007KT 20SM -RA FEW027 SCT050 OVC070 13/10 A2983 RMK NO SPECI PARC 030156Z AUTO 25012KT 10SM FEW060 BKN080 04/M08 A2961 RMK AO1 OIYY 030200Z 00000KT CAVOK 21/M01 Q1017 PASA 022111Z 27011KT 10SM FEW023 10/04 A3000 RMK VIA AISR PAQT 030153Z AUTO 20016G24KT 8SM FEW036 BKN050 BKN070 03/01 A2959 RMK PK WND 22030/0104 SLP021 T00330006 TSNO VIA AUTODIAL PASC 030153Z 24013KT 10SM FEW049 BKN060 OVC120 04/M02 A2960 RMK AO2 RAB0057E11 SLP025 P0001 T00441022 PASD 030156Z 15007KT 10SM FEW022 SCT045 BKN070 14/11 A3013 RMK AO1 WEA YWCA 030200Z AUTO 19010KT //// // ////// 15/03 Q1022 PASH 030156Z AUTO 29017KT 8SM FEW034 BKN044 OVC050 07/01 A2999 RMK AO1 PASI 030153Z 07003KT 10SM BKN021 12/11 A3008 RMK RAE0059B29E53 SLP186 P0000 T01220106 VIA AUTODIAL YWBL 030200Z AUTO 11003KT //// // ////// 12/03 Q1023 OLBA 030100Z 12003KT 090V190 9999 FEW026 27/17 Q1010 PATA 030152Z 25009G15KT 210V010 10SM FEW046 BKN065 BKN130 11/00 A2991 RMK AO2 SLP133 T01060000 PARS 030156Z AUTO 00000KT 10SM FEW033 10/08 A3003 RMK AO2 TSNO T01000077 RAE53 P0000 SLP175 $ PASK 030156Z AUTO 26018G25KT 10SM FEW025 SCT035 BKN070 06/01 A2987 RMK AO1 PASL 030136Z AUTO 00000KT 10SM OVC055 09/02 A3005 RMK AO1 PATC 030155Z AUTO 36009KT 10SM CLR 07/00 A2997 RMK AO2 SLP151 T00710000 PASM 030156Z AUTO 00000KT 10SM SCT027 BKN090 OVC110 11/04 A3002 RMK AO1 PASN 030153Z AUTO 26010KT 10SM BKN023 OVC029 13/09 A3009 RMK AO2 SLP190 T01330094 TSNO $ PATE 030158Z AUTO 27013KT 10SM CLR 08/04 A2997 RMK AO2 SLP161 T00830039 PASO 030153Z AUTO VRB04G17KT 10SM CLR 16/09 A2999 RMK AO2 SLP156 T01610089 TSNO YWBR 030200Z AUTO 35016KT //// // ////// 29/02 Q1019 PARY 030156Z AUTO 25010KT 200V280 10SM FEW050 10/M02 A2994 RMK AO2 TSNO T01001016 SLP145 $ PATG 030156Z AUTO 24008KT 10SM OVC025 16/11 A3004 RMK AO1 MSV 030200Z AUTO 19018KT 9999 // BKN043 OVC051 09/01 Q1013 PATK 030153Z AUTO 19006KT 10SM -RA SCT031 BKN065 OVC075 14/10 A2984 RMK AO2 RAB21 SLP107 P0000 T01440100 TSNO PATL 030155Z AUTO 32008KT 280V010 10SM CLR 09/02 A3001 RMK AO2 SLP166 T00910015 PASV 030155Z AUTO VRB05KT 7SM OVC016 09/08 A2999 RMK AO2 RAB0055E0104SHRAB0104E0121 SLP160 T00860075 MUI 030200Z AUTO 21008KT 150V240 9999 // NCD 11/03 Q1013 PASW 030048Z 00000KT 30SM BKN045 OVC060 13/09 A2985 RMK NOSPECI PATO 030153Z AUTO 15009G16KT 10SM OVC070 13/06 A2994 RMK AO2 SLP139 T01330056 TSNO PASX 030156Z AUTO 21011G21KT 10SM CLR A2987 RMK AO1 UHHH 030130Z 14002MPS 080V180 CAVOK 25/16 Q1013 NOSIG RMK QFE753/1004 23090060 PASY 030156Z AUTO 16008KT 10SM BKN026 OVC042 12/10 A3009 RMK AO2 SLP191 T01220100 TSNO PATQ 030156Z AUTO 23018KT 10SM -SN FEW017 BKN070 BKN085 01/00 A2946 RMK AO2 TSNO T00050000 RAE02B39E51UPB02E18SNB51 P0000 PK WND 23030/0138 SLP983 $ PAVA 030157Z AUTO 10005KT 10SM -RA FEW014 SCT026 OVC034 11/08 A3007 RMK AO2 SLP186 T01060083 PNO $ NSTU 022351Z 09011KT 12SM SCT025TCU BKN050 BKN100 29/24 A2990 RMK TCU ALQDS SLP125 8/410 T02920237 10292 20256 57017 PAVC 030156Z AUTO 00000KT 10SM 16/08 A3013 RMK AO2 TSNO T01550077 SLP203 $ PAVD 030156Z 00000KT 10SM SCT070 OVC085 11/06 A2997 RMK AO1 0147Z WEA PAUN 030156Z AUTO 26010KT 10SM FEW039 10/02 A2999 RMK AO1 UIAA 030130Z 04002MPS 9999 SCT200 16/04 Q1010 NOSIG RMK QFE699 29CLRD70 UGSB 030130Z 13010KT 9999 SCT023 23/20 Q1010 R13/CLRD70 NOSIG PAUT 030155Z AUTO 29007KT 10SM BKN018 OVC025 10/09 A3013 RMK AO2 T01010092 PAVL 030153Z AUTO 28031G39KT 5SM HZ FEW022 BKN034 OVC060 06/01 A2979 RMK AO2 PK WND 26040/0134 SLP087 T00610011 TSNO PAWD 030153Z AUTO 18011KT 10SM CLR 15/10 A2992 RMK AO2 SLP131 T01500100 TSNO PAWG 030156Z 08003KT 10SM SCT035 SCT060 15/09 A3006 RMK AO1 WEA PAWI 030153Z AUTO 26012G22KT 9SM -SN FEW020 BKN055 OVC120 02/M02 A2942 RMK AO2 PK WND 27029/0123 SLP964 P0000 T00171022 TSNO UIBB 030130Z 29007MPS 9999 SCT022 08/05 Q1017 NOSIG RMK QFE720/0960 30CLRD60 UGTB 030130Z 36004KT 300V060 9999 SCT053CB 22/14 Q1016 R31L/CLRD80 NOSIG PAWM 030158Z AUTO 28005KT 9SM BKN027 BKN040 OVC080 19/13 A2996 RMK AO2 SLP156 T01940133 PAWN 030156Z AUTO 27021G27KT 9SM SCT019 BKN029 OVC095 05/02 A2981 RMK AO1 YWHA 030200Z AUTO 36009KT 9999 // NCD 14/07 Q1022 PAYA 030153Z AUTO 17005KT 10SM FEW010 OVC042 13/11 A3001 RMK AO2 SLP161 T01280106 TSNO PAWS 030156Z AUTO 08004KT 10SM BKN043 OVC050 14/06 A2985 RMK AO1 ZLXY 030100Z 08001MPS CAVOK 22/15 Q1016 NOSIG UHMA 030130Z 29002MPS 9999 FEW030 BKN200 12/M04 Q1016 NOSIG RMK QFE758/1011 880///60 YWGT 030200Z AUTO 22004KT 160V280 //// // ////// 12/02 Q1019 YVRD 030200Z AUTO 14007KT //// // ////// 28/03 Q1018 UHMD 030100Z 20005MPS 9999 FEW030 11/00 Q1015 NOSIG RMK QFE761/1014 PAZK 030156Z AUTO 26012G20KT 10SM OVC080 11/04 A2981 RMK AO1 UHMM 030200Z 22002MPS 190V250 9999 SCT011 OVC021 16/13 Q1010 NOSIG RMK QFE742 88290555 MT OBSC YWIS 030200Z AUTO 20012KT //// // ////// 22/M02 Q1016 OMAA 030100Z 03003KT 360V090 CAVOK 29/23 Q1000 A2953 NOSIG OMAD 030100Z 01005KT 270V040 CAVOK 31/26 Q1000 A2953 NOSIG ZMUB 030200Z 00000MPS CAVOK 17/03 Q1012 NOSIG RMK QFE652.1 35 OMAL 030100Z 09008KT CAVOK 32/04 Q1003 A2962 NOSIG YWLG 030200Z AUTO 21012KT 9999 // NCD 16/M01 Q1018 TQPF 022100Z 10013KT 9999 SCT020 30/25 Q1014 YWLM 030132Z 23020G30KT 9999 -SHRA FEW038 BKN052 15/03 Q1012 DITB 021700Z 22006KT 8000 OVC013 24/23 Q1012 NOSIG UHPP 030130Z 18003MPS 120V220 9999 BKN020 14/06 Q1017 NOSIG RMK MT OBSC QFE759/1012 SC070 EBBE 030133Z AUTO 05003KT 1500 NCD 13/13 Q1023 AMB DISP 022000Z VRB02KT 9999 BKN013 24/22 Q1013 NOSIG OMDB 030100Z 09004KT 040V130 CAVOK 32/20 Q1001 NOSIG DISS 021700Z 22008KT 9999 BKN015 BKN100 25/23 Q1012 NOSIG EBBL 030155Z VRB02KT 3000 BR SKC 13/13 Q1023 YLO EBAW 030150Z AUTO VRB02KT 4000 BR NCD 14/13 Q1023 UIII 030130Z 30008G11MPS 260V320 9999 FEW050CB BKN100 OVC200 16/09 Q1015 NOSIG RMK QFE716/0955 30CLRD60 EBCI 030150Z 06005KT 1700 BR NSC 13/12 Q1022 NOSIG EBBR 030150Z 06003KT 3800 R25L/0350V0900U R25R/P2000N R01/0750VP2000U BR NSC 13/12 Q1023 BECMG 2500 BR VAAH 030140Z 21008KT 3000 BR FEW012 SCT020 BKN080 27/26 Q1001 TEMPO 2000 RA YWOL 030200Z AUTO 20015KT 9999 // BKN051 OVC063 15/05 Q1014 VABB 030140Z 20009KT 2500 HZ FEW012 SCT018 BKN090 27/26 Q1003 TEMPO 1500 SHRA OMDW 030100Z 33001KT CAVOK 27/10 Q1001 NOSIG EBCV 030150Z AUTO 01004KT 3600 NCD 12/12 Q1022 YLO UHSS 030130Z 20002MPS 9999 SKC 24/14 Q1017 NOSIG RMK QFE761/1015 01CLRD70 OMFJ 030100Z 08005KT 5000 HZ NSC 30/26 Q1002 A2959 EBDT 030125Z AUTO 04005KT 0100 NCD 14/14 Q1023 RED EBFN 030155Z 06004KT 2300 BR SKC 13/12 Q1023 YLO EBFS 030155Z 06003KT 1600 BR FEW250 12/12 Q1022 YLO DIYO 022000Z 26006KT 9999 BKN010 25/24 Q1013 NOSIG YWUD 030200Z AUTO 36013KT //// // ////// 15/05 Q1022 YWTN 030200Z AUTO 13010KT //// // ////// 20/M02 Q1019 UHWW 030130Z VRB01MPS 9999 OVC030 20/17 Q1011 NOSIG RMK QFE757/1010 25CLRD70 TRPG 022200Z 11014KT 9999 HZ SCT019 27/23 Q1014 EBLB 030152Z AUTO 08004KT 9000 SCT005/// BKN007/// BKN009/// 12/12 Q1023 YLO EBLG 030150Z 05005KT 2500 BR NSC 13/12 Q1022 NOSIG YWWL 030200Z AUTO 21012KT //// // ////// 13/M00 Q1018 UKBB 030130Z 02004MPS CAVOK 15/14 Q1019 86CLRD95 NOSIG YWYM 030200Z AUTO 09013KT //// // ////// 32/M01 Q1016 CTNK 030100Z AUTO 26001KT 16/14 RMK AO1 SLP095 T01620139 53014 UKDD 030130Z 05006MPS CAVOK 18/08 Q1016 08090070 NOSIG UKDE 030100Z 04004MPS 010V070 CAVOK 19/07 Q1015 02CLRD70 NOSIG YWYY 030200Z AUTO 04008KT 9999 // NCD 12/07 Q1020 TTCP 030100Z 07005KT 9999 SCT018 27/24 Q1013 UIUU 030130Z 16002MPS 110V210 9999 FEW043 SCT100 18/09 Q1009 NOSIG RMK QFE713/0951 26CLRD64 EBOS 030150Z 06006KT 4500 BR NSC 14/12 Q1023 TEMPO 2500 BR UKDR 030130Z 05003MPS CAVOK 19/09 Q1015 3609//70 NOSIG OMRK 030100Z 22004KT CAVOK 25/15 Q1001 A2957 CTRA 022300Z AUTO 22005KT 19/10 RMK AO1 SLP054 T01850104 55003 VANP 030140Z 21002KT 5000 HZ FEW012 SCT020 BKN100 24/24 Q1006 NOSIG OMSJ 030100Z 12003KT CAVOK 28/16 Q1001 EDAC 021750Z 04005KT 9999 SCT025 BKN040 14/12 Q1022 EDAH 021650Z 05010KT 020V080 CAVOK 17/12 Q1024 EDBC 021750Z 03004KT 330V060 CAVOK 16/13 Q1023 UKHH 030130Z 02001MPS CAVOK 15/08 Q1019 070///65 NOSIG PFCL 030156Z AUTO 24011KT 10SM OVC021 14/11 A3005 RMK AO2 SLP177 T01440111 YYNG 030200Z AUTO 20011KT //// // ////// 11/02 Q1017 ULAA 030130Z 19001MPS 9999 FEW033 BKN/// 09/07 Q1021 NOSIG RMK QFE764/1019 SC070 EDDB 030150Z 02008KT CAVOK 14/10 Q1024 NOSIG EDDC 030150Z 01004KT 9999 FEW004 BKN006 12/12 Q1023 EDDE 030150Z 06003KT 0150 R10/0200V0275N FG FEW010 10/10 Q1023 EDDF 030150Z 03012KT CAVOK 14/12 Q1022 NOSIG EDDG 030150Z 02001KT 9999 0500E R25/0325V0550U BCFG NSC 11/11 Q1024 TEMPO 0700 FG EDDH 030150Z 06006KT CAVOK 10/10 Q1026 NOSIG KAAA 030155Z AUTO 00000KT 10SM CLR 22/19 A2993 RMK AO2 T02200186 KC09 030155Z AUTO 00000KT 10SM CLR 20/18 A2993 RMK AO2 T02020179 PFEL 030158Z AUTO 20005KT 10SM OVC029 08/04 A2998 RMK AO2 RAE08 SLP158 P0000 T00780044 EDDK 030150Z 04003KT 9999 MIFG NSC 11/10 Q1023 NOSIG EDDL 030150Z 06007KT 9999 MIFG FEW007 13/12 Q1023 NOSIG EDDM 030150Z VRB01KT 4000 -DZRA FEW003 BKN007 OVC020 12/12 Q1020 TEMPO 2500 DZRA EDDN 030150Z VRB02KT 9999 FEW016 BKN028 13/12 Q1021 KAAF 030153Z AUTO 00000KT 10SM CLR 27/23 A3002 RMK AO2 SLP166 T02670233 VCBI 030010Z 15004KT 9999 SCT015 BKN090 24/23 Q1011 NOSIG EDDP 030150Z 04006KT 9999 FEW010 BKN025 13/12 Q1024 TEMPO BKN010 UKKK 030130Z 04004MPS CAVOK 16/15 Q1019 08CLRD70 NOSIG EDDR 030150Z 05008KT CAVOK 13/12 Q1021 UKKM 030100Z AUTO 02004MPS 9999 ///093 16/15 Q1019 EDDS 030150Z 36006KT 360V070 9999 FEW013 BKN017 14/13 Q1020 EDDT 030150Z 03003KT 9999 BKN048 14/10 Q1025 ZPPP 030100Z 02003MPS 350V050 5000 -SHRA BR FEW005 SCT016 OVC033 16/16 Q1025 NOSIG KABE 030151Z 24017G23KT 10SM CLR 24/19 A2987 RMK AO2 SLP110 T02440189 EDDV 030150Z 06005KT CAVOK 10/09 Q1025 EDFE 021820Z 06002KT 9999 FEW028 BKN071 17/13 Q1021 EDDW 030150Z 04003KT CAVOK 12/10 Q1025 KAAO 030154Z AUTO 15004KT 10SM FEW075 SCT090 25/21 A2993 RMK AO2 SLP124 T02500206 UKLI 021930Z 00000MPS CAVOK 18/10 Q1017 28090070 NOSIG KABH 021456Z AUTO 17010KT 9SM BKN006 OVC011 17/15 A3020 RMK AO2 CIG 002V009 SLP163 6//// T01670150 51004 PNO $ KABI 030152Z 15004KT 10SM CLR 31/16 A2992 RMK AO2 SLP101 T03110156 EDFH 030150Z 08005KT 9999 SCT007 SCT034 12/12 Q1022 UKLL 030130Z 05005MPS 030V090 5000 BR OVC004 15/15 Q1020 31CLRD80 NOSIG KACB 030156Z AUTO 00000KT 10SM CLR 15/14 A2988 RMK AO2 T01540139 KAAT 030155Z AUTO 31013KT 6SM HZ CLR 28/M01 A2986 RMK AO2 SLP076 T02781006 KC29 030155Z AUTO 00000KT 10SM CLR 17/16 A2993 RMK AO1 T01690156 UKLN 021500Z 07002MPS 040V100 CAVOK 27/10 Q1014 1509//70 NOSIG EDFM 021920Z 06004KT 9999 FEW036 BKN080 17/13 Q1022 UKLR 021500Z 05006MPS CAVOK 23/14 Q1017 30090070 NOSIG KC35 030155Z AUTO 00000KT 10SM CLR A2991 RMK AO2 KABQ 030152Z 13007KT 10SM FEW130 28/00 A3002 RMK AO2 SLP074 T02830000 KABR 030153Z AUTO 17008KT 10SM FEW110 18/13 A2976 RMK AO2 SLP078 T01780133 UKLU 021900Z 06006MPS 9999 BKN200 22/12 Q1012 10090070 NOSIG KACJ 030155Z AUTO 16007KT 10SM VCTS SCT065 BKN085 BKN120 23/22 A3008 RMK AO2 LTG DSNT N SE AND S KACK 030153Z AUTO 20010KT 1/2SM R24/1800V2200FT FG VV001 21/21 A2983 RMK AO2 SLP101 T02110206 TSNO KADC 030153Z AUTO 20004KT 10SM CLR 16/13 A2980 RMK AO2 KADF 030156Z AUTO 00000KT 10SM CLR 24/23 A2998 RMK AO2 T02380227 RAB10E23 P0000 SLP166 $ KABY 030032Z 10019G26KT 10SM TS FEW048 BKN065 OVC075 27/21 A3003 RMK AO2 PK WND 12028/0010 LTG DSNT NE TSB26 KADG 030153Z AUTO 00000KT 10SM CLR 18/17 A2995 RMK AO2 SLP142 T01830167 KACP 030155Z AUTO 00000KT 10SM -RA SCT023 SCT029 BKN036 23/22 A2999 RMK AO2 LTG DSNT E P0004 T02300221 KACQ 030155Z AUTO 20004KT 10SM CLR 15/12 A2992 RMK AO2 KADH 030155Z AUTO 15007KT 10SM CLR 27/21 A2993 RMK AO2 EDHI 021820Z 05009KT CAVOK 18/12 Q1024 EDGS 021950Z 07004KT 3000 BR SCT001 BKN004 13/13 Q1024 KACT 030151Z 14011KT 10SM CLR 31/21 A2990 RMK AO2 SLP117 T03110211 EDHK 021550Z 05008KT 9999 FEW031 17/12 Q1025 EDHL 021950Z 08005KT CAVOK 13/12 Q1026 RMK ATIS FOX KACV 030153Z AUTO 34009KT 9SM CLR 16/11 A2984 RMK AO2 SLP110 T01610106 KADM 030055Z 13005KT 10SM SKC 30/22 A2989 KAEG 030148Z 13007KT 10SM SCT120 26/01 A3006 KACY 030154Z AUTO 00000KT 10SM SCT080 SCT110 27/23 A2988 RMK AO2 SLP117 T02670228 TSNO KADS 030150Z 15014G21KT 13SM SKC 31/21 A2991 KAEJ 030155Z AUTO 27010KT 10SM SCT120 21/M03 A3019 RMK AO2 T02051030 DNAA 021600Z 29004KT 9999 BKN010 26/20 Q1014 NOSIG EDJA 021950Z 00000KT 8000 SCT021 BKN030 BKN084 11/10 Q1022 UKON 021700Z 08003MPS CAVOK 27/09 Q1012 NOSIG KAEL 030152Z AUTO 00000KT 10SM CLR 18/15 A2992 RMK AO2 KADU 030155Z AUTO 23003KT 10SM CLR 18/16 A2997 RMK AO2 UKOO 030130Z 03005MPS CAVOK 20/17 Q1013 34090065 NOSIG KADW 030158Z AUTO 13003KT 10SM SCT130 24/23 A2990 RMK AO2 DZE0107 SLP129 P0000 T02390233 $ CWAE 030100Z 18002KT 15SM -RA OVC022 11/10 A2980 RMK SC8 LAST OBS/NEXT 031300UTC WND ESTD SLP091 DENSITY ALT 2300FT KAFF 030158Z AUTO 19005KT 10SM CLR 21/09 A3010 RMK AO2 SLP121 T02100093 CWAF 030100Z AUTO 19011KT 13/13 RMK AO1 T01270127 KAFJ 030155Z AUTO 00000KT 10SM CLR 19/18 A2999 RMK AO1 CWBA 030100Z AUTO 18003KT 18/15 RMK AO1 T01760151 CWAJ 030100Z AUTO 25004KT 21/20 RMK AO1 SLP124 T02130198 53013 KAFK 030155Z AUTO 08003KT 10SM CLR 20/17 A2996 RMK AO2 T02030165 DNAK 021700Z 32002KT 7000 SCT011 FEW020CB 23/22 Q1014 KAGC 030153Z 25007KT 10SM CLR 22/17 A2997 RMK AO2 SLP143 T02220172 TTPP 030100Z 00000KT 9999 SCT016 27/24 Q1012 KAFN 030152Z AUTO 20007KT 10SM CLR 24/22 A2979 RMK AO2 SLP085 T02390217 DNBE 021100Z 27007KT 9999 BKN009 28/24 Q1016 CWBE 030100Z AUTO 29012KT 19/14 RMK AO1 PK WND 28020/0004 SLP104 T01940139 53011 KAEX 030153Z VRB03KT 10SM -RA CLR 24/23 A2997 RMK AO2 PRESRR SLP150 P0000 T02440233 KAFO 030155Z AUTO 15006KT 10SM CLR 18/05 A2998 RMK AO2 KC75 030155Z AUTO 00000KT 10SM SCT050 19/18 A2994 RMK AO2 T01930177 KAFP 030155Z AUTO 00000KT 10SM CLR 24/22 A3001 RMK AO2 T02390223 CWAQ 030100Z AUTO 22006KT 19/05 RMK AO1 SLP058 T01900051 56008 PFKT 022108Z 24006KT 10SM FEW025 OVC080 08/03 A2995 RMK VIA PHONE CWAR 030100Z AUTO 14004KT 11/10 RMK AO1 SLP193 T01110097 50005 DNCA 022100Z 18003KT 8000 BKN007 24/24 Q1014 CWCA 030100Z 21016G21KT 15SM FEW070 BKN200 18/07 A2968 RMK AC2CS2 SLP051 CWBK 030100Z AUTO 17011KT 20/19 RMK AO1 SLP117 T02020189 50001 PFKW 030156Z AUTO 01005KT 4SM BR SCT006 BKN011 OVC016 11/10 A3002 RMK AO2 SLP166 T01110100 $ CWAV 030100Z AUTO 00000KT 09/08 RMK AO1 SLP092 T00930078 51001 KAFW 030153Z 14015KT 10SM FEW300 32/21 A2988 RMK AO2 SLP100 T03170206 CWCF 030100Z AUTO 20003KT 15/12 RMK AO1 SLP036 T01460118 52002 CWBO 030100Z AUTO 30001KT 14/10 RMK AO1 SLP064 T01350103 50000 CWCI 030100Z AUTO 23007KT 12/11 RMK AO1 SLP094 T01170108 53002 KAIA 030153Z AUTO 13005KT 10SM CLR 21/12 A2986 RMK AO2 SLP083 T02110122 KAGS 030153Z 07003KT 10SM CLR 23/22 A3004 RMK AO2 SLP171 T02280217 CWDA 030100Z AUTO 32003KT 13/12 RMK AO1 SLP126 T01290121 58010 CWCJ 030100Z AUTO 17002KT 12/12 RMK AO1 SLP081 T01240115 55001 CWBS 030100Z AUTO 24011KT 21/19 RMK AO1 T02110190 EDMA 021850Z 33003KT 9999 SCT020 BKN077 14/14 Q1021 KAIB 030155Z AUTO 22005KT 10SM CLR 26/00 A3006 RMK AO2 CWBT 030100Z AUTO 11004KT 17/16 RMK AO1 SLP075 T01690160 58005 KAID 021955Z 27010KT 10SM BKN025 24/20 A2997 CWBU 030100Z AUTO 23005KT 14/09 RMK AO1 SLP058 T01400091 52004 CWCL 030100Z AUTO 32003KT 9SM 11/06 A2981 RMK SLP101 CWBV 030100Z AUTO 18004KT 19/ RMK AO1 SLP125 T0186 KAHN 030151Z AUTO 19006KT 10SM VCTS BKN050 OVC065 27/21 A3006 RMK AO2 LTG DSNT E AND SE TSB50 SLP170 T02720206 EDLN 021820Z 09004KT CAVOK 18/15 Q1023 RMK ATIS A CWCO 030100Z AUTO 22002KT 17/14 RMK AO1 SLP098 T01720143 53007 KAIG 030155Z AUTO 00000KT 10SM CLR 14/12 A2991 RMK AO2 T01410120 CWBY 030100Z AUTO 14012G18KT 17/16 RMK AO1 PK WND 15018/0007 SLP070 T01660164 57003 EDLP 030150Z 15005KT 8000 NSC 09/09 Q1024 RMK ATIS BRA KAHQ 030155Z AUTO 00000KT 10SM CLR 19/15 A2995 RMK AO2 T01940154 CWBZ 030100Z AUTO 14005KT 18/17 RMK AO1 5PAST HR PRESFR 8001 SLP061 P0010 T01800172 50025 UMBB 021330Z 04004MPS 7000 BKN026 SCT100 17/10 Q1020 R11/CLRD// NOSIG KD07 030156Z AUTO 01004KT 21/09 A2979 RMK AO1 SLP083 T02110094 OOMS 030050Z VRB01KT 7000 FEW010 SCT250 29/25 Q1001 NOSIG CWDJ 030100Z AUTO 36003KT 17/10 RMK AO1 SLP069 T01720098 58003 KAIK 030155Z AUTO 20004KT 10SM CLR 23/23 A3007 RMK AO2 LTG DSNT NW PNO KBAB 030158Z AUTO 19007KT 10SM CLR 29/13 A2965 RMK AO2 SLP114 T02920130 $ CWCT 030100Z AUTO 19006KT 12/08 RMK AO1 SLP075 T01170082 58004 CWDK 030100Z AUTO 12/08 RMK AO1 SLP080 T01170082 58002 CWEB 030100Z AUTO 28030KT 15/12 RMK AO1 PK WND 28037/0025 SLP123 T01530119 50000 KBAC 030155Z AUTO 25005KT 10SM BKN090 18/14 A2975 RMK AO2 KBAD 030158Z AUTO 17006KT 10SM CLR 23/23 A2998 RMK AO2 SLP153 T02280228 $ CWDM 030100Z AUTO 20009KT 16/16 RMK AO1 SLP114 T01580156 56009 EDLV 022150Z VRB02KT 5000 BR NSC 16/15 Q1024 PFNO 030158Z AUTO 26024G30KT 6SM HZ SCT025 SCT033 BKN040 06/02 A2989 RMK AO2 PK WND 26030/0157 RAB12E23 SLP123 P0000 T00610017 CWEE 030100Z AUTO 17/17 RMK AO1 SLP034 T01740166 51011 EDLW 022050Z 06004KT 8000 FEW033 15/13 Q1024 RMK ATIS L KBAF 030153Z 20007KT 10SM CLR 26/22 A2976 RMK AO2 SLP075 T02560222 KAIO 030155Z AUTO 22005KT 10SM CLR 18/16 A2996 RMK AO2 CWEF 030100Z AUTO 16015G20KT 17/ RMK AO1 PK WND 14023/0032 SLP127 T0170 56005 CWDO 030100Z AUTO 18010G17KT 15/10 RMK AO1 PK WND 14019/0011 SLP152 T01460099 58004 EDMO 021650Z 31005KT 9999 SCT025 BKN085 14/11 Q1020 KAJG 030155Z AUTO 00000KT 2SM BR CLR 22/21 A2999 RMK AO2 CWEH 030100Z AUTO 28004KT 18/07 RMK AO1 SLP053 T01780070 57009 CWDQ 030100Z AUTO 13003KT 19/18 RMK AO1 SLP053 T01900184 50002 EEEI 030050Z 17005KT 9999 BKN079 07/06 Q1027 NOSIG KBAK 030150Z 00000KT 10SM SCT025 22/21 A2997 KBBB 030154Z AUTO 21006KT 10SM CLR 17/14 A2984 RMK AO2 KAIT 030153Z AUTO 18006KT 10SM CLR 19/14 A2980 RMK AO2 CWEK 030100Z AUTO 31009KT 16/ RMK AO1 PK WND 31017/0005 SLP169 T0162 50001 CWDT 030100Z AUTO 09001KT 17/17 RMK AO1 SLP043 T01720166 53003 CWEL 030100Z AUTO 31018KT 15/12 RMK AO1 2PAST HR 7006 PK WND 32023/0039 SLP091 P0001 T01450123 50002 KBBD 030155Z AUTO 13010KT 10SM CLR 31/19 A2992 RMK NWWW 030200Z AUTO 24005KT 200V270 9999 BKN028/// BKN040/// BKN056/// ///TCU 24/19 Q1010 CWDV 030100Z AUTO 20001KT 13/11 RMK AO1 SLP083 T01330111 53002 CWFD 030100Z AUTO 22011KT 9SM CLR 01/ A2957 RMK SLP061 KBAN 030152Z AUTO 25007KT CLR 23/M04 A3005 RMK AO2 SLP094 T02331039 $ DNEN 022100Z 00000KT 8000 SCT010 FEW019CB 25/24 Q1014 NOSIG KAJO 030156Z AUTO 28010KT 10SM CLR 26/18 A2976 RMK AO2 T02550177 SLP070 $ KBBF 030155Z AUTO 15014KT 7SM FEW023 BKN085 30/24 A2995 RMK A01 ULLI 030130Z 26002MPS 220V290 CAVOK 10/07 Q1027 NOSIG CWFF 030100Z AUTO 03003KT 16/09 RMK AO1 SLP064 T01560086 50003 KD25 030155Z AUTO 36011G16KT 10SM SCT050 BKN060 15/12 A2991 RMK AO2 T01490115 KBBG 030150Z 00000KT 10SM SKC 20/19 A3004 CWEP 030100Z AUTO 18011G16KT 19/18 RMK AO1 PK WND 16018/0009 SLP121 T01880181 50000 KAIZ 030155Z AUTO 00000KT 10SM CLR 21/19 A3000 RMK AO1 KAKH 030154Z AUTO VRB04KT 10SM CLR 25/20 A3004 RMK AO2 SLP165 T02500200 CWEQ 030100Z AUTO 26005KT 15/09 RMK AO1 SLP054 T01520093 53002 CWDZ 030100Z AUTO 35004KT 17/07 RMK AO1 SLP055 T01680069 58005 CWER 030100Z AUTO 24011KT RMK AO1 CWFJ 030100Z AUTO 33006KT 14/08 RMK AO1 PK WND 35018/0006 T01350082 KALB 030151Z 30018G23KT 10SM FEW030 SCT060 OVC085 25/19 A2978 RMK AO2 WSHFT 0135 PRESRR SLP082 CB DSNT SW-NW MOV E T02500194 $ KBCB 030155Z AUTO 12004KT 10SM BKN045 BKN050 OVC085 23/22 A3007 RMK AO2 P0003 TSNO CWGB 030100Z AUTO 27018KT 16/12 RMK AO1 PK WND 28022/0054 SLP091 T01550119 58007 CWEU 030100Z 16007KT 15SM SCT015 01/M02 A2978 RMK SC3 SLP087 CWGD 030100Z AUTO 18001KT 17/15 RMK AO1 SLP115 T01660150 53008 KBCE 030153Z AUTO 21010KT 10SM CLR 20/01 A3017 RMK AO2 SLP109 T02000006 CWEW 030100Z AUTO 23004KT 20/18 RMK AO1 0PAST HR 1004 SLP067 P0004 T01960180 50010 KAKO 030153Z AUTO 17013G22KT 10SM CLR 23/11 A2994 RMK AO2 SLP092 T02330111 KBAX 030156Z AUTO 00000KT 10SM CLR 14/14 A2991 RMK AO2 T01420140 KBBP 030155Z AUTO 00000KT 5SM BR CLR 24/24 A3001 RMK AO2 KBAZ 030151Z AUTO 14011KT 10SM CLR 29/21 A2992 RMK AO2 SLP123 T02940211 EDNY 030150Z AUTO 01010KT 9000 FEW050 BKN065 13/10 Q1019 EDOP 021650Z 06007KT 020V080 CAVOK 19/10 Q1023 KAKQ 030154Z AUTO 22007KT 10SM CLR 29/21 A2994 RMK AO2 SLP138 T02890211 TSNO KAJZ 030155Z AUTO 04004KT 10SM CLR 28/03 A2996 RMK AO2 T02790029 CWFQ 030100Z AUTO 34002KT 19/18 RMK AO1 T01940184 CWEZ 030100Z AUTO 26002KT 14/12 RMK AO1 2PAST HR 5008 SLP091 P0001 T01380115 50002 KALI 030153Z AUTO 12015G24KT 10SM -RA FEW033 29/23 A2990 RMK AO2 SLP123 P0000 T02890233 KAKR 030154Z AUTO 25006KT 10SM CLR 19/17 A2996 RMK AO2 SLP139 T01940172 KAMA 030153Z AUTO 14012KT 10SM SCT085 28/19 A2995 RMK AO2 LTG DSNT N SLP087 T02830189 ULMM 030130Z VRB02MPS CAVOK 10/08 Q1013 NOSIG RMK QFE753 31090070 KALK 030156Z AUTO 26005KT 10SM CLR 27/07 A3003 RMK AO2 SLP075 T02720067 TSNO KBCK 030155Z AUTO 00000KT 10SM CLR 15/15 A2989 RMK AO2 T01480147 KD39 030145Z AUTO 20006KT 10SM CLR 17/14 A2984 RMK AO2 CWGL 030100Z AUTO 28011KT 20/16 RMK AO1 SLP099 T02000158 53013 KALM 030155Z AUTO 00000KT 10SM CLR 30/01 A2993 RMK AO2 KALN 030150Z 00000KT 10SM SKC 21/20 A2999 CWGM 030100Z AUTO 03011G19KT 14/07 RMK AO1 PK WND 04019/0056 T01360069 KBBW 030153Z AUTO 15009KT 10SM CLR 22/16 A2990 RMK AO2 SLP109 T02170161 KBDE 030153Z AUTO 20010KT 10SM -RA FEW060 SCT080 OVC100 14/12 A2970 RMK AO2 RAB32 SLP062 P0003 T01390117 TSNO KALO 030154Z AUTO 20003KT 10SM CLR 19/16 A2993 RMK AO2 SLP133 T01940161 DNGO 021700Z 27007KT CAVOK 23/18 Q1012 KAMG 030153Z AUTO 00000KT 10SM CLR 23/22 A3004 RMK AO2 SLP170 T02330222 KBDG 030155Z AUTO 00000KT 10SM CLR 27/01 A3010 RMK AO1 T02740014 KBDH 030155Z AUTO 18003KT 10SM CLR 18/13 A2987 RMK AO2 NZAA 030130Z AUTO 26004KT 220V300 9999 BKN027/// OVC060/// 17/12 Q1011 NOSIG OOSA 030050Z AUTO 17006KT 6000 27/24 Q1004 CWHI 030000Z AUTO 02006KT 16/07 RMK AO1 T01570067 CWGR 030100Z AUTO 17013KT 18/17 RMK AO1 PK WND 17019/0008 SLP112 T01750171 58003 ZSAM 030100Z VRB01MPS CAVOK 31/25 Q1010 NOSIG KALS 030152Z AUTO 22008KT 10SM CLR 19/02 A3015 RMK AO2 SLP131 T01890022 KBEA 030155Z AUTO 12010G15KT 10SM CLR 28/24 A2993 RMK AO2 T02800236 KBCT 030053Z 12004KT 10SM FEW030 M/M A3002 KD50 030155Z AUTO 05004KT 10SM CLR 14/11 A2975 RMK AO2 KANB 030153Z AUTO 24003KT 10SM CLR 27/21 A3001 RMK AO2 SLP151 T02670211 DNIB 022100Z 18007KT 9999 FEW011 24/22 Q1015 CWGT 030100Z AUTO 29013KT 16/12 RMK AO1 PK WND 31017/0058 SLP096 T01560122 58005 KBDL 030151Z 20009KT 10SM FEW050 SCT200 27/22 A2976 RMK AO2 SLP075 T02720217 CWHL 030100Z AUTO 28011KT 14/10 RMK AO1 SLP172 T01350102 50001 KAND 030156Z AUTO 16011G21KT 10SM VCTS BKN060 24/21 A3006 RMK AO2 LTG DSNT E-S SLP169 T02440211 KBED 030156Z 20008KT 10SM CLR 24/22 A2975 RMK AO2 SLP084 T02390217 CWID 030100Z AUTO 18003KT 18/04 RMK AO1 SLP069 T01770035 56006 CWHM 030100Z AUTO 25009KT 19/19 RMK AO1 T01930192 EDQM 030150Z AUTO 02007KT 4200NDV OVC003/// 10/09 Q1023 KALW 030153Z AUTO 24016G24KT 10SM CLR 26/06 A2970 RMK AO2 SLP051 T02560056 KBDN 030155Z AUTO 32016G21KT 10SM CLR 19/05 A2990 RMK AO2 KANE 022345Z 23004KT 10SM SKC 23/11 A2987 KAMN 030153Z AUTO 00000KT 10SM CLR 16/15 A2992 RMK AO2 T01560145 CWGW 030100Z AUTO 00000KT 12/09 RMK AO1 8PAST HR 5001 SLP078 P0003 T01170089 50008 CWHN 030100Z AUTO 30003KT 270V340 9SM SCT064 SCT085 12/11 A2972 RMK SLP079 KALX 030155Z AUTO 00000KT 10SM CLR 27/22 A3002 RMK AO2 LTG DSNT SE T02700215 PNO CWHO 030100Z AUTO 23014G22KT 18/12 RMK AO1 PK WND 23028/0042 SLP993 T01780115 58014 CWGX 030100Z AUTO 31004KT 16/10 RMK AO1 SLP997 T01550102 53005 KD55 030155Z AUTO 11003KT 10SM CLR 14/12 A2972 RMK AO2 PFSH 030158Z AUTO 25015KT 10SM -RA BKN031 OVC041 08/04 A3000 RMK AO2 RAB36 SLP174 P0000 T00830044 CWIG 030100Z AUTO 21011KT RMK AO1 CWHP 030100Z AUTO 17019KT RMK AO1 PK WND 16021/0052 58010 CWGY 030100Z AUTO 10005KT 14/09 RMK AO1 SLP072 T01390090 57012 KBEH 030153Z AUTO 00000KT 10SM CLR 19/17 A2993 RMK AO2 SLP131 T01890172 CWHQ 022200Z AUTO 29005KT 20/20 RMK AO1 3PAST HR M PK WND 27019/2128 P0040 T02000195 50116 KBDR 030152Z AUTO 23008KT 10SM CLR 27/23 A2979 RMK AO2 SLP088 T02720228 KD57 030155Z AUTO RMK AO2 PNO PWINO TSNO CWII 030100Z AUTO 27007KT 18/13 RMK AO1 T01840132 KANJ 030155Z AUTO 29003KT 10SM CLR 14/13 A2985 RMK AO2 SLP105 T01390128 CWIJ 030100Z AUTO 26010KT 08/06 RMK AO1 PK WND 24017/0040 SLP095 T00810059 54000 KANK 030155Z AUTO 27007KT 10SM CLR 23/00 A3022 RMK AO1 T02290002 KD60 030155Z AUTO 09005KT 10SM CLR 14/08 A2978 RMK AO2 OPKC 030155Z 01009KT 6000 BKN100 31/22 Q1002 NOSIG CWJB 030100Z AUTO 24001KT 20/19 RMK AO1 4PAST HR M P0005 T01980194 50014 CWIK 030100Z AUTO 30005KT 17/08 RMK AO1 SLP071 T01680084 53003 CWHT 030100Z AUTO 27007KT 14/02 RMK AO1 SLP115 T01350022 56008 EDSB 022120Z 03006KT 9999 SCT043 17/12 Q1021 KBDU 030156Z AUTO 00000KT 10SM CLR 22/10 A2996 RMK AO2 CWJC 030100Z AUTO 04011G16KT 06/05 RMK AO1 PK WND 05017/0000 SLP079 T00620054 53007 ULOO 030130Z 00000MPS 3000 MIFG BR NSC 07/07 Q1026 NOSIG RMK QFE766 CWIL 030100Z AUTO 16015KT 07/ A2979 RMK SLP097 KBFD 030153Z AUTO 30007KT 10SM BKN017 18/16 A2997 RMK AO2 SLP134 T01780161 DNIM 022100Z 23003KT 5000 BKN010 24/23 Q1014 CWHV 030100Z AUTO 24003KT 22/19 RMK AO1 SLP061 T02190194 50002 CWJD 030100Z AUTO 28003KT 14/10 RMK AO1 SLP037 T01380103 51004 UMGG 030100Z 05003MPS 6000 NSC 10/10 Q1023 R10/CLRD// NOSIG KAMW 030153Z AUTO 22004KT 10SM CLR 17/16 A2995 RMK AO2 SLP136 T01720161 NZAP 030100Z 23005KT 20KM BKN047 12/10 Q1012 RMK ALT VATSIM USE ONLY KBFF 030153Z AUTO 08005KT 10SM CLR 19/13 A2985 RMK AO2 SLP079 T01940128 CXAF 030100Z AUTO 03004KT 10/09 RMK AO1 T01040086 TUPJ 030100Z 10007KT 9999 FEW022 SCT250 28/25 Q1016 RMK A3001 CXAG 030100Z AUTO 02010KT 12/08 RMK AO1 T01220084 CWIP 030100Z AUTO 07006KT 16/ RMK AO1 4PAST HR M P0009 T0161 50024 KAOH 030153Z AUTO 00000KT 9SM FEW024 BKN037 BKN060 22/19 A2997 RMK AO2 SLP141 T02170189 KANQ 030155Z AUTO 00000KT 10SM CLR 17/14 A2996 RMK CWJH 030100Z AUTO 33003KT 13/08 RMK AO1 SLP058 T01250080 51009 KBFI 030153Z VRB06G15KT 10SM SCT025 BKN050 19/12 A2980 RMK AO2 SLP091 T01940122 OPLA 030155Z 03009KT 5000 FU SCT040 SCT100 24/22 Q1006/A29.70 NOSIG CWJI 030100Z AUTO 09008KT 18/07 RMK AO1 SLP065 T01790069 58011 KAPA 030153Z 17012KT 10SM FEW150 24/10 A3001 RMK AO2 SLP103 T02390100 PHBK 030156Z AUTO 28007KT 10SM CLR 29/21 A2996 RMK AO2 SLP146 T02940206 TSNO CXBA 030100Z AUTO 01010KT 13/09 RMK AO1 T01270090 CXAJ 030100Z AUTO 10003KT 12/08 RMK AO1 T01170082 CWIS 030100Z AUTO 25002KT 18/17 RMK AO1 SLP064 T01750172 50001 EEKA 021550Z 09003KT CAVOK 16/09 Q1026 CXAK 030100Z AUTO 32005KT 15/07 RMK AO1 T01530073 KAPC 030154Z 20015KT 10SM CLR 18/15 A2975 RMK AO2 SLP066 T01830150 KBFL 030154Z 32007KT 10SM CLR 37/08 A2967 RMK AO2 SLP039 T03670078 KBGD 030151Z AUTO 14016G21KT 10SM CLR 31/17 A2991 RMK AO2 LTG DSNT SW SLP083 T03110172 KBFM 030153Z AUTO 00000KT 10SM CLR 26/24 A3005 RMK AO2 LTG DSNT S SLP175 T02610244 CWKD 030100Z AUTO 25001KT 16/15 RMK AO1 SLP035 T01620147 56003 KANW 030155Z AUTO 15008KT 10SM SCT065 SCT075 22/16 A2985 RMK AO2 T02170163 KBGE 030155Z AUTO 15009KT 10SM BKN041 BKN049 BKN055 29/23 A3004 RMK AO2 LTG DSNT N AND SE CWIW 030100Z AUTO 30002KT 17/08 RMK AO1 SLP067 T01730083 58002 EEKE 030150Z AUTO 00000KT 9999NDV NSC 06/05 Q1028 KAOO 030153Z AUTO 00000KT 10SM BKN024 BKN050 OVC060 21/21 A2998 RMK AO2 RAE0058B05E22 SLP142 P0000 T02110206 KAPF 030153Z 12005KT 10SM CLR 24/22 A3002 RMK AO2 SLP163 T02440217 $ KBGF 030155Z AUTO 00000KT 10SM CLR 24/21 A3002 RMK KAPG 022350Z 00000KT 5SM BR SCT030 OVC100 23/21 A2986 RMK TSE45RAE45 LAST CWIX 030100Z AUTO 28010KT 19/19 RMK AO1 T01930190 CWJO 030100Z AUTO 14006KT 20/20 RMK AO1 SLP048 T02030195 53002 NZCH 030130Z AUTO 01002KT 9999 NCD 15/07 Q1009 NOSIG NZCI 030101Z 03007KT 5KM BKN003 15/13 Q1012 RMK NZNR VATSIM USE ONLY CWIY 030100Z AUTO 18001KT 22/20 RMK AO1 SLP071 T02190198 58002 CWKG 030100Z AUTO 13003KT 20/19 RMK AO1 SLP122 T02040192 50003 EDRZ 030120Z 03007KT CAVOK 13/13 Q1021 CWIZ 030100Z AUTO 26005KT 19/18 RMK AO1 T01930179 CWKH 030100Z AUTO 12/11 RMK AO1 2PAST HR 3001 SLP092 P0028 T01160106 50072 CXBI 030100Z AUTO 29007KT 15/14 RMK AO1 SLP109 T01520141 51014 CWJR 030100Z AUTO 32010G18KT 17/10 RMK AO1 PK WND 32018/0059 SLP059 T01650095 58015 CXCA 030100Z AUTO 19003KT 16/12 RMK AO1 SLP066 T01600124 53007 KBHB 030155Z 16004KT 1SM BKN002 OVC018 19/19 A2977 RMK AO1 NZCM 022355Z 00000KT 9999 -SN BKN025 OVC075 M22/M27 A2905 RMK SNB12 SLP843 CXBK 030100Z AUTO 01006KT 17/08 RMK AO1 SLP062 T01690077 58005 CWKK 030100Z AUTO 21004KT 16/13 RMK AO1 SLP065 T01590131 53004 CXAT 030100Z AUTO 32008KT 03/01 RMK AO1 SLP089 T00300010 53002 CWLB 030100Z AUTO 32002KT 13/08 RMK AO1 SLP080 T01250083 51005 CWJT 030100Z AUTO 08001KT 18/18 RMK AO1 0PAST HR 5003 SLP063 P0008 T01810178 50020 KBHC 030155Z AUTO 00000KT 10SM -RA CLR 24/23 A3005 RMK AO2 LTG DSNT NW EDTL 021750Z 01004KT 9999 FEW045 BKN060 18/12 Q1020 CWJU 030100Z AUTO 34017KT 15/11 RMK AO1 PK WND 34022/0009 SLP201 T01470109 50002 CWLC 030100Z AUTO 28013KT 14/ RMK AO1 T0138 KBGM 030153Z 27009KT 8SM SCT010 18/18 A2990 RMK AO2 RAE0054 SLP113 P0000 T01830178 CXCD 030100Z AUTO 02002KT 14/06 RMK AO1 T01430055 CWJV 030100Z AUTO 28003KT 13/12 RMK AO1 8PAST HR 3001 SLP070 P0007 T01280121 50018 CWKM 030100Z AUTO 25004KT 02/ A2970 RMK SLP063 KAPN 030154Z AUTO 00000KT 10SM CLR 17/13 A2988 RMK AO2 SLP116 T01720133 KBFW 030154Z AUTO 00000KT 7SM CLR 11/11 A2980 RMK AO2 DNKN 021700Z 24012KT 9999 SCT016 29/22 Q1012 NOSIG CWLE 030100Z AUTO 03006KT 14/09 RMK AO1 SLP067 T01440094 55005 CWJW 030000Z AUTO 34012G20KT 11/04 RMK AO1 PK WND 34024/2336 SLP085 T01070039 53004 VCRI 030110Z 24011KT 9999 FEW016 25/22 Q1011 NOSIG CWKO 030100Z AUTO 24005KT 18/06 RMK AO1 SLP074 T01820063 58007 CXBO 030100Z AUTO 00000KT RMK AO1 6PAST HR M P0010 50026 CWJX 030100Z AUTO 04008KT 13/10 RMK AO1 5PAST HR 0001 SLP063 P0002 T01320101 50005 UMII 021700Z 36003MPS P6000 SCT033 13/12 Q1023 R05/CLRD// NOSIG UNAA 030130Z 33002MPS 9999 SCT033CB BKN100 09/04 Q1021 NOSIG RMK QFE743 52090065 CWKP 030100Z AUTO 22023KT 10/ A2949 RMK SLP008 CXCH 030100Z AUTO 20/17 RMK AO1 T02010168 KBGR 030153Z 17005KT 1/2SM R15/5000VP6000FT BR OVC002 20/19 A2975 RMK AO2 SFC VIS 3/4 SLP070 T02000194 CXBR 030100Z AUTO 02011KT 12/08 RMK AO1 PK WND 02019/0040 T01240081 CWLI 030100Z AUTO 35017KT 00/ A2956 RMK SLP021 KARA 030153Z AUTO 01009KT 10SM BKN027 BKN037 27/23 A3005 RMK AO2 SLP175 T02670233 KARB 030153Z AUTO 00000KT 10SM CLR 16/14 A2993 RMK AO2 SLP133 T01610144 KBHK 030151Z AUTO 09004KT 10SM CLR 16/09 A2979 RMK AO2 SLP077 T01610089 DNKT 021100Z 27006KT 9999 FEW016 30/21 Q1016 CXDB 030100Z AUTO 29004KT 16/06 RMK AO1 T01620055 CXCK 030100Z AUTO 12008KT 17/02 RMK AO1 SLP096 T01690015 55008 NZDN 030051Z 35004KT 25KM HZ NSC 14/05 Q1010 RMK VATSIM USE ONLY KBHM 030153Z 17004KT 10SM SCT250 27/22 A3000 RMK AO2 SLP150 T02720217 KBID 030155Z AUTO 21013G18KT 10SM CLR 23/20 A2982 RMK AO1 CWLM 030100Z AUTO 27010G18KT 14/12 RMK AO1 PK WND 26020/0009 SLP096 T01350124 55006 KBIE 030155Z AUTO 09003KT 10SM CLR 23/16 A2994 RMK AO2 T02280155 CXBW 030000Z AUTO 01013KT 18/05 RMK AO1 PK WND 02017/2331 T01790048 CWME 030100Z AUTO 23005KT 16/11 RMK AO1 SLP133 T01620109 58001 CXDE 030100Z AUTO 11/07 RMK AO1 SLP054 T01130067 55001 KBIF 030158Z 15004KT 10SM FEW120 34/M01 A2991 RMK AO2A SLP064 T03401011 $ CWKW 030100Z AUTO ///// 03/ A2921 RMK SLP916 EDVE 022050Z 00000KT 8000 NSC 12/12 Q1024 KAQO 030155Z AUTO 17009KT 10SM CLR 32/20 A2994 RMK AO2 CWKX 030100Z AUTO 25005KT 15/04 RMK AO1 SLP144 T01510040 58010 KD95 030154Z AUTO 00000KT 10SM CLR 16/15 A2993 RMK AO2 T01620147 KAQP 030155Z AUTO 20006KT 10SM CLR 21/13 A2983 RMK AO2 KARG 030155Z AUTO 00000KT 7SM CLR 23/20 A2997 RMK AO1 OPNH 030200Z 00000KTS 5000M HZ NSC 29/23 Q.1001 KAPY 030155Z AUTO 13010G17KT 10SM SCT039 30/21 A2986 RMK AO2 T02970211 CWLP 030100Z AUTO 31015KT 13/10 RMK AO1 PK WND 31022/0010 SLP145 T01260099 55000 CXCP 030100Z AUTO 35008KT 11/09 RMK AO1 T01080089 EDTY 021750Z 36003KT 9999 FEW036 14/12 Q1021 KBIH 030156Z AUTO 15017G22KT 10SM CLR 33/M01 A2979 RMK AO2 SLP035 T03331006 UNBB 030130Z 35003MPS CAVOK 05/03 Q1021 NOSIG RMK QFE743/0991 24CLRD66 KAQR 030155Z AUTO 00000KT 10SM CLR 27/22 A2993 RMK AO2 OPMT 030158Z 05006KTS 4000 DZ FEW020ST SCT040 BKN120 26/23 Q1004 TEMPO RA CXDI 030100Z AUTO 25002KT 19/18 RMK AO1 SLP117 T01940175 53015 KBIJ 030155Z AUTO 00000KT 10SM VCTS SCT070 27/22 RMK AO2 LTG DSNT N THRU SE CXCS 030100Z AUTO 14002KT 13/09 RMK AO1 T01340088 CWLS 030100Z AUTO 18001KT 16/14 RMK AO1 SLP119 T01590144 53009 CXEA 030100Z AUTO 15001KT 16/12 RMK AO1 SLP051 T01610123 58004 CWMJ 030100Z AUTO 20002KT 19/18 RMK AO1 SLP068 T01860179 53003 CWNB 020600Z AUTO RMK AO1 CXDK 030100Z AUTO 34002KT 20/01 RMK AO1 SLP040 T01980010 56015 KBJC 030151Z 28005KT 30SM SCT080 25/08 A3000 EDVK 021950Z VRB01KT 9999 BKN045 14/13 Q1024 RMK ATIS G KBIL 030153Z 06004KT 10SM FEW110 23/08 A2971 RMK AO2 SLP035 T02280078 KE11 030155Z AUTO 15016G24KT 10SM CLR 31/14 A2992 RMK AO2 T03140143 CWNC 030100Z AUTO 29003KT 18/17 RMK AO1 SLP098 T01830169 53012 CXEC 030100Z AUTO 13/ RMK AO1 T0132 KASD 030153Z AUTO 01004KT 10SM CLR 26/24 A3004 RMK AO2 LTG DSNT N AND NW SLP172 T02610244 KAQV 030156Z AUTO 04005KT 10SM FEW050 24/23 A2999 RMK AO2 RAE20B28E53 SLP152 P0001 T02390228 KCAD 030154Z AUTO 21003KT 10SM CLR 13/13 A2992 RMK AO2 T01410138 KARM 030155Z AUTO 12005KT 10SM CLR 27/24 A2998 RMK AO2 T02650240 DNMM 022200Z VRB02KT 9999 SCT008 24/23 Q1016 NOSIG CWND 030100Z AUTO 30007KT 03/02 RMK AO1 SLP010 T00280015 53020 CWMM 030100Z AUTO 23003KT 14/13 RMK AO1 4PAST HR 6013 SLP087 P0009 T01420134 50024 KAQW 030152Z AUTO 00000KT 9SM CLR 22/21 A2975 RMK AO2 SLP072 T02220206 KASE 030153Z 19007KT 10SM BKN110 18/02 A3019 RMK AO2 SLP114 T01780022 KCAE 030156Z 00000KT 10SM BKN150 24/22 A3002 RMK AO2 RAE00 SLP161 P0000 T02440222 DNMN 021100Z 23012KT 9999 BKN011 27/23 Q1013 CWNE 030100Z AUTO 16006KT 19/18 RMK AO1 SLP096 T01940182 56001 KASG 030148Z 30007KT 10SM BKN250 23/20 A3004 RMK LAST CWLX 030100Z AUTO 32007KT 05/ A2968 RMK SLP066 KCAG 030153Z AUTO 20008KT 10SM CLR 18/05 A3003 RMK AO2 SLP125 T01780050 CXDP 030100Z AUTO 02004KT 13/09 RMK AO1 T01250087 CXEG 030100Z AUTO 13/09 RMK AO1 T01310086 CWLY 030157Z AUTO VRB02KT 9SM -RA BKN004 OVC080 12/12 A2980 RMK SLP093 KASH 030151Z AUTO 00000KT 10SM CLR 24/23 A2976 RMK AO2 T02440233 SLP316 KE16 030155Z AUTO 13011KT 10SM CLR 20/14 A2980 RMK AO2 UMKK 030130Z 00000MPS 2100 MIFG BR NSC 07/06 Q1027 NOSIG RMK QFE769/1026 CWNH 030100Z AUTO 17003KT 21/20 RMK AO1 SLP044 T02130198 55001 CWMQ 030100Z AUTO 02002KT 19/10 RMK AO1 SLP048 T01930099 56007 ZSHC 030130Z 30003MPS 9999 -SHRA SCT009 BKN020 FEW033CB 23/20 Q1010 BECMG TL0220 SHRA KARR 030152Z 28003KT 10SM FEW047 20/17 A2994 RMK AO2 SLP134 T02000172 KBJI 030150Z AUTO 21008KT 10SM SCT070 BKN100 BKN110 18/13 A2975 RMK AO2 LTG DSNT N T01750125 PFWS 030156Z AUTO 24016G19KT 10SM BKN016 OVC025 13/11 A3008 RMK AO2 RAE04 SLP192 P0000 T01330106 KBIS 030152Z AUTO 26003KT 10SM CLR 20/11 A2976 RMK AO2 SLP076 T02000111 VECC 030150Z 12007KT 2800 HZ SCT018 SCT100 29/26 Q1005 BECMG 3000 HZ KBJJ 030156Z AUTO 27003KT 10SM CLR 18/17 A2998 RMK AO2 SLP147 T01830172 TSNO KASJ 030155Z AUTO 18004KT 10SM CLR 25/21 A2998 RMK AO2 T02530211 KBKB 030154Z AUTO 00000KT 10SM -RA SCT120 24/22 A2997 RMK AO2 SLP173 P0003 T02390222 KCAK 030151Z 28006KT 10SM FEW030 21/18 A2997 RMK AO2 SLP139 T02060178 KART 030156Z AUTO 26009KT 10SM CLR 19/16 A2982 RMK AO2 SLP094 T01940161 CWNK 030100Z AUTO 09003KT 17/13 RMK AO1 T01680129 CWMT 030100Z AUTO 19004KT 16/05 RMK AO1 SLP071 T01580051 56006 CWOB 030155Z AUTO 10013KT 02/ A2956 KASL 030155Z AUTO 00000KT 10SM CLR 25/23 A3001 RMK AO1 T02450230 CWNL 030100Z AUTO 32002KT 16/15 RMK AO1 SLP107 T01550153 53010 CWOC 030100Z AUTO 08004KT 19/18 RMK AO1 SLP081 T01860184 58001 KBIV 030153Z AUTO 00000KT 10SM CLR 19/17 A2993 RMK AO2 SLP133 T01890167 KARV 030155Z AUTO 00000KT 10SM CLR 15/12 A2991 RMK AO2 T01520123 KBKD 030155Z AUTO 13006KT 7SM CLR 32/17 A2989 RMK AO2 T03220170 CWOD 030100Z AUTO 21006KT 19/17 RMK AO1 3PAST HR 3003 SLP017 P0001 T01910166 50003 CWNM 030100Z AUTO 04007KT 16/12 RMK AO1 SLP057 T01640123 58012 ZSFZ 030100Z 23003MPS 190V270 8000 NSC 31/24 Q1009 NOSIG KCBE 030151Z AUTO 24003KT 10SM CLR 26/20 A2998 RMK AO1 KARW 030155Z AUTO 00000KT 10SM CLR 26/25 A3003 RMK AO2 KBKE 030153Z AUTO 33014G20KT 10SM CLR 22/04 A2974 RMK AO2 SLP064 T02170044 TSNO KASN 030155Z AUTO 00000KT 10SM CLR 28/23 A3000 RMK AO2 LTG DSNT NE T02810225 CWOE 030100Z AUTO 33007KT 19/05 RMK AO1 SLP048 T01900049 56005 CXDW 030100Z AUTO 36003KT 16/14 RMK AO1 T01630135 KCAO 030155Z AUTO 16004KT 10SM CLR 23/16 A3005 RMK AO2 SLP112 T02280156 KBIX 030158Z AUTO 00000KT 10SM FEW220 28/23 A3005 RMK AO2 SLP179 T02830232 KCBF 030155Z AUTO 11004KT 10SM 20/18 A2994 RMK AO2 KBKF 030158Z 16008KT 10SM FEW080 FEW130 23/11 A3001 RMK AO2A SLP097 T02300111 KCBG 030155Z AUTO 17005KT 10SM CLR 20/12 A2984 RMK AO2 CWNP 030100Z AUTO 33003KT 14/12 RMK AO1 3PAST HR 6015 SLP059 P0001 T01360124 50003 CWNQ 030100Z AUTO 28005KT 21/20 RMK AO1 SLP053 T02090195 51002 CWMZ 030100Z AUTO 26018KT 19/15 RMK AO1 PK WND 27022/0026 SLP099 T01930153 53004 KCAR 030154Z AUTO 17005KT 10SM BKN014 22/20 A2971 RMK AO2 SLP062 T02170200 KCCA 030155Z AUTO 00000KT 5SM BR CLR 23/22 A3001 RMK AO2 KAST 030155Z AUTO 30012G21KT 10SM FEW019 17/12 A2994 RMK AO2 SLP140 T01670122 KCBK 030155Z AUTO 15006KT 10SM CLR 22/18 A2995 RMK AO2 CXET 030100Z AUTO 27003KT 17/16 RMK AO1 SLP108 T01740158 53011 KBKL 030153Z 20003KT 10SM CLR 21/16 A2993 RMK AO2 SLP133 T02060156 KATL 030152Z 00000KT 10SM FEW100 SCT250 26/22 A3004 RMK AO2 SLP160 FRQ LTG DSNT SE-S T02610217 EFET 030150Z AUTO 18005KT CAVOK 10/08 Q1013 CWPC 030100Z AUTO 29010KT RMK AO1 53018 KCBM 030158Z AUTO 22005KT 10SM CLR 24/24 A2998 RMK AO2 SLP153 T02400235 $ KCAV 030155Z AUTO 19004KT 10SM CLR 17/16 A2994 RMK AO2 CXFM 030100Z AUTO 33006KT 18/06 RMK AO1 T01810059 CWPD 030100Z AUTO 17003KT 15/15 RMK AO1 0PAST HR 3004 SLP039 P0027 T01450152 50070 UMMG 021400Z 06004G07MPS 9999 BKN026 OVC066 16/10 Q1021 NOSIG KBKN 030155Z AUTO 11012KT 10SM BKN065 25/21 A2991 RMK AO2 KASW 030155Z AUTO 00000KT 10SM CLR 18/17 A2995 RMK AO2 CWPE 030100Z AUTO 08006KT 16/16 RMK AO1 SLP103 T01570156 58006 KBLF 030152Z AUTO 25007KT 10SM -TSRA OVC003 20/18 A3014 RMK AO2 LTG DSNT NE-S TSB11E37B46 SLP167 P0016 T02000178 KASX 030153Z AUTO 15004KT 10SM CLR 14/12 A2987 RMK AO2 SLP117 T01390122 CWPF 030145Z AUTO 02002KT 14/12 RMK AO1 T01440121 KAUG 030153Z AUTO 16007KT 5SM BR OVC003 21/20 A2974 RMK AO2 SLP070 T02060200 KATP 030155Z AUTO 11007KT 8SM SCT023 BKN033 29/25 A3001 RMK A01 KBLH 030152Z AUTO 19008KT 10SM CLR 41/05 A2960 RMK AO2 SLP016 T04060050 KAUH 030155Z AUTO 14005KT 10SM CLR 20/18 A2993 RMK AO2 T01950177 PHHI 030158Z AUTO 06007KT 10SM OVC034 28/20 A2997 RMK AO2 SLP138 T02800201 $ NZGS 030050Z 08010KT 20KM VCSH SCT017 SCT023 PLWR 16/12 Q1012 RMK VATSIM USE ONL CXGH 030100Z AUTO 24002KT 18/12 RMK AO1 T01760122 CWNZ 030100Z AUTO 24002KT 13/12 RMK AO1 SLP060 T01250120 53010 KBLI 030200Z 21004KT 1 1/2SM R16/5500VP6000FT +RA BR BKN005 BKN010 OVC013 14/12 A2980 RMK AO2 RAB0157 P0001 OPPS 030200Z 00000KT 4000 HZ FEW070 FEW240 25/20 Q1008.2 NZHK 030100Z 27005KT 45KM SCT027 13/07 Q1012 RMK ALT VATSIM USE ONLY CXFR 030100Z AUTO 35003KT 11/08 RMK AO1 T01100076 ULWC 030130Z 34001MPS CAVOK 05/04 Q1023 NOSIG RMK QFE757/1010 KBKS 030155Z AUTO 10008KT 10SM SCT039 SCT055 SCT095 27/21 A2989 RMK AO1 T02680213 KE38 030155Z AUTO 15012G18KT 10SM CLR 28/14 A3006 RMK AO2 T02760140 CXHA 030100Z AUTO 00000KT 19/17 RMK AO1 SLP121 T01900171 53013 UMMM 021730Z 02003MPS 9999 FEW040 BKN100 15/11 Q1023 R30/CLRD60 NOSIG RMK QFE747 EFHA 030150Z AUTO 21006KT 9999 BKN015 OVC047 12/10 Q1024 KATT 030151Z AUTO 16008G17KT 10SM CLR 31/21 A2992 RMK AO2 SLP116 T03060211 PFYU 030156Z 27013G18KT 10SM BKN060 BKN070 BKN080 09/M02 A2978 RMK AO1 KBKT 030155Z AUTO 22006KT 10SM CLR 26/22 A2996 RMK AO1 T02620221 UNEE 030130Z 25003MPS CAVOK 06/03 Q1021 NOSIG RMK QFE743 23CLRD60 CWPK 030100Z AUTO 28002KT 17/15 RMK AO1 SLP057 T01740154 53006 KCDC 030153Z AUTO 20007KT 10SM CLR 27/M03 A2999 RMK AO2 SLP084 T02671028 KBMC 030155Z AUTO 09004KT 10SM CLR 27/04 A2984 RMK AO1 T02700040 KAVC 030155Z AUTO 21006KT 10SM CLR 26/22 A3003 RMK AO2 NZHN 030050Z 24007KT 30KM SCT025TCU BKN030 BKN050 17/12 Q1011 RMK VATSIM USE ONL KBKV 030153Z AUTO 11004KT 10SM FEW041 BKN055 27/24 A3003 RMK AO2 LTG DSNT SW SLP167 T02720244 KBLM 030155Z AUTO 23010G17KT 200V260 10SM CLR 27/19 A2986 RMK AO1 LTG DSNT SE KCDD 030151Z AUTO 00000KT 10SM CLR 13/12 A2977 RMK AO2 KAUM 030155Z AUTO 00000KT 10SM CLR 19/14 A2992 RMK AO2 CXHD 030100Z AUTO 36006KT 14/08 RMK AO1 T01440076 KBKW 030151Z AUTO 17003KT 5SM RA BR FEW085 OVC110 19/18 A3010 RMK AO2 SLP159 P0031 T01940183 TSNO KAUN 030155Z AUTO 19006KT 10SM CLR 30/08 A2976 RMK AO1 KATW 030145Z 26005KT 10SM SCT100 18/13 A2990 EDXW 021650Z 09009KT CAVOK 19/09 Q1025 RMK ATIS VIC KAUO 030155Z 29003KT 10SM CLR 28/19 A3006 RMK AO1 KCCO 030155Z AUTO 00000KT 10SM CLR 26/25 A3004 RMK AO2 LTG DSNT SE T02620250 DNPO 021400Z 19010KT 8000 BKN010 FEW020CB 28/25 Q1012 NOSIG CXHF 030100Z AUTO 18/18 RMK AO1 T01800179 CWPO 030100Z AUTO 32004KT 18/11 RMK AO1 SOG 37 3008 SLP067 T01760108 EFHF 030150Z AUTO 11001KT 9999 FEW021 BKN072 10/09 Q1026 KATY 030153Z AUTO 16008KT 10SM CLR 18/13 A2984 RMK AO2 SLP101 T01830128 KBMG 030200Z AUTO 00000KT 1SM BR VV002 19/19 A3000 RMK AO2 T01940189 CWOY 030100Z AUTO 28003KT 16/08 RMK AO1 SLP067 T01620075 51001 UMMS 030130Z 03003MPS 9999 BKN003 11/11 Q1026 R31/CLRD// TEMPO 1200 BR RMK QBB100 KCDH 030155Z AUTO 00000KT 8SM CLR 23/22 A2999 RMK AO2 NZHS 030101Z 03007KT 5KM BKN003 15/13 Q1012 RMK NZNR VATSIM USE ONLY CWQH 030100Z AUTO 21003KT 22/20 RMK AO1 T02170203 KCCR 030153Z 27012KT 10SM FEW013 19/13 A2975 RMK AO2 SLP060 T01890133 KBMI 030156Z 00000KT 10SM CLR 21/17 A2998 RMK AO2 T02110172 SLP141 NZHT 030100Z 32004KT 40KM SCT015 12/08 Q1013 RMK ALT VATSIM USE ONLY CWPR 030100Z AUTO 03006KT 12/09 RMK AO1 SLP078 T01230087 53002 KBNA 030153Z 00000KT 8SM -TSRA BKN045CB OVC070 23/23 A3001 RMK AO2 TSB49RAB02E11B41 SLP155 OCNL LTGIC OHD-S TS OHD-S MOV E P0000 T02330228 KCDJ 030152Z AUTO 00000KT 21/20 A2998 RMK AO1 SLP143 T02110200 KAUS 030153Z 15014KT 10SM SCT200 31/21 A2991 RMK AO2 SLP116 T03060211 CWPS 030100Z AUTO 21/19 RMK AO1 SLP118 T02080189 53016 CWRA 030100Z AUTO 13008KT 13/ RMK AO1 SLP196 T0134 50004 KAVK 030155Z AUTO 10017G20KT 10SM BKN080 27/23 A2988 RMK AO2 KBML 030152Z AUTO 00000KT 8SM CLR 19/18 A2975 RMK AO2 SLP071 T01890183 CWQK 030100Z AUTO 27028G34KT 14/12 RMK AO1 PK WND 28034/0044 SLP093 T01430116 56012 CXIB 030100Z AUTO 16004KT 18/17 RMK AO1 SLP139 T01840169 58003 KBLU 030152Z AUTO VRB04KT 10SM CLR 23/02 A3002 RMK AO2 SLP064 T02330022 $ EFHK 030150Z 21004KT 9999 SCT017 BKN070 12/10 Q1026 NOSIG KAVL 030154Z 14004KT 10SM FEW060 BKN085 23/22 A3010 RMK AO2 LTG DSNT NW SLP165 T02330217 KCCU 030156Z AUTO 26015KT 10SM CLR 12/M02 A3053 RMK AO2 KCEC 030156Z AUTO 36016G25KT 6SM HZ CLR 16/12 A2980 RMK AO2 SLP092 T01560117 EEPU 021250Z 02004KT 320V060 9999 BKN019 16/10 Q1025 KBLV 030158Z AUTO 00000KT 9SM CLR 21/21 A2999 RMK AO2 SLP156 T02110209 OPRN 030200Z 00000KT 8000 SCT040 SCT100 25/19 Q1009.6/29.81 CXHM 030100Z AUTO 28001KT 18/17 RMK AO1 SLP105 T01780166 53020 PGRO 030150Z 19004KT 7SM VCSH SCT018CB BKN060 27/ A2983 RMK VCSH N CB E AND OHD MOV N KCDN 030155Z AUTO 00000KT 10SM CLR 23/22 A3002 RMK AO2 TSNO KAUW 030154Z AUTO 00000KT 10SM CLR 17/14 A2988 RMK AO2 SLP121 T01720139 $ KCEF 030158Z 19010KT 10SM CLR 26/23 A2975 RMK AO2A SLP078 T02640225 CHINO RWY05 PHJH 030145Z 22004G16KT 15SM FEW020 SCT050 30/21 A2995 CWQO 030100Z AUTO 25008KT 16/16 RMK AO1 T01640164 CWRF 030100Z AUTO ///// 07/ A2981 RMK SLP119 CWPX 030100Z AUTO 21004KT 07/ A2974 RMK SLP089 KAVP 030154Z 25010KT 9SM FEW011 SCT015 BKN028 24/21 A2988 RMK AO2 RAE0058 SLP108 P0000 T02390211 KCCY 030155Z AUTO 21003KT 10SM CLR 17/16 A2994 RMK AO2 KAWG 030155Z AUTO 25003KT 10SM CLR 19/17 A2996 RMK AO2 CXHP 030100Z AUTO 05005KT 13/07 RMK AO1 T01260073 CWQP 022300Z AUTO 21008KT 18/17 RMK AO1 8PAST HR 0007 SLP087 P0003 T01810170 50082 KBMQ 030153Z AUTO 16007G16KT 10SM CLR 30/19 A2994 RMK AO2 SLP119 T03000194 CWPZ 030100Z AUTO 30008KT 14/04 RMK AO1 SLP136 T01390035 53003 CWRH 030100Z AUTO ///// 03/ A2939 RMK SLP976 KCDR 030153Z AUTO 11007KT 10SM CLR 20/09 A2981 RMK AO2 SLP084 T02000094 CXHR 030100Z AUTO 32003KT 14/07 RMK AO1 T01370073 CWQR 030100Z AUTO 12009KT 16/ RMK AO1 T0157 KCDS 030153Z AUTO 16009KT 10SM CLR 32/17 A2989 RMK AO2 SLP089 T03170172 OPSK 030200Z 05008KTS 4000 HZ FEW100 27/24 QNH 1001 RH.81 PC KAXA 030155Z AUTO 23006KT 10SM CLR 18/16 A2993 RMK AO2 CWQS 030100Z AUTO 35024KT 15/ RMK AO1 PK WND 35029/0032 SLP196 T0151 50001 CWRJ 030100Z AUTO 03004KT 15/11 RMK AO1 SLP065 T01460111 58003 CWSA 030150Z AUTO 13010G16KT 2 1/4SM BR OVC008 20/19 A2992 RMK SLP131 DENSITY ALT 500FT EGAA 030150Z 00000KT 9999 BKN038 09/08 Q1023 KBMT 030155Z AUTO 16006KT 10SM CLR 27/25 A2999 RMK AO2 T02710245 CYAB 021934Z 29011KT 25SM FEW050 FEW220 06/01 A2977 RMK SC1CI1 WSHFT 1919 SLP084 CWRK 030100Z AUTO 25002KT 17/17 RMK AO1 SLP095 T01710168 51013 KBNL 030155Z AUTO 17003KT 10SM CLR 24/22 A3004 RMK AO2 EGAC 021950Z VRB02KT 9999 FEW035 BKN040 15/11 Q1023 UMOO 021300Z 01003MPS 9999 BKN029 18/10 Q1020 R31/CLRD// NOSIG KAWM 030153Z AUTO 18003KT 10SM CLR 23/23 A2998 RMK AO2 SLP146 T02280228 $ PGSN 030154Z 17009KT 10SM SCT026 29/25 A2983 RMK AO2 SLP121 T02940250 KCFD 030155Z AUTO 16012G17KT 10SM CLR 29/22 A2994 RMK AO2 T02940222 CYAD 022000Z 24010G16KT 12SM OVC008 12/11 A2950 RMK SC8 SLP996 CWSD 030100Z AUTO 18011KT 21/19 RMK AO1 SLP106 T02100189 53001 CWQV 030100Z AUTO 04002KT 18/18 RMK AO1 T01820182 KCDW 030153Z AUTO 24007KT 190V270 10SM CLR 29/19 A2980 RMK AO2 SLP093 T02890194 TSNO KCFE 030155Z AUTO 18003KT 10SM CLR 20/14 A2987 RMK AO2 T02010135 EGAE 021850Z VRB02KT 9999 BKN040 16/12 Q1023 CWRN 030100Z AUTO 14013KT 19/ RMK AO1 T0191 KAVX 030151Z AUTO 24006KT 6SM BR OVC002 17/16 A2982 RMK AO2 SLP081 T01720156 KBNO 030153Z AUTO 28015KT 10SM CLR 26/M03 A2979 RMK AO2 SLP068 T02561033 KAWO 030155Z AUTO 35003KT 10SM SCT022 BKN028 OVC100 13/10 A2983 RMK AO1 LTG DSNT SE CWRO 030100Z AUTO 28019KT 15/12 RMK AO1 PK WND 28024/0035 SLP182 T01500119 50001 CWSF 030100Z AUTO 16009G16KT 21/18 RMK AO1 PK WND 17018/0045 SLP053 T02100175 58003 NZKI 030100Z 22006KT 35KM SCT014 10/07 Q1010 RMK ALT VATSIM USE ONLY CWSG 022100Z AUTO 18008KT 25/18 RMK AO1 PK WND 17017/2011 SLP049 T02460175 58021 PHJR 030153Z VRB03G19KT 10SM BKN045 30/22 A2995 RMK AO2 SLP146 T03000222 ORBI 030100Z 03006KT CAVOK 30/08 Q1002 NOSIG KAXH 030155Z AUTO 12005KT 10SM CLR 27/24 A2998 RMK AO2 T02700236 CYAH 030150Z AUTO 26015KT 9SM -RA BKN019 OVC030 13/10 A2954 RMK SLP008 DENSITY ALT 1400FT KBOI 030153Z 02004KT 10SM CLR 30/00 A2967 RMK AO2 SLP020 T03000000 PGUA 030158Z AUTO 19009KT 10SM FEW016 SCT110 SCT130 BKN150 BKN180 30/24 A2982 RMK AO2 SLP088 T02970235 RVRNO $ NZKK 030120Z 29006KT 20KM SCT020 BKN025 16/11 Q1011 RMK NZWP VATSIM USE ONLY OPST 030200Z 36004KT 5000 -RA SCT040 SCT100 24/23 Q1007 TEMPO 05015G25KT 2500 -TS FEW030CB RH96 CXKA 030100Z AUTO 25003KT 15/10 RMK AO1 SLP045 T01460095 53016 EFKA 030150Z AUTO 20005KT 0700 FG OVC002 10/10 Q1023 KBOK 030156Z AUTO 32009KT 8SM CLR 24/12 A2980 RMK AO2 T02380116 SLP088 CYBB 022300Z 25002KT 15SM FEW100 10/02 A2983 RMK AC0 10.1/0.3/0.0/0/NIL/LAST OBS/NXT/031200Z SLP103 CWSK 030100Z AUTO 16002KT 14/13 RMK AO1 SLP077 T01410126 58006 CWRT 030100Z AUTO 29005KT 14/06 RMK AO1 T01420055 EGBB 030150Z AUTO 15003KT 9999 OVC047/// 14/12 Q1023 KCEU 030154Z AUTO 13005KT 10SM OVC110 27/22 A3005 RMK AO2 LTG DSNT SE SLP165 T02720222 KBPC 030155Z AUTO 16011G16KT 10SM CLR 30/17 A2990 RMK AO2 KCGC 030155Z AUTO 07006KT 10SM BKN044 BKN070 27/24 A3002 RMK AO2 LTG DSNT NE AND S PWINO CWRU 030100Z AUTO 33036KT 14/11 RMK AO1 PK WND 33040/0005 SLP134 T01410108 56005 CWSL 030100Z AUTO 07001KT 14/13 RMK AO1 9PAST HR 5000 SLP079 P0011 T01420134 50029 CYBC 030158Z AUTO 01002KT 3/4SM BR SCT003 OVC009 17/16 A2963 RMK SLP034 DENSITY ALT 600FT CYBD 030100Z 26008G16KT 220V290 15SM FEW062TCU BKN068CB BKN100 17/09 A2990 RMK TCU1CB4AC1 CB ALQDS LAST OBS/NEXT 031300UTC SLP125 DENSITY ALT 400FT KCGE 030150Z AUTO 30008KT 10SM SCT065 BKN080 28/22 A2990 RMK AO1 VDPP 030130Z 22006KT 9999 FEW017 SCT040 29/24 Q1011 CYAM 030147Z 25002KT 1/2SM R12/2200FT/N FG SKC 12/12 A2986 RMK FG4 SLP114 KCEW 030153Z AUTO 24004KT 10SM CLR 27/23 A3004 RMK AO2 SLP170 T02720233 PHKO 030153Z 25008KT 10SM FEW019 31/23 A2992 RMK AO2 SLP132 T03060228 $ KAXN 030153Z AUTO 20008KT 10SM CLR 19/13 A2984 RMK AO2 SLP103 T01940133 EFIV 030150Z AUTO 26004KT CAVOK 11/09 Q1013 KBNW 030155Z AUTO 00000KT 10SM CLR 19/16 A2995 RMK AO2 KAXO 022150Z 18005KT 7SM SCT040 33/25 A2999 RMK LAST KCGF 030045Z 29007KT 10SM SCT100 BKN150 21/20 A2994 EGBE 022350Z 05003KT 9999 FEW048 14/12 Q1024 CXKE 030100Z AUTO 23003KT 19/18 RMK AO1 SLP080 T01870177 53006 EFKE 030150Z AUTO 21004KT 9999 BCFG FEW057 BKN182 14/13 Q1018 DNSO 021700Z 28010KT 9999 FEW015 31/22 Q1011 CWRX 030100Z AUTO 29014KT 02/ A2972 EFJO 030150Z AUTO 26005KT 230V290 CAVOK 12/10 Q1023 KBPG 030155Z AUTO 13011KT 10SM CLR 32/14 A2995 RMK AO2 T03150141 KCEY 030155Z AUTO 00000KT 10SM CLR 24/21 A3000 RMK AO1 CWRY 030100Z AUTO 31004KT 18/08 RMK AO1 SLP055 T01780081 56007 CWSP 030100Z AUTO 30016G21KT 13/13 RMK AO1 PK WND 29025/0020 SLP103 T01340129 55000 CWTG 030100Z AUTO 05009KT 17/17 RMK AO1 SLP037 T01720172 56011 ZSNB 030100Z 35004MPS 320V030 6000 SCT016 26/23 Q1009 NOSIG CYBG 030100Z 19003KT 15SM -SHRA SCT050 OVC090 20/19 A2966 RMK SC4AC4 SLP045 KCEZ 030153Z AUTO 00000KT 10SM CLR 21/06 A3004 RMK AO2 SLP108 T02110056 $ PHLI 030153Z 08008KT 10SM FEW026 29/22 A2998 RMK AO2 SLP150 T02890217 $ VEGT 030000Z 00000KT 4000 HZ FEW020 SCT100 26/25 Q1006 NOSIG CWRZ 030100Z AUTO 25007KT 17/17 RMK AO1 SLP084 T01680168 58001 KCGI 030153Z AUTO 00000KT 10SM CLR 23/22 A2998 RMK AO2 SLP149 T02280217 KBPI 030153Z AUTO 27008KT 10SM CLR 13/03 A3004 RMK AO2 SLP118 T01330033 CWSR 030100Z AUTO 25002KT 13/09 RMK AO1 SLP056 T01310093 51001 CXKI 030100Z AUTO 17/13 RMK AO1 SLP073 T01700128 53010 KCHA 030153Z 00000KT 10SM BKN060 BKN080 BKN250 29/20 A3000 RMK AO2 SLP150 OCNL LTGIC DSNT N AND S CB DSNT N AND S T02940200 EFKI 030150Z AUTO 19005KT 150V220 CAVOK 09/08 Q1022 KBOS 030154Z 19007KT 10SM FEW250 25/21 A2976 RMK AO2 SLP079 T02500211 KAXS 030155Z AUTO 15008KT 10SM CLR 32/17 A2988 RMK AO2 T03240170 KCFS 030155Z AUTO 00000KT 10SM CLR 16/15 A2991 RMK AO2 T01550149 NZMC 030100Z 32004KT 40KM SCT015 12/08 Q1013 RMK ALT NZHT VATSIM USE ONLY CYAS 022100Z CCB 06020G30KT 5SM -RA BR BKN020 OVC070 05/04 A2915 RMK SC5AS3 LAST OBS/NEXT 031200UTC SLP880 EGBJ 021820Z 09003KT 9999 SCT042 21/11 Q1022 CWSS 030100Z AUTO 10004KT 16/16 RMK AO1 SLP093 T01620159 58004 KBPK 030153Z AUTO 00000KT 10SM CLR 21/19 A3001 RMK AO2 SLP155 T02110194 KE80 030155Z AUTO 11005KT 10SM CLR 28/02 A3000 RMK AO2 T02820019 CWST 030100Z AUTO 13003KT 22/21 RMK AO1 SLP041 T02160209 50000 CXLB 030100Z AUTO 19007KT 18/18 RMK AO1 SLP126 T01830181 51005 CYCB 030100Z 30002KT 15SM FEW009 BKN045 BKN075 08/06 A2976 RMK SF2SC4AC1 SLP082 CYBK 030100Z 20002KT 20SM FEW025 FEW100 BKN220 10/04 A2978 RMK SC1AC1CI3 SLP085 PGUM 030154Z 16007KT 10SM SCT033 30/26 A2982 RMK AO2 SLP088 T02960256 EFKK 030150Z AUTO 20005KT 8000 SCT002 BKN004 10/10 Q1022 KAZC 030155Z AUTO 25006KT 10SM CLR 30/M01 A2998 RMK AO2 T02981007 CYBL 030100Z 30017G24KT 30SM FEW020 FEW040TCU SCT090 SCT200 18/09 A2983 RMK CU1TCU1AC1CI1 SLP103 DENSITY ALT 800FT KCHD 030147Z 28006KT 40SM SKC 40/04 A2969 CXLC 030100Z AUTO 23004KT 13/05 RMK AO1 SLP082 T01280047 56001 KCFV 030152Z AUTO 17006KT 10SM FEW060 SCT100 24/21 A2996 RMK AO2 SLP140 T02390211 EGCC 030150Z 14004KT 9999 BKN048 15/11 Q1024 KAXV 030151Z AUTO 00000KT 10SM SCT090 20/19 A2997 RMK AO2 NZMF 030138Z 23008KT 70KM NSC 13/M06 Q1009 RMK NZQN VATSIM USE ONLY CYCD 030100Z 27005KT 220V290 15SM FEW006 BKN035 15/13 A2982 RMK SF1SC6 SLP097 DENSITY ALT 200FT CXKM 030100Z AUTO 07005KT 15/09 RMK AO1 T01520089 KBOW 030155Z AUTO 14003KT 10SM CLR 26/22 A3005 RMK AO2 LTG DSNT NE AND SE AND W KAZE 030155Z AUTO 00000KT 7SM CLR 24/24 A3004 RMK AO2 T02370237 CWSW 030100Z 22002KT 12SM -SHRA FEW010 FEW025 OVC040 12/09 A2975 RMK SF1SC2SC6 TCU EMBD LAST OBS/NEXT 031300Z SLP072 CYAW 021739Z 14002KT 1/4SM -DZ FG VV001 RMK FG8 LAST OBS/NXT 030900 UTC CWTN 030100Z AUTO 28003KT 22/21 RMK AO1 SLP045 T02160208 51007 CYBN 030118Z AUTO 21004KT 3/4SM CLR 16/16 A2987 RMK VSBY VRBL 0.2V9.+ EETN 030150Z 19003KT 150V230 9000 BCFG NSC 09/09 Q1027 KAXX 030155Z AUTO 21007KT 10SM BKN120 18/05 A3028 RMK AO2 T01780049 ZSNJ 030100Z 31002MPS 250V360 8000 SCT015 24/21 Q1010 NOSIG CYCG 030132Z 01003KT 330V080 15SM -SHRA BKN060 OVC075 16/11 A2970 RMK SC6AC2 SLP058 DENSITY ALT 2300FT CYAY 030100Z AUTO 15006KT 9SM BKN065 14/13 A2989 RMK SLP124 EFJY 030150Z AUTO 12003KT CAVOK 11/10 Q1024 CYAZ 030100Z 31012G19KT 15SM FEW014 FEW019 SCT140 17/12 A2985 RMK CF1CF1AC1 LAST OBS/NEXT 031300UTC SLP107 DENSITY ALT 400FT CYBQ 030153Z AUTO 32003KT 280V360 5SM BR OVC017 09/07 A2960 RMK SLP037 TVSC 021200Z 08017KT 9999 SCT018 29/24 Q1015 -HZ CYBR 030100Z 29007KT 15SM FEW045 SCT250 18/11 A2971 RMK SC1CI2 SLP067 DENSITY ALT 2100FT KCGS 030150Z AUTO 00000KT 10SM CLR 24/24 A2989 RMK AO1 PHMK 030154Z 04010G16KT 10SM SCT030 30/23 A2995 RMK AO2 SLP143 T03000228 $ KAYS 030155Z AUTO 28004KT 10SM CLR 25/25 A3005 RMK AO2 T02520248 CYDA 030144Z 29002KT 20SM VCSH FEW040 OVC080 08/07 A2983 RMK SC1AC7 SLP116 KBPT 030153Z 14010KT 10SM CLR 28/24 A2998 RMK AO2 SLP150 T02830244 EFMA 030150Z AUTO 11001KT 0600 R21/0450VP1500D R03/P1500N BCFG SKC 08/08 Q1025 EFKS 030150Z AUTO 24003KT 0450 FG VV002 07/06 Q1019 KBQK 030155Z AUTO 00000KT 10SM CLR 24/22 A3005 RMK AO1 CWTT 030100Z AUTO 27011G19KT 21/20 RMK AO1 PK WND 24021/0040 T02140195 CXKT 030100Z AUTO 28001KT 20/18 RMK AO1 SLP113 T01990182 51006 ZSOF 030100Z 31005MPS 5000 BR SCT009 OVC026 22/20 Q1011 NOSIG CYCK 030132Z AUTO 00000KT 1SM BR CLR 18/17 A2992 RMK SLP131 DENSITY ALT 1100FT CYDB 030100Z 12009G16KT 30SM FEW090 SCT120 BKN240 16/02 A2979 RMK AC1AC2CI2 ACSL CLIMAT 16.0/-6.0/0.0 LAST STFD OBS/NXT 031300Z SLP116 DENSITY ALT 3500FT EFKT 030150Z AUTO 22005KT 170V250 CAVOK 11/09 Q1015 KCIC 030155Z AUTO 18008KT 10SM CLR 34/11 A2965 RMK AO1 CYDC 030100Z 03004KT 350V050 10SM SCT015 BKN035 OVC090 12/09 A2978 RMK ST3SC4AS1 INTMT -RA LAST OBS/NEXT 031300 UTC SLP084 DENSITY ALT 2600FT CXLL 030100Z AUTO 18001KT 18/11 RMK AO1 SLP048 T01820108 56013 CWTU 030100Z AUTO 18033KT 14/ A2961 RMK SLP035 CYBU 030100Z AUTO 20005KT 9SM FEW075 BKN088 14/10 A2968 RMK SLP059 DENSITY ALT 1700FT KBRD 030153Z AUTO 19009KT 10SM CLR 18/13 A2981 RMK AO2 SLP096 T01780128 EETU 030150Z AUTO 00000KT 9999 R08/P2000N BCFG NCD 04/03 Q1028 KCID 030152Z 18004KT 10SM CLR 17/16 A2995 RMK AO2 SLP138 T01670161 EFKU 030150Z AUTO 23004KT 210V280 CAVOK 12/10 Q1023 CYBV 022100Z 28007KT 15SM FEW020 BKN070 BKN220 16/12 A2963 RMK SC2AS2CS1 LAST OBS/NEXT 031200Z SLP036 CXMD 030100Z AUTO 09002KT 18/12 RMK AO1 SLP045 T01800122 53005 CWVD 030100Z AUTO 08008KT 05/ A2965 RMK SLP075 CYBW 030100Z AUTO VRB02KT 9SM BKN048 BKN065 OVC150 12/06 A2975 RMK SLP090 DENSITY ALT 4600FT KCHO 030153Z 00000KT 10SM FEW055 FEW110 27/22 A2994 RMK AO2 LTG DSNT NE AND S RAB14E35 SLP131 P0000 T02670217 EGCN 030150Z VRB01KT CAVOK 14/12 Q1025 KAZO 030153Z 00000KT 10SM CLR 18/16 A2994 RMK AO2 SLP136 T01830156 PHNG 030157Z 06007KT 9SM SCT026 28/22 A2997 RMK AO2 SLP142 T02800222 $ CYDF 030100Z 18004KT 15SM SKC 15/10 A2995 RMK SLP143 CWVF 030100Z AUTO 31019KT 15/14 RMK AO1 PK WND 30026/0032 T01520143 CYBX 030100Z 22009KT 15SM OVC012 14/13 A2989 RMK ST8 SLP125 CYCO 030100Z 24009KT 15SM FEW020 FEW220 SCT350 12/04 A2968 RMK CU1CC1CI1 TR CC SLP053 KBQP 030155Z AUTO 00000KT 10SM CLR 22/22 A2999 RMK AO2 T02220215 KF05 030155Z AUTO 16010KT 10SM CLR 33/17 A2987 RMK AO1 T03300168 CYCP 030100Z 28002KT 15SM FEW002 FEW025 FEW045TCU SCT120 BKN280 14/11 A2977 RMK SF1SF1TCU2AC2CI1 LAST OB/NEXT 031300 UTC SLP088 CXMG 030100Z AUTO 35008KT 15/09 RMK AO1 T01460089 CWTY 030100Z AUTO 24003KT 21/20 RMK AO1 SLP053 T02080200 51008 CWUP 030100Z AUTO ///// 04/ A2968 RMK SLP072 EFLP 030150Z AUTO 23004KT CAVOK 11/09 Q1026 KCGZ 030155Z AUTO 00000KT 10SM CLR 38/06 A2972 RMK AO1 CYCQ 030100Z 22003KT 10SM FEW015 SCT019TCU BKN070 BKN200 10/09 A2985 RMK CF1TCU3AC2CI1 FG ALG RVR S LAST OBS/NEXT 031300Z SLP124 CWVH 030100Z AUTO 33017KT 00/ A2962 RMK SLP049 CXMI 030100Z AUTO 16003KT 18/ RMK AO1 SLP127 T0175 53005 CWVI 030100Z AUTO 35006KT 15/08 RMK AO1 SLP063 T01500075 53001 ZSPD 030130Z 25002MPS 6000 -SHRA SCT005 OVC040 23/22 Q1009 RESHRA NOSIG EFMI 030150Z AUTO 21001KT 5000 OVC080 11/10 Q1025 KDAA 030158Z AUTO 14004KT 3SM R32/4000FT BR SCT075 SCT120 24/24 A2991 RMK AO2 SLP131 P0000 KCHS 030156Z 19003KT 10SM FEW020 SCT200 27/24 A3003 RMK AO2 SLP167 T02720244 CYCS 022100Z 11005KT 15SM FEW240 09/03 A2975 RMK CI2 SLP074 CWUS 030100Z AUTO 31006KT 13/10 RMK AO1 0PAST HR 5001 SLP074 P0016 T01320100 50040 CWWA 030100Z AUTO 01001KT 13/12 RMK AO1 7PAST HR 6012 SLP087 P0007 T01310120 50017 PHNL 030153Z 04014G20KT 10SM FEW032 SCT060 32/19 A2993 RMK AO2 SLP136 T03170194 KDAB 030153Z 00000KT 10SM FEW150 BKN250 27/23 A3004 RMK AO2 SLP171 T02720228 CWWB 030100Z AUTO 27003KT 21/18 RMK AO1 SLP113 T02090180 53024 KBRL 030153Z AUTO 33004KT 10SM CLR 21/17 A2996 RMK AO2 SLP140 T02060167 EGEC 021620Z 16010KT 9999 OVC036 15/11 Q1023 CYDL 030100Z AUTO 24007KT 210V300 9SM CLR 15/04 A2991 RMK SLP131 DENSITY ALT 3200FT CXMM 030100Z AUTO 34004KT 14/06 RMK AO1 SLP065 T01440055 51007 EGDM 030050Z AUTO 07006KT 9999 NCD 13/12 Q1023 CYED 030145Z 35005KT 15SM FEW040 FEW051TCU SCT090 BKN250 RMK CU1TCU1AC2CI1 LAST STFD OBS KCIN 030155Z AUTO 00000KT 10SM -RA CLR 16/16 A2994 RMK AO2 NZNP 030114Z 01007KT 15KM -SHRA BKN008 OVC010 14/12 Q1011 RMK VATSIM USE ONLY CWWE 030100Z AUTO 22007KT 15/ RMK AO1 SLP127 T0151 51005 CWVN 030100Z AUTO 20003KT 19/10 RMK AO1 SLP057 T01930097 56012 CYDN 030100Z AUTO 32003KT 9SM FEW050 BKN095 16/12 A2967 RMK SLP053 DENSITY ALT 1600FT CWUW 030100Z AUTO 28004KT 9SM FEW075 05/ A2966 RMK SLP080 KBRO 030153Z 10007KT 10SM CLR 28/24 A2985 RMK AO2 SLP107 T02780244 PHOG 030154Z 06013G21KT 10SM FEW040 SCT060 31/21 A2993 RMK AO2 SLP140 T03110211 KBQX 030155Z AUTO 10012G18KT 10SM FEW021 FEW046 SCT090 28/23 A2997 RMK A01 NZOH 030111Z 22008KT 50KM NSC 19/10 Q1010 RMK VATSIM USE ONLY CXMO 030100Z AUTO 06004KT 14/09 RMK AO1 T01400092 CWWF 030100Z AUTO 32004KT 18/09 RMK AO1 SLP071 T01770092 58002 CWUX 030100Z AUTO 10001KT 19/19 RMK AO1 6PAST HR 3005 SLP042 P0002 T01920191 50006 VDSR 030130Z VRB03KT 9000 SCT017 28/24 Q1010 CYCX 030100Z 18008G15KT 15SM BKN008 21/18 A2979 RMK SF6 DA1306FT SLP089 KDAG 030150Z AUTO 24016KT 10SM CLR 38/M02 A2970 RMK AO2 SLP026 T03781017 TSNO NZNR 030101Z 03007KT 5KM BKN003 15/13 Q1012 RMK VATSIM USE ONLY VEJS 030100Z 00000KT 2500 HZ SCT015 SCT025 BKN100 26/25 Q1005 CYDP 022300Z 19011G19KT 15SM OVC025 18/13 A2945 RMK SC8 LAST STAFFED OB/ NEXT 030800 SLP972 ORER 030200Z 26004KT CAVOK 26/00 Q1005 NOSIG CWVP 030100Z AUTO 00000KT 15/08 RMK AO1 SLP057 T01480083 56007 CYCY 030100Z AUTO 34006KT 9SM OVC065 04/02 A2976 RMK SLP081 CYEG 030100Z 36008KT 15SM BKN057CB BKN086 BKN250 13/07 A2973 RMK CB6AC1CI1 CI TR SH NE-SW SLP080 DENSITY ALT 2900FT NZNS 030114Z 35006KT 50KM FEW050TCU FEW090 15/10 Q1010 RMK VATSIM USE ONLY CWVQ 030100Z AUTO 19005KT 19/18 RMK AO1 2PAST HR 8006 SLP063 P0009 T01870175 50022 CYDQ 030100Z AUTO 31004KT 9SM 12/08 A2982 RMK CLD MISG SLP111 DENSITY ALT 2300FT KCIR 030155Z AUTO 00000KT 10SM OVC043 25/22 A2999 RMK AO2 T02460218 UNKL 030130Z 25003MPS 210V290 9999 SCT043 07/02 Q1021 NOSIG RMK QFE740 29////65 ZSQD 030100Z 33003MPS 290V350 4500 BR BKN020 22/19 Q1007 NOSIG EGDR 030150Z 08009KT 5000 BR FEW002 SCT003 OVC004 16/15 Q1021 YLO2 KBTA 030155Z AUTO 14004KT 10SM CLR 21/16 A2995 RMK AO2 T02090157 PGWT 030150Z 17009KT 7SM VCSH SCT015 BKN100 BKN160 29/26 A2981 RMK VCSH NE TVSV 030200Z 10014KT 9999 SCT018 28/25 Q1015 CWXA 030100Z AUTO 26006KT 12/05 RMK AO1 SLP065 T01230048 56008 KCKB 030153Z 00000KT 10SM OVC065 21/20 A3000 RMK AO2 SLP142 T02110200 NZNV 030128Z 18008KT 40KM SCT055 BKN075 13/07 Q1010 RMK VATSIM USE ONLY CWVT 030100Z AUTO 34003KT 13/08 RMK AO1 SLP079 T01260076 52002 CWWK 030100Z AUTO 26002KT 15/14 RMK AO1 2PAST HR 6012 SLP091 P0005 T01470137 50012 CYFB 030100Z VRB06KT 15SM OVC140 05/02 A2956 RMK AC8 SLP010 KDAL 030153Z 15015G24KT 10SM SCT250 31/22 A2990 RMK AO2 SLP118 T03110217 CYEK 030100Z AUTO 06011KT 9SM FEW045 OVC060 07/06 A2971 RMK SLP062 KCIU 030155Z AUTO 23004KT 10SM CLR 16/15 A2986 RMK AO1 KCKC 030153Z AUTO 25003KT 10SM CLR 12/08 A2983 RMK AO2 CWXC 030100Z AUTO 18002KT 19/19 RMK AO1 SLP037 T01900190 53002 CWVU 030100Z AUTO 15016KT 16/16 RMK AO1 PK WND 16020/0052 SLP124 T01600155 58003 CWWL 030100Z AUTO 35019KT 14/11 RMK AO1 PK WND 35022/0041 SLP172 T01370114 50001 CYFC 030100Z AUTO 17006KT 9SM BKN010 21/19 A2979 RMK SLP089 DENSITY ALT 800FT CXNM 030100Z AUTO 16009KT 16/16 RMK AO1 PK WND 15017/0035 T01610156 KDAN 030153Z AUTO 22010KT CLR 27/21 A2999 RMK AO2 SLP145 T02720206 $ CYEN 030100Z 34004KT 15SM FEW060 SCT230 BKN250 18/09 A2974 RMK SC1CI1CI0 SLP077 KCKF 030155Z AUTO 14012KT 10SM -RA SCT031 SCT055 SCT100 25/23 A3005 RMK AO2 LTG DSNT ALQS T02470225 PHNY 030156Z AUTO 27007KT 10SM BKN017 BKN022 BKN028 27/21 A3002 RMK AO2 TSNO T02720211 SLP141 $ EGEO 021450Z 22003KT 180V250 9999 FEW016 SCT022 16/10 Q1024 EGDX 030050Z AUTO 05002KT 9999 OVC050/// 16/15 Q1022 EGFF 030150Z 09004KT 7000 BKN048 16/15 Q1022 CXMY 030100Z AUTO 19/19 RMK AO1 T01920188 CXNP 030100Z AUTO 02002KT 17/17 RMK AO1 SLP118 T01740174 53004 EGDY 030150Z 14001KT 4000 BR FEW040 11/11 Q1022 GRN KCKI 030155Z AUTO 00000KT 10SM CLR 25/24 A3002 RMK AO2 KCJR 030155Z AUTO 00000KT 10SM CLR A2992 RMK AO2 CWXI 030100Z AUTO 19017KT 15/14 RMK AO1 PK WND 19020/0054 SLP116 T01500138 58014 KDCA 030152Z 07004KT 10SM FEW041 SCT065 SCT090 BKN250 27/23 A2991 RMK AO2 RAE0056 SLP127 P0000 T02670233 CYER 030100Z AUTO 04006KT 3/8SM FG VV002 07/07 A2962 RMK SLP029 CWWS 030100Z AUTO 28005KT 16/11 RMK AO1 SLP027 T01630106 50000 CXPA 030100Z AUTO 33006KT 12/08 RMK AO1 T01240075 NZPM 030127Z 26008KT 40KM SCT030 20/11 Q1010 RMK VATSIM USE ONLY CYET 030144Z AUTO 19005KT 8SM -TSRA 11/07 A2977 RMK CLD MISG SLP098 DENSITY ALT 3400FT KBTL 030153Z 00000KT 10SM CLR 19/16 A2995 RMK AO2 SLP136 T01890156 CWWU 021400Z 02007KT 15SM FEW020 FEW250 15/11 A3011 RMK SC1CI2 LAST OBS/NXT 030800Z SLP198 CWXL 030100Z AUTO 02012KT 18/07 RMK AO1 T01760069 CXOL 030100Z AUTO 27008KT 10/08 RMK AO1 T00980075 CXPC 030100Z AUTO 19/14 RMK AO1 SLP094 T01940142 53009 KBTM 030153Z AUTO 27005KT 10SM CLR 21/M01 A2980 RMK AO2 SLP057 T02061011 $ KCKM 030155Z AUTO 00000KT 10SM BKN016 OVC024 25/25 A2999 RMK AO1 CYEV 030145Z 33011KT 10SM SCT008 BKN034 03/01 A2965 RMK ST4SC3 SLP044 KDAW 030151Z AUTO 00000KT 1 3/4SM BR OVC002 23/22 A2975 RMK AO2 SLP068 T02280222 EGGD 030150Z 08006KT 9999 BKN048 15/13 Q1023 KCLE 030151Z 21004KT 10SM FEW110 SCT250 18/17 A2997 RMK AO2 SLP144 T01830167 KCKN 030155Z AUTO 23007KT 10SM CLR 18/12 A2971 RMK AO2 KDBN 030155Z AUTO 00000KT 7SM -RA BKN120 22/22 A3005 RMK AO2 LTG DSNT N NE AND SW NZPP 030100Z 29004KT 25KM SCT026 16/10 Q1011 RMK ALT VATSIM USE ONLY CYGE 030000Z 34008KT 300V010 12SM -SHRA FEW018 BKN050TCU OVC080TCU 11/09 A2978 RMK SC1TCU4TCU3 LAST OBS/NEXT 031200Z SLP093 DENSITY ALT 2800FT KBUF 030154Z 26006KT 10SM FEW011 SCT270 20/18 A2989 RMK AO2 SLP117 T02000183 CYFO 022300Z 33009G16KT 15SM FEW040TCU SCT100 17/07 A2962 RMK TCU2AC2 WND VRB 290-360 LAST OBS/NEXT 031100 UTC SLP037 CWWX 030100Z AUTO 29007KT 18/16 RMK AO1 SLP102 T01790157 53008 KBTP 030155Z AUTO 00000KT 10SM CLR 19/17 A2998 RMK AO1 KDAY 030156Z 22003KT 10SM CLR 21/19 A2999 RMK AO2 SLP149 T02110189 KCKP 030155Z AUTO 00000KT 10SM CLR 18/16 A2992 RMK AO2 T01750163 KDBQ 030153Z AUTO 00000KT 10SM CLR 17/15 A2995 RMK AO2 SLP141 T01720150 CYGH 022300Z 18006KT 25SM BKN060 OVC150 15/02 A2959 RMK SC6AC2 15.6/0.6/0.0/0 LAST OBS/NXT031300UTC SLP026 CWWZ 030100Z AUTO 00000KT 21/19 RMK AO1 SLP110 T02110194 53014 KBTR 030153Z 05006KT 10SM FEW047 24/23 A3005 RMK AO2 SLP175 T02440228 KCLI 030155Z AUTO 23003KT 10SM CLR 16/14 A2989 RMK AO2 CYFR 022200Z 33009KT 15SM BKN012 13/10 A2976 RMK SC7 14.1/6.3/0/ LAST OBS/NXT031400Z SLP085 CWXR 030100Z AUTO 16003KT 12/ A2956 RMK SLP020 KCMA 030155Z 27008KT 10SM FEW011 22/16 A2978 RMK AO2 SLP094 T02170161 $ NZRC 030128Z 18008KT 40KM SCT055 BKN075 13/07 Q1010 RMK NZNV VATSIM USE ONLY CYHA 030143Z 08034G40KT 10SM RA OVC017 RMK SC8 CWZA 030100Z AUTO 31001KT 14/14 RMK AO1 7PAST HR 6017 SLP085 P0003 T01440135 50007 CWYJ 030100Z AUTO 30002KT 14/12 RMK AO1 0PAST HR 3001 SLP098 P0031 T01370118 50080 CYFS 030100Z 17004KT 15SM FEW050 FEW120 SCT210 20/07 A2967 RMK CU1AC0CI1 SLP054 CYFT 022000Z 20018KT 15SM BKN030 BKN230 21/11 A2963 RMK SC6CS2 LAST OBS/NEXT030900 UTC SLP037 CYGK 030100Z 26009KT 15SM FEW009 BKN160 19/17 A2981 RMK SF1AC6 PRESRR SLP094 DENSITY ALT 900FT CWYK 030100Z AUTO 16025G33KT 12/ A2937 RMK SLP963 KCLL 030153Z AUTO 15014KT 10SM CLR 30/21 A2994 RMK AO2 SLP134 T03000211 KDDC 030152Z AUTO 12005KT 10SM CLR 24/19 A2994 RMK AO2 SLP111 T02390194 NZQN 030138Z 23008KT 70KM NSC 13/M06 Q1009 RMK VATSIM USE ONLY CXPL 030100Z AUTO 01006KT 16/09 RMK AO1 T01620086 CWYL 030100Z AUTO 24009G15KT 06/06 RMK AO1 9PAST HR 5001 SLP089 P0004 T00620056 50009 CYGL 030100Z 26007KT 15SM FEW010 SCT025 09/07 A2960 RMK SF1SC2 SLP030 KCLM 030153Z AUTO 31009G17KT 10SM SCT065 BKN080 14/11 A2984 RMK AO2 SLP103 T01440106 KCKV 030152Z AUTO 25003KT 10SM FEW110 23/22 A2999 RMK AO2 SLP151 T02280217 EFOU 030150Z AUTO 23007KT 9999 BKN007/// 12/11 Q1020 KBTV 030154Z 04006KT 5SM RA BR OVC019 19/17 A2978 RMK AO2 SLP083 P0018 T01940172 KCMD 030155Z AUTO 00000KT 10SM CLR 25/21 A3000 RMK AO2 LTG DSNT E T02450210 CWYM 030100Z AUTO 09012KT 02/ A2964 RMK SLP070 CYHD 030100Z AUTO 21006KT 9SM BKN190 OVC220 17/10 A2970 RMK SLP065 DENSITY ALT 2100FT KBVE 030151Z AUTO 00000KT 10SM CLR 28/24 A3004 RMK AO2 SLP172 T02780244 EGHE 021650Z 07004KT 9999 SCT028 16/13 Q1021 CYHE 030155Z AUTO 18002KT 2 1/4SM RA BR FEW006 BKN017 BKN025 OVC045 14/13 A2979 RMK PCPN 2.0MM PAST HR SLP086 KF44 030155Z AUTO 14004KT 10SM CLR 25/22 A2995 RMK AO2 DNYO 022100Z 00000KT CAVOK 23/22 Q1014 CXOX 030100Z AUTO 31005KT 15/06 RMK AO1 SLP056 T01510056 53005 EFPO 030150Z AUTO 14002KT 6000 BR NSC 09/09 Q1024 CXOY 030100Z AUTO 09007KT 14/09 RMK AO1 T01390093 CWZG 030100Z AUTO 22004KT 11/05 RMK AO1 SLP075 T01060046 58014 CYGP 030100Z VRB02KT 15SM BKN025 19/17 A2977 RMK SC6 SLP082 DENSITY ALT 700FT EGGP 030150Z 14005KT CAVOK 14/11 Q1023 KCMH 030151Z 36004KT 10SM FEW025 23/19 A2996 RMK AO2 SLP140 T02280189 KDDH 030154Z AUTO VRB06KT 10SM BKN090 BKN120 26/19 A2975 RMK AO2 SLP068 T02610194 KF46 030155Z AUTO 15007KT 10SM CLR 29/21 A2992 RMK AO2 T02910210 CYHH 022000Z 24013KT 15SM BKN025 19/10 A2960 RMK SC6 LAST OBS/NEXT 031100 UTC SLP025 KBVI 030047Z 29003KT 10SM SCT025 21/18 A2995 CYGQ 030100Z 23002KT 15SM FEW030TCU FEW080 SCT250 14/10 A2973 RMK TCU1AC1CI1 CB ASOCTD N SLP073 KCMI 030153Z 20005KT 10SM CLR 21/19 A2997 RMK AO2 SLP144 T02060194 KBUR 030153Z 17006KT 10SM CLR 24/16 A2977 RMK AO2 SLP068 T02440161 EGHH 030150Z 31002KT 4700 BR FEW049 11/11 Q1022 CYGR 030146Z 17012G22KT 15SM BKN004 18/17 A2986 RMK SC6 SLP111 DENSITY ALT 500FT EGHI 022120Z 00000KT 9000 MIFG NSC 12/11 Q1023 KCLS 030155Z AUTO 28008G16KT 250V320 10SM CLR 18/11 A2990 RMK AO2 KCLT 030152Z 23004KT 10SM FEW060 SCT250 26/20 A3004 RMK AO2 SLP162 LTG DSNT W T02560200 KCNB 030153Z AUTO 16004KT 10SM CLR 18/14 A2987 RMK AO2 T01770136 CYGT 022100Z 32009KT 15SM SKC 09/01 A2975 RMK 9.0/1.0/TR/NIL/LAST OBS/NEXT 030900Z SLP079 CXRB 030100Z AUTO 14013KT 04/02 RMK AO1 PK WND 13019/0028 SLP066 T00430015 57008 CYHK 030100Z AUTO 17005KT 9SM CLR 04/04 A2983 RMK SLP104 KDCU 030153Z AUTO 00000KT 10SM CLR 25/23 A2999 RMK AO2 SLP148 T02500228 KDEC 030154Z 18003KT 10SM CLR 23/20 A2997 RMK AO2 SLP144 T02280200 KCNC 030155Z AUTO 20003KT 8SM CLR 20/17 A2997 RMK AO2 KBUU 030155Z AUTO 00000KT 10SM CLR 15/15 A2993 RMK AO2 T01540149 CWZL 030100Z AUTO 34015G21KT 17/10 RMK AO1 PK WND 35021/0049 SLP185 T01740098 54000 KDED 030155Z AUTO 11004KT 10SM CLR 26/23 A3004 RMK AO1 KBWD 030155Z AUTO 10SM FEW046 SCT060 31/18 A2991 RMK AO2 NZRO 030100Z 26005KT 30KM FEW030 SCT046 16/13 Q1011 RMK VATSIM USE ONLY CYGV 030115Z AUTO 18007KT 9SM OVC007 17/16 A2976 RMK SLP079 DENSITY ALT 500FT CYHM 030100Z 25004KT 15SM FEW160 SCT250 18/17 A2989 RMK AC1CI2 SLP119 DENSITY ALT 1300FT PHSF 030156Z AUTO 26008KT 12SM BKN024 BKN031 19/15 A3032 RMK AO2 SLP154 T01850148 KBVN 030155Z AUTO 14004KT 10SM CLR 20/16 A2992 RMK AO2 T01950160 KCLW 030155Z AUTO 07003KT 10SM BKN043 BKN055 26/25 A3001 RMK AO2 CWZN 030100Z AUTO 13/10 RMK AO1 SLP178 T01300104 58003 CYGW 030156Z AUTO 26021G30KT 9SM SCT021 BKN026 BKN035 OVC049 10/08 A2949 RMK SLP986 KBVO 030153Z 13007KT 10SM CLR 23/21 A2997 RMK AO2 SLP138 T02330211 EGGW 030150Z 08003KT 1600 BR NSC 13/12 Q1023 CWZO 030100Z AUTO 03006KT RMK AO1 CYGX 030100Z 31007KT 15SM -SHRA BKN030TCU BKN200 16/11 A2952 RMK TCU5CI1 CB TOP S CB TOP NW SLP002 ZSSS 030130Z 29005MPS 260V320 5000 -SHRA BR BKN008 24/22 Q1009 NOSIG KBWG 030153Z AUTO 21005KT 10SM SCT090 BKN110 23/21 A3000 RMK AO2 SLP153 T02330211 KBUY 030154Z AUTO 22008G15KT 10SM CLR 26/18 A2999 RMK AO2 SLP148 T02560183 KDCY 030155Z AUTO 00000KT 7SM CLR 20/20 A2998 RMK AO2 T01950195 CWYY 030100Z AUTO 33006KT 20/11 RMK AO1 SLP040 T01960106 56013 KDEH 030155Z AUTO 00000KT 10SM CLR 18/15 A2992 RMK AO2 EGHQ 021920Z 14012KT 9999 BKN022 15/13 Q1022 CWZQ 030140Z AUTO 13015G23KT 21/18 RMK AO1 T02080180 CXRH 030100Z AUTO 15005KT 16/11 RMK AO1 T01620105 UNNT 030130Z 22002MPS CAVOK 06/02 Q1022 25090070 16090070 NOSIG RMK QFE756/1008 KCMR 030155Z AUTO 20006KT 10SM CLR 22/03 A3022 RMK AO1 KBWI 030154Z 00000KT 10SM FEW065 SCT120 SCT250 23/22 A2990 RMK AO2 TSE49 SLP122 T02280222 KCNI 030155Z AUTO 00000KT 10SM CLR 23/20 A3005 RMK AO2 KBVS 030155Z AUTO 00000KT 10SM OVC013 13/11 A2982 RMK A01 P000 KBXA 030155Z AUTO 35011G15KT TS SCT034 SCT041 BKN055 24/22 A3010 RMK AO2 LTG DSNT ALQS P0003 T02420217 EGJA 021720Z 08013KT 9999 FEW020 18/16 Q1021 CWZS 030100Z AUTO 16005KT 19/17 RMK AO1 SLP058 T01890173 50000 EFSA 030150Z AUTO 25004KT 210V290 CAVOK 12/10 Q1024 KCNK 030155Z AUTO 15006KT 10SM CLR 22/19 A2992 RMK AO2 SLP122 T02170194 CYIK 022100Z 04018G24KT 15SM FEW010 BKN060 BKN080 OVC150 05/03 A2946 RMK ST1SC6AS1AS1 LAST OBS/NEXT 031200UTC SLP978 KBVU 030155Z AUTO 15017KT 10SM CLR 36/04 A2972 RMK AO2 EGJB 021950Z 06004KT CAVOK 17/17 Q1022 CXSC 030100Z AUTO 02009KT 16/07 RMK AO1 T01640068 UNOO 030130Z 26002MPS CAVOK 07/03 Q1022 25CLRD60 NOSIG RMK QFE758 CXRL 030100Z AUTO 10/09 RMK AO1 T01010090 CYHU 030139Z AUTO 24012KT 9SM -RA OVC075 20/18 A2971 RMK SLP060 DENSITY ALT 900FT KCNM 030153Z AUTO 12003KT 10SM CLR 33/02 A2985 RMK AO2 SLP042 T03330017 CWZV 030100Z AUTO 32022G27KT 15/10 RMK AO1 PK WND 32032/0005 SLP180 T01510102 51001 KDEN 030153Z 16011KT 10SM FEW090 FEW150 23/12 A2998 RMK AO2 SLP086 T02330122 KCOE 030155Z AUTO 22007KT 10SM BKN075 21/05 A2966 RMK AO1 NZTG 030120Z 36006KT 30KM FEW030 17/12 Q1011 RMK VATSIM USE ONLY NZSP 022350Z 03009KT 4800 IC BR SCT020 OVC060 M58/ A2857 RMK CLN AIR 01008KT ALL WNDS GRID CXSE 030100Z AUTO 29009KT 01/01 RMK AO1 SLP043 T00110008 53003 CWZW 030100Z AUTO 26009KT 15/04 RMK AO1 SLP131 T01520037 56007 CYIN 030119Z AUTO 32011G19KT 270V340 9SM -RA SCT035 BKN045 BKN055 10/06 A2982 RMK SLP105 DENSITY ALT 4100FT KCNO 030153Z 24012KT 10SM FEW100 26/18 A2977 RMK AO2 SLP074 T02560178 KCMX 030153Z AUTO 27021G29KT 10SM CLR 17/09 A2984 RMK AO2 PK WND 27029/0145 SLP103 T01720094 KBVX 030155Z AUTO 00000KT 10SM CLR 22/19 A2999 RMK AO1 KCOF 030158Z AUTO 13009KT 10SM CLR 28/23 A3003 RMK AO2 SLP173 T02830234 $ CYIO 030100Z AUTO 06005KT 9SM CLR 03/01 A2976 RMK SLP083 CYJF 022100Z 22009KT 15SM FEW035 SCT200 19/10 A2973 RMK CU2CI1 SLP072 KBVY 030153Z AUTO 20004KT 10SM CLR 23/21 A2976 RMK AO2 SLP071 T02280211 EFRO 030150Z AUTO 21010KT 9999 BKN001 OVC003 11/11 Q1017 KCMY 030155Z AUTO 00000KT 10SM CLR 16/15 A2991 RMK AO2 T01620152 KBWP 030150Z AUTO 19008KT 10SM CLR 18/12 A2977 RMK AO1 CYHY 030100Z 07009KT 15SM FEW025 FEW045 FEW230 13/10 A2976 RMK SC1SC1CI1 SLP083 ZUCK 030100Z VRB01MPS 3000 R02L/1100U R02R/1600D BR FEW005 24/21 Q1016 NOSIG KDEQ 030153Z AUTO 15006KT 10SM CLR 27/22 A2995 RMK AO2 SLP135 T02670217 CXSH 030100Z AUTO 23003KT 20/20 RMK AO1 SLP053 T02020202 51004 CWZZ 030153Z AUTO 23017KT 11/ A2928 CYHZ 030145Z 14006KT 3/8SM R14/P6000FT/D R23/6000FT/D FG VV001 19/19 A2990 RMK FG8 SLP125 DENSITY ALT 1000FT KDFI 030153Z AUTO 00000KT 8SM CLR 20/18 A2995 RMK AO2 SLP138 T02000178 EFSI 030150Z AUTO 17002KT 0450 FG OVC001 09/09 Q1023 EGKA 021850Z VRB03KT CAVOK 16/14 Q1022 CYKA 030100Z 26005KT 40SM FEW020 FEW035 SCT060 OVC110 14/10 A2978 RMK SF1SC2SC2AC4 SF TR SLP088 DENSITY ALT 1400FT EGJJ 021950Z 08011KT 9999 FEW012 17/16 Q1021 NOSIG KDET 030153Z 00000KT 10SM CLR 21/16 A2993 RMK AO2 SLP131 T02060161 KF70 030155Z AUTO 20005KT 10SM CLR 26/12 A2979 RMK AO1 KBXK 030155Z AUTO 09003KT 10SM CLR 38/09 A2968 RMK AO1 EGKB 021920Z 07004KT CAVOK 15/13 Q1024 KCNU 030152Z AUTO 14005KT 10SM CLR 23/20 A2997 RMK AO2 SLP138 T02330200 EHAK 030155Z AUTO 12008KT 9999 FEW021/// 16/15 Q1026 KCPC 030155Z AUTO 18004KT 10SM CLR 27/24 A3001 RMK AO2 T02650240 CXSL 030100Z AUTO 09004KT 10/08 RMK AO1 5PAST HR M P0002 T00960080 50005 KCOM 030155Z AUTO 15007KT 10SM CLR 32/16 A2991 RMK AO2 T03150156 CYKD 022300Z 32009G16KT 3SM -RA OVC007 04/03 A2960 RMK ST8 6.8/3.2/1.2 LAST OBS/NEXT 031300Z SLP023 KCNW 030151Z 16010KT 10SM SKC 29/22 A2991 CXTD 030100Z AUTO 15004KT 19/19 RMK AO1 SOG 37 1002 SLP137 T01910187 CYIV 030100Z 00000KT 15SM FEW040 14/12 A2959 RMK SC2 SLP028 KDEW 030153Z AUTO 20014KT 10SM CLR 19/04 A2965 RMK AO2 SLP037 T01890044 PHTO 030153Z 11011KT 10SM BKN038 OVC045 26/23 A2996 RMK AO2 SLP145 T02610228 KCON 030151Z AUTO 16005KT 8SM FEW075 23/23 A2975 RMK AO2 SLP072 T02330228 EHAM 030155Z 05004KT 7000 R18C/1600D R27/P2000N R18R/1100N R06/P2000N MIFG NSC 14/14 Q1024 NOSIG CZBF 030100Z 18003KT 12SM FEW080 FEW100 SCT250 19/19 A2976 RMK AC1AC1CS2 SLP079 DENSITY ALT 900FT KCNY 030153Z AUTO 22005KT 10SM CLR 29/01 A2985 RMK AO2 SLP049 T02890006 KBYG 030153Z AUTO 25007KT 10SM CLR 17/06 A2982 RMK AO2 SLP053 T01720061 CYKF 030100Z AUTO 27004KT 9SM CLR 16/14 A2990 RMK SLP123 DENSITY ALT 1400FT CXSP 030100Z AUTO 08003KT 10/09 RMK AO1 0PAST HR M P0004 T00990087 50010 KCOQ 030157Z AUTO 19003KT 10SM CLR 17/11 A2982 RMK AO2 LTG DSNT N CXTH 030100Z AUTO 05010KT 11/10 RMK AO1 PK WND 02017/0033 T01130095 KBYI 030153Z AUTO 12003KT 10SM CLR 22/10 A2980 RMK AO2 SLP059 T02220100 VEPT 030150Z 09010KT 3000 HZ FEW020 SCT025 28/26 Q1004 NOSIG CXSR 030100Z AUTO 35009KT 09/06 RMK AO1 SLP098 T00920063 51007 KCOS 030154Z 10010KT 10SM FEW140 23/08 A3008 RMK AO2 SLP103 T02280083 NZTU 030100Z 17004KT 25KM SCT021 12/07 Q1010 RMK ALT VATSIM USE ONLY CYLA 022100Z 09017G24KT 6SM -RA BR BKN003 OVC006 07/07 A2908 RMK SF6SC2 LAST OBS/NEXT 031200UTC SLP850 CYKJ 030100Z AUTO 04006KT 350V060 9SM BKN055 OVC066 13/05 A2969 RMK SLP068 DENSITY ALT 2000FT KCOT 030153Z AUTO 12013KT 10SM CLR 31/22 A2988 RMK AO2 PK WND 14030/0059 SLP111 T03060217 KCPK 030155Z AUTO 19005KT 10SM CLR 27/23 A2996 RMK AO2 KCQB 030155Z AUTO 11009KT M1/4SM FG VV000 26/24 A2994 RMK AO2 CYJT 030100Z 08006KT 15SM FEW020 BKN090 17/12 A2996 RMK SC2AC3 SLP145 KCQC 030153Z AUTO 19009KT 10SM SCT110 23/03 A3017 RMK AO2 SLP110 T02280028 EGKK 030150Z AUTO 00000KT 0050 R08R/1400 BCFG FEW002 BKN010 BKN014 12/12 Q1023 KCOU 030154Z 22003KT 10SM CLR 23/21 A2999 RMK AO2 SLP149 T02330206 EHBK 030155Z AUTO 06004KT 2400 BR NCD 14/13 Q1022 EGLC 030150Z AUTO 07005KT 1600 BR BKN002/// 16/15 Q1023 CYKL 030121Z AUTO 26009KT 9SM FEW030 SCT040 SCT060 16/13 A2949 RMK SLP994 DENSITY ALT 2700FT CYLD 030100Z 22004KT 15SM FEW230 14/11 A2981 RMK CI1 LAST OBS/NEXT 03 1000Z SLP100 KDFW 030153Z 15011KT 10SM FEW250 32/22 A2989 RMK AO2 SLP112 T03170217 KCQF 030155Z AUTO 00000KT 10SM SCT023 SCT030 SCT036 27/24 A3004 RMK AO2 CYKO 021900Z 02024G34KT 8SM -RA OVC025 08/07 A2927 RMK SC8 LAST OB NEXT / 031200 UTC REDUCED PROGRAM SLP915 EGLF 022020Z 22003KT CAVOK 13/12 Q1023 CXTO 030100Z AUTO 19/19 RMK AO1 SLP108 T01920186 53018 CXTP 030100Z AUTO 19005KT 11/09 RMK AO1 SLP181 T01140086 58003 EFTP 030150Z AUTO 21006KT 9999 SCT006 OVC008 12/11 Q1025 OSDI 030200Z 21014KT CAVOK 19/16 Q1011 CYKQ 022100Z 28010KT 15SM FEW035 SCT280 19/14 A2958 RMK SC2CC2 LAST OBS/NEXT 031300 UTC SLP018 DENSITY ALT 900FT CYLH 030100Z AUTO VRB02KT 9SM FEW120 12/11 A2965 RMK SLP046 DENSITY ALT 900FT KCPR 030153Z 24008KT 10SM CLR 21/M01 A2988 RMK AO2 SLP068 T02061006 NZWB 030051Z 02006KT 40KM FEW050 19/09 Q1009 RMK VATSIM USE ONLY KCPS 030153Z 17003KT 10SM CLR 22/20 A2999 RMK AO2 SLP152 T02170200 KBYS 030155Z AUTO 20006KT 10SM CLR 36/M01 A2975 RMK AO2 SLP013 T03581006 $ CYLJ 030000Z 00000KT 15SM SCT040 BKN060 BKN100 13/09 A2972 RMK SC3SC2AC2 SH DIST SE LAST OB/NEXT 031200 UTC SLP075 DENSITY ALT 1800FT CYMA 030100Z 06003KT 350V160 20SM BKN045 OVC080 11/02 A2977 RMK SC5AS3 SLP104 DENSITY ALT 1700FT EFVA 030150Z AUTO 21003KT 170V240 9999 SCT002/// 10/10 Q1023 KCPT 021535Z AUTO 18011G17KT 10SM FEW026 FEW100 30/23 A3000 RMK AO2 CYLK 030000Z 28002KT 15SM FEW030 BKN070 12/07 A2977 RMK SC2AC5 13.0/8.0/0 LAST OB/NEXT 031400Z SLP089 CZDB 030100Z AUTO 17002KT 16/16 RMK AO1 SLP124 T01640155 51004 ORMM 030200Z 24006KT CAVOK 28/12 Q1001 NOSIG CYLL 030141Z 07010KT 010V080 15SM -SHRA BKN030TCU OVC100 11/10 A2972 RMK TCU5AC3 SLP081 DENSITY ALT 2400FT EGMC 030150Z 35002KT 0100 R24/0100 FG NSC 12/11 Q1023 EGLL 030150Z 04003KT 4700 HZ NSC 15/13 Q1023 EFTU 030150Z AUTO 23005KT 190V260 CAVOK 13/12 Q1025 KCQM 030142Z AUTO 12002KT 10SM SCT100 13/12 A2978 RMK AO2 EGMD 021750Z 07010KT 9999 FEW024 19/17 Q1023 CXTV 030100Z AUTO 36013KT 02/02 RMK AO1 6PAST HR 1038 PK WND 35018/0036 SLP027 P0002 T00240018 50006 KDGW 030153Z AUTO 25008KT 10SM CLR 21/03 A2987 RMK AO2 SLP076 T02110033 KCRE 030153Z AUTO 20011KT 10SM FEW019 SCT025 28/24 A3001 RMK AO2 SLP164 T02830239 TSNO KDHN 030153Z AUTO 25004KT 10SM FEW065 27/22 A3005 RMK AO2 SLP170 T02720217 KCPW 030156Z AUTO 22017G25KT 10SM CLR 11/M03 A3053 RMK AO2 KBZN 030156Z 20008KT 10SM CLR 22/02 A2973 RMK AO2 SLP038 T02220017 KCRG 030153Z 00000KT 10SM CLR 26/24 A3004 RMK AO2 SLP171 T02610239 KBYY 030155Z AUTO 16008KT 10SM SCT027 SCT036 27/23 A2997 RMK AO2 T02740236 CYKY 030128Z 05008KT 15SM BKN035 OVC075 13/11 A2970 RMK SC7AC1 SLP069 DENSITY ALT 2800FT CZCP 030100Z AUTO 30005KT 9SM FEW023 BKN033 BKN073 06/ A2951 RMK SLP001 ORNI 030200Z 00000KT 8000 NSC 25/10 Q1003 NOSIG CYKZ 030100Z 26002KT 15SM SKC 18/18 A2986 RMK SLP111 CYMH 030100Z AUTO 22010G20KT 9SM CLR 16/12 A2983 RMK SLP100 DENSITY ALT 200FT NZWK 030100Z 26005KT 30KM FEW030 SCT046 16/13 Q1011 RMK NZRO VATSIM USE ONLY CZCR 030100Z AUTO 19002KT 17/17 RMK AO1 SLP075 T01650167 57002 KDIJ 030156Z AUTO 21006KT 10SM CLR 17/02 A2998 RMK AO2 T01720022 SLP080 CYMJ 030100Z 08005KT 15SM FEW085 SCT130 BKN200 18/10 A2971 RMK AC2AC2CI3 SLP066 KDHT 030153Z AUTO 09006KT 10SM CLR 26/17 A2998 RMK AO2 SLP095 T02560172 KCQT 030147Z AUTO VRB03KT 10SM CLR 23/18 A2977 RMK AO2 SLP077 T02280178 CYNA 030154Z AUTO 17010G15KT 3SM BR OVC002 16/16 A2980 RMK SLP090 DENSITY ALT 300FT KDIK 030156Z AUTO 28004KT 10SM CLR 17/08 A2978 RMK AO2 SLP077 T01670083 CYLT 021900Z 30006KT 7SM BKN006 OVC012 M04/M04 A2984 RMK ST7SC1 LAST OBS/NXT 031200 UTC SLP108 EFUT 030150Z AUTO 21005KT CAVOK 11/09 Q1026 CYNC 022000Z 27010G15KT 15SM BKN012 OVC030 13/11 A2957 RMK ST6SC2 CIG RAG/LAST OBS/NEXT 031300 UTC SLP014 CYLU 022100Z 14023KT 4SM -RA BR SCT025 OVC050 15/14 A2921 RMK FG2SC2SC4 LAST OBS/NEXT 031200 VIA CZNB SLP896 EGNC 021650Z 07002KT 9999 FEW028 BKN045 18/12 Q1023 NZWN 030130Z AUTO 34009KT 9999 NCD 19/10 Q1010 NOSIG TXKF 030155Z 22004KT 9999 FEW018 FEW300 26/23 Q1021 RMK WND EST  EHDL 030155Z AUTO 06004KT 1900 BR FEW110 13/13 Q1024 YLO CYND 030100Z 25005KT 15SM FEW013 OVC030 19/19 A2977 RMK SC2SC6 LAST OBS/NEXT 031100 UTC SLP080 DENSITY ALT 900FT CXVM 030100Z AUTO 04007KT 12/08 RMK AO1 T01210083 CYMM 030100Z AUTO 32004KT 9SM FEW065 SCT096 14/08 A2973 RMK SLP081 DENSITY ALT 1600FT KCQW 030155Z AUTO 00000KT 22/22 A3002 RMK AO2 NZWP 030120Z 29006KT 20KM SCT020 BKN025 16/11 Q1011 RMK VATSIM USE ONLY CXVN 030100Z AUTO 25004KT 20/17 RMK AO1 SLP102 T01970174 53020 CYNE 030150Z AUTO 31007G20KT 240V350 9SM -RA SCT055 SCT073 SCT094 14/10 A2962 RMK PRESRR SLP036 DENSITY ALT 1000FT CYLW 030100Z AUTO 30004KT 9SM RA SCT050 OVC065 14/12 A2974 RMK PRESRR PCPN 2.0MM PAST HR SLP075 DENSITY ALT 1800FT KCQX 030152Z AUTO 21007KT 2 1/2SM BR OVC002 22/22 A2983 RMK AO2 SLP101 T02220217 CYMO 030157Z AUTO 23003KT 1SM BR FEW120 13/12 A2963 RMK VIS VRB 5/8-3 SLP032 KCSG 030151Z AUTO 09006KT 10SM CLR 28/21 A3000 RMK AO2 LTG DSNT NE SLP152 T02830206 KCRP 030151Z 12012KT 10SM FEW023 FEW045 BKN075 BKN150 BKN250 27/24 A2992 RMK AO2 PK WND 16026/0110 WSHFT 0101 RAB00E20 SLP130 P0002 T02720239 NZWR 030120Z 29006KT 20KM SCT020 BKN025 16/11 Q1011 RMK NZWP VATSIM USE ONLY KCRQ 030153Z AUTO 28004KT 10SM CLR 22/18 A2977 RMK AO2 SLP078 T02220178 TSNO NZWS 030100Z 31004KT 30KM SCT025 14/08 Q1012 RMK ALT VATSIM USE ONLY EGNH 021950Z 04004KT CAVOK 16/11 Q1023 EHEH 030155Z AUTO 04005KT 2000 BR FEW003 13/13 Q1023 YLO KCRS 030153Z AUTO 14009KT 10SM CLR 28/23 A2995 RMK AO2 SLP134 T02830228 EFVR 030150Z AUTO 25003KT CAVOK 12/11 Q1024 NZWU 030111Z 22008KT 50KM NSC 19/10 Q1010 RMK NZOH VATSIM USE ONLY CYOA 022300Z 25006KT 15SM FEW045 BKN055 12/03 A2977 RMK SC2SC4 12.8/5.8/0 LAST OB/NEXT 031100Z SLP104 CZFA 030100Z 10003KT 080V150 30SM BKN082 BKN090 OVC120 13/04 A2980 RMK AC5AC2AC1 CLIMAT 13.0/-2.2/0.0 LAST OBS/NEXT 031300UTC SLP118 DENSITY ALT 2700FT EGNJ 030150Z AUTO VRB02KT 9999 BKN049/// 13/13 Q1024 KCTB 030156Z AUTO 32005KT 10SM CLR 17/06 A2971 RMK AO2 SLP041 T01720056 KDKB 030155Z AUTO 30004KT 10SM CLR 19/16 A2996 RMK AO2 T01880157 CYMT 030100Z 23004KT 15SM SCT025 OVC060 16/15 A2966 RMK CU3SC5 LAST OBS/NEXT 031000 UTC SLP047 CYOC 022000Z 25020KT 35SM FEW012 BKN023 BKN200 08/03 A2949 RMK SF1CU6CI1 SF TR CI TR CLIMAT 8.0/5.0/6.2 MM LAST OBS NXT 03 1300 UTC VIA CYMA SLP000 CYMU 022100Z 23025G40KT 5SM -DZ OVC005 09/08 A2920 RMK ST8 LASTOBS/NEXT 03 1200Z SLP892 CZEL 030100Z AUTO 36003KT 16/14 RMK AO1 SLP123 T01600135 53015 KCSM 030153Z 16011KT 10SM CLR 31/18 A2992 RMK AO2 SLP103 T03110178 $ CZEM 022000Z 30008KT 15SM FEW025 FEW120 16/11 A2958 RMK SC2AC0 LAST OBS/NEXT 031300 UTC SLP017 CXWM 030100Z AUTO 01010KT 17/06 RMK AO1 PK WND 35017/0003 T01690055 CYOD 030100Z 27002KT 15SM BKN110 BKN240 12/09 A2973 RMK AC3CI1 SLP083 EGNM 030150Z 08002KT 7000 FEW005 BKN040 13/13 Q1024 CYNM 030100Z AUTO 22004KT 9SM BKN220 BKN240 15/12 A2966 RMK SLP049 DENSITY ALT 1400FT KCRW 030154Z 19005KT 10SM FEW005 FEW040 SCT090 22/21 A2999 RMK AO2 SLP147 VLY FG T02220211 EHDV 030155Z AUTO 13006KT 9999 FEW013/// BKN016/// OVC019/// 17/15 Q1025 EHFD 030155Z AUTO 10007KT 9999 NCD 17/15 Q1026 CXVW 030100Z AUTO 34003KT 12/08 RMK AO1 T01150084 CXWN 030100Z AUTO 20001KT 18/12 RMK AO1 SLP049 T01770120 56003 KCRX 030155Z AUTO 00000KT 10SM BKN055 24/22 A3002 RMK AO2 LTG DSNT N AND NE EGNO 021820Z 34005KT CAVOK 17/12 Q1023 CYMX 030100Z 25003KT 180V350 15SM -SHRA FEW005 BKN080 OVC100 19/18 A2974 RMK SF2AC3AC3 SLP071 DENSITY ALT 900FT KEBG 030155Z AUTO 12014G18KT 10SM CLR 30/21 A2987 RMK AO2 T03010210 KCSQ 030155Z AUTO 15004KT 10SM CLR 19/16 A2998 RMK AO2 UNTT 030130Z 19004MPS CAVOK 04/03 Q1019 NOSIG RMK QFE749 21090060 KEAR 030155Z AUTO 11007KT 10SM CLR 20/16 A2993 RMK AO1 EGNR 021950Z VRB02KT CAVOK 15/11 Q1023 KCTJ 030155Z AUTO 00000KT 10SM SCT050 SCT110 25/23 A3005 RMK AO2 CYPA 030100Z 36002KT 15SM FEW057 SCT095 16/09 A2969 RMK SC2AC2 SLP064 DENSITY ALT 2000FT CYOJ 030100Z 00000KT 15SM FEW055 BKN085 14/10 A2976 RMK SC1AC4 FEW CU SLP087 DENSITY ALT 1400FT EGPA 030150Z AUTO 00000KT 9999 FEW031/// OVC038/// 13/12 Q1022 EGNS 030150Z 03005KT 340V060 9999 BKN042 13/09 Q1022 KDKK 030153Z AUTO 20005KT 10SM BKN015 19/18 A2992 RMK AO2 SLP127 T01890183 KCUB 030153Z AUTO 00000KT 10SM CLR 24/22 A3003 RMK AO2 PRESRR SLP166 T02390222 KEAT 030155Z AUTO 28017G24KT 10SM CLR 21/06 A2969 RMK AO2 PK WND 26029/0100 SLP047 T02060056 EGPB 030150Z AUTO 17005KT 9999 OVC041/// 13/12 Q1022 EGNT 030150Z 00000KT 6000 BKN009 13/12 Q1024 KEAU 030156Z AUTO 21004KT 10SM CLR 17/13 A2988 RMK AO2 SLP116 T01670133 CYPC 022300Z 21013KT 15SM FEW035 BKN120 13/04 A2953 RMK SC2AC5 13.0/4.9/0 LAST OB/NEXT 031300Z SLP001 ZUGY 030100Z 33002MPS 290V360 8000 OVC036 19/17 Q1019 NOSIG EGPC 030150Z AUTO 24003KT 9999 OVC035/// 13/10 Q1023 KCSV 030153Z AUTO 13003KT 10SM FEW006 BKN110 21/19 A3008 RMK AO2 LTG DSNT ALQDS RAE32 TSE31B37E52 PRESFR SLP166 P0004 T02110189 CZFM 022300Z 35009KT 310V010 10SM BKN020 07/04 A2958 RMK SC6 11.6/5.9/0.4 LAST OBS/NEXT 031300Z PRESRR SLP018 CZEV 030100Z AUTO 34011G18KT 03/01 RMK AO1 PK WND 33020/0013 SLP037 T00260013 53037 EGOM 030050Z AUTO 05005KT 9999 OVC037/// 11/10 Q1024 CYPD 030157Z AUTO 11007KT 5SM HZ OVC002 19/ A2992 RMK PCPN 0.8MM PAST HR SLP132 DENSITY ALT 800FT EGPD 030150Z 18005KT 9999 FEW038 11/10 Q1024 EGNV 022020Z 03005KT 9999 BKN042 14/11 Q1025 CZFN 022300Z 03004KT 30SM BKN040 BKN090 15/05 A2963 RMK SC5AC2 14.5/2.0/0 LAST OB/NEXT 031500Z SLP039 CYPE 030131Z 31003KT 15SM SCT030CB BKN080 BKN210 11/09 A2979 RMK CB4AC2CI1 SLP103 DENSITY ALT 1900FT EGPE 030150Z 00000KT 9999 BKN043 12/11 Q1023 KDLF 030058Z AUTO 14008KT 10SM CLR 35/17 A2982 RMK AO2 SLP082 T03470171 $ CYOO 030155Z AUTO 27004KT 3SM BR CLR 17/17 A2986 RMK SLP111 DENSITY ALT 800FT EGNX 030120Z 10005KT 040V210 9999 SCT046 13/11 Q1024 EGPF 030150Z 07002KT 9999 OVC044 12/11 Q1023 KECG 030154Z 20010KT 10SM CLR 28/24 A2997 RMK AO2 SLP149 T02780239 CYPG 022200Z 03005KT 15SM FEW046 FEW091 20/11 A2969 RMK CU2AC1 DA2112FT SLP056 EGOP 030050Z AUTO 08004KT 9999 // BKN050/// 16/15 Q1022 EHGG 030155Z AUTO 06003KT 2400 R05/0700 BR NCD 11/10 Q1024 KDLH 030155Z 14009KT 10SM FEW090 15/12 A2982 RMK AO2 SLP101 T01500122 KCUH 030155Z AUTO 11004KT 23/22 A2994 RMK AO2 PWINO CXYH 030100Z AUTO 18003KT 19/10 RMK AO1 SLP029 T01920099 56014 CYPH 030147Z AUTO 33026G32KT 5SM -RA BR OVC006 08/08 A2896 RMK SLP806 DENSITY ALT 300FT EGPH 030150Z 06003KT 9999 SCT037 OVC044 13/12 Q1023 KDKR 030150Z AUTO 16006KT 10SM CLR 28/26 A2997 RMK AO2 KDMA 030158Z AUTO 34005KT 10SM CLR 36/06 A2982 RMK AO2 SLP049 T03580057 $ KEBS 030155Z AUTO 20006KT 10SM CLR 17/16 A2993 RMK AO2 EGPI 030120Z AUTO 14004KT 9999 BKN041/// 13/12 Q1023 EGQA 021250Z 18012KT 9999 FEW020 SCT035 BKN045 18/// Q1023 BLU CZFS 030100Z AUTO 21003KT 19/06 RMK AO1 SLP054 T01910063 56009 EGOS 030050Z AUTO 05003KT 9999 OVC050/// 13/10 Q1023 CYQA 030100Z AUTO 26005KT 240V300 9SM CLR 17/15 A2984 RMK SLP104 DENSITY ALT 1500FT EHFS 030155Z AUTO 05007KT 3000 BR NSC 16/15 Q1023 KCVB 030155Z AUTO 13011G19KT 10SM CLR 31/20 A2993 RMK AO2 T03050197 CYQB 030100Z 18003KT 15SM FEW020 SCT075 OVC110 20/19 A2969 RMK SC1AC4AC4 SC TR SLP053 DENSITY ALT 1100FT EGPK 030150Z 12002KT 9999 BKN043 12/10 Q1023 KCVC 030155Z AUTO 00000KT 10SM OVC070 25/20 A3004 RMK AO2 LTG DSNT S AND SW KCUL 030155Z AUTO 00000KT 5SM BR CLR 22/22 A2998 RMK AO2 T02200215 KEDC 030155Z AUTO 16011G16KT 10SM FEW042 FEW048 30/21 A2993 RMK AO2 KDLL 030155Z AUTO 00000KT 10SM CLR 17/14 A2992 RMK AO2 T01670135 CYPL 030100Z 22007KT 15SM FEW050 BKN080 BKN250 16/09 A2966 RMK CU2AC3CI2 CB ASOCTD NE SLP052 DENSITY ALT 1900FT CXZC 030100Z AUTO 18002KT 14/14 RMK AO1 SLP023 T01370135 50012 EGPL 030150Z AUTO 18008KT 9999 BKN043/// 13/11 Q1022 CYQD 030100Z 30008KT 15SM FEW030TCU FEW090 FEW230 17/07 A2963 RMK TCU1AC1CI0 TR TCU SLP039 EGPM 030150Z AUTO 19009KT 9999 SCT026/// BKN041/// 13/11 Q1022 KDLN 030153Z AUTO 17013KT 10SM CLR 22/03 A2975 RMK AO2 SLP033 T02170028 EGOV 030050Z 08006KT CAVOK 13/12 Q1022 BLU KEDE 030155Z AUTO 21010KT 10SM CLR 28/24 A2998 RMK AO2 T02760243 VGEG 030150Z 13005KT 6000 FEW025 BKN100 28/25 Q1006 NOSIG EGOW 021450Z 34011KT 9999 FEW030 19/11 Q1024 BLU EGPN 021920Z 27007KT 9999 BKN036 15/11 Q1023 CYOW 030115Z 21005KT 8SM FEW003 SCT020 BKN160 19/19 A2975 RMK SC1SC3AC3 PRESFR SLP074 DENSITY ALT 1100FT CYQF 030100Z 26007KT 15SM BKN040TCU BKN100 OVC250 13/07 A2974 RMK TCU5AC2CI1 SHS DIS SW+N SLP088 DENSITY ALT 3500FT KCVG 030152Z 00000KT 7SM BKN250 21/21 A2998 RMK AO2 SLP145 T02110206 KCTY 030153Z AUTO 00000KT 25/23 A3003 RMK AO1 SLP168 P0001 T02500228 EGPO 030150Z AUTO 20012KT 9999 OVC040/// 13/10 Q1021 KECP 030153Z 00000KT 10SM CLR 28/24 A3002 RMK AO2 SLP176 T02780239 $ KDLP 030155Z AUTO 11004KT 10SM CLR 30/24 A3003 RMK A01 CYQG 030100Z 00000KT 15SM FEW290 18/16 A2991 RMK CI1 SLP126 KCVH 030150Z AUTO 26014KT 10SM CLR 18/15 A2980 RMK AO1 KDMH 030154Z AUTO 23/22 A2991 RMK AO1 SLP127 T02330217 KCTZ 030155Z AUTO 19003KT 10SM CLR 27/25 A3002 RMK AO2 T02650245 CYOY 030158Z AUTO 00000KT 8SM SCT023 SCT068 BKN079 19/19 A2967 CYPQ 030159Z AUTO 21002KT 1 1/4SM BR CLR 16/16 A2985 RMK VIS VRB 1/2-3 SLP109 DENSITY ALT 1000FT CYQH 030100Z 27010G15KT 30SM FEW030 SCT080 BKN210 17/02 A2980 RMK CU1AC1CI0 SLP104 EHFZ 030155Z AUTO 10004KT 9999 BKN010/// BKN013/// BKN026/// 17/15 Q1025 CYQI 030100Z 16009KT 1/4SM FG VV001 17/17 A2988 RMK FG8 SLP120 DENSITY ALT 400FT KDLS 030153Z AUTO 29014G22KT 10SM BKN065 BKN080 OVC095 21/11 A2981 RMK AO2 SLP093 T02110106 CYPR 030100Z AUTO 29008KT 260V340 9SM BKN055 15/11 A3004 RMK SLP174 EHGR 030155Z AUTO 04004KT 2400 BR FEW009 13/13 Q1023 YLO KECS 030155Z AUTO 11006KT 10SM CLR 21/00 A2983 RMK AO2 KEDJ 030150Z AUTO 13003KT 10SM CLR 19/19 A2997 RMK A01 P000 KCWA 030152Z 22003KT 10SM SKC 16/14 A2991 CYRA 030000Z 16005KT 15SM BKN025 15/06 A2973 RMK SC5 15.9/8.1/0/0 LAST OBS/NEXT 031400Z SLP075 DENSITY ALT 1000FT KCUT 030153Z AUTO 15005KT 10SM CLR 18/01 A2994 RMK AO2 SLP082 T01830011 CYRB 030100Z 13017KT 15SM VCSH FEW012 FEW052 OVC068 04/02 A2974 RMK SC1SC2AC6 SLP076 CYQK 030100Z 18004KT 15SM FEW030TCU SCT093 17/10 A2969 RMK TCU1AC2 SLP058 DENSITY ALT 2100FT KCWC 030155Z AUTO 14009KT 10SM CLR 32/17 A2988 RMK AO2 T03180168 KECU 030150Z AUTO 12011G16KT 10SM BKN050 29/19 A2998 RMK AO2 EGQK 030050Z AUTO 21006KT 9999 OVC034/// 15/09 Q1023 CYQL 030100Z 34011KT 330V030 30SM FEW060 BKN085 BKN170 16/07 A2971 RMK CU1AC4AC1 SLP063 DENSITY ALT 4100FT EGQL 030150Z 05003KT 9999 BKN044 12/11 Q1023 BLU KEED 030156Z AUTO 21010KT 10SM CLR 41/02 A2964 RMK AO2 SLP000 T04060022 EGPU 030120Z AUTO 21005KT 9999 OVC043/// 13/13 Q1022 CYQM 030149Z 16005KT 15SM BKN005 19/18 A2983 RMK SF5 SLP100 DENSITY ALT 800FT KDMN 030153Z AUTO 26009KT 10SM CLR 32/01 A2994 RMK AO2 SLP058 T03170006 $ KCVN 030155Z AUTO 09011KT 10SM 28/13 A3000 RMK AO1 EGQM 030150Z AUTO 18004KT 9999 OVC008/// 13/12 Q1024 KEDN 030155Z AUTO 00000KT 10SM SCT075 26/22 A3003 RMK AO2 CYPW 030100Z 29013G20KT 20SM FEW025TCU FEW060 SCT100 BKN250 17/11 A2982 RMK TCU1SC1AC1CI2 SLP099 DENSITY ALT 800FT KDMO 030153Z AUTO 00000KT 8SM CLR 22/20 A2998 RMK AO2 SLP147 T02220200 KCVO 030155Z AUTO 30017G22KT 10SM OVC085 21/11 A2996 RMK AO1 KCWF 030150Z 11005KT 10SM SKC 27/24 A3001 CYPX 030100Z 04026G34KT 3SM -RA OVC010 07/06 A2907 RMK SC8 SLP844 CYPY 030100Z AUTO 31005KT 9SM BKN075 15/08 A2973 RMK SLP076 DENSITY ALT 1100FT KDLZ 030155Z AUTO 00000KT 10SM CLR 18/17 A2998 RMK AO2 CYQQ 030100Z 34008KT 20SM FEW030 FEW100 SCT250 16/13 A2983 RMK SC2AC1CI1 SLP101 KCWI 030155Z AUTO 29003KT 10SM CLR 17/15 A2997 RMK AO1 CYQR 030100Z 02003KT 15SM BKN120 BKN250 17/10 A2972 RMK AC6CI1 ACC ASOCTD SLP075 DENSITY ALT 2800FT KCVS 030158Z AUTO 08007KT 10SM CLR 29/10 A2998 RMK AO2 SLP089 T02900098 $ CYRJ 030100Z 22007KT 25SM OVC035 18/17 A2965 RMK SC8 SLP040 DENSITY ALT 1400FT EGQS 030150Z 22003KT 9999 OVC035 14/10 Q1023 BLU EHJA 030155Z AUTO 06012KT 360V150 9999 SCT018/// 17/14 Q1025 CYSB 030100Z 23004KT 15SM FEW056 BKN120 16/14 A2981 RMK SC1AC4 SLP096 DENSITY ALT 1600FT CYQT 030100Z VRB03KT 20SM FEW100 SCT270 18/14 A2975 RMK AC2CI1 SLP076 DENSITY ALT 1300FT OTBD 030130Z 17002KT 9999 FEW015 31/28 Q1002 NOSIG KDNL 030153Z AUTO 22003KT 10SM CLR 24/22 A3005 RMK AO2 SLP171 T02390222 KEDU 030155Z AUTO 19008KT 10SM CLR 25/14 A2966 RMK AO1 CYRL 030113Z 30009KT 12SM -SHRA OVC017 13/11 A2970 RMK SC8 WSHFT 0056 VIA CYPL SLP065 DENSITY ALT 1600FT CXZU 030100Z AUTO 12/09 RMK AO1 SLP083 T01210087 50002 CYQU 030100Z 29006KT 25SM FEW030TCU SCT056 BKN210 11/09 A2979 RMK TCU2SC2CI2 SLP105 DENSITY ALT 2300FT EGSC 021920Z VRB02KT 9999 BKN045 16/13 Q1023 CYSC 030148Z AUTO 27013KT 4SM RA BR FEW009 SCT020 BKN030 OVC038 21/20 A2974 RMK PCPN 4.0MM PAST HR SLP069 DENSITY ALT 1800FT KEFD 030150Z 13008KT 10SM FEW030 SCT250 29/25 A2998 CYSD 022200Z 30008KT 25SM BKN070 BKN120 20/08 A2969 RMK AC6AC2 DA4048FT SLP055 EGSD 021650Z 02008KT 9999 SCT028 17/16 Q1024 CXZV 030100Z AUTO 08009G15KT 16/16 RMK AO1 9PAST HR 8014 SLP047 P0004 T01610157 50009 CYQV 030100Z AUTO 29004KT 9SM CLR 16/09 A2971 RMK SLP067 DENSITY ALT 2300FT KDMW 030150Z AUTO 19003KT 10SM CLR 22/21 A2993 RMK AO2 LTG DSNT SE KEEN 030155Z AUTO 21003KT 10SM CLR 23/18 A2976 RMK AO1 KCWN 030156Z AUTO 19010G17KT 10SM CLR 22/07 A3012 RMK AO2 SLP119 T02230066 KEDW 030158Z 24019KT 90SM FEW300 32/01 A2975 RMK AO2A PK WND 24027/21 SLP050 T03200013 KCVW 030155Z AUTO 14009KT 10SM 29/25 A3001 RMK A01 KCXE 030155Z AUTO 00000KT 10SM CLR 27/23 A2998 RMK AO1 T02650234 KDNN 030155Z AUTO 00000KT 10SM CLR 26/22 A3001 RMK AO2 LTG DSNT N AND SW CYQW 030125Z AUTO 04007KT 9SM FEW029 BKN039 OVC060 13/10 A2972 RMK SLP076 DENSITY ALT 2100FT KEEO 030153Z AUTO 06004KT 10SM CLR 19/07 A3005 RMK AO2 SLP111 T01940067 KCVX 030155Z AUTO 28004KT 10SM CLR 19/17 A2990 RMK AO2 T01860166 CYSF 030100Z AUTO 05004KT 9SM BKN043 OVC050 12/07 A2971 RMK SLP072 CYQX 030100Z 16011KT 20SM FEW260 13/10 A3004 RMK CI1 SLP176 CZHY 030100Z AUTO 09006KT 13/09 RMK AO1 SLP079 T01320087 58003 CYQY 030133Z 15011KT 1 1/2SM BR OVC002 18/18 A2994 RMK ST8 SLP140 DENSITY ALT 500FT CYRQ 030145Z AUTO VRB02KT 9SM -RA BKN100 OVC120 20/18 A2967 RMK SLP046 DENSITY ALT 1000FT CYQZ 030155Z AUTO 32005KT 9SM -RA BKN065 BKN079 13/09 A2985 RMK SLP118 DENSITY ALT 2000FT EGSH 030150Z AUTO 04001KT 0100 FG SCT001/// 12/12 Q1024 KDPA 030152Z 26004KT 10SM SCT047 22/16 A2993 RMK AO2 SLP130 T02170161 KDNS 030155Z AUTO 11004KT 10SM CLR 18/17 A2992 RMK AO2 CYSJ 030100Z 16002KT 5SM BR SCT002 BKN058 BKN070 15/15 A2986 RMK SF3SC2AC2 SLP113 DENSITY ALT 500FT KEET 030153Z AUTO 00000KT 10SM CLR 25/22 A2999 RMK AO2 SLP149 T02500222 KEFK 030155Z AUTO 00000KT 7SM RA SCT029 BKN035 OVC041 19/19 A2978 RMK AO2 T01900185 CYSK 022200Z 26028G35KT 8SM OVC005 08/07 A2926 RMK SF8 BLN ESTD 9.4/8.4/M/M LAST OBS/NEXT 031200UTC SLP910 CYRT 030100Z 25004KT 15SM SCT090 BKN250 07/04 A2976 RMK AC3CI2 SLP078 KCWV 030155Z AUTO 00000KT 10SM CLR 23/23 A3005 RMK AO2 EGTC 021620Z 11004KT 9999 FEW048 20/11 Q1023 KDNV 030155Z AUTO 00000KT 2SM BR CLR 19/19 A2995 RMK AO2 T01930192 CYSM 030100Z 34005KT 15SM FEW030 FEW240 14/07 A2973 RMK SC1CI1 SLP077 CYRV 030150Z AUTO VRB02KT 9SM BKN012 OVC055 12/10 A2974 RMK SLP075 DENSITY ALT 1600FT EHKD 030155Z AUTO 09005KT 7000 BR NCD 16/15 Q1024 WHT KEGE 030155Z AUTO 20003KT 10SM CLR 23/02 A3010 RMK AO1 CYSN 030100Z 24007KT 10SM SCT260 20/19 A2986 RMK CI3 LAST OBS/NEXT 021100 UTC SLP110 DENSITY ALT 1000FT EGTE 030120Z 07003KT 4000 BR FEW006 SCT033 13/13 Q1022 CYTE 030100Z AUTO 03010G19KT 9SM SCT220 07/04 A2954 RMK SLP007 KCXO 030153Z AUTO 14006KT 10SM CLR 28/23 A2997 RMK AO2 SLP145 T02780233 KDPG 021855Z 24002KT 15SM CLR 30/03 A3000 KCXP 030155Z AUTO 32006G16KT 10SM CLR 28/00 A2992 RMK AO2 CYSP 022100Z 22005KT 15SM FEW011 FEW020 SCT250 15/12 A2975 RMK SC1SC2CI0 TCU EMBD N HRZN LAST OBS/NEXT 031200UTC SLP079 CYTH 030100Z 30005KT 15SM FEW030 SCT050TCU BKN070 13/10 A2957 RMK SC2TCU2AC0 SLP023 KEGI 030155Z 26002KT 10SM FEW030 BKN200 27/24 A3004 RMK AO2A SLP173 T02670243 $ EHJR 030125Z AUTO 07008G10KT //// ///////// 17/16 Q1024 W///H5 OSLK 030200Z 11004KT 9999 SCT030 23/19 Q1009 KEHA 030148Z AUTO 13005KT 23/17 RMK AO1 PK WND 06 000 T02280173 CYUA 030103Z AUTO 31013KT 9SM -RA OVC007 OVC017 02/ A2971 EGSS 030150Z 07005KT 0300 R04/P1500 FG BKN001 13/13 Q1024 KEFT 030155Z AUTO 26005KT 10SM CLR 21/14 A2994 RMK AO2 EGTK 022120Z 03003KT 9999 BKN047 14/12 Q1023 CYUB 030100Z 36010G15KT 4SM -RASN BR SCT006 OVC008 03/01 A2962 RMK FG3SF1SC4 CIG RAG SLP030 EGUB 030050Z 34002KT 5000 BR SKC 15/13 Q1023 WHT BECMG 4000 BR SCT007 GRN KEHC 030155Z AUTO 11008KT 10SM CLR 29/25 A3001 RMK A01 KDPL 030155Z AUTO 00000KT 10SM CLR 26/23 A3002 RMK AO2 T02610229 CYTL 022300Z AUTO /////KT 17/12 A2958 RMK CLD MISG WX MISG VIS MISG PCPN MISG ICG MISG SLP024 DENSITY ALT 1500FT KDOV 030158Z AUTO 29006KT 10SM FEW065 SCT095 OVC190 28/22 A2988 RMK AO2 LTG DSNT NE AND SW-W SLP121 T02830222 KCXY 030156Z AUTO 26005KT 10SM FEW042 OVC055 23/20 A2991 RMK AO2 SLP127 T02330200 CYSY 022300Z 16019KT 8SM -RA OVC030 06/05 A2949 RMK SC8 6.5/4.8/0.0/TR/ LAST OBS/NEXT 031300Z SLP994 KDQH 030155Z AUTO 24003KT 10SM -RA SCT110 25/23 A3006 RMK AO2 LTG DSNT NW VGHS 030150Z 08003KT 4000 HZ SCT012 BKN100 28/26 Q1005 NOSIG CYTQ 022100Z 00000KT 12SM -RA FEW005 SCT015 OVC050 11/10 A2908 RMK SF2SC2SC5 LAST OBS/NEXT 031200Z SLP848 CYTR 030100Z 25004KT 15SM FEW120 18/17 A2982 RMK AC2 SLP097 KCYS 030153Z 21006KT 10SM CLR 20/05 A3002 RMK AO2 SLP091 T02000050 KDRA 030152Z AUTO 23014G21KT 10SM CLR 34/M06 A2979 RMK AO2 SLP037 T03391061 CYTS 030100Z 23003KT 15SM SCT220 15/12 A2972 RMK CI4 SLP068 DENSITY ALT 1400FT EHMA 030155Z AUTO 10012KT 9999 NCD 18/14 Q1025 EGVA 030158Z AUTO 06005KT 9999 OVC007 14/12 A3021 RMK AO2 SLP232 P1680 T01370121 EICK 030130Z 03004KT 9999 BKN029 12/11 Q1022 NOSIG CYUL 030100Z 22008KT 15SM -RA SCT055 OVC080 19/18 A2972 RMK SC3AC5 SLP064 DENSITY ALT 800FT CYVC 030100Z 30005KT 15SM FEW045 SCT160 15/06 A2968 RMK CU2AC1 SLP059 DENSITY ALT 1800FT EGUL 030158Z AUTO 02001KT 5000 BR CLR 13/13 A3023 RMK AO2 SLP240 T01310131 KEGV 030155Z AUTO 00000KT 10SM CLR 13/10 A2990 RMK AO2 T01300104 CZMD 030100Z AUTO 06004KT 340V070 9SM SCT060 BKN075 OVC092 13/11 A2960 RMK SLP032 DENSITY ALT 1200FT EHKV 030155Z AUTO 09008KT 9999 NCD 17/16 Q1024 EGUN 030158Z AUTO 08003KT 6000 R11/1400 BR CLR 12/12 A3023 RMK AO2 VIS 2000 RWY29 SLP240 T01240124 KEHO 030155Z AUTO 19003KT 10SM SCT017 SCT043 SCT055 22/20 A3004 RMK AO2 T02200200 EHMG 030155Z AUTO 11008KT 9999 NCD 18/16 Q1025 CYTZ 030100Z AUTO 24004KT 7SM CLR 19/18 A2985 RMK SLP108 DENSITY ALT 800FT KEHR 030155Z AUTO 00000KT 10SM FEW040 22/20 A2998 RMK AO1 KDRI 030155Z AUTO 00000KT 5SM BR CLR 24/22 A3000 RMK AO2 T02380220 CZMJ 030100Z AUTO 07005KT 16/10 RMK AO1 SLP071 T01630096 58010 CYWA 030100Z AUTO 26005KT 9SM FEW058 FEW069 20/16 A2976 RMK SLP077 CYUS 030100Z AUTO 30003KT 9SM CLR 06/ A2982 RMK SLP104 KEIK 030155Z AUTO 00000KT 10SM CLR 20/10 A2995 RMK AO2 T02020095 KCZT 030155Z AUTO 14013G20KT 10SM SCT003 32/20 A2986 RMK AO2 CYUT 022200Z 34012KT 25SM FEW090 11/02 A2976 RMK AC1 AC TR 13.0/3.7/0.0/NIL LAST OBS/NXT 031200Z SLP079 EIDL 021600Z 21008KT 9999 FEW030 OVC038 16/09 Q1024 KDRM 030155Z AUTO 00000KT 10SM CLR 16/14 A2985 RMK AO2 T01550142 CYVM 030100Z AUTO 20008KT 9SM CLR 04/02 A2970 RMK SLP058 CYWE 030100Z AUTO 19007KT 9SM BKN065 12/07 A2975 RMK SLP089 DENSITY ALT 1300FT EHLW 030158Z AUTO 09002KT 0600 R23/0300 FG NCD 12/12 Q1025 RED KDRO 030153Z AUTO 25005KT 10SM CLR 25/M02 A3010 RMK AO2 SLP115 T02501017 EGUW 030050Z AUTO 04006KT 0350 FG FEW001/// 13/13 Q1024 EGVN 030150Z 04005KT 7000 HZ BKN007 14/13 Q1023 BECMG 4000 BR BKN006 KFAF 030158Z AUTO 20004KT 10SM CLR 29/21 A2992 RMK AO2 SLP135 T02910212 $ CYUX 030100Z AUTO 34002KT 9SM CLR 05/02 A2977 RMK SLP081 CYVO 030100Z 26004KT 15SM BKN260 17/12 A2972 RMK CI5 SLP068 DENSITY ALT 1800FT EGVO 030150Z 06004KT 0300 FG OVC001 13/13 Q1023 RED KEHY 030155Z AUTO 23006KT 10SM CLR 18/M01 A3004 RMK AO2 EGUY 021450Z 04002KT 9999 SCT040 20/10 Q1024 BLU EGVP 030050Z AUTO 08001KT 8000 // NCD 13/12 Q1023 CYUY 030100Z 24003KT 15SM SCT040 15/13 A2973 RMK SC4 SLP071 DENSITY ALT 1400FT CYWG 030100Z 20002KT 15SM FEW060 FEW250 17/13 A2968 RMK CU1CI1 SLP054 DENSITY ALT 1400FT CYVP 030100Z 24011G18KT 15SM SCT035 BKN070 15/11 A2922 RMK SC3AC3 SLP897 DENSITY ALT 900FT KCZZ 030152Z AUTO 23009KT 26/13 A2982 RMK AO1 SLP069 T02560128 CYWH 030138Z 36002KT 10SM -SHRA FEW006 FEW020 BKN035CB BKN070 RMK CF1CF2CB3AC2 CYVQ 030100Z 10004KT 30SM FEW050 BKN120 OVC270 12/08 A2963 RMK SC2AC4CI2 SLP039 KEIR 030155Z AUTO VRB04KT 10SM 29/24 A3004 RMK A01 CYVR 030100Z 27017KT 15SM -RA FEW008 FEW011 SCT035 BKN063 OVC080 15/14 A2979 RMK CF1SC1SC2SC3AC1 SLP087 DENSITY ALT 100FT KDTA 030155Z AUTO 19008KT 10SM CLR 30/01 A2986 RMK AO1 T03000006 CYWJ 022300Z 16004KT 40SM FEW010 BKN090 13/06 A2964 RMK SC2AC2 14.0/-1.6/0 LAST OBS/NEXT 03100 UTC SLP048 KDRT 030153Z AUTO 11007KT 10SM FEW080 34/17 A2983 RMK AO2 SLP083 T03440172 CYVT 030100Z 34004KT 15SM FEW030 SCT100 SCT240 14/07 A2970 RMK SC2AC1CI1 SLP067 DENSITY ALT 1900FT CZMT 030000Z 32014G21KT 15SM FEW015 16/11 A3011 RMK CU2 LAST OBS/NEXT 031300 UTC SLP195 CYWK 030100Z 21007KT 15SM FEW075 15/13 A2959 RMK AC2 SLP026 DENSITY ALT 2600FT KH21 030155Z AUTO 00000KT 10SM CLR 21/20 A3001 RMK AO2 CZMU 030100Z AUTO 36006KT 13/09 RMK AO1 T01250086 CYWL 030100Z 33009G16KT 15SM BKN030TCU 13/05 A2982 RMK TCU5 SLP107 DENSITY ALT 3600FT CYXC 030123Z 01004KT 330V030 25SM VCSH BKN055 BKN080 12/10 A2972 RMK SC5AC2 CVCTV CLD EMBD SLP066 DENSITY ALT 3700FT KDSM 030154Z 00000KT 10SM CLR 23/16 A2995 RMK AO2 SLP136 T02280156 KFAM 030155Z AUTO 00000KT 10SM CLR 21/19 A3003 RMK AO1 EGXC 030150Z 08004KT 7000 BR BKN050 15/14 Q1024 WHT CYXD 030100Z AUTO 03008KT 9SM SCT065 SCT089 SCT096 13/08 A2973 RMK SLP076 CYVV 030100Z 25004KT 15SM FEW150 17/16 A2987 RMK AC1 SLP113 EGXD 030150Z 14004KT 9000 HZ FEW018 OVC044 14/13 Q1024 BLU CYXE 030100Z 26005KT 15SM -SHRA FEW030 OVC070 15/12 A2972 RMK SC2AC6 CU EMBD SLP077 DENSITY ALT 2200FT EGXE 030050Z AUTO 14003KT 7000 HZ BKN014/// BKN045/// 14/13 Q1024 EIDW 030130Z 00000KT 9999 BKN040 08/08 Q1023 NOSIG KFBG 030158Z 00000KT 10SM CLR 25/23 A3000 RMK AO2A SLP159 T02470227 $ CYXH 030100Z 33012G18KT 30SM BKN110 OVC290 18/09 A2967 RMK AC5CI3 SLP052 DENSITY ALT 3500FT KFAR 030153Z 18006KT 10SM SCT090 BKN110 20/14 A2973 RMK AO2 SLP067 T02000144 KDUA 030155Z AUTO 00000KT 10SM CLR 27/18 A2993 RMK AO2 CYXJ 030100Z 25004KT 230V310 15SM FEW035 SCT120 BKN200 13/08 A2983 RMK SC1AC2CI2 SLP116 DENSITY ALT 2700FT KFAT 030153Z 31014KT 10SM CLR 37/08 A2967 RMK AO2 SLP042 T03670078 KDUB 030155Z AUTO 28012KT 10SM CLR 17/M02 A2999 RMK AO2 CYYB 030122Z 25004KT 12SM SCT030 BKN100 OVC230 15/14 A2981 RMK CU3AC4CI1 SLP097 DENSITY ALT 1600FT KFBL 030154Z AUTO 00000KT 10SM CLR 18/14 A2990 RMK AO2 KDTL 030155Z AUTO 21007KT 10SM CLR 20/13 A2978 RMK AO2 KEKM 030050Z 00000KT 10SM CLR 20/16 A2993 RMK A02 CZOL 030100Z AUTO 03004KT 13/09 RMK AO1 T01270089 EGWU 030050Z AUTO 05005KT 9999 // FEW014/// 15/14 Q1023 CYXL 030100Z 22004KT 15SM FEW055CB SCT100 BKN260 14/10 A2971 RMK CB1AC2CI4 CB NE SLP066 DENSITY ALT 1700FT CYYC 030100Z 28005KT 170V310 30SM BKN060 OVC070 13/06 A2974 RMK SC6AC2 SLP082 DENSITY ALT 4400FT CZPC 030100Z AUTO 07007KT 9SM BKN065 12/08 A2974 RMK SLP070 DENSITY ALT 4600FT KELD 030153Z AUTO 00000KT 10SM BKN006 23/22 A2999 RMK AO2 CIG 005V012 SLP151 T02330222 KDSV 030154Z AUTO 16003KT 10SM CLR 18/17 A2991 RMK AO2 SLP132 T01780172 EGYD 030050Z AUTO 07003KT 3900 // BKN048/// 12/12 Q1024 CYYD 030100Z 36009KT 25SM BKN060 15/07 A2993 RMK SC6 SLP140 DENSITY ALT 2000FT KEKN 030151Z AUTO 00000KT 10SM OVC024 22/19 A3005 RMK AO2 SLP162 T02170189 TSNO KDTN 030153Z 14003KT 10SM CLR 24/23 A2998 RMK AO2 SLP150 T02390228 $ EGYE 021450Z 05006KT 9999 FEW030 BKN060 ///// Q1023 BLU CYXN 022100Z 07012KT 15SM BKN080 BKN230 08/06 A2973 RMK AC5CI1 8.0/6.0TR/LAST OB/NEXT 031300Z SLP067 CYYE 030100Z 29006KT 230V310 30SM FEW030CB SCT140 19/05 A2977 RMK CB2AC2 CB E SLP089 DENSITY ALT 2100FT KDTO 030153Z 15008KT 10SM CLR 31/19 A2989 RMK AO2 SLP109 T03110194 KEKO 030156Z AUTO 21005KT 10SM CLR 27/01 A2984 RMK AO2 SLP056 T02720006 CYYF 030100Z 01008KT 8SM SHRA FEW040 OVC070TCU 14/11 A2975 RMK SC2TCU6 PRESRR SLP074 DENSITY ALT 1400FT OTHH 030100Z 03006KT 360V140 9999 FEW012 31/27 Q1001 NOSIG KFAY 030153Z AUTO 21004KT 10SM CLR 25/23 A3000 RMK AO2 SLP152 T02500228 KDUG 030156Z AUTO 03006KT 10SM CLR 29/09 A2996 RMK AO2 SLP078 T02890089 CYWY 022200Z 14009KT 15SM FEW020 FEW120 SCT160 SCT290 16/10 A2968 RMK CU1AC2AC1CI1 16.4/5.1/0/0/LAST OBS/NXT 031400Z SLP056 CYXP 022000Z 25006KT 15SM SKC 09/04 A2967 RMK AC CI TR SLP050 EGXP 030050Z AUTO 12002KT 9999 // OVC048/// 13/12 Q1024 CYYG 030100Z 18007KT 15SM FEW025 SCT280 19/19 A2987 RMK SC2CI1 SLP116 DENSITY ALT 700FT KDUH 030155Z AUTO 00000KT 10SM SCT060 SCT110 19/17 A2995 RMK AO2 KEKQ 030156Z AUTO 00000KT 10SM CLR 23/22 A3004 RMK AO2 T02270216 SLP169 EHPG 030155Z AUTO 06011KT 7000 NCD 18/17 Q1023 CYXQ 022200Z 00000KT 30SM FEW075 SCT100 BKN140 OVC210 14/01 A2976 RMK AC2AC2AC2CI2 CLIMAT 14.5/-1.5/0/LAST OBS/NEXT 031600UTC SLP099 EGYH 021750Z 07010KT CAVOK 16/13 Q1024 BLU CYYH 030100Z 16005KT 1/8SM FG SCT090 02/02 A2984 RMK FG2AC1 SLP107 KFCI 030155Z AUTO 20005KT 10SM CLR 27/18 A2995 RMK AO1 KFBR 030155Z AUTO 28008KT CLR 22/01 A3008 RMK AO2 T02190006 PWINO CYXR 030100Z AUTO 27004KT 9SM BKN090 OVC110 17/13 A2975 RMK SLP077 DENSITY ALT 1400FT KDUJ 030153Z AUTO 29004KT 10SM SCT017 BKN030 OVC039 19/18 A2997 RMK AO2 SLP135 T01940183 KDTS 030153Z AUTO 00000KT 10SM FEW022 SCT036 30/24 A3003 RMK AO2 SLP167 T03000244 TSNO EGXS 030050Z AUTO 08003KT 9999 // OVC049/// 15/15 Q1024 CYYJ 030111Z 27006KT 15SM -RA FEW007 FEW040 OVC077 15/13 A2982 RMK SF1SC2AC6 SF TR SLP098 DENSITY ALT 100FT CYXS 030100Z AUTO 30004KT 9SM FEW130 12/08 A2984 RMK SLP120 DENSITY ALT 2500FT KELK 030155Z AUTO 17009G15KT 10SM CLR 31/19 A2994 RMK AO2 CYXT 030100Z 26005KT 20SM FEW035 SCT070 18/07 A2996 RMK CU1AC2 SLP147 DENSITY ALT 1100FT EGXT 030150Z AUTO 04004KT 9999 OVC047/// 14/12 Q1024 CYYL 030100Z AUTO /////KT OVC050 11/07 A2965 RMK WX MISG VIS MISG PCPN MISG SLP050 DENSITY ALT 1200FT EGXU 030050Z AUTO 09003KT 9999 // FEW034/// BKN042/// 14/13 Q1024 CYXU 030100Z 23002KT 15SM FEW170 16/16 A2991 RMK AC1 SLP128 DENSITY ALT 1200FT KFCM 030153Z 21005KT 10SM CLR 19/14 A2986 RMK AO2 SLP111 T01940139 KELM 030153Z 00000KT 10SM SCT019 19/18 A2989 RMK AO2 SLP114 T01890183 KELN 030153Z AUTO 31018KT 10SM -RA FEW050 OVC090 17/09 A2974 RMK AO2 PK WND 33029/0133 RAB51 SLP067 P0000 T01720094 KDTW 030153Z 17003KT 10SM SCT220 20/17 A2993 RMK AO2 SLP134 T02000167 EGXV 030150Z AUTO 36001KT 3600 BR OVC047/// 12/12 Q1024 EGYM 030050Z AUTO 12001KT 2400 BR NCD 13/13 Q1024 CYYN 030153Z AUTO 03014KT 010V100 9SM -RA BKN075 OVC092 15/09 A2968 RMK SLP059 DENSITY ALT 3500FT CYZE 030000Z AUTO 28007KT 9SM CLR 19/14 A2982 RMK SLP099 DENSITY ALT 1300FT KELO 030153Z AUTO 17003KT 10SM CLR 12/11 A2980 RMK AO2 EGXW 030150Z 12007KT 9999 BKN048 14/13 Q1024 BLU EHQE 030155Z AUTO 10010KT 8000 NSC 17/16 Q//// CYZF 030100Z 21006KT 180V260 15SM FEW040 SCT060 SCT100 SCT240 14/06 A2976 RMK SC1SC3AC1CI1 SC TR CI TR TCU ASOCTD SLP086 DENSITY ALT 900FT CYXX 030125Z 21007KT 8SM -SHRA SCT005 OVC040 14/13 A2980 RMK SC4SC4 CVCTV CLD EMBD SLP090 DENSITY ALT 200FT KELP 030151Z 16005KT 10SM FEW140 FEW250 33/02 A2990 RMK AO2 SLP045 T03330017 CYZG 021900Z 04018G28KT 12SM FEW006 BKN015 BKN030 OVC120 04/02 A2943 RMK ST3SC2AS2 CIG RGD / LAS TOBS/NEXT 031200UTC / VIA ZNB FIC SLP981 CYXY 030100Z 16015G20KT 40SM BKN250 15/04 A2983 RMK CI7 SLP123 DENSITY ALT 2900FT EGYP 030150Z 02008KT 0300 FG VV/// 05/05 Q1020 RED CYXZ 030000Z 25002KT 15SM SCT015 BKN025 13/12 A2980 RMK ST4SC2 LAST OBS/NEXT 031100UTC SLP099 CYYQ 030100Z 11013G19KT 15SM BKN008 OVC033 09/08 A2959 RMK SC6SC2 SLP021 CYZH 030100Z AUTO 06010G16KT 9SM SCT027 BKN033 BKN048 OVC070 12/09 A2975 RMK SLP086 DENSITY ALT 2200FT EGXZ 030050Z AUTO 13004KT 6000 BR OVC045/// 14/13 Q1024 CYYR 030100Z 21009G20KT 15SM FEW058 BKN095 BKN120 21/08 A2966 RMK SC2AC2AC2 SLP045 KFCS 030158Z AUTO 11005KT 10SM CLR 23/09 A3005 RMK AO2 SLP125 T02310086 CZPS 030100Z AUTO 24004KT 13/08 RMK AO1 T01260081 KFDK 030150Z AUTO 00000KT 10SM VCTS CLR A2994 RMK AO2 LTG DSNT E KDVK 030155Z AUTO 20003KT 10SM SCT026 BKN034 BKN044 21/21 A3003 RMK AO2 KEMK 030155Z AUTO 11016KT 9SM FEW028 30/25 A2997 RMK A01 CYYT 030106Z 17007KT 15SM FEW013 FEW220 11/10 A3014 RMK SC1CI1 SLP207 KDVL 030155Z AUTO 29004KT 10SM CLR 18/11 A2971 RMK AO1 CYYU 030111Z 24005KT 15SM TS FEW020CB SCT030 BKN200 RMK CB2SC2CI2 LTGCCICCG KEND 030158Z AUTO 12010KT 10SM CLR 28/25 A2989 RMK AO2 SLP111 T02750247 $ KEMM 030155Z AUTO 26009KT 10SM CLR 18/M01 A3007 RMK AO2 KDVN 030152Z AUTO 31003KT 10SM CLR 18/16 A2996 RMK AO2 SLP141 T01780156 EHRD 030155Z AUTO 05003KT 0300 R06/0400 FG NCD 14/14 Q1023 TEMPO 1500 BCFG KDUX 030155Z AUTO 07006KT 10SM CLR 26/17 A2995 RMK AO2 T02630166 KDVO 030155Z AUTO 22005KT 10SM CLR 19/13 A2977 RMK AO2 KELY 030153Z AUTO 20010KT 10SM CLR 26/M03 A2997 RMK AO2 SLP061 T02611028 TSNO KEMP 030153Z AUTO 12006KT 10SM CLR 24/21 A2995 RMK AO2 SLP135 T02390206 KDVP 030154Z AUTO 00000KT 10SM CLR 17/15 A2992 RMK AO2 T01660145 CYZP 030100Z AUTO 32013KT 9SM FEW050 18/09 A3008 RMK SLP184 DENSITY ALT 100FT CYYY 030100Z 17010KT 15SM BKN025 22/22 A2964 RMK SC7 SLP037 DENSITY ALT 1300FT KDWH 030153Z 15007KT 10SM CLR 29/22 A2997 RMK AO2 SLP144 T02890222 KELZ 030156Z AUTO 27006KT 10SM BKN012 BKN018 18/16 A2997 RMK AO2 SLP138 T01780161 CYYZ 030100Z 27006KT 15SM FEW230 18/17 A2987 RMK CI1 SLP113 DENSITY ALT 1100FT KFDR 030153Z AUTO 15011KT 10SM CLR 32/19 A2984 RMK AO2 SLP083 T03170189 CYZR 030100Z AUTO 16002KT 9SM CLR 19/15 A2990 RMK SLP123 DENSITY ALT 1200FT KFFA 030155Z AUTO 22007KT 180V250 10SM CLR 28/24 A2998 RMK AO2 T02750242 KEMT 030145Z 21008KT 10SM CLR 26/18 A2977 CYZS 030100Z 04013KT 15SM FEW210 06/00 A2967 RMK CI1 SLP050 EHSA 030125Z AUTO 07012G13KT 6000 ///////// 18/16 Q1023 W18/H6 KDVT 030153Z 25003KT 10SM CLR 38/04 A2971 RMK AO2 SLP032 T03780044 CYZT 030100Z 31016G23KT 270V340 20SM FEW025 FEW210 15/10 A2996 RMK SC1CI1 SLP146 KFFC 030153Z AUTO 00000KT 7SM CLR 24/23 A3004 RMK AO2 LTG DSNT E-S SLP167 T02390228 $ KENL 030130Z AUTO 19003KT 10SM CLR 20/19 A3000 RMK AO2 T02020187 CYZU 030100Z 15004KT 15SM FEW020TCU SCT050 BKN230 12/08 A2975 RMK TCU2SC1CI2 SLP088 DENSITY ALT 2900FT EHSC 030125Z AUTO 08010G12KT 7000 ///////// 18/16 Q1023 W19/H5 KEMV 030155Z AUTO 16004KT 10SM CLR 26/20 A2998 RMK AO2 CYZV 030144Z 08009G16KT 5SM SHRA BR SCT003 OVC025 16/16 A2967 RMK SF3SC5 SLP047 DENSITY ALT 600FT KFDW 030155Z AUTO 23003KT 10SM CLR 22/21 A3001 RMK AO1 LTG DSNT W KEOE 030155Z AUTO 24007KT 10SM VCTS CLR 23/23 A3007 RMK AO2 LTG DSNT W CYZW 030100Z 20005KT 20SM BKN035 16/03 A2985 RMK SC5 CLIMAT 15.7/2.4/0.0MM/LAST OBS/NEXT 031300Z SLP128 CYZX 030106Z 00000KT 15SM SCT023 RMK SC3 WNDY HILL 15006KT KFDY 030153Z AUTO 22003KT 10SM CLR 20/18 A2995 RMK AO2 SLP133 T02000183 KFEP 030155Z AUTO 24003KT 10SM CLR 17/16 A2996 RMK AO2 T01710155 CZRP 030100Z AUTO 08001KT 01/01 RMK AO1 SLP046 T00090009 55002 CYZY 030156Z AUTO 00000KT 9SM SCT050 BKN070 11/10 A2985 RMK PCPN 1.2MM PAST HR SLP125 DENSITY ALT 2300FT KDYA 030135Z AUTO 16006KT 10SM CLR 24/ A3000 RMK AO2 T0236 CZSJ 030100Z AUTO 25003KT 9SM OVC080 12/11 A2961 RMK SLP035 DENSITY ALT 1200FT KDYB 030155Z AUTO 00000KT 10SM CLR 23/23 A3003 RMK AO1 KFET 030155Z AUTO 00000KT 10SM CLR 21/16 A2994 RMK AO2 T02090159 KEOK 030155Z AUTO 34003KT 10SM CLR 21/18 A2995 RMK AO2 CZTB 030100Z AUTO 33001KT 17/12 RMK AO1 SLP075 T01680124 53006 KDWU 030155Z AUTO 22003KT 10SM SCT010 OVC055 22/19 A2997 RMK AO1 KFFL 030155Z AUTO 32003KT 10SM CLR 18/16 A2997 RMK AO2 KFFM 030154Z AUTO 19009KT 10SM CLR 19/12 A2978 RMK AO2 KENV 030155Z AUTO 28004KT 10SM CLR 28/03 A2980 RMK AO1 CZSM 030100Z AUTO 33004KT 13/06 RMK AO1 SLP073 T01320057 53002 KENW 030153Z AUTO 00000KT 10SM CLR 17/16 A2993 RMK AO2 SLP132 T01720156 KFEW 030156Z 22011KT 10SM FEW120 19/05 A2998 RMK AO2A SLP087 T01860053 $ KDWX 030155Z AUTO 00000KT 10SM CLR 20/05 A3006 RMK AO2 T02000049 KFFO 030158Z AUTO 00000KT 10SM CLR 20/20 A2998 RMK AO2 VIS 1 RWY05L SLP151 T02030201 VHHH 030200Z 28006KT 9999 FEW022 31/25 Q1011 NOSIG PLCH 030100Z 14006KT 9999 FEW018 31/22 Q1008 CZSP 030100Z AUTO 15008KT 18/18 RMK AO1 SLP121 T01840177 58001 KEPH 030153Z AUTO 27021G27KT 10SM FEW015 FEW085 BKN110 23/06 A2965 RMK AO2 PK WND 27027/0152 SLP037 T02280056 ZUUU 030100Z VRB01MPS 3000 -SHRA BR FEW030 20/19 Q1016 NOSIG KDXR 030153Z 21007KT 10SM CLR 27/19 A2981 RMK AO2 SLP091 T02720189 KH78 021100Z 12005KT 12SM SCT010 BKN050 28/24 A3004 RMK SEAS 1-3 KEQA 030155Z AUTO 12005KT 10SM CLR 24/20 A2994 RMK AO2 KFFT 030153Z AUTO 00000KT 9SM CLR 21/21 A2999 RMK AO2 SLP148 T02110206 KDZB 030155Z AUTO 15007G14KT 10SM CLR 31/19 A2992 RMK AO2 T03060190 KFHB 030155Z AUTO 17005KT 10SM CLR 28/23 A3003 RMK AO1 CZST 030100Z 22005KT 15SM FEW055 BKN065 BKN120 15/10 A3000 RMK SC1SC4AC2 LAST OBS/NEXT031300Z SLP158 KDYL 030154Z AUTO 24005KT 10SM FEW080 SCT090 24/19 A2987 RMK AO2 RAE15 SLP106 P0000 T02440194 FABL 030100Z AUTO 18003KT 9999 ////// 03/M09 Q1027 FABM 020742Z 08003KT CAVOK 14/M00 Q1031 KFGN 030154Z AUTO 19004KT 10SM CLR 16/13 A2968 RMK AO2 KDXX 030154Z AUTO 19007KT 10SM CLR 19/14 A2984 RMK AO2 KFFX 030153Z AUTO 00000KT 10SM CLR 16/13 A2992 RMK AO2 T01580134 EIKN 021930Z 00000KT 9999 FEW025 OVC042 13/10 Q1022 NOSIG KFFZ 030147Z 29005KT 40SM SKC 39/05 A2970 PKMJ 030156Z 08010KT 15SM SCT015 SCT050 BKN120 OVC300 30/25 A2975 KDYR 030155Z 01004KT 10SM CLR 24/17 A2999 RMK AO1 KDYS 030158Z AUTO 13007KT 10SM CLR 31/17 A2990 RMK AO2 SLP075 T03130172 $ KDYT 030153Z AUTO 08004KT 10SM CLR 17/14 A2982 RMK AO2 EIME 030100Z 10005KT 9999 FEW016 BKN039 11/09 Q1022 KFGX 030155Z AUTO 17003KT 3/4SM BR VV005 21/21 A3001 RMK AO2 T02050205 KFIG 030154Z AUTO 00000KT 10SM FEW016 SCT035 19/19 A2996 RMK AO2 SLP137 T01890189 EIKY 021830Z 24005KT 9999 OVC045 16/11 Q1021 PKMR 030050Z 10011KT 15SM SCT015 SCT050 OVC300 31/26 A2977 RMK SLP083 T03110255 KFHR 030153Z AUTO 23003KT 10SM BKN019 BKN039 OVC060 14/13 A2984 RMK AO2 RAB21E47 SLP103 P0000 T01390128 KERI 030151Z 20004KT 10SM BKN014 BKN020 BKN025 21/18 A2993 RMK AO2 SLP130 T02060178 FACT 030100Z 34006KT 6000 FEW003 13/12 Q1018 BECMG 5000 BR BKN003 EHVK 030155Z AUTO 05003KT 1300 BR NCD 13/13 Q1023 AMB KESC 030155Z 28003KT 10SM CLR 14/12 A2985 RMK AO1 KFHU 030155Z 26006KT 10SM FEW100 FEW300 29/06 A3002 RMK SLP096 CZVL 030100Z AUTO 03008KT 9SM SCT100 14/07 A2973 RMK RVR MISG SLP078 DENSITY ALT 2800FT EHVL 030155Z AUTO 11009KT 9999 NCD 15/14 Q1024 BLU KGAD 030155Z 00000KT 10SM CLR 27/19 A2999 RMK AO1 FACV 020749Z 07007KT CAVOK 22/M09 Q1025 KESF 030153Z AUTO 36004KT 10SM BKN007 BKN120 24/23 A3000 RMK AO2 RAB0055E31 CIG 004V010 SLP157 P0000 T02440228 KGAF 030155Z AUTO 00000KT 10SM CLR 15/13 A2969 RMK AO2 VIAR 030130Z VRB07KT 3500 BR SCT030 OVC090 24/23 Q1006 KEQY 030153Z AUTO 24007KT 10SM CLR 25/20 A3001 RMK AO2 SLP158 T02500200 KGAG 030153Z AUTO 17012KT 10SM CLR 29/17 A2988 RMK AO2 SLP088 T02940172 $ KI16 030155Z AUTO 7SM -RA BKN008 BKN011 OVC070 22/22 A3012 RMK AO2 T02200220 KGAI 030155Z AUTO 00000KT 1SM CLR 22/21 A2995 RMK AO1 KFKA 030155Z AUTO 00000KT 10SM CLR 18/16 A2993 RMK AO2 T01750163 KFIT 030152Z AUTO 14005KT 10SM CLR 25/23 A2977 RMK AO2 SLP079 T02500228 KETB 030155Z AUTO 00000KT 10SM CLR 16/14 A2991 RMK AO2 VIBN 022230Z 11005KT 4000 HZ FEW100 27/26 Q1003 KETC 030155Z AUTO 17003KT 10SM CLR 25/22 A3000 RMK AO2 T02540215 FAEL 021800Z 02007KT CAVOK 16/13 Q1022 KGBD 030155Z AUTO 15007KT 10SM FEW075 BKN090 24/20 A2992 RMK AO1 KERV 030155Z AUTO 13010G16KT 10SM CLR 29/20 A2995 RMK AO2 T02900196 KESN 030130Z 02016G30KT 2SM +TSRA BKN004 BKN011 OVC017 25/21 A2997 EINN 030130Z 13004KT 9999 SCT034 BKN044 14/09 Q1022 NOSIG FAEO 020737Z 19005KT CAVOK 12/M06 Q1031 EHWO 030155Z AUTO 06004KT 0300 FG NCD 14/14 Q1023 RED KERY 030154Z AUTO 23006KT 10SM CLR 13/13 A2986 RMK AO2 T01300125 KGBG 030155Z AUTO 27004KT 10SM CLR 20/17 A2996 RMK AO2 T01950165 FADY 020836Z 05002KT CAVOK 19/M08 Q1028 KETH 030156Z AUTO 17009KT 10SM CLR 18/13 A2980 RMK AO2 KEST 030152Z AUTO 20003KT 10SM CLR 17/14 A2991 RMK AO2 SLP126 T01670144 KGBK 030155Z AUTO 08007KT 10SM CLR 29/25 A2999 RMK A01 KGCC 030153Z AUTO 17006KT 10SM CLR 12/07 A2979 RMK AO2 SLP065 T01220072 KFKL 030155Z 30003KT 10SM FEW023 FEW120 18/16 A2998 RMK AO1 KFLD 030153Z AUTO 24003KT 10SM CLR 17/14 A2991 RMK AO2 SLP126 T01720144 FAGC 030200Z AUTO 06007KT //// // ////// 07/00 Q1028 KGCD 030155Z AUTO 27015G21KT 10SM CLR 25/02 A2980 RMK AO2 T02480023 KFKN 030155Z AUTO 23005KT 10SM CLR 28/22 A2996 RMK AO1 KEUF 030158Z AUTO 27004KT 10SM SCT060 BKN100 29/22 A3000 RMK AO2 SLP152 T02890217 KEUG 030154Z 33014KT 10SM SCT070 23/11 A2993 RMK AO2 SLP133 T02330106 KFLG 030157Z AUTO 21006KT 10SM CLR 19/03 A3019 RMK AO2 SLP133 T01940028 TSNO KI35 030155Z AUTO 1 1/2SM OVC003 20/20 A3010 RMK AO1 VIS 3/4V5 FAGG 030100Z AUTO 26011KT CAVOK 16/03 Q1016 KFKR 030155Z AUTO 00000KT 10SM SCT044 SCT060 A2998 RMK AO2 KFKS 030154Z AUTO 00000KT 10SM CLR 18/16 A2989 RMK AO2 T01810159 KEVB 030150Z 14007KT 10SM SCT100 28/23 A3004 RMK LAST KGDB 030153Z AUTO 18006KT 10SM CLR 16/14 A2988 RMK AO2 T01620135 KGCK 030154Z AUTO 14004KT 10SM CLR 24/18 A2994 RMK AO2 SLP108 T02390183 KI39 030155Z AUTO 16004KT 7SM OVC027 22/20 A3003 RMK AO2 KFLL 030200Z 29005KT 10SM BKN028 BKN045 26/22 A3003 RMK AO2 T02610222 $ KEUL 030155Z AUTO 03004KT 10SM CLR 28/06 A2967 RMK AO1 KGCM 030155Z AUTO 12005KT 10SM CLR 22/20 A3000 RMK AO2 VIDP 030130Z 10008G19KT 5000 BR FEW015 SCT025 SCT100 27/25 Q1003 NOSIG KFME 030151Z AUTO 00000KT 2 1/2SM CLR 22/21 A2992 RMK AO1 KGCN 030154Z 21006KT 10SM CLR 24/01 A3013 RMK AO2 SLP152 T02390011 $ KFLO 030153Z AUTO 22004KT 10SM CLR 27/21 A3002 RMK AO2 SLP162 T02670211 KFLP 030155Z AUTO 00000KT 10SM CLR 21/18 A3002 RMK AO1 KFMH 030155Z AUTO 22010KT 10SM CLR 23/22 A2981 RMK AO2 KGDJ 030155Z AUTO 14010KT 10SM CLR 33/20 A2991 RMK AO2 T03260200 CZZJ 030100Z AUTO 02003KT 13/06 RMK AO1 SLP088 T01300056 52005 KEWB 030153Z AUTO 22007KT 10SM CLR 23/22 A2979 RMK AO2 SLP087 LAST AUGMENTED OBS T02330217 KFNB 030153Z AUTO 10003KT 10SM CLR 22/18 A2994 RMK AO2 SLP131 T02220178 URFF 030130Z 07004MPS CAVOK 18/14 Q1010 01010065 NOSIG KEVM 030151Z AUTO 00000KT 2 1/2SM BR CLR 11/11 A2981 RMK AO2 VIS 1V5 KGED 030154Z AUTO 17008KT 10SM FEW080 27/22 A2989 RMK AO2 LTG DSNT W SLP122 T02720222 KFMM 030155Z AUTO 16005KT 10SM CLR 22/11 A2993 RMK AO2 T02210113 PWINO KFMN 030153Z 33004KT 10SM CLR 28/00 A2999 RMK AO2 SLP095 T02780000 KGEG 030153Z 24015KT 10SM SCT070 SCT140 22/05 A2966 RMK AO2 SLP035 T02220050 KFLY 030155Z AUTO 15003KT 10SM CLR 19/09 A3014 RMK AO2 T01850090 KGDP 030151Z AUTO 05010KT 10SM CLR 28/00 A3006 RMK AO2 SLP087 T02780000 KGFA 030156Z AUTO 33002KT 10SM BKN210 22/02 A2970 RMK AO2 SLP047 T02240023 KFOA 030155Z AUTO 00000KT 10SM CLR 20/19 A3000 RMK AO2 T02000192 KEWK 030155Z AUTO 13005KT 10SM CLR 23/17 A2997 RMK AO1 FAJB 030200Z AUTO 00000KT //// // ////// 04/M01 Q1028 KFNL 030155Z AUTO 35004KT 10SM CLR 22/08 A2994 RMK AO1 KGDV 030155Z AUTO 11003KT 10SM CLR 19/04 A2976 RMK AO1 KEVV 030154Z 00000KT 10SM CLR 24/21 A2998 RMK AO2 SLP149 T02390211 KFOD 030155Z AUTO 00000KT 10SM CLR 17/15 A2994 RMK AO1 DRRM 021800Z 00000KT 9999 FEW040 BKN300 30/23 Q1012 KEVW 030153Z AUTO 29007KT 10SM CLR 20/02 A3006 RMK AO2 SLP098 T02000022 KFOE 030153Z 11004KT 10SM CLR 23/21 A2995 RMK AO2 SLP134 T02280206 KEWN 030154Z 22005KT 10SM CLR 27/24 A3003 RMK AO2 SLP169 T02720239 DRRN 030100Z 24004KT 200V270 CAVOK 26/21 Q1013 NOSIG KFMY 030153Z AUTO 12003KT 10SM CLR 24/23 A3003 RMK AO2 SLP171 T02440233 EISG 021930Z 14001KT 7000 OVC048 14/11 Q1023 KEWR 030151Z 22015G25KT 10SM SCT055 BKN110 BKN240 30/21 A2980 RMK AO2 SLP092 T03000206 EKAH 030150Z AUTO 00000KT 0750NDV R10R/P1500N R28L/P1500N FG NCD 08/06 Q1029 FAIR 020649Z 09003KT CAVOK 13/01 Q1030 KFOK 030153Z AUTO 23008KT 10SM CLR 26/22 A2984 RMK AO2 SLP102 T02560222 TSNO KGFK 030153Z 22006KT 10SM FEW075 SCT250 19/12 A2969 RMK AO2 SLP054 T01940117 KFNT 030153Z 00000KT 10SM CLR 18/14 A2992 RMK AO2 SLP130 T01830144 KI69 030155Z AUTO 00000KT 1/2SM FG OVC002 22/22 A2998 RMK AO1 KGEU 030147Z 00000KT 20SM SKC 40/05 A2969 DRRT 021800Z 22010KT 9999 FEW023 BKN300 31/21 Q1012 KGFL 030153Z AUTO 29006KT 9SM BKN046 BKN055 OVC070 22/19 A2976 RMK AO2 RAB03E35 SLP076 P0033 T02170194 KGEV 030155Z AUTO 00000KT 10SM SCT090 BKN120 22/18 A3015 RMK AO2 T02180175 KEYE 030153Z AUTO 00000KT 10SM CLR 21/18 A2997 RMK AO2 SLP144 T02060183 KGGE 030155Z AUTO 20003KT 10SM CLR 25/25 A3003 RMK AO2 KEYF 030155Z AUTO 14003KT 10SM CLR 27/24 A3002 RMK AO2 T02680240 KGGG 030153Z 17007KT 10SM CLR 24/22 A2997 RMK AO2 SLP141 T02440222 KGEY 030153Z AUTO 13003KT 10SM CLR 24/02 A2972 RMK AO2 SLP039 T02440022 $ KI75 030155Z AUTO 00000KT 10SM CLR 18/17 A2998 RMK AO2 T01830167 KGEZ 030153Z AUTO 22003KT 10SM CLR 21/18 A2998 RMK AO2 SLP146 T02060183 KGGI 030155Z AUTO 00000KT 10SM CLR 19/15 A2996 RMK AO2 T01880153 EKBI 030150Z 11002KT 9999 BCFG NSC 12/11 Q1028 FALA 030100Z AUTO 10004KT //// // 10/01 Q1029 KFPK 030155Z AUTO 00000KT 10SM CLR 17/16 A2993 RMK AO2 T01670155 KFOT 030155Z AUTO 29011G16KT 10SM CLR 17/11 A2987 RMK AO1 KGHB 030200Z AUTO 11008KT 10SM FEW022 30/25 A3001 RMK A01 KFQD 030155Z AUTO 18003KT 10SM SCT046 SCT050 25/22 A3006 RMK AO2 LTG DSNT NW T02510217 FAKM 030100Z AUTO 01007KT //// // ////// 07/M09 Q1025 EKAV 030150Z AUTO 21004KT 9999NDV NCD 16/12 Q1029 FALE 030100Z 02003KT CAVOK 12/08 Q1025 NOSIG FAKN 030100Z AUTO 00000KT //// // ////// 13/10 Q1028 KEXX 030155Z AUTO 20005KT 7SM RA SCT027 BKN041 OVC110 23/23 A3003 RMK AO2 P0008 T02280228 KEZF 030155Z AUTO 00000KT 10SM CLR 28/22 A2990 RMK AO2 T02800223 KGGP 030155Z AUTO 19003KT 10SM CLR 19/17 A2996 RMK AO2 KGHG 030130Z AUTO 22006KT 10SM CLR 25/22 A2979 RMK AO2 KFOZ 030153Z AUTO 15003KT 10SM -RA SCT080 SCT095 16/14 A2976 RMK AO2 LTG DSNT W AND NW WAAA 030200Z VRB03KT 9999 FEW020 32/16 Q1013 NOSIG PKWA 030200Z AUTO 08012G18KT 10SM SCT024 SCT030 SCT037 32/23 A2976 RMK AO2 T03230233 EKCH 030150Z 31001KT CAVOK 11/10 Q1028 NOSIG KFPR 030153Z AUTO 14005KT 10SM CLR 28/21 A3003 RMK AO2 SLP169 T02830211 KGIC 030155Z AUTO 05005KT 10SM BKN120 22/04 A2977 RMK AO1 T02200042 KEZM 030155Z AUTO 18003KT 10SM -RA CLR 23/23 A3006 RMK AO2 LTG DSNT SW T02270227 KEYW 030153Z AUTO 10012KT 10SM FEW029 29/23 A3000 RMK AO2 SLP158 T02890228 KGGW 030153Z AUTO 16006KT 10SM CLR 18/06 A2970 RMK AO2 SLP057 T01830061 KGIF 030153Z AUTO 11006KT 10SM CLR 28/22 A3004 RMK AO2 SLP170 T02780217 TSNO KFRG 030153Z 22012KT 10SM CLR 27/22 A2982 RMK AO2 SLP097 T02720217 URKA 030100Z 10004G07MPS 080V140 CAVOK 22/14 Q1009 RMK QFE753/1004 WABB 030100Z 25009KT 9999 -RA FEW017CB SCT020 26/24 Q1013 KFRI 030158Z AUTO 14007KT 10SM CLR 26/21 A2992 RMK AO2 SLP122 T02600208 KEZS 030155Z AUTO 00000KT 10SM CLR 18/16 A2988 RMK AO2 T01790155 EKEB 030150Z AUTO 11003KT 8000NDV NCD 10/09 Q1027 KFRM 030155Z 18003KT 10SM CLR 17/12 A2991 RMK AO1 KFSD 030156Z 19006KT 10SM BKN250 19/14 A2989 RMK AO2 SLP118 T01890139 VIJP 022230Z 08007KT 2500 RA SCT010 SCT025 FEW030CB OVC090 25/24 Q1002 TEMPO 1500 TSRA KHAE 030135Z AUTO 00000KT 10SM CLR 21/18 A2997 RMK AO2 FAMM 030100Z AUTO 16002KT //// // ////// 08/M05 Q1026 KGHW 030153Z AUTO 19007KT 10SM CLR 17/14 A2985 RMK AO2 KFSE 030155Z AUTO 21005KT 10SM CLR 14/11 A2975 RMK AO2 FALW 030100Z AUTO 24001KT //// // ////// 10/07 Q1018 KHAF 030155Z AUTO 25005KT 5SM BR OVC008 16/14 A2982 RMK AO2 PMDY 030156Z AUTO 25009KT 10SM CLR 31/22 A2997 RMK AO2 TSNO T03110222 SLP454 $ EIWF 021930Z VRB03KT CAVOK 13/11 Q1022 URKK 030130Z 06004G07MPS CAVOK 22/16 Q1010 NOSIG RMK QFE754 SC070 KFRR 030155Z AUTO 00000KT 10SM BKN110 23/21 A2993 RMK AO1 KHAI 030154Z AUTO 00000KT 10SM CLR 19/16 A2995 RMK AO2 T01850159 KFSI 030158Z AUTO 16012KT 10SM CLR 31/20 A2987 RMK AO2 SLP103 T03120198 USCC 030130Z 25003MPS 7000 FEW070 06/04 Q1025 27000070 NOSIG RMK QFE749 FAOB 021200Z 33008KT CAVOK 33/// Q1015 KFSM 030153Z 09006KT 10SM CLR 22/21 A2998 RMK AO2 SLP148 T02220206 KHAO 030153Z AUTO 00000KT 9SM CLR 20/19 A2998 RMK AO2 SLP148 T02000194 KFSO 030155Z AUTO 00000KT 10SM -RA OVC040 19/17 A2977 RMK AO2 T01850173 KHBG 030153Z AUTO 31010G15KT 6SM VCTS RA BR FEW015 BKN038 OVC060 24/22 A3012 RMK AO2 PK WND 31026/0125 LTG DSNT ALQDS RAB44 SLP195 P0001 T02390217 KFTG 022148Z 00000KT 40SM FEW100 31/00 A3001 VILK 030130Z 11008KT 4000 HZ FEW018 SCT025 28/26 Q1003 NOSIG KHBI 030155Z AUTO 00000KT 4SM BR CLR 23/23 A3005 RMK AO2 T02300230 KGKJ 030153Z AUTO 00000KT 10SM CLR 18/17 A2996 RMK AO2 SLP139 T01830172 TSNO WADD 030130Z 08004KT 060V130 9999 FEW019 27/21 Q1015 NOSIG USCM 030130Z 03004MPS 8000 FEW100 04/02 Q1026 NOSIG 01090065 RMK QFE731 KFST 030153Z AUTO 13019G25KT 10SM CLR 30/15 A2991 RMK AO2 PK WND 13027/0115 SLP074 T03000150 KFTK 030158Z AUTO 01002KT 10SM FEW026 24/24 A2998 RMK AO2 SLP149 T02360236 KGJT 030153Z 00000KT 10SM CLR 25/04 A2992 RMK AO2 SLP068 T02500039 EKGC 030150Z AUTO 13006KT 9999NDV 16/15 Q1027 KGLD 030153Z AUTO 16013KT 10SM CLR 23/15 A2995 RMK AO2 SLP107 T02280150 KHCD 030152Z AUTO 00000KT 10SM CLR 19/16 A2988 RMK AO2 T01910155 KFTN 030255Z AUTO 12013G22KT 10SM CLR 32/20 A2987 RMK AO1 KFSW 030155Z AUTO 00000KT 10SM CLR 19/19 A2997 RMK AO2 KGLE 030155Z AUTO 10007KT 10SM CLR 29/21 A2992 RMK AO2 T02920209 FAPE 030100Z 33003KT CAVOK 12/08 Q1017 NOSIG EKGF 030150Z 12004KT CAVOK 16/15 Q1027 KGLH 030153Z AUTO 19008KT 10SM SCT006 24/23 A2995 RMK AO2 RAB06E16 SLP147 P0000 T02390228 KHBR 030153Z AUTO 16009KT 10SM CLR 31/18 A2989 RMK AO2 SLP101 T03060183 URML 030130Z 19002MPS 9999 SCT100 21/18 Q1012 NOSIG RMK QFE759/1012 SC070 FAOR 030200Z 04005KT CAVOK 05/M01 Q1030 NOSIG WADL 030130Z 14004KT 8000 SCT016 26/19 Q1015 NOSIG DRZA 022100Z 34008KT 9999 TS FEW040CB BKN140 31/21 Q1012 URMM 030130Z 09007G09MPS 9999 OVC015 21/17 Q1013 R12/CLRD70 NOSIG RMK MT OBSC QFE731/0975 EKHA 030150Z AUTO 360/// 9999NDV 16/14 Q1027 KGKT 030155Z AUTO 00000KT 10SM BKN100 22/18 A3008 RMK URMN 030100Z 26001MPS 9999 BKN110 19/17 Q1013 NOSIG RMK QFE723 SC07 FBFT 030200Z 16003KT CAVOK 06/00 Q1025 KFUL 030153Z 18005KT 10SM CLR 25/16 A2975 RMK AO2 SLP074 T02500161 KHDC 030155Z AUTO 00000KT 10SM TSRA BKN008 BKN024 OVC032 24/22 A3011 RMK AO2 LTG DSNT ALQS URMO 021430Z 21003MPS 9999 BKN043 BKN130 23/15 Q1014 NOSIG RMK QFE717/0956 SC070 KHBV 030150Z AUTO 11017G20KT 10SM CLR 29/22 A2991 RMK AO2 T02860218 ZWSH 030100Z 00000MPS 9999 SCT040 19/11 Q1015 NOSIG KFTW 030153Z 15015KT 10SM CLR 32/21 A2988 RMK AO2 SLP107 T03220211 EKHD 030150Z AUTO 16007KT 9999NDV 16/15 Q1027 KFVE 030153Z AUTO 16005KT 6SM BR OVC005 19/19 A2971 RMK AO2 CIG 003V009 SLP056 T01940189 KHDE 030155Z AUTO 14006KT 10SM CLR 21/18 A2993 RMK AO2 T02070175 KHCO 030153Z AUTO 00000KT 10SM CLR 14/13 A2968 RMK AO2 KGKY 030153Z AUTO 14015G20KT 10SM CLR 31/21 A2990 RMK AO2 SLP115 T03110211 KFTY 030153Z 00000KT 10SM CLR 24/23 A3003 RMK AO2 SLP158 T02390228 FAPP 030100Z AUTO 12001KT //// // ////// 07/03 Q1027 URMT 030130Z 10006G09MPS 9999 BKN026 BKN100 19/16 Q1014 NOSIG RMK QFE720 SC070 KGLR 030153Z AUTO 00000KT 10SM CLR 16/13 A2990 RMK AO2 SLP125 T01560128 FAPR 020733Z 05002KT CAVOK 16/00 Q1029 KGLS 030152Z AUTO 12013KT 10SM CLR 29/25 A2999 RMK AO2 LTG DSNT W SLP156 T02940250 KFWA 030154Z 21003KT 10SM FEW036 FEW250 19/18 A2996 RMK AO2 SLP142 T01940178 KGNA 030156Z AUTO 00000KT 14/12 A2979 RMK AO1 SLP086 T01390117 KGMJ 030155Z AUTO 00000KT 10SM OVC065 24/22 A3000 RMK AO2 KFWB 030155Z AUTO 10003KT 10SM CLR 22/20 A3004 RMK AO2 KFWC 030155Z AUTO 00000KT 5SM BR CLR 22/21 A2999 RMK AO2 KGNC 030155Z AUTO 14013G21KT 10SM CLR 31/13 A2993 RMK AO2 T03080132 KHDN 030155Z AUTO 19003KT 10SM CLR 21/02 A3006 RMK AO1 KGLW 030135Z AUTO 00000KT 10SM SCT120 23/23 A3000 RMK AO2 LTG DSNT SE T02290229 EKHN 030150Z AUTO 14008KT 9999NDV NCD 17/14 Q1030 KHDO 030151Z AUTO 14017G23KT 10SM CLR 31/20 A2992 RMK AO2 PK WND 13028/0056 SLP116 T03110200 KHEF 030055Z 00000KT 10SM FEW070 25/24 A2991 KGNF 030155Z AUTO 24005KT 10SM SCT008 23/22 A2998 RMK AO2 KGLY 030155Z AUTO 00000KT 8SM CLR 22/22 A2998 RMK AO2 ZYCC 030100Z VRB01MPS 9999 SCT006 BKN020 15/13 Q1011 NOSIG KHEI 030153Z AUTO 02003KT 10SM CLR 16/08 A2980 RMK AO2 SLP086 T01610083 DRZR 021800Z 26006KT 9999 FEW040 BKN300 31/21 Q1011 EKHR 030150Z AUTO 11008KT //// NCD 16/14 Q1027 FASB 020845Z 04012KT CAVOK 22/M07 Q1023 KGMU 030153Z AUTO 19010KT 10SM CLR 27/20 A3006 RMK AO2 LTG DSNT S SLP168 T02720200 KHFD 030153Z 18006KT 10SM CLR 26/22 A2977 RMK AO2 SLP079 T02610217 KFWN 030153Z AUTO 24003KT 7SM FEW048 FEW110 24/22 A2981 RMK AO2 SLPNO T02440217 PWINO $ KFXE 030153Z 28005KT 10SM SCT026 SCT060 25/24 A3003 RMK AO2 RAE28 SLP173 P0005 T02500239 KHFF 030156Z AUTO 25005KT 12SM FEW160 SCT180 25/21 A3002 RMK AO2 SLP164 T02500214 KFVX 030155Z AUTO 00000KT 10SM BKN070 BKN080 27/21 A2994 RMK AO2 LTG DSNT N KHEQ 030155Z AUTO 15008KT 10SM CLR 22/15 A2989 RMK AO2 KGNR 030156Z AUTO 00000KT 21/21 A2974 RMK AO1 SLP068 T02110206 FASI 030200Z AUTO /////KT //// // ////// 01/M03 Q1029 KFWS 030155Z AUTO 14009KT 10SM CLR 30/21 A2992 RMK AO2 T03020210 KHFJ 030155Z AUTO 12005KT 10SM CLR 21/19 A3002 RMK AO2 DTKA 030100Z 27011KT 9999 FEW020 24/17 Q1011 NOSIG EKKA 030150Z AUTO 00000KT 9999NDV NCD 08/07 Q1028 KGOK 030153Z AUTO 13008KT 10SM CLR 28/21 A2991 RMK AO2 SLP117 T02780206 FCBB 030100Z 24003KT 220V280 8000 NSC 22/18 Q1014 NOSIG KGNV 030153Z 00000KT 9SM CLR 24/23 A3003 RMK AO2 RAE26 SLP167 P0001 T02390228 KGON 030156Z AUTO 22012KT 8SM CLR 24/22 A2979 RMK AO2 SLP087 T02390222 USHH 030130Z 26003MPS 9999 SCT033 OVC080 08/06 Q1013 TEMPO SCT007 RMK QFE756 24////60 FBKE 021800Z 13006KT CAVOK 19/M03 Q1022 KGOO 030155Z AUTO 00000KT 10SM CLR 28/06 A2987 RMK AO1 KHEY 030153Z AUTO 00000KT 10SM CLR 27/22 A3003 RMK AO2 SLP055 T02670222 KFYG 030155Z AUTO 00000KT 8SM CLR 22/22 A2998 RMK AO2 KGOP 030150Z AUTO 14005KT 8SM CLR 30/22 A2993 RMK AO2 KGPH 030155Z AUTO 00000KT 10SM CLR 22/21 A2996 RMK AO2 KHEZ 030155Z AUTO 15011G15KT 10SM CLR 23/22 A3000 RMK AO1 P0002 KFWZ 030155Z AUTO 10SM CLR 17/M03 A3004 RMK AO2 KGPI 030155Z 29006KT 10SM FEW095 20/03 A2968 RMK AO2 SLP047 T02000033 KFYJ 020935Z AUTO 00000KT 10SM CLR 25/22 A3000 RMK AO2 T02520216 KFYM 030155Z AUTO 00000KT 10SM CLR 24/21 A3003 RMK KGOV 030155Z AUTO 00000KT 10SM CLR 15/15 A2991 RMK AO2 T01500150 KGPM 030155Z AUTO 11009KT 10SM CLR 31/21 A2991 RMK AO2 T03130205 KHHF 030155Z AUTO 17008KT 10SM CLR 30/19 A2988 RMK AO2 T03030187 KFXY 030155Z AUTO 00000KT 10SM CLR 16/16 A2992 RMK AO2 KFZG 030155Z AUTO 26006KT 10SM -VCTSRA CLR 24/23 A3007 RMK AO2 LTG DSNT SW THRU NW T02410226 KHHG 030155Z AUTO 26006KT 10SM OVC025 22/20 A2995 RMK AO2 T02230196 UTAA 030200Z VRB01MPS 9999 FEW230 22/04 Q1013 NOSIG KHGR 030153Z AUTO 21004KT 10SM CLR 25/19 A2992 RMK AO2 SLP135 T02500194 KGRB 030153Z 00000KT 10SM CLR 16/15 A2988 RMK AO2 SLP119 T01610150 KHIB 030153Z AUTO 14004KT 10SM FEW120 13/12 A2979 RMK AO2 SLP092 T01330117 KGPT 030153Z 30003KT 10SM FEW025 27/24 A3004 RMK AO2 SLP172 T02670239 DTMB 030130Z VRB02KT CAVOK 23/15 Q1010 NOSIG KFYV 030153Z 19005KT 10SM FEW120 21/20 A3003 RMK AO2 SLP157 T02110200 KGRD 030156Z AUTO 23015G22KT 10SM VCTS -RA FEW009 SCT055 BKN095 23/21 A3009 RMK AO2 LTG DSNT SW-NW RAE14B56 SLP181 P0000 T02280206 KHIE 030152Z AUTO 00000KT 9SM FEW110 21/18 A2975 RMK AO2 SLP069 T02060183 KHIF 030158Z AUTO 07003KT 10SM CLR 27/04 A2987 RMK AO2 SLP062 T02690044 KGRF 030158Z AUTO 22014G23KT 10SM FEW036 18/10 A2985 RMK AO2 SLP111 P0000 T01770104 PWINO $ URRR 030130Z 08006MPS CAVOK 19/07 Q1016 04CLRD70 NOSIG FAUP 030100Z 36007KT CAVOK 13/M10 Q1022 NOSIG KGPZ 030155Z AUTO 17007KT 10SM CLR 17/11 A2978 RMK AO1 UTAK 030100Z 09007MPS CAVOK 25/04 Q1012 NOSIG KGRI 030153Z AUTO 14006KT 10SM CLR 22/17 A2993 RMK AO2 SLP125 T02170167 KHHR 030153Z VRB05KT 10SM BKN013 22/18 A2977 RMK AO2 SLP080 T02220183 KHII 030155Z AUTO 22004KT 10SM CLR 40/05 A2963 RMK AO2 ZWWW 030130Z 34001MPS 8000 NSC 26/08 Q1009 NOSIG UTAM 030100Z 01002MPS 6000 SKC 19/06 Q1013 NOSIG KGRK 030155Z 14015KT 7SM FEW150 31/21 A2991 RMK SLP124 KGSB 030158Z AUTO 22003KT 10SM CLR 25/25 A2999 RMK AO2 SLP158 T02510247 $ KIAB 030158Z AUTO 12007KT 10SM CLR 26/23 A2994 RMK AO2 SLP129 T02580225 FAWB 030100Z AUTO 11003KT //// // ////// 10/01 Q1027 FAUT 030100Z AUTO /////KT //// // ////// ///// Q//// KIAD 030152Z 00000KT 9SM BKN140 BKN220 23/23 A2991 RMK AO2 SLP126 T02280228 KHHW 030155Z AUTO 16005KT 10SM CLR 28/20 A2994 RMK AO2 T02840200 FBMN 022000Z 14007KT CAVOK 17/M04 Q1024 KHIO 030153Z 31012KT 10SM FEW050 19/12 A2992 RMK AO2 SLP131 T01890122 KIAG 030153Z 26008KT 10SM FEW020 FEW260 19/18 A2988 RMK AO2 SLP113 T01940178 KFZY 030154Z AUTO 23005KT 10SM OVC013 18/16 A2986 RMK AO2 SLP108 T01780161 URSS 030130Z 05004MPS 9999 BKN024 23/19 Q1009 NOSIG RMK R06/08004MPS MT OBSC QFE755 02000070 06000070 ZYHB 030100Z 28002MPS 240V310 9999 SCT006 SCT010 BKN023 16/14 Q1010 NOSIG KGSH 030153Z AUTO 00000KT 10SM CLR 19/17 A2995 RMK AO2 SLP139 T01890172 KIAH 030153Z 16008KT 10SM FEW032 SCT250 28/23 A2997 RMK AO2 SLP146 T02830233 $ KHJH 030155Z AUTO 14003KT 10SM CLR 20/16 A2993 RMK AO2 T01980157 UTAT 030100Z 06004MPS CAVOK 20/05 Q1017 NOSIG KGRR 030153Z 23003KT 10SM CLR 19/16 A2993 RMK AO2 SLP131 T01940161 KHKA 030153Z AUTO 02003KT 10SM CLR 24/22 A2998 RMK AO2 SLP149 T02390217 UTAV 030100Z 36003MPS CAVOK 18/05 Q1013 NOSIG KGTB 030158Z AUTO VRB03KT 10SM OVC002 18/18 A2982 RMK AO2 OVC V BKN SLP096 T01800180 FAWK 030100Z AUTO 09003KT //// // ////// 10/03 Q1029 FAVV 030200Z AUTO 01003KT //// // ////// 02/M04 Q1030 EKOD 021620Z 04008KT CAVOK 18/11 Q1026 KGTF 030153Z 28007KT 10SM CLR 19/03 A2969 RMK AO2 SLP036 T01890028 KHJO 030153Z AUTO 32007KT 10SM CLR 37/07 A2966 RMK AO2 SLP043 T03670072 KGSO 030154Z 21010KT 10SM FEW050 SCT250 24/22 A3002 RMK AO2 SLP152 T02440217 KGSP 030153Z 19010G18KT 10SM CLR 26/21 A3004 RMK AO2 LTG DSNT S AND SW SLP160 T02610206 KGRY 030155Z AUTO 13006KT 10SM SCT022 SCT029 29/25 A3002 RMK A01 WALL 030130Z 22008KT 9999 SCT018 30/26 Q1012 NOSIG UTDD 030130Z VRB01MPS 9000 SKC 18/05 Q1013 09CLRD70 NOSIG RMK QFE692/0923 KHLC 030153Z AUTO 11004KT 10SM CLR 23/19 A2992 RMK AO2 SLP115 T02330189 KGUC 030155Z AUTO 02006KT 10SM CLR 21/02 A3020 RMK AO1 KIBM 030155Z AUTO 17007KT 10SM CLR 21/11 A2993 RMK AO2 T02100105 KHLG 030153Z 26004KT 10SM FEW031 22/18 A2998 RMK AO2 SLP147 T02170178 URWA 030130Z 06006MPS CAVOK 17/04 Q1018 NOSIG RMK QFE765/1020 SC070 KGTR 030155Z 23003KT 10SM CLR 24/22 A2998 RMK AO1 UTDL 030130Z 24006MPS 9999 SKC 20/05 Q1013 NOSIG RMK QFE722/0962 88CLRD70 KHKS 030153Z 23008KT 10SM -RA SCT100 23/22 A3001 RMK AO2 SLP155 P0005 T02280217 KIDA 030153Z AUTO 18009KT 10SM CLR 23/M01 A2985 RMK AO2 SLP073 T02331011 WAMM 030130Z 14003KT 9999 FEW022 31/21 Q1011 NOSIG KGTU 030150Z 15011G16KT 10SM CLR 31/20 A2992 KICL 030155Z AUTO 00000KT 10SM CLR 19/18 A2998 RMK AO2 KGUL 030155Z AUTO 10SM CLR 29/24 A2998 RMK A01 KHME 030050Z 07012KT CAVOK 24/01 Q1015 KHLN 030153Z 27007KT 10SM CLR 23/01 A2970 RMK AO2 SLP044 T02330006 KGVE 030155Z AUTO 23003KT 10SM SCT060 SCT070 BKN100 25/23 A2993 RMK AO1 T02520230 URWI 021600Z 12006G109MPS CAVOK 26/04 Q1016 NOSIG KGUP 030153Z AUTO 23006KT 10SM CLR 25/M06 A3011 RMK AO2 SLP049 T02501056 KHKY 030153Z AUTO 19003KT 10SM SCT060 25/22 A3004 RMK AO2 SLP147 T02500217 UTFA 021700Z 16001MPS 9999 NSC 23/09 Q1011 R88/09//70 KICR 030153Z AUTO 14010KT 10SM CLR 22/14 A2979 RMK AO2 SLP078 T02220144 KIDI 030155Z AUTO 00000KT 9SM FEW028 BKN035 BKN040 20/20 A3001 RMK A01 KGUR 030155Z AUTO 25004KT 10SM CLR 27/05 A2985 RMK AO2 T02700047 PWINO KHLR 030156Z 14006KT 10SM CLR 32/21 A2992 RMK AO2 SLPNO T03170206 $ KGUS 030158Z AUTO 21006KT 10SM CLR 19/19 A2996 RMK AO2 SLP145 T01940194 KICT 030153Z 14008KT 10SM FEW060 SCT075 BKN090 26/21 A2992 RMK AO2 SLP120 T02610206 KGWB 030155Z AUTO 00000KT 10SM CLR 19/16 A2997 RMK AO2 USNN 030130Z 26004G08MPS 9000 -SHRA BKN009 OVC024CB 09/08 Q1008 NOSIG RMK QFE751 21250253 KGVL 030153Z AUTO 00000KT 10SM CLR 24/21 A3007 RMK AO2 SLP166 T02440211 UTFF 030130Z VRB01MPS 9999 NSC 19/07 Q1012 R99/CLRD70 KHND 030156Z AUTO 21012KT 10SM CLR 38/M03 A2973 RMK AO2 TSNO T03771027 SLP037 KHMN 030158Z AUTO 00000KT 10SM CLR 33/02 A2990 RMK AO2 SLP051 T03290015 $ KHLX 030155Z AUTO 22005KT 10SM SCT120 22/19 A3011 RMK AO2 LTG DSNT N AND W T02240190 KGUY 030153Z AUTO 09006KT 10SM CLR 28/18 A2992 RMK AO2 SLP084 T02780183 KIDP 030155Z AUTO 16007KT 10SM CLR 23/21 A2996 RMK AO2 WBGB 030100Z 14002KT 9999 FEW016 SCT150 BKN300 25/23 Q1013 KGXA 030155Z AUTO 30009KT 10SM CLR 31/05 A2981 RMK AO2 SLP053 T03110051 KIFA 030155Z AUTO 20005KT 10SM CLR 18/15 A2995 RMK AO2 T01820151 KHOB 030155Z AUTO 14015G19KT 10SM CLR 31/12 A2992 RMK AO2 KGVT 030155Z AUTO 13007KT 10SM CLR 28/22 A2994 RMK AO2 URWW 030130Z 11006MPS CAVOK 16/03 Q1021 NOSIG RMK SC070 EKRK 030150Z AUTO 00000KT 9999NDV NCD 09/09 Q1028 EKSB 022000Z 07004KT CAVOK 15/12 Q1026 WAOO 030130Z 21004KT 8000 NSC 29/22 Q1013 NOSIG WBGG 030130Z 29004KT 220V350 5000 HZ FEW003 BKN150 25/23 Q1014 NOSIG KIEN 030152Z AUTO 07005KT 10SM CLR 17/12 A2983 RMK AO2 SLP090 T01720122 KHOE 030155Z AUTO 29003KT 10SM CLR 24/23 A3007 RMK AO2 KGXF 030155Z 23009KT 10SM CLR 40/02 A2967 RMK SLP027 EKRN 030150Z AUTO 04005KT 9999NDV NCD 11/10 Q1028 KGWO 030153Z AUTO 19007KT 10SM CLR 23/22 A2996 RMK AO2 SLP143 T02280217 TSNO KGVX 030155Z AUTO 15010KT 10SM SCT024 SCT035 BKN055 28/25 A2999 RMK A01 KGWR 030155Z AUTO 19009KT 10SM CLR 18/15 A2976 RMK A01 P000 KIER 030155Z AUTO 09007KT 10SM SCT011 SCT018 SCT025 24/23 A3001 RMK AO2 T02350227 KHNR 030155Z AUTO 20004KT 10SM CLR 17/17 A2999 RMK AO2 DTTA 030130Z 26007KT 9999 FEW030 23/17 Q1010 NOSIG KGYB 030155Z AUTO 16009G17KT 10SM CLR 30/21 A2997 RMK AO2 T02950206 FBSK 030200Z 13006KT CAVOK 09/M01 Q1026 NOSIG FDBB 020800Z AUTO /////KT //// // ////// 09/02 Q//// DTTB 030100Z 29006KT 260V320 CAVOK 22/17 Q1010 DTTD 021800Z 07010KT 030V110 8000 FEW026 29/16 Q1011 WAPP 030100Z 15007KT 9999 SCT018 27/23 Q1014 USPP 030130Z 22003MPS CAVOK 04/04 Q1025 21090060 NOSIG RMK QFE758/1010 KGWW 030155Z AUTO 20003KT 23/22 A3000 RMK AO2 P0001 T02280222 PWINO KHON 030155Z AUTO 14007KT 10SM CLR 21/13 A2980 RMK AO2 SLP087 T02060133 EKSN 021350Z 28008KT 9999 FEW020 SCT057 20/11 Q1025 EKTE 030150Z AUTO 12004KT 9999NDV 16/15 Q1028 WBGR 030100Z 22007KT 9999 FEW014 BKN150 26/21 Q1013 DTTF 030100Z 02010KT CAVOK 24/11 Q1011 NOSIG KIFP 030155Z AUTO 18012KT 10SM CLR 40/04 A2962 RMK AO2 PWINO KHOP 030158Z AUTO 21003KT 10SM FEW110 23/23 A3000 RMK AO2 SLP156 T02290229 FBSP 021800Z 08011KT CAVOK 18/06 Q1026 WBGS 030100Z 14003KT 9999 SCT016 BKN150 25/22 Q1014 DTTG 030000Z 34002KT CAVOK 23/10 Q1011 NOSIG EKSP 030150Z 08004KT 9999 BCFG SKC 11/10 Q1028 KHNZ 030155Z AUTO 21009KT 10SM CLR 26/19 A2999 RMK AO2 T02570191 KGYH 030155Z AUTO 20011KT 10SM VCTS SCT048 SCT060 BKN120 25/22 A3007 RMK AO2 LTG DSNT SE AND S KGYI 030155Z AUTO 12008KT 10SM CLR 30/19 A2992 RMK AO2 T02970191 DTTJ 030130Z 16005KT 8000 NSC 24/17 Q1010 NOSIG KHOT 030153Z AUTO 12003KT CLR 26/21 A2998 RMK AO2 SLP146 T02560211 $ KGYL 030154Z AUTO 21003KT 10SM CLR 19/14 A2987 RMK AO2 T01920138 KHOU 030153Z 16008KT 10SM FEW030 SCT250 28/24 A2997 RMK AO2 SLP151 T02830239 DTTK 030100Z VRB02KT CAVOK 22/13 Q1011 DTTL 021700Z 29008G18KT 220V350 9999 FEW020 25/18 Q1009 KIGM 030151Z AUTO 22010KT 10SM CLR 32/02 A2987 RMK AO2 SLP037 T03220022 WBGY 030100Z 10001KT 9999 FEW005 BKN150 24/23 Q1013 KHPN 030156Z VRB03KT 10SM CLR 28/19 A2981 RMK AO2 SLP085 T02780189 DTTN 030100Z 20003KT CAVOK 20/15 Q1012 KGXY 030155Z AUTO 10005KT 10SM CLR 23/09 A2993 RMK AO1 KGZH 030153Z AUTO 00000KT 10SM CLR 26/23 A3004 RMK AO2 SLP167 T02560233 KIGQ 030155Z AUTO RMK AO2 PWINO KGYR 030147Z VRB04KT 10SM SKC 39/07 A2969 KHQI 030155Z AUTO 10016KT M1/4SM FZFG A3001 RMK A01 DTTR 021800Z 02010KT CAVOK 35/13 Q1009 KIIB 030155Z AUTO 20003KT 10SM CLR 17/15 A2995 RMK AO2 P0001 KGZL 030135Z AUTO 10007KT 10SM CLR 22/19 A2997 RMK AO2 KHQM 030153Z AUTO 27013KT 7SM FEW023 SCT039 BKN050 17/12 A2991 RMK AO2 RAE0057 SLP131 P0000 T01670117 EKVD 021450Z AUTO 07007KT 030V110 //// ///////// 19/// Q1025 WARQ 030100Z 13003KT 4000 HZ NLC 23/20 Q1014 NSG KIGX 030156Z AUTO VRB03KT 10SM CLR 25/21 A3000 RMK AO2 SLP151 T02500211 TSNO WARR 030130Z 13007KT 100V160 4000 HZ FEW020 27/21 Q1014 USRR 030130Z 29007G10MPS 7000 SCT014CB BKN200 08/06 Q1010 TEMPO 2000 BR BKN005 RMK QFE752 25////50 DTTX 022300Z 29003KT CAVOK 24/15 Q1011 NOSIG KGYY 030045Z 13003KT 15SM FEW060 21/18 A2991 WARS 030130Z 12006KT 7000 FEW020 29/22 Q1014 NOSIG EKVG 030150Z AUTO 20013KT 9999NDV OVC004/// 12/11 Q1015 RMK BKN005/// WIND 850FT 22015G33KT 170V310 DTTZ 030100Z 10005KT CAVOK 27/06 Q1011 NOSIG KHRI 030153Z AUTO 25018G29KT 10SM FEW007 23/09 A2969 RMK AO2 PK WND 24031/0106 SLP050 T02280089 KHSA 030156Z 00000KT 10SM SCT080 A3005 KHRJ 030155Z AUTO 14003KT 10SM CLR 24/23 A3001 RMK AO2 T02350229 EKVJ 021350Z 15006KT CAVOK 21/14 Q1025 KHSB 030155Z AUTO 00000KT 5SM BR CLR 22/22 A3000 RMK AO2 T02220222 KHRL 030152Z 11009KT 10SM CLR 28/23 A2986 RMK AO2 PK WND 13026/0053 SLP110 T02830233 KJAC 030153Z 23007KT 10SM CLR 17/M01 A2997 KHQU 030155Z AUTO 00000KT 10SM CLR 26/24 A3009 RMK AO1 T02550236 KIJD 030152Z AUTO 18005KT 10SM CLR 26/22 A2979 RMK AO2 SLP085 T02560217 KHSE 030151Z AUTO 24013G20KT 10SM CLR 27/25 A3002 RMK AO2 SLP166 T02670250 TSNO KHRO 030153Z AUTO 00000KT 10SM CLR 21/19 A3004 RMK AO2 SLP160 T02060194 ELLX 030150Z AUTO 07011KT 360V090 6000 NDV 13/12 Q1021 USSS 030130Z 13001MPS 1400 BR BCFG BKN067 01/01 Q1024 080///60 580///70 TEMPO 0300 FG VV002 RMK QFE748 KHQZ 030052Z 14007KT 10SM CLR 31/18 A2990 WBKK 030130Z 30002KT 9999 FEW015 BKN300 31/24 Q1012 NOSIG KHSI 030153Z AUTO 13008KT 010V150 10SM CLR 23/14 A2993 RMK AO2 SLP124 T02280144 WBKL 030100Z 28001KT 9999 SCT010 FEW014CB SCT140 BKN290 30/26 Q1012 KL18 030155Z AUTO 22005KT 10SM CLR 23/17 A2979 RMK AO2 KHRT 030158Z AUTO 31001KT 10SM CLR 28/21 A3002 RMK AO2 SLP167 T02780213 $ UUBP 021500Z 35004MPS 9999 BKN033 BKN100 19/15 Q1019 NOSIG RMK QFE747 KJAN 030154Z 18008KT 10SM -RA SCT120 23/22 A3000 RMK AO2 SLP154 P0012 T02280217 KHRX 021535Z AUTO 36008KT 10SM CLR 25/19 A3005 RMK AO2 T02530185 USTR 030130Z 24003MPS 9999 SCT046 06/05 Q1022 NOSIG RMK QFE757/1009 30CLRD65 03////99 KHSP 030155Z AUTO 25015KT 10SM -RA SCT038 SCT075 BKN110 18/16 A3018 RMK AO2 LTG DSNT SW T01750156 KIIY 030155Z AUTO 26007KT 10SM -TSRA SCT021 SCT033 SCT075 27/26 A3006 RMK AO2 LTG DSNT ALQS WBKS 030100Z 30004KT 9999 FEW016 BKN270 29/25 Q1012 WATT 030130Z 07011G22KT 9999 FEW020 29/15 Q1015 NOSIG WBKT 030100Z 29004KT 210V010 9999 FEW016 BKN290 30/25 Q1012 KHUA 021955Z 24008KT 7SM SCT048 32/19 A3002 RMK LAST KJAS 030155Z AUTO 07003KT 10SM CLR 25/24 A3002 RMK AO2 T02540236 UUDD 030130Z 34005MPS 9999 BKN016 12/11 Q1022 NOSIG KHST 030158Z AUTO 02002KT 10SM FEW140 25/22 A3003 RMK AO2 SLP172 T02530223 KIKK 030155Z AUTO 20003KT 10SM CLR 18/17 A2995 RMK AO2 T01790170 UUBW 030130Z 32005MPS 9999 BKN015 13/10 Q1021 NOSIG WBKW 030100Z 28002KT 9999 FEW017TCU BKN300 28/24 Q1011 KHTL 030153Z AUTO 00000KT 10SM CLR 14/13 A2992 RMK AO2 SLP130 T01440133 KHSV 030153Z 00000KT 10SM BKN250 26/22 A2998 RMK AO2 SLP145 T02610222 KILE 030155Z AUTO 14009KT 10SM CLR 30/20 A2991 RMK AO1 KHTO 022258Z VRB04KT 10SM SKC 25/23 A2984 KHUF 030153Z 00000KT 10SM CLR 20/19 A2999 RMK AO2 SLP151 T02000189 $ KJAX 030156Z 00000KT 9SM FEW050 BKN150 OVC250 23/23 A3004 RMK AO2 SLP172 T02330228 KIJX 030155Z AUTO 21003KT 10SM CLR 22/20 A2998 RMK AO2 T02190197 KILG 030151Z 30004KT 10SM SCT080 BKN110 23/21 A2990 RMK AO2 PK WND 25031/0107 WSHFT 0101 LTG DSNT E-S RAB05E41 TSB06E27 SLP124 P0004 T02280206 $ KL35 030155Z AUTO 26007KT 10SM CLR 20/04 A3013 RMK AO2 KJBR 030153Z AUTO 00000KT 10SM SCT085 22/21 A2998 RMK AO2 SLP147 T02220206 UUDL 021730Z 00000MPS 6000 BKN004 OVC028 13/13 Q1018 NOSIG RMK QBB140 QFE755 23290550 KHTS 030151Z 21003KT 10SM CLR 21/21 A2999 RMK AO2 RAE15 SLP147 P0000 T02110206 $ KL38 030155Z AUTO 28008KT 5SM +TSRA SCT016 SCT028 OVC034 25/24 A3005 RMK AO2 LTG DSNT ALQS P0010 T02500235 KIKT 030155Z AUTO 14006KT 10SM FEW019 FEW031 SCT040 29/25 A3002 RMK A01 UUEE 030130Z 31006MPS 9999 OVC011 11/10 Q1022 NOSIG KHUL 030153Z AUTO 19007KT 9SM OVC013 22/20 A2974 RMK AO2 SLP070 T02220200 KILM 030153Z AUTO 19006KT 10SM CLR 27/24 A3002 RMK AO2 SLP165 T02670239 KHUM 030155Z AUTO 00000KT 10SM CLR 26/24 A3004 RMK AO2 LTG DSNT N AND NW T02620235 KJDD 030155Z AUTO 13004KT 10SM CLR 27/23 A2997 RMK AO2 KIKV 030155Z AUTO 00000KT 10SM CLR 18/17 A2995 RMK AO2 KIKW 030153Z AUTO 00000KT 10SM CLR 16/15 A2990 RMK AO2 T01580150 KILN 030154Z AUTO 00000KT 10SM CLR 19/18 A2998 RMK AO2 SLP148 T01940178 KHVE 030155Z AUTO 18010KT 10SM CLR 32/00 A2986 RMK AO2 FCPP 030100Z 22004KT 8000 FEW010 SCT023 23/21 Q1013 NOSIG OYAA 030200Z 08005KT 7000 FEW018 31/25 Q1001 NOSIG KHUT 030152Z 12005KT 10SM FEW070 BKN095 25/20 A2992 RMK AO2 SLP111 T02500200 KJCT 030151Z AUTO 15016G23KT 10SM FEW080 31/19 A2992 RMK AO2 SLP093 T03110194 UTNN 030130Z 02001MPS CAVOK 13/02 Q1018 R33/CLRD60 NOSIG EKYT 030150Z 14001KT CAVOK 11/09 Q1028 RMK SKC KIML 030153Z AUTO 16010KT 10SM CLR 24/14 A2989 RMK AO2 SLP100 T02390144 KIMM 030155Z AUTO 00000KT 10SM CLR 23/ A3004 RMK A01 P000 KHWD 030154Z 31013KT 10SM CLR 19/16 A2979 RMK AO2 SLP095 T01940161 KIND 030154Z 21004KT 10SM CLR 21/18 A2997 RMK AO2 SLP146 T02110183 KJDN 030148Z AUTO 05008KT 17/07 A2971 RMK AO1 SLP060 T01670072 KHVN 030153Z 23005KT 10SM CLR 27/22 A2979 RMK AO2 SLP089 T02720222 KJEF 030153Z 11003KT 10SM CLR 23/21 A2998 RMK AO2 SLP138 T02330206 KINF 030155Z AUTO 00000KT 10SM SCT046 SCT050 SCT075 27/22 A3003 RMK AO2 LTG DSNT SW AND W ZYTL 030130Z 36005MPS 5000 BR SCT010 BKN030 21/17 Q1007 NOSIG KHVR 030153Z AUTO 16003KT 10SM FEW110 19/03 A2966 RMK AO2 SLP037 T01940033 UTNU 030130Z 03002MPS CAVOK 14/07 Q1017 R31/CLRD70 NOSIG KHVS 030155Z AUTO 00000KT 10SM CLR 23/22 A3004 RMK AO2 LTG DSNT W KINJ 030155Z AUTO 11009G18KT 10SM CLR 29/21 A2992 RMK AO2 T02880205 KIMT 030154Z AUTO 00000KT 10SM CLR 14/11 A2986 RMK AO2 SLP114 T01390111 TSNO KINK 030153Z AUTO 14020G27KT 10SM CLR 33/14 A2986 RMK AO2 PK WND 15029/0058 SLP058 T03330144 KIOB 030155Z AUTO 21004KT 10SM CLR 20/20 A3003 RMK AO2 KINL 030159Z AUTO VRB03G18KT 1SM +TSRA BR BKN026 BKN039 OVC055 13/12 A2977 RMK AO2 LTG DSNT E-SW P0018 T01330122 KHXD 030135Z AUTO 00000KT 8SM CLR 25/24 A3004 RMK AO2 P0000 KHWO 030153Z AUTO 00000KT 10SM CLR 25/23 A3004 RMK AO2 SLP173 T02500233 OYAR 021500Z 23004KT 9999 FEW030 23/07 Q//// KJER 030153Z AUTO 03006KT 10SM CLR 20/08 A2978 RMK AO2 SLP062 T02000083 KHYA 030156Z AUTO 20008KT 8SM OVC004 23/22 A2980 RMK AO2 SLP093 T02330222 KINS 030158Z AUTO 22018KT 10SM CLR 36/M05 A2977 RMK AO2 SLP030 T03551050 $ KJES 030155Z AUTO 00000KT 10SM 25/23 A3005 RMK AO2 OYAT 021500Z 35013KT 9999 FEW030TCU 35/M03 Q1009 KJFK 030151Z 21013KT 10SM SCT075 BKN240 29/21 A2982 RMK AO2 SLP099 T02890211 KINT 030154Z VRB06G15KT 10SM CLR 26/19 A3003 RMK AO2 SLP157 T02610194 ZYTX 030130Z 01005MPS 7000 OVC033 18/16 Q1009 NOSIG ENAL 030150Z AUTO 22016KT 9999NDV OVC043/// 16/10 Q1024 KHWV 030156Z AUTO 22009G16KT 10SM CLR 27/22 A2982 RMK AO2 SLP098 T02670222 TSNO KINW 030156Z AUTO 24009KT 10SM CLR 28/02 A2999 RMK AO2 SLP086 T02830022 ENAN 030150Z 22011KT 9999 -SHRA FEW015 BKN025 12/10 Q1011 KHWY 030155Z AUTO 00000KT 10SM SCT080 SCT095 25/24 A2991 RMK AO2 T02480243 KJGG 030155Z AUTO 23005KT 10SM CLR 31/23 A2994 RMK AO1 KHYI 030155Z 16014G22KT 10SM CLR 29/20 A2994 RMK AO1 FDJR 021700Z AUTO 11003KT //// // ////// ///// Q1029 KIPJ 030155Z AUTO 21005KT 10SM SCT080 SCT100 SCT120 24/22 A3004 RMK AO2 P0006 T02350218 ENAT 030150Z AUTO 12003KT 080V160 9999NDV FEW059/// OVC120/// 11/10 Q1011 RMK WIND 700FT 18013KT KIPL 030153Z AUTO 13005KT 10SM CLR 41/07 A2957 RMK AO2 SLP014 T04110072 FDLB 020800Z AUTO 20003KT //// // ////// 18/06 Q//// ENBL 022050Z 22002KT 9999 SCT040 SCT080 11/10 Q1025 KIOW 030152Z AUTO 00000KT 10SM CLR 19/17 A2996 RMK AO2 SLP142 T01940167 KHZE 030155Z AUTO 15005KT 9SM CLR 13/10 A2976 RMK AO2 KIPN 030155Z AUTO 12008KT 10SM 29/25 A3003 RMK A01 ENBN 021950Z 21016KT 5000 -SHRA FEW004 BKN008 13/12 Q1019 KJFX 030155Z AUTO 14004KT 10SM CLR 24/23 A2994 RMK A02 P-128 ENBO 030150Z 22019KT 9999 -SHRA FEW008 FEW012CB BKN025 13/12 Q1015 UTSA 030130Z 01002MPS 9000 NSC 19/02 Q1013 R25/CLRD70 NOSIG KJFZ 030155Z AUTO 19005KT 2 1/2SM -VCTSRA SCT003 SCT047 OVC120 20/19 A3015 RMK AO2 VIS 1/2V5 LTG DSNT SW P0008 T02000189 UTSB 030130Z 34005MPS CAVOK 18/02 Q1013 R01/CLRD70 NOSIG WBSB 030130Z 19006KT 9999 FEW016 FEW017CB SCT140 BKN300 29/25 Q1013 NOSIG KHYR 030153Z AUTO 00000KT 10SM CLR 14/13 A2987 RMK AO2 SLP116 T01440133 ENBR 030150Z 12003KT 9999 FEW010 BKN017 13/12 Q1026 RMK WIND 1200FT 14008KT KHYS 030155Z 13008KT 10SM CLR 24/18 A2992 RMK AO1 ENBS 021950Z 03006KT 9999 FEW020 SCT050 10/04 Q1012 KIPT 030154Z 30007KT 10SM BKN036 22/19 A2989 RMK AO2 SLP119 T02220189 OYDM 022100Z 36004KT CAVOK 15/12 Q//// KHZL 030155Z AUTO 27006KT 10SM BKN013 OVC018 21/20 A2995 RMK AO2 P0001 ENBV 022050Z 21003KT 9999 RA FEW010 SCT021 09/09 Q1012 KHYW 030155Z AUTO 00000KT 7SM SCT020 26/26 A3003 RMK AO2 FDLM 030200Z AUTO 00000KT //// // ////// 17/04 Q//// ENCN 030150Z AUTO 04003KT 0100NDV R04/0175V0300N R22/0400N FG VV000 10/10 Q1027 KHYX 030154Z AUTO 00000KT 10SM CLR 18/14 A2990 RMK AO2 UTSK 030130Z 00000MPS CAVOK 16/04 Q1011 R34/CLRD70 KHZR 030155Z AUTO 14005KT 5SM TSRA SCT040 BKN060 OVC110 24/24 A3005 RMK AO2 LTG DSNT ALQS P0009 T02410235 KIRK 030155Z AUTO 00000KT 10SM CLR 19/18 A2998 RMK AO2 SLP151 T01940183 KJHW 030155Z AUTO 25008KT 10SM OVC005 13/13 A2996 RMK AO1 FDND 020900Z AUTO /////KT //// // ////// 19/07 Q//// KHZX 030147Z AUTO 18005KT 10SM CLR 17/13 A2981 RMK AO2 KHZY 030153Z AUTO 00000KT 10SM FEW009 19/18 A2995 RMK AO2 SLP135 T01890178 UTSS 030130Z 12003MPS 9999 NSC 17/05 Q1014 R88/CLRD70 NOSIG UTST 030130Z 26004MPS CAVOK 17/05 Q1011 R88/CLRD70 NOSIG VLLB 020500Z 04002KT 9999 SCT020 FEW060 30/24 Q1008 NOSIG FDNH 020600Z AUTO 24002KT //// // ////// ///// Q//// ENDR 030150Z AUTO 23031KT 14/12 Q1020 KIRS 030155Z AUTO 00000KT 10SM 17/16 A2995 RMK AO2 KJKA 030155Z AUTO 27003KT 10SM CLR 27/24 A3003 RMK AO2 T02700243 FDMS 021900Z VRB02KT CAVOK 14/07 Q1029 KM19 030156Z AUTO 32004KT 10SM CLR 22/21 A2999 RMK AO2 T02220205 SLP154 ENFB 030150Z AUTO 20024KT //// NCD ///// Q//// W///S4 ENEK 030150Z 14005KT 9999 FEW008 15/14 Q1026 W16/S3 KISM 030147Z 12006KT 10SM SKC 28/23 A3004 RMK LAST ENDU 030150Z 18004KT 130V220 9999 VCSH FEW010 BKN035 12/10 Q1012 KISN 030152Z AUTO 00000KT 10SM CLR 18/09 A2973 RMK AO2 SLP066 T01780094 KISO 030156Z AUTO 20007KT 10SM CLR 28/24 A3001 RMK AO2 FEFF 030100Z 00000KT 8000 FEW010 BKN150 22/22 Q1013 NOSIG KM25 030155Z AUTO 00000KT 10SM CLR 24/20 A3001 RMK AO2 KISP 030156Z 22007KT 10SM FEW055 BKN250 27/22 A2980 RMK AO2 SLP090 T02670222 LBBG 030200Z 07003MPS 9999 SCT009 BKN037 22/21 Q1008 NOSIG ENFG 021520Z 32011KT 270V360 9999 FEW040 15/05 Q1024 KISQ 030154Z AUTO 00000KT 1/2SM FG BKN002 14/13 A2985 RMK AO2 T01350133 KITH 030156Z 31006KT 10SM BKN003 OVC008 19/19 A2991 RMK AO2 T01940188 CIG 002V006 SLP122 UTTT 030130Z 10002MPS CAVOK 18/09 Q1013 R08R/CLRD70 NOSIG KJKJ 030154Z AUTO 21006KT 10SM SCT110 21/16 A2974 RMK AO2 KM30 030155Z AUTO 00000KT 10SM CLR 23/22 A2998 RMK AO2 T02280222 KJKL 030155Z AUTO 00000KT 1 1/2SM BR BKN002 21/19 A3005 RMK AO2 T02060194 OYHD 030200Z 05004KT 4000 DU FEW030 31/22 Q1002 ENGC 030150Z 21021KT CAVOK 13/11 Q1024 W12/S4 ENFL 022050Z 17010KT 9999 FEW020 BKN045 15/11 Q1025 ENEV 030150Z AUTO 22009KT 9999NDV -RA BKN028/// BKN061/// 13/11 Q1013 RMK WIND 1400FT 23020KT KISW 030154Z AUTO 00000KT 10SM CLR 16/15 A2991 RMK AO2 SLP128 T01610150 FDNY 020800Z AUTO 15005KT //// // ////// 18/06 Q1039 OYHJ 021500Z 24007KT 0400 FG VV/// 20/13 Q//// KITR 030153Z AUTO 16008KT 10SM CLR 22/13 A2997 RMK AO2 SLP104 T02220128 OYIB 021500Z 08004KT 9999 FEW020CB BKN030 22/16 Q1016 FEFT 020700Z 00000KT 9999 -RA FEW004 FEW030CB OVC150 20/20 Q1013 RETS FDOT 020800Z AUTO /////KT //// // ////// 18/02 Q1031 UUMO 030000Z 32005MPS 9999 BKN013 12/11 Q1022 NOSIG RMK QFE751/1001 SC060 ENGM 030150Z 00000KT 0450 R19R/0500N R01R/0650N FG OVC003 12/11 Q1026 ENHD 030150Z AUTO 14007KT 9999NDV SCT015/// BKN020/// OVC024/// 12/12 Q1027 KJLN 030153Z 14004KT 10SM BKN075 23/20 A3000 RMK AO2 SLP149 T02330200 ENHE 030150Z 24032KT 9999 SCT013 BKN095 14/12 Q1017 W///S5 ENHF 030150Z VRB01KT 9999 FEW013 SCT027 BKN051 10/09 Q1010 RMK WIND 1254FT 23011KT FDPP 020800Z AUTO 36005KT //// // ////// 11/05 Q1008 UUOB 030100Z 12002MPS CAVOK 17/08 Q1019 NOSIG RMK SC060 KIWA 030052Z 29003KT 45SM SKC 40/04 A2972 ENHK 021350Z 24003KT 9999 VCSH FEW016 BKN060 12/10 Q1013